ENHM 251650Z 25024KT 1500 BR VV005 07/07 Q1027 W08/S4 UUOK 241800Z 34008MPS 9999 OVC008 04/03 Q1013 R30/////// NOSIG RMK QFE741/0988 KIWI 251653Z AUTO VRB04KT 10SM BKN028 05/M02 A3025 RMK AO2 SLP244 T00501017 KJMR 251657Z AUTO 08006KT 10SM OVC018 02/M01 A3022 RMK AO2 KIXA 251700Z AUTO 24011G16KT 10SM CLR 22/11 A3028 RMK AO2 PPIT 251656Z AUTO 03017KT 10SM CLR M15/M18 A2986 RMK AO2 SLP110 T11501178 FZRANO KJMS 251656Z AUTO 17016G23KT 10SM OVC006 01/M01 A3009 RMK AO2 SLP209 T00111006 UUOO 251700Z VRB01MPS CAVOK 03/M06 Q1014 R30/090060 NOSIG RMK QFE747 KIXD 251653Z 34013KT 3SM -RA BR OVC004 10/09 A2984 RMK AO2 RAB23 SLP102 P0002 T01000094 ENHV 251350Z 18012KT CAVOK 03/M03 Q1003 KM63 251658Z AUTO 17008KT 7SM CLR 17/M06 A3012 RMK AO2 SLP152 T01721060 PPIZ 251656Z AUTO 19010KT 9SM -SN OVC013 M24/M26 A2998 RMK AO2 SNB29 SLP157 P0000 T12391261 FZRANO TSNO KIYA 251653Z AUTO 20003KT 10SM -RA SCT075 OVC095 16/16 A3010 RMK AO2 LTG DSNT ALQS P0008 FDSK 251500Z 19011KT 9999 -DZ BKN025 21/18 Q1020 TEMPO 8000 DZ BR ENKB 251650Z 24015KT 9999 FEW014 SCT021 BKN030 08/06 Q1018 RMK WIND 745FT 24030KT KJNX 251720Z AUTO 19013G21KT 10SM BKN045 BKN050 23/11 A3029 RMK AO2 KM75 251655Z AUTO 29024G32KT 10SM CLR 11/M03 A2991 RMK A01 VLPS 251300Z 22002KT 9999 SCT020 BKN050 30/22 Q1010 NOSIG KIZA 251655Z AUTO 20003KT 10SM SCT007 BKN013 OVC027 12/11 A3013 RMK AO2 ENLA 251650Z AUTO 30012KT 9999NDV NCD 09/06 Q1028 W///S/ KJOT 251655Z AUTO 06008KT 7SM OVC006 09/09 A3001 RMK AO2 T00920086 FDST 251600Z AUTO 26008KT //// // ////// 17/16 Q1021 KJQF 251655Z 23011G17KT 10SM CLR 21/09 A3034 LBGO 251700Z AUTO 32004KT 9999 FEW029/// OVC034/// 12/07 Q1019 KIZG 251654Z AUTO 00000KT 10SM BKN120 04/M02 A3025 RMK AO2 SLP250 T00391022 ENKR 251650Z AUTO 18010KT 9999 NCD M02/M08 Q1003 RMK WIND 731FT 21025KT KJRB 251656Z AUTO 09003KT 10SM CLR 13/04 A3018 RMK AO2 SLP220 T01280039 ENLK 251320Z 21008KT 9999 VCSH SCT025 BKN032 04/00 Q1008 KM91 251655Z AUTO 16013G25KT 140V200 10SM FEW046 22/12 A3003 RMK A01 KN03 251655Z AUTO 00000KT 10SM DZ SCT004 SCT008 OVC012 02/02 A3027 RMK AO2 ENMH 251150Z 22016KT CAVOK 02/M03 Q1004 VLSK 251300Z 09002KT 2000 BR SCT100 30/20 Q1012 NOSIG KLAA 251653Z AUTO 29007KT 10SM CLR 13/M01 A3004 RMK AO2 SLP166 T01281011 FDUS 251600Z AUTO 09004KT //// // ////// 17/16 Q1022 ENNA 251650Z AUTO 15017KT 9999 NCD 01/M06 Q1000 RMK WIND 1800FT 23026KT ENML 251650Z 28011KT 9999 -RA FEW007 SCT023 BKN031 08/05 Q1020 ENNE 251650Z 24033KT 6000 -SHRA BR BKN005 OVC010 07/07 Q1008 W///S6 KLAF 251654Z 19013G21KT 10SM FEW075 21/11 A2997 RMK AO2 SLP146 T02110111 ENMS 251550Z 17006KT 9999 VCSH FEW040 SCT070 05/M00 Q1013 RMK WIND 412FT 20009KT KLBB 251653Z 32012KT 10SM FEW030 FEW250 17/M02 A3010 RMK AO2 SLP170 FU FEW030 DSNT NW T01671017 ENOA 251650Z 24019KT 0300 FG VV001 08/08 Q1025 W///S5 ENNK 251350Z 23021KT 9999 VCSH FEW010 BKN035 05/01 Q1008 KJSL 251640Z AUTO 16011KT 7SM CLR 26/21 A3010 RMK A01 KLAL 251645Z 09006KT 10SM SCT030 26/14 A3024 KJTC 251655Z AUTO VRB05KT 10SM CLR 15/M15 A3014 RMK AO2 KLAM 251655Z AUTO 12003KT 10SM CLR 10/M02 A3015 RMK AO2 T00961020 ENNM 250920Z 25011KT 9999 FEW015 SCT025 BKN070 06/02 Q1018 KLAN 251653Z 06009KT 5SM -RA BR OVC006 04/03 A3021 RMK AO2 SLP237 P0005 T00440028 KLBE 251650Z 24010G20KT 10SM BKN045 20/11 A3018 KLBF 251653Z AUTO 28004KT 10SM CLR 10/02 A3003 RMK AO2 SLP173 T01000017 KJSO 251655Z AUTO 26008KT 10SM CLR 17/10 A3006 RMK AO2 T01750102 KLAR 251653Z AUTO 23014KT 10SM CLR 10/M07 A3002 RMK AO2 SLP131 T01001072 LATI 251650Z 34004KT CAVOK 16/12 Q1019 NOSIG VMMC 251700Z 01018KT 9999 -RA FEW012 SCT025 16/13 Q1020 NOSIG KLAS 251656Z 34017KT 10SM SCT060 SCT100 BKN200 18/02 A2998 RMK AO2 SLP137 T01780022 KJST 251654Z AUTO 25009KT 10SM SCT038 SCT055 18/11 A3019 RMK AO2 SLP215 T01830106 KLBL 251655Z 34015KT 10SM CLR 13/00 A3006 RMK AO1 ENOL 251650Z 25024G34KT 8000 -DZRA SCT006 OVC010 08/06 Q1016 TEMPO 2000 DZRA BR BKN004 KJSV 251655Z AUTO 27013G20KT 10SM OVC013 11/08 A2995 RMK AO2 KLAW 251653Z 33012G17KT 10SM BKN030 14/06 A3004 RMK AO2 SLP169 T01390061 KLAX 251653Z VRB03KT 10SM FEW018 SCT038 BKN075 16/12 A3012 RMK AO2 SLP199 T01560117 KLCG 251655Z AUTO 02011KT 3SM BR OVC003 03/03 A3004 RMK AO2 T00310029 KLCH 251653Z VRB06KT 8SM -TSRA SCT080 OVC100 18/17 A3004 RMK AO2 LTG DSNT SE-W TSE06B21 SLP178 P0009 T01780167 KLCI 251656Z AUTO 23005KT 10SM -RA BKN018 OVC030 03/01 A3027 RMK AO2 SLP269 P0000 T00330006 KN38 251655Z AUTO 02010KT 9SM FEW039 SCT045 BKN055 10/06 A3018 RMK AO2 ENQA 251650Z AUTO 22023KT 0250NDV -RA FG NCD 07/07 Q1025 W04/S4 KLBT 251654Z AUTO 20010KT 10SM SCT050 23/10 A3031 RMK AO2 SLP264 T02280100 KLCK 251655Z AUTO 24011KT 10SM SCT070 21/11 A3014 RMK AO2 T02140107 ENQC 251650Z AUTO 21019KT 0250NDV FG NCD 07/07 Q1024 W///S4 ENOV 251350Z VRB03KT 9999 -RA FEW009 BKN022 05/04 Q1024 RMK WIND 2175FT 22022KT KLBX 251653Z AUTO 30007KT 10SM FEW030 SCT043 27/19 A3002 RMK AO2 SLP165 T02670194 KLCQ 251655Z AUTO 17007KT 10SM BKN060 23/12 A3026 RMK AO2 VLVT 251600Z 14004KT 3000 BR FEW050 26/21 Q1012 NOSIG KLDJ 251715Z AUTO 00000KT 10SM SCT055 SCT120 16/04 A3017 RMK AO2 T01590044 KKLS 251656Z AUTO 16006KT 10SM -RA FEW010 BKN038 OVC048 08/06 A3015 RMK AO2 RAB55 SLP216 P0000 T00780056 KLEB 251653Z 01005KT 10SM BKN022 OVC044 03/M01 A3028 RMK AO2 SLP260 T00281006 ENRA 251350Z 31004KT 9999 VCSH SCT020 BKN040 05/01 Q1013 KJVL 251645Z 07018G24KT 5SM -RA OVC005 05/05 A3004 KLDM 251655Z AUTO 09010G18KT 10SM OVC012 05/02 A3019 RMK AO2 T00450022 KLEE 251653Z VRB03KT 10SM FEW047 SCT065 25/14 A3026 RMK AO2 SLP245 T02500144 KJWG 251655Z AUTO 30011KT 10SM OVC022 11/07 A3002 RMK AO2 T01060073 ENQR 251650Z AUTO 26023KT 9999NDV OVC006/// 09/08 Q1021 W///S5 KN60 251652Z AUTO 17017KT 02/M01 A2995 RMK AO1 SLP166 T00171006 UUWW 251700Z 29003MPS CAVOK 02/M09 Q1012 R24/190060 NOSIG ENSB 251650Z 10024KT 6000 3000E -SN DRSN VV016 M12/M14 Q0987 WIND 1400FT 11024KT ENRM 250920Z 25013KT 9999 FEW015 SCT035 08/03 Q1018 ENSD 251320Z 34005KT 260V020 9999 FEW028 BKN037 07/03 Q1024 RMK WIND 1138FT 27006KT KJWN 251655Z AUTO 18014KT 10SM SCT048 22/11 A3006 RMK UWGG 251700Z 27002MPS 9999 BKN033 M02/M04 Q1007 R36L/290040 NOSIG RMK QFE748 KJVW 251655Z AUTO 17010G20KT 130V200 9SM CLR 22/16 A3000 RMK AO2 LTG DSNT N LCEN 251650Z 29011KT CAVOK 16/09 Q1015 NOSIG ENSE 251650Z AUTO 27024KT 9999NDV BKN006/// OVC008/// 09/08 Q1023 W///S5 ENRO 251650Z AUTO VRB01KT 9999NDV FEW032/// OVC040/// 03/M04 Q1017 ENSF 251650Z AUTO 26023KT 3300NDV BR OVC004/// 09/08 Q1023 W///S5 ENSG 251350Z 22004KT 9999 FEW012 BKN020 04/02 Q1024 RMK WIND 3806FT 27033KT ENSH 251350Z 23013KT 9999 FEW015 SCT035 04/01 Q1008 KJXI 251655Z AUTO 26004KT 10SM CLR 17/10 A3001 RMK AO2 T01710096 KLFI 251658Z AUTO 22015G21KT 10SM CLR 23/13 A3023 RMK AO2 SLP244 T02260125 $ KLGA 251651Z 07008KT 10SM SCT050 BKN140 BKN260 13/03 A3017 RMK AO2 SLP214 T01280033 ENRS 251220Z 21013KT 9999 FEW027 SCT046 06/03 Q1009 KLGB 251653Z 00000KT 10SM BKN019 OVC025 17/11 A3012 RMK AO2 SLP200 T01670111 KLFK 251653Z AUTO VRB05KT 10SM CLR 20/10 A3003 RMK AO2 SLP166 T02000100 ENSK 251450Z 19009KT 9999 FEW013 BKN037 04/00 Q1006 KLGC 251655Z AUTO 18010G17KT 10SM SCT043 24/15 A3021 RMK AO2 T02390148 ENTC 251650Z 22026KT 9999 -SHRA BKN029 03/M00 Q1001 NOSIG RMK WIND 2600FT 20035KT ENSL 251650Z 32016KT 9999 BKN020 09/05 Q1028 W07/S4 KLGD 251655Z AUTO 00000KT 10SM BKN100 08/03 A3007 RMK AO1 LBPD 251700Z AUTO 09013KT 9999 BKN085/// 17/08 Q1017 NOSIG KLEW 251656Z AUTO 00000KT 10SM BKN030 04/M02 A3024 RMK AO2 SLP256 T00441022 KJXN 251656Z 07008KT 10SM OVC005 06/04 A3018 RMK AO2 RAB02E51 SLP224 P0004 T00610044 KLEX 251654Z 20018G26KT 10SM CLR 23/09 A3013 RMK AO2 PK WND 19028/1621 SLP197 T02280089 $ ENSO 241920Z 27011KT 2000 BKN004 06/06 Q1028 KJYG 251655Z AUTO 03008KT 10SM OVC010 04/02 A3011 RMK AO2 KJWY 251655Z AUTO 28007KT 10SM CLR 17/08 A3005 RMK AO2 T01650084 ENRY 251420Z 29003KT 250V340 CAVOK 13/M07 Q1024 ENSR 251250Z 18006KT 9999 FEW030 07/M04 Q1004 WIND 1119FT VRB04KT ENSS 251250Z 22017KT CAVOK M01/M05 Q1005 RMK WIND 500FT 21015KT KLFT 251653Z 17006KT 10SM VCTS -RA OVC100 18/16 A3007 RMK AO2 WSHFT 1558 LTG DSNT E-S RAB22 SLP180 P0004 T01830161 KLHB 251655Z AUTO 29007KT 10SM CLR 18/10 A3008 RMK AO2 T01780096 ENST 251250Z 21013KT 9999 VCSH FEW015 SCT025 BKN080 07/04 Q1014 RMK WIND 300FT 23013KT KJYL 251655Z AUTO 17006KT 10SM BKN060 A3031 RMK AO2 KJYM 251654Z AUTO 08010KT 5SM HZ BKN011 BKN032 OVC037 08/06 A3014 RMK AO2 UUYY 251700Z 05004MPS 9999 SCT046 00/M02 Q1005 R01/25//55 NOSIG RMK QFE745/0993 EPCE 251630Z 32008KT 290V350 9999 FEW021 06/02 Q1022 RMK 056 076 2/2 = KJYO 251655Z AUTO 29006KT 10SM CLR 25/12 A3018 RMK AO2 ENTO 251650Z 28005KT 240V300 CAVOK 12/M01 Q1023 ENUG 251650Z AUTO 22039KT 9999NDV OVC013/// 04/02 Q0994 W06/S6 KJZI 251655Z AUTO 13009KT 10SM FEW039 SCT050 OVC060 23/12 A3034 RMK AO2 KJYR 251655Z AUTO 02017G24KT 3SM BR OVC003 03/03 A3000 RMK AO2 EPDA 251630Z 30005KT 260V340 9999 SCT149 05/04 Q1023 RMK 048 091 3/3 = ENVA 251650Z VRB03KT 9000 -DZ FEW017 BKN023 07/04 Q1018 RMK WIND 670FT 23011KT FGBT 251600Z 25010KT 8000 -TSRA SCT008 FEW018CB 29/28 Q1008 KLGU 251651Z AUTO 36015KT 9SM -RA SCT011 OVC018 04/03 A3005 RMK AO2 SLP168 P0003 T00440028 KLIC 251655Z AUTO 20004KT 10SM CLR 09/02 A3005 RMK AO2 SLP164 T00940022 KLHM 251655Z AUTO 31004KT 10SM SCT008 BKN024 OVC035 12/10 A3015 RMK AO1 ENVD 251350Z 25008KT CAVOK 00/M05 Q1005 EPDE 251630Z 28014KT 9999 OVC047 08/M01 Q1017 RMK 075 053 8/8= KJZP 251655Z AUTO 15013G18KT 10SM BKN034 21/02 A3027 RMK AO2 T02140022 KLHQ 251653Z AUTO 24010G16KT 10SM BKN070 23/11 A3016 RMK AO2 SLP205 T02330106 EPBY 251700Z 32012KT CAVOK 05/01 Q1022 UWKD 251700Z 29007MPS 4000 -SHSNRA BKN006CB M00/M00 Q1000 R29/2/0050 TEMPO 1200 SHSNRA OVC005 RMK QFE739/0986 UWKE 251700Z 23008MPS 9999 OVC004 00/M00 Q0999 R21/611055 NOSIG RMK OBST OBSC QFE733/0977 VOBG 251700Z 10004KT CAVOK 25/08 Q1017 KMAE 251653Z AUTO 25003KT 6SM BR OVC006 12/11 A3016 RMK AO2 RAE04 CIG 005V010 SLP211 P0000 T01220111 KLHW 251658Z AUTO 12009KT 10SM SCT046 BKN060 BKN190 23/12 A3028 RMK AO2 SLP257 T02330117 KMAF 251653Z VRB06KT 10SM CLR 18/M01 A3014 RMK AO2 SLP181 T01781006 KLHX 251653Z AUTO VRB05KT 10SM CLR 11/02 A3007 RMK AO2 SLP167 T01110022 $ KLJF 251653Z AUTO 08010KT 10SM OVC012 03/01 A3017 RMK AO2 LBSF 251700Z 36005KT CAVOK 14/07 Q1018 NOSIG DXNG 251600Z 08007KT 020V130 9999 FEW013 38/05 Q1010 NOSIG KLHZ 251700Z AUTO 20008G16KT 170V230 10SM SCT042 22/10 A3031 RMK AO2 KMAI 251653Z AUTO 19007KT 10SM CLR 24/14 A3021 RMK AO2 SLP228 T02440139 VOCB 251700Z 19003KT 6000 NSC 28/19 Q1015 NOSIG ENVR 250650Z 27015G28KT 230V330 9999 VCSH SCT028 BKN062 04/00 Q1008 VOBL 251700Z 11005KT 8000 NSC 25/11 Q1018 NOSIG VOBM 251300Z 27004KT 6000 FEW015 32/16 Q1014 KLIT 251653Z 23012KT 10SM BKN037 BKN045 OVC250 18/11 A2990 RMK AO2 SLP128 BINOVC T01780111 KO22 251655Z AUTO 32003KT 10SM BKN010 BKN016 BKN023 12/10 A3015 RMK AO1 KMAN 251655Z AUTO 00000KT 10SM CLR 09/05 A3009 RMK A01 KMAO 251715Z AUTO 21005KT 10SM OVC049 22/10 A3032 RMK AO2 VOCI 251700Z 00000KT 4000 HZ NSC 28/25 Q1012 NOSIG KMBG 251652Z AUTO 16014KT 10SM OVC005 02/M01 A3004 RMK AO2 SLP188 T00221006 UWKS 251700Z 31005MPS 5000 -SHSN BKN014CB M01/M05 Q1002 R06/290555 NOSIG RMK QFE737 VNKT 251650Z 17003KT 5000 BR FEW015 SCT100 19/14 Q1019 NOSIG VOCL 251700Z 25006KT 6000 FEW015 29/25 Q1012 NOSIG KMCB 251653Z AUTO 18007KT 10SM CLR 20/15 A3004 RMK AO2 SLP169 T02000150 TSNO KMBL 251656Z AUTO 09015G21KT 10SM OVC018 06/02 A3020 RMK AO2 SLP250 T00610017 KMCC 251655Z AUTO 33005KT 9SM SCT008 BKN017 OVC027 12/10 A3017 RMK AO2 KMCD 251655Z AUTO 09010G22KT 10SM OVC018 00/M03 A3036 RMK AO2 T10031031 KMCE 251653Z AUTO 30004KT 10SM BKN008 OVC015 12/10 A3015 RMK AO2 CIG 007V012 SLP209 T01220100 TSNO KMAW 251715Z AUTO 17013G17KT 4SM -RA SCT006 BKN011 OVC018 16/15 A2992 RMK AO2 ENWV 251650Z AUTO 30011KT 9999NDV NCD 08/06 Q1029 W///S3 EPGD 251700Z 32008KT CAVOK 05/M01 Q1021 KMBO 251655Z AUTO 17011G16KT 10SM CLR 20/15 A3002 RMK AO2 LTG DSNT NW KMCF 251658Z AUTO 14005KT 10SM CLR 26/15 A3023 RMK AO2 SLP240 T02610149 $ VOBZ 251700Z 14004KT 2000 HZ FEW020 27/24 Q1012 NOSIG KMCI 251653Z 03014KT 2SM -RA BR OVC004 11/11 A2985 RMK AO2 SFC VIS 6 RAE18B48 SLP105 P0003 T01110106 KLKR 251655Z AUTO 19007KT 10SM SCT041 SCT050 22/10 A3031 RMK AO2 PWINO KMBS 251653Z 06014KT 8SM -RA OVC006 03/02 A3028 RMK AO2 UPB40E45 SLP259 P0001 T00280022 KLLJ 251655Z AUTO 00000KT 10SM CLR 06/M03 A3002 RMK AO2 SLP155 T00611033 KMCJ 251655Z AUTO 34006KT 10SM CLR 24/10 A3001 RMK AO1 KMCK 251653Z AUTO 02009KT 10SM CLR 11/04 A3003 RMK AO2 SLP172 T01110039 LCLK 251700Z 23008KT CAVOK 17/06 Q1015 NOSIG UWLW 251700Z 28006MPS 2700 -SHSNRA BKN006 OVC014CB M01/M02 Q1004 R20/290250 TEMPO 1000 SHSNRA BR BKN004 RMK QFE748 KLKU 251655Z AUTO 24009KT 200V260 10SM CLR 26/12 A3018 RMK AO2 KLKV 251655Z AUTO 25004KT 10SM BKN011 BKN016 OVC034 04/00 A3011 RMK AO1 KMDD 251655Z AUTO 36006KT 10SM CLR 17/00 A3015 RMK AO2 T01671002 KMCN 251653Z 19007KT 140V220 10SM SCT042 BKN055 23/13 A3026 RMK AO2 SLP243 T02330128 KMCO 251653Z 10010KT 10SM SCT045 BKN065 BKN250 27/13 A3024 RMK AO2 SLP238 T02670133 KLLQ 251653Z AUTO 22007KT 20/13 A2992 RMK AO2 SLP129 T02000133 $ KMDH 251652Z 18015G23KT 10SM BKN025 OVC030 18/14 A2992 RMK AO2 PK WND 16029/1637 SLP128 T01780139 KMDJ 251655Z AUTO 17018KT 6SM HZ SCT014 SCT020 24/20 A3010 RMK A01 KMEB 242052Z AUTO 23008KT 10SM SCT065 22/07 A3038 RMK AO2 SLP286 T02220072 56025 TSNO KLNC 251655Z AUTO 30010G15KT 10SM CLR 17/08 A3004 RMK AO2 T01650081 KLND 251653Z AUTO 12011KT 10SM CLR 10/M01 A2994 RMK AO2 SLP112 T01001006 KMCW 251653Z AUTO 05017KT 5SM BR OVC008 03/02 A3005 RMK AO2 SLP180 T00280017 KMCX 251655Z AUTO 19012G18KT 10SM CLR 20/11 A2999 RMK AO2 T02020107 KLMO 251653Z AUTO 10003KT 10SM CLR 13/00 A3003 RMK AO2 T01251004 KO54 251655Z AUTO 00000KT 10SM OVC010 04/02 A3018 RMK AO1 KMEH 251656Z AUTO 00000KT 10SM BKN075 05/M01 A3005 RMK AO2 SLP192 T00501011 KMDQ 251655Z AUTO 18016G21KT 10SM BKN045 22/10 A3012 RMK AO2 KMEI 251658Z 14007KT 10SM -RA FEW080 OVC100 16/16 A3010 RMK AO2 LTG DSNT SE TSB10E25 PRESFR SLP189 P0018 T01610156 KMDS 251650Z AUTO 06010KT 10SM OVC005 02/02 A3009 RMK AO2 KKY8 251655Z AUTO 16016G28KT 10SM CLR 23/11 A2998 RMK AO1 KLMT 251702Z 15006KT 2SM BR OVC003 01/01 A3011 RMK AO2 T00110011 $ KLNK 251654Z 02015KT 10SM OVC010 05/03 A3000 RMK AO2 RAE14 SLP164 P0000 T00500033 KMDT 251656Z 30005KT 10SM SCT110 BKN250 21/10 A3014 RMK AO2 SLP206 T02060100 $ KLNL 251655Z AUTO 10008KT 10SM OVC012 01/M01 A3027 RMK AO2 T00111006 LDDU 251700Z 27003KT 240V300 CAVOK 13/11 Q1018 NOSIG UWOO 251700Z 14004MPS CAVOK 01/M00 Q1011 R08/190050 NOSIG RMK QFE748/0997 KMFD 251652Z 23011G17KT 10SM OVC070 19/11 A3015 RMK AO2 SLP206 T01940106 KMEM 251701Z 17015G21KT 10SM -RA SCT019 BKN027 OVC033 17/14 A2995 RMK AO2 RAB1658 P0000 T01720144 KMFE 251653Z 16005KT 10SM CLR 29/20 A3003 RMK AO2 SLP166 T02890200 $ KMDW 251653Z 02009KT 6SM BR OVC005 07/06 A3003 RMK AO2 RAE1557B31E50 SLP174 P0000 T00670061 $ ENZV 251650Z 33012KT 9999 4000NE BR BKN005 06/05 Q1027 TEMPO 2000 BR BKN003 KLNN 251655Z AUTO 06007KT 030V090 10SM SCT006 OVC037 05/03 A3022 RMK AO1 T00470032 LBWN 251700Z 17003KT 9999 OVC015 08/05 Q1019 NOSIG UWOR 251700Z 18007MPS CAVOK M01/M02 Q1016 R25/CLRD60 NOSIG RMK QFE738/0984 KLNP 251655Z AUTO 19009G14KT 10SM CLR 20/06 A3025 RMK AO2 KMDZ 251655Z AUTO 08016KT 10SM OVC011 02/00 A3018 RMK AO2 T00191001 KMFI 251654Z AUTO 09012KT 10SM OVC013 03/00 A3016 RMK AO2 SLP227 T00280000 KLNR 251656Z AUTO 06013G17KT 6SM BR OVC009 04/02 A3008 RMK AO2 SLP186 T00440022 KMER 251645Z 00000KT 7SM SCT005 BKN042 13/MM A3015 EPIR 251630Z 31018KT 9999 SCT033 BKN200 06/02 Q1021 RMK 058 076 5/3 = KLNS 251653Z 00000KT 10SM BKN110 21/11 A3015 RMK AO2 SLP209 T02060106 KO69 251655Z AUTO 00000KT 1SM OVC003 09/09 A3021 RMK AO1 DXSK 251500Z 32004KT 9999 SCT020 BKN260 36/23 Q//// KLOL 251653Z AUTO 11005KT 10SM SCT080 08/02 A3011 RMK AO2 SLP195 T00780022 KLPC 251656Z AUTO 32005KT 10SM FEW013 SCT030 BKN034 14/12 A3013 RMK AO2 SLP208 T01440122 KMGC 251655Z AUTO 11004KT 7SM SCT028 SCT039 BKN110 13/13 A3003 RMK AO2 VOGO 251700Z 32004KT 6000 SCT020 FEW090 27/22 Q1011 NOSIG KLOM 251655Z AUTO 23003KT 10SM BKN110 19/10 A3015 RMK AO1 KMEV 251655Z AUTO 02006KT 10SM CLR 07/01 A3011 RMK AO2 KMGE 251658Z 16010KT 10SM BKN040 BKN250 21/11 A3022 RMK AO2A SLP228 T02130112 $ KMGG 251653Z AUTO 08007KT 10SM OVC015 03/01 A3019 RMK AO2 T00310005 KMEZ 251655Z AUTO 25008KT 10SM SCT021 BKN029 OVC036 16/13 A2995 RMK AO2 TSNO LCPH 251700Z 29006KT 9999 FEW030 15/10 Q1016 KMFR 251653Z 00000KT 10SM FEW042 BKN075 07/05 A3015 RMK AO2 SLP213 T00720050 KLOR 251658Z AUTO 19009KT 9SM SCT037 OVC055 24/14 A3019 RMK AO2 SLP205 T02430142 KMGJ 251654Z AUTO 02012KT 10SM OVC045 06/02 A3021 RMK AO2 SLP233 T00610022 TSNO KLOT 251655Z AUTO 06008KT 4SM BR OVC004 07/07 A3001 RMK AO2 T00720072 KLOU 251653Z 20016G24KT 10SM CLR 24/10 A3006 RMK AO2 PK WND 18026/1629 SLP175 T02440100 EPKK 251700Z 27011KT CAVOK 08/M04 Q1020 EPLB 251700Z 30009KT CAVOK 07/M04 Q1016 KMGM 251653Z 17016G22KT 10SM CLR 26/13 A3016 RMK AO2 SLP209 T02560128 KMFV 251655Z AUTO 25012G23KT 10SM CLR 22/11 A3022 RMK AO2 T02180113 KMHE 251653Z AUTO 11006KT 8SM OVC006 02/01 A3011 RMK AO2 SLP207 T00220011 KMGN 251654Z AUTO 07010G19KT 10SM OVC013 01/00 A3033 RMK AO2 T00151006 FHAW 251450Z 14013KT 9999 FEW023 30/22 Q1011 BLU NOSIG VOHS 251700Z 13005KT 6000 NSC 29/14 Q1015 NOSIG KLOZ 251653Z AUTO 18012KT 10SM CLR 22/08 A3016 RMK AO2 SLP204 T02170083 KO86 251655Z AUTO 00000KT 10SM FEW008 BKN012 05/04 A3018 RMK AO1 KLPR 251653Z AUTO 06009KT 8SM BKN050 OVC080 07/04 A3020 RMK AO2 SLP227 T00720039 KMGR 251655Z AUTO 14006KT 10SM SCT041 24/13 A3025 RMK AO2 KMIA 251653Z 08016G24KT 10SM BKN038 BKN060 BKN250 26/17 A3019 RMK AO2 SLP223 T02560167 $ LCRA 251650Z 26011KT CAVOK 17/12 Q1015 NOSIG EPKS 251630Z 32016KT 9999 SCT032 BKN200 07/00 Q1023 RMK 071 061 7/4 = KMHK 251652Z 01006KT 3SM BR OVC009 07/06 A2993 RMK AO2 RAE20 SLP137 P0000 T00670056 KLQK 251715Z AUTO 18010G14KT 10SM BKN035 OVC046 21/11 A3027 RMK AO2 T02060113 KMIB 251658Z AUTO 18010KT 10SM CLR 03/00 A2992 RMK AO2 RAE11DZB11E13RAB13E14RAB37E45 SLP155 P0000 T00250002 $ EPMB 251630Z 33014KT 9999 FEW045 06/M00 Q1021 RMK 058 065 1/1= EPLK 251630Z 30014KT 9999 BKN050 08/M01 Q1020 RMK 084 052 7/7= KMHL 251715Z AUTO 12005KT 10SM BKN023 17/12 A2984 RMK AO2 KMIC 251653Z 06011KT 10SM OVC016 04/M02 A3016 RMK AO2 SLP221 T00391017 EPKT 251700Z 29007KT CAVOK 06/M05 Q1020 KLRD 251656Z 33012G15KT 10SM CLR 26/18 A3007 RMK AO2 SLP185 T02560178 $ EPLL 251700Z 35010KT 310V020 9999 FEW030 SCT048 06/01 Q1020 KMIE 251653Z 21013G20KT 10SM CLR 22/12 A3005 RMK AO2 PK WND 21029/1610 SLP167 T02220117 KMGW 251653Z 28007KT 10SM BKN055 BKN070 22/09 A3020 RMK AO2 SLP219 T02170089 VOHY 251530Z VRB02KT 6000 NSC 31/13 Q1015 NOSIG KLRF 251658Z AUTO 23016KT 10SM SCT037 SCT046 19/11 A2988 RMK AO2 SLP120 T01890111 KMGY 251653Z AUTO 21009G17KT 10SM CLR 20/10 A3010 RMK AO2 SLP189 T02000100 KMHR 251645Z 00000KT 10SM OVC014 13/10 A3015 KLRJ 251655Z AUTO 04011KT OVC007 04/03 A3006 RMK AO2 KMHS 251656Z AUTO 00000KT 10SM CLR 04/02 A3012 RMK AO2 SLP227 T00440017 KP08 251655Z AUTO RMK AO2 PNO PWINO TSNO LEAB 251700Z 28012KT 9999 FEW040 14/M00 Q1013 NOSIG KMHT 251708Z 34003KT 2SM R35/4500VP6000FT RASN BR OVC008 02/00 A3028 RMK AO2 P0002 T00170000 KMHV 251640Z AUTO 27012KT 10SM FEW041 SCT048 BKN055 12/06 A3009 RMK A01 EPMM 251630Z 32012KT 9999 BKN025 05/00 Q1018 RMK 048 071 7/7 = KLSE 251653Z 08013G17KT 10SM OVC014 04/02 A3012 RMK AO2 SLP209 T00440017 $ KLRO 251655Z AUTO 12007KT 10SM CLR 22/12 A3034 RMK AO2 KLSF 251658Z AUTO 17008KT 10SM CLR 24/12 A3020 RMK AO2 SLP228 T02440120 LEAG 251700Z AUTO 15013KT 120V190 CAVOK 14/06 Q1016 EPMO 251700Z 30012KT 9999 BKN020 05/02 Q1019 UWSS 251700Z 29004G09MPS CAVOK 00/M05 Q1010 R30/190095 NOSIG RMK QFE744 LEBA 251700Z AUTO 22011KT 9999 SCT040 SCT046 14/08 Q1014 KMIS 251655Z AUTO 18015G21KT 5SM HZ CLR 26/20 A3011 RMK A01 LEBB 251700Z 11005KT 080V150 7000 RA FEW009 SCT020 BKN028 08/07 Q1010 TEMPO 3000 KNAK 251654Z AUTO 12008KT 10SM CLR 14/09 A3017 RMK AO2 SLP217 T01390089 LEAL 251700Z 17011KT 140V220 9999 FEW020 15/08 Q1015 NOSIG KMKC 251702Z 35007KT 7SM RA SCT017 BKN025 OVC048 13/12 A2982 RMK AO2 P0000 T01330122 KNBC 251656Z AUTO 13005KT 10SM FEW041 SCT049 BKN060 24/14 A3032 RMK AO2 SLP267 T02390144 $ KLRU 251655Z AUTO 14008KT 10SM CLR 17/M03 A3014 RMK AO2 T01661035 LEAM 251700Z 21007KT CAVOK 15/06 Q1015 KMIV 251654Z AUTO 26009KT 10SM CLR 24/12 A3015 RMK AO2 SLP208 T02390117 KMIW 251653Z AUTO 04016KT 5SM -RA BR OVC007 04/03 A2996 RMK AO2 CIG 006V010 SLP150 P0004 T00390033 KMKE 251652Z 04013KT 10SM OVC005 04/02 A3012 RMK AO2 DZE06RAB29E40 SLP206 P0000 T00390022 LEAO 241900Z 32003KT 290V350 9999 FEW025 FEW030CB 05/02 Q1014 LEBG 251700Z 27004KT 240V310 9999 SCT040 04/01 Q1010 KLRY 251655Z AUTO 03005KT 10SM BKN009 OVC019 15/12 A2985 RMK AO2 KNBG 251655Z 17013G21KT 10SM BKN022 BKN028 BKN037 BKN250 26/21 A3006 RMK AO2 SLP179 T02610206 $ KMKG 251655Z 08016G24KT 10SM BKN010 OVC020 05/03 A3014 RMK AO2 RAE43 SLP210 P0000 T00500033 KMJQ 251654Z AUTO 06014G18KT 7SM OVC006 03/01 A3008 RMK AO2 KNCA 251556Z AUTO 20010KT 10SM OVC050 23/12 A3034 RMK AO2 SLP275 T02330117 LEAS 251700Z 24005KT 7000 -RA SCT028 OVC032 07/05 Q1011 TEMPO 3000 RA KLUA 251655Z AUTO 18003KT 10SM CLR 23/12 A3018 RMK AO2 KP28 251656Z AUTO 35013KT 08/03 A3000 RMK AO1 SLP160 T00780033 KMKJ 251655Z AUTO 08004KT 10SM CLR 21/09 A3028 RMK AO2 T02080090 KMLB 251653Z 12014KT 10SM SCT045 26/14 A3024 RMK AO2 SLP241 T02610139 VOMD 251700Z 14002KT 6000 FEW020 28/20 Q1013 NOSIG EPOK 251630Z 32009KT 290V360 CAVOK 06/M00 Q1021 RMK 058 065 0/0 = LEBL 251700Z 22010KT 9999 FEW030 14/06 Q1016 NOSIG KMLC 251653Z AUTO 26011KT 10SM OVC024 13/06 A2998 RMK AO2 SLP149 T01330061 KMKL 251653Z 15012G19KT 10SM FEW017 BKN060 OVC090 17/15 A2998 RMK AO2 RAB1557E41 SLP148 P0002 T01720150 KLUD 251655Z AUTO 31006G16KT 10SM SCT030 16/07 A3004 RMK AO2 T01570065 KLSV 251658Z AUTO 28018G26KT 10SM FEW070 17/03 A2998 RMK AO2 PK WND 27033/27 SLP139 T01690025 $ KMKN 251655Z AUTO 31010G15KT 10SM CLR 17/06 A3009 RMK AO2 T01650060 KMLE 251655Z AUTO 36007KT 10SM -DZ OVC010 06/05 A2998 RMK AO2 T00600051 KMKO 251653Z AUTO 29012KT 10SM OVC017 11/07 A2997 RMK AO2 SLP144 T01060072 KMLF 251652Z AUTO 21006KT 10SM BKN090 OVC100 11/M02 A2997 RMK AO2 SLP123 T01111017 KMJX 251656Z AUTO 29006KT 10SM BKN110 23/11 A3015 RMK AO2 SLP215 T02330111 KLUF 251658Z AUTO 00000KT 10SM CLR 18/05 A3001 RMK AO2 SLP157 T01830048 $ LECH 251700Z AUTO 21007KT 160V250 9000 NCD 13/04 Q1014 KMLI 251659Z 07012KT 2SM BR OVC006 07/06 A2993 RMK AO2 T00720056 UWUU 251700Z 18011G16MPS 9999 OVC016 02/00 Q1005 R14R/650150 TEMPO 18015G22MPS RMK QFE744/0992 VOML 251700Z 33006KT 6000 SCT015 28/25 Q1012 NOSIG KMKS 251655Z AUTO 18005KT 10SM OVC060 23/08 A3032 RMK AO2 KLTS 251708Z AUTO 32011KT 10SM BKN034 16/04 A3005 RMK AO2 SLP172 KMLJ 251655Z AUTO 00000KT 10SM SCT040 SCT060 23/15 A3027 RMK AO2 VOND 250430Z 26003KT 5000 HZ NSC 33/10 Q1015 LEBT 251700Z AUTO VRB02KT CAVOK 14/06 Q1014 KLUK 251653Z 21013G20KT 10SM CLR 23/12 A3011 RMK AO2 SLP194 T02280122 KMKT 251656Z AUTO 06015KT 10SM OVC011 04/02 A3012 RMK AO2 SLP212 T00390017 KNBT 251656Z AUTO 20016G22KT 10SM FEW050 A3032 RMK AO2 SLP273 PNO $ VOMM 251700Z 17005KT 6000 FEW020 28/23 Q1013 NOSIG KLUM 251655Z AUTO 05010KT 10SM OVC017 04/00 A3018 RMK AO2 T00410001 LECO 251700Z VRB01KT 9999 SCT035 08/06 Q1011 NOSIG DXXX 251600Z 20014KT 9999 FEW015 31/25 Q1008 NOSIG KMLP 251653Z AUTO VRB03KT 3/4SM -SN BR BKN002 BKN006 OVC010 M02/M02 A2997 RMK AO2 SNE39B46 SLP175 P0001 T10171017 $ EPPO 251700Z 36009KT 9999 BKN033 07/M00 Q1023 LEBZ 251700Z 23011KT 9999 FEW048TCU 15/04 Q1011 KMMH 251655Z AUTO 31009KT 10SM OVC050 04/M01 A3010 RMK AO2 T00421014 KMMI 251655Z AUTO 15009KT 120V180 10SM SCT047 22/11 A3020 RMK KLVJ 251653Z AUTO 31008KT 10SM CLR 25/12 A3004 RMK AO2 LTG DSNT E SLP173 T02500122 PWINO $ KMLS 251653Z AUTO 32014G19KT 10SM BKN080 OVC095 13/M01 A2995 RMK AO2 SLP141 T01331011 KLWA 251657Z AUTO 10011G16KT 10SM BKN006 BKN037 OVC046 05/05 A3010 RMK AO2 T00530047 KMMK 251653Z AUTO 01007KT 10SM BKN046 OVC050 10/02 A3021 RMK AO2 SLP231 T01000022 TSNO KMLT 251653Z AUTO 34011KT 10SM CLR 04/M09 A3020 RMK AO2 SLP235 T00391094 KLVK 251653Z 10004KT 10SM BKN016 12/09 A3016 RMK AO2 SLP212 T01220094 KLWB 251655Z AUTO 00000KT 10SM CLR 19/08 A3025 RMK AO2 T01910083 EPRA 251700Z 33013KT CAVOK 07/00 Q1018 KMLU 251653Z 22011KT 10SM BKN019 BKN023 BKN050 20/16 A2997 RMK AO2 SLP149 T02000156 KLWC 251652Z AUTO 33007KT 10SM -RA BKN008 OVC022 09/09 A2986 RMK AO2 RAB15 CIG 006V012 SLP113 P0000 T00940089 KMML 251656Z AUTO 07011KT 10SM OVC006 03/02 A3012 RMK AO2 CIG 005V011 SLP214 T00330017 KLVL 251655Z AUTO 10SM CLR 22/11 A3026 RMK AO1 T02160105 LECV 251700Z 21009KT 9999 FEW010 BKN030 06/03 Q1012 KLVM 251653Z AUTO 33007KT 10SM FEW024 BKN038 OVC050 06/01 A3000 RMK AO2 SLP153 T00610006 KLWD 251653Z AUTO 02015KT 10SM BKN007 OVC014 07/06 A2990 RMK AO2 RAE49 CIG 005V011 SLP129 P0003 T00720056 KLVN 251653Z AUTO 05013G19KT 10SM OVC014 03/01 A3013 RMK AO2 KP53 251656Z AUTO 03006KT 01/M01 A3033 RMK AO1 SLP278 T00111011 KMNE 251655Z AUTO 28007KT 10SM CLR 21/12 A2998 RMK AO2 T02120115 EPPW 251630Z 33014KT 9999 SCT020 BKN040 06/M00 Q1022 RMK 062 063 7/4 = KLUX 251655Z AUTO 24005KT 7SM BKN033 OVC042 20/12 A3029 RMK AO2 KMNH 251654Z AUTO 17008KT 10SM CLR 06/M02 A3008 RMK AO2 KMNI 251655Z AUTO 21005G14KT 10SM CLR 22/10 A3032 RMK AO2 KLVS 251653Z AUTO VRB03KT 10SM CLR 12/M04 A3011 RMK AO2 SLP153 T01221039 KP58 251651Z AUTO 06020KT 01/00 A3028 RMK AO1 SLP263 T00110000 KP60 251656Z AUTO VRB03KT 01/M01 A3002 RMK AO1 SLP161 P0001 T00111011 $ KP59 251651Z AUTO 10010G16KT 00/M04 A3037 RMK AO1 SLP297 T00001039 KMOB 251656Z 14017KT 10SM BKN023 OVC080 23/18 A3013 RMK AO2 SLP202 T02330178 KMMT 251658Z 19009KT 10SM BKN047 BKN210 23/10 A3030 RMK AO2A SLP262 T02320104 $ KNEL 251600Z AUTO 28006KT 10SM OVC110 29/10 A3014 RMK AO2 SLP205 T02890100 $ UWWW 251700Z 28007MPS 9999 BKN020 01/M02 Q1004 R23/620345 NOSIG RMK QFE742/0990 KMMU 251645Z 00000KT 10SM SCT120 16/06 A3018 KMOD 251706Z 31009KT 10SM BKN014 BKN050 14/11 A3015 RMK AO2 T01440111 KMMV 251653Z AUTO 22009KT 10SM SCT009 BKN060 08/06 A3016 RMK AO2 SLP212 T00830061 KLWM 251654Z 04009KT 3SM -SN BR BKN033 OVC055 02/00 A3029 RMK AO2 RAE1557B26E50SNB50 SLP257 P0002 T00170000 KMNM 251656Z AUTO RMK AO2 SLPNO PWINO FZRANO $ EPSC 251700Z 32010KT 280V350 9999 FEW025 07/02 Q1024 KNFE 251556Z AUTO 23008G18KT 10SM CLR 23/10 A3027 RMK AO2 SLP254 T02330100 KMNN 251653Z AUTO 24007G15KT 10SM OVC070 22/11 A3014 RMK AO2 SLP203 T02170106 KNFG 251655Z 00000KT 7SM BKN030 14/11 A3014 RMK AO2 SLP205 T01390106 KNDZ 250156Z 16005KT 10SM OVC250 19/16 A3024 RMK AO2 SLP226 T01890156 $ LEGA 251300Z 20012KT CAVOK 13/01 Q1016 KP68 251653Z AUTO 13004KT 03/00 A3006 RMK AO1 SLP158 T00280000 KLWS 251656Z 32004KT 10SM BKN070 OVC095 08/06 A3010 RMK AO2 SLP197 T00780056 KP69 251652Z AUTO VRB03KT 07/04 A3012 RMK AO1 SLP210 P0001 T00670039 KLWT 251654Z AUTO 27009KT 10SM CLR 08/M07 A2996 RMK AO2 SLP138 T00831067 KLXL 251652Z AUTO 07006KT 10SM OVC016 02/M01 A3020 RMK AO2 KNFL 251656Z 36006KT 10SM SCT040 SCT080 10/M01 A3010 RMK AO2 SLP160 T01001006 FGSL 251600Z 24011KT 9999 SCT012 FEW020CB 30/24 Q1008 NOSIG KLWV 251653Z AUTO 17018KT 10SM BKN050 OVC110 21/12 A2997 RMK AO2 PK WND 15027/1609 SLP147 T02110122 KMNV 251655Z AUTO 20013G19KT 170V230 10SM BKN047 22/11 A3020 RMK A01 LEGE 251700Z 31005KT 260V360 9999 FEW030 12/04 Q1015 KNEW 251707Z 18010G24KT 4SM TSRA SCT031 BKN048 OVC095 24/20 A3005 RMK AO2 LTG DSNT W AND NW TSB01 P0002 T02390200 KLXN 251655Z AUTO 35007KT 10SM OVC006 06/04 A3004 RMK AO2 T00560035 EPSN 251630Z 31008KT 9999 BKN018 06/02 Q1023 RMK 056 077 6/6= KMOP 251655Z AUTO 08014G21KT 10SM -DZ OVC008 02/01 A3026 RMK AO2 T00210010 KLYH 251654Z 22007KT 200V260 10SM CLR 21/09 A3024 RMK AO2 SLP235 T02110089 KMNZ 251655Z AUTO 32015KT 10SM CLR 17/06 A3009 RMK AO2 T01710060 KMOR 251655Z AUTO 34005KT 10SM CLR 20/09 A3021 RMK A01 EPRZ 251700Z 29014KT CAVOK 09/M06 Q1018 LDOS 251700Z 27003KT 240V310 CAVOK 14/03 Q1020 KLXT 251653Z AUTO 34009KT 10SM FEW009 SCT070 BKN085 15/13 A2982 RMK AO2 RAE03 SLP095 P0000 T01500128 TSNO KMOT 251654Z 16014G24KT 10SM OVC100 03/00 A2991 RMK AO2 SLP148 T00330000 KMQB 251655Z AUTO 18007KT 10SM BKN010 BKN015 15/15 A2989 RMK AO2 T01530148 LEHC 251700Z AUTO VRB02KT 9999 BKN050 BKN060 04/03 Q1014 LDPL 251700Z 26004KT CAVOK 17/09 Q1017 NOSIG KLXV 251653Z AUTO 22004KT 10SM CLR 05/M14 A3012 RMK AO2 SLP125 T00501144 KMQE 251654Z AUTO 05008KT 02/01 A3021 RMK AO1 SLP245 T00220006 KNFW 251552Z 32012KT 10SM FEW027 16/06 A3005 RMK AO2 SLP159 T01560061 $ KMPO 251653Z AUTO 27005KT 10SM FEW039 SCT110 14/09 A3016 RMK AO2 SLP217 T01390089 KMOX 251653Z AUTO 10009KT 10SM BKN011 02/M01 A3016 RMK AO2 KLXY 251655Z AUTO 28008G16KT 10SM CLR 17/09 A3006 RMK AO2 T01730086 KNGP 251656Z 30007KT 7SM FEW015 BKN023 OVC032 26/21 A3004 RMK SLP171 T02560211 $ EPSY 251700Z 31015KT 280V350 9999 BKN024 05/00 Q1018 KMQI 251700Z AUTO 27009KT 10SM CLR 21/10 A3031 RMK AO2 T02070100 LEGR 251700Z 27010KT 240V310 9999 FEW045 14/03 Q1015 KMQJ 251659Z AUTO 18015G18KT 10SM CLR 20/12 A3005 RMK AO1 LEGT 251700Z 16004KT 9999 SCT030 BKN045 08/04 Q1013 LEIB 251700Z 22013KT 170V240 9999 FEW025 15/08 Q1017 NOSIG KNHK 251652Z 25012KT 10SM FEW120 BKN250 23/13 A3017 RMK AO2 SLP218 T02280128 VISNO RY24 $ KMRB 251653Z 25010KT 10SM CLR 23/10 A3016 RMK AO2 WSHFT 1626 SLP208 T02330100 KNGU 251559Z 24016G21KT 10SM BKN260 22/11 A3027 RMK AO2 SLP250 T02220106 KMRC 251655Z AUTO 19012KT 10SM OVC041 21/14 A3007 RMK KMPV 251651Z AUTO 04003KT 10SM OVC019 01/M01 A3030 RMK AO2 SLP274 T00111011 KP92 251653Z AUTO VRB03KT 22/19 A3008 RMK AO1 SLP186 T02170194 KNID 251656Z AUTO 05007KT 010V080 10SM CLR 18/02 A3001 RMK AO2 SLP154 T01780017 $ KLYV 251658Z AUTO 07009G15KT 10SM OVC007 03/01 A3009 RMK AO2 KMRF 251656Z AUTO 18007KT 10SM CLR 18/M04 A3020 RMK AO2 SLP190 T01831044 KMRH 251658Z AUTO 21013KT 10SM CLR 22/13 A3034 RMK AO2 SLP273 T02220128 TSNO LDRI 251700Z 06004KT 9999 FEW047 19/04 Q1018 KMQS 251655Z AUTO 27006KT 10SM FEW110 22/11 A3017 RMK AO2 KMRJ 251655Z AUTO 05016G24KT 7SM DZ OVC004 04/04 A3000 RMK AO2 EPWA 251700Z 32012KT 9999 SCT020 BKN036 05/02 Q1019 NOSIG KLZU 251545Z 19009G16KT 10SM BKN030 21/13 A3029 RMK ATIS R RWY 7 LL KMRN 251700Z AUTO 23006KT 10SM SCT038 OVC047 20/10 A3032 RMK AO2 T01990099 VORY 251230Z 19005KT 5000 HZ NSC 32/19 Q1009 KNIP 251653Z 12011KT 10SM BKN042 BKN250 23/14 A3028 RMK AO2 SLP250 T02330139 KMQY 251656Z 17018G27KT 10SM FEW048 23/12 A3008 RMK AO2 PK WND 16029/1620 SLP099 T02280117 KLZZ 251655Z AUTO 30008KT 10SM CLR 18/07 A3007 RMK AO2 T01750069 VOTK 251100Z 12010KT 6000 FEW020 34/22 Q1009 LFBA 251700Z AUTO 20003KT 160V270 CAVOK 14/05 Q1011 TEMPO 4000 SHRA BKN015TCU KOAJ 251656Z AUTO 22008KT 10SM OVC049 22/12 A3032 RMK AO2 SLP272 T02220122 KOAK 251653Z 30007KT 10SM FEW014 FEW046 SCT250 14/12 A3018 RMK AO2 SLP220 T01440117 KMRT 251653Z AUTO 25014G20KT 10SM CLR 21/11 A3014 RMK AO2 T02140106 KNJK 251656Z 26013KT 10SM CLR 24/M04 A3002 RMK AO2 SLP180 T02441044 LFBC 251700Z AUTO 15017KT 9999 FEW020/// BKN035/// BKN042/// ///TCU 11/09 Q1010 KMSL 251653Z AUTO 18009KT 10SM SCT044 SCT075 19/14 A3010 RMK AO2 RAB12E33 SLP189 P0002 T01890139 KMTC 251704Z 05003KT 3SM -RA BR OVC007 06/06 A3024 RMK AO2A RAB04 PRESRR KNJM 251557Z AUTO 20011KT 10SM CLR 21/11 A3036 RMK AO2 SLP285 T02110111 $ LFBD 251700Z AUTO 14016KT 9999 FEW025 SCT030 BKN056 12/06 Q1011 TEMPO 11020G30KT LFBE 251700Z AUTO 12010KT 080V140 CAVOK 14/04 Q1011 NOSIG KMSN 251653Z 06014KT 9SM -RA OVC006 03/02 A3008 RMK AO2 RAB20 SLP193 P0000 T00330022 KOBE 251655Z AUTO 10007KT 045V105 10SM BKN047 BKN055 A3022 RMK AO2 VOTP 251600Z 23010KT 6000 NSC 30/19 Q1011 KMSO 251653Z 12007KT 10SM FEW055 07/01 A3005 RMK AO2 SLP184 T00720006 LFBG 251700Z AUTO 11015KT CAVOK 16/04 Q1011 KMRY 251654Z 00000KT 10SM SCT013 BKN019 14/11 A3017 RMK AO2 SLP227 T01390106 KMSP 251653Z 06012KT 10SM OVC016 04/M01 A3016 RMK AO2 SLP219 T00441006 LDSP 251700Z 25002KT CAVOK 17/12 Q1018 NOSIG VOTR 251700Z 14004KT 6000 NSC 28/22 Q1012 BECMG 5000 HZ LFAQ 251700Z AUTO 05018KT CAVOK 14/02 Q1020 TEMPO 06020G30KT LFBH 251700Z AUTO 06015KT CAVOK 15/10 Q1011 BECMG 12012KT KMTH 251653Z AUTO 10012G18KT 10SM CLR 27/18 A3016 RMK AO2 SLP213 T02720178 LFBI 251700Z AUTO 07008KT 040V100 CAVOK 16/09 Q1012 NOSIG LEJR 251700Z 20012KT 9999 FEW025TCU BKN045 14/11 Q1015 KMSS 251653Z AUTO 03011KT 10SM OVC018 02/M02 A3038 RMK AO2 SLP294 T00171017 KMTJ 251653Z AUTO 12009KT 10SM CLR 13/M05 A3005 RMK AO2 SLP138 T01281050 EPWR 251700Z 32012KT CAVOK 10/M01 Q1022 LFAT 251700Z AUTO 04010KT 360V070 CAVOK 12/03 Q1022 BECMG 07020G30KT VOTV 251700Z 14004KT 4000 HZ FEW015 SCT090 29/23 Q1012 NOSIG LELC 251700Z 19012KT 160V260 9999 FEW030 16/08 Q1016 NOSIG LFBL 251700Z AUTO 12008KT 090V170 CAVOK 13/01 Q1012 NOSIG KNLC 251656Z AUTO 29004KT 10SM OVC018 12/11 A3015 RMK AO2 SLP210 T01170106 LFBM 251700Z AUTO 12005KT 080V170 9999 -RA SCT021 BKN029 BKN044 10/08 Q1011 TEMPO 4000 -SHRA SCT010 BKN018TCU BKN040 KMSV 251655Z AUTO 05007KT 10SM FEW030 FEW042 BKN050 06/03 A3021 RMK AO1 KMTN 251645Z 12005KT 10SM OVC250 19/12 A3018 LFBO 251700Z AUTO 13018KT CAVOK 15/04 Q1010 BECMG 16007KT KMTO 251653Z AUTO 17016G25KT 10SM FEW047 BKN065 OVC100 19/12 A2994 RMK AO2 RAB00E10 SLP135 P0000 T01940117 KOCF 251650Z 15010KT 10SM BKN035 24/14 A3027 LFBP 251700Z AUTO 06006KT 030V090 9999 FEW026 BKN100 11/05 Q1011 NOSIG KMSY 251707Z 20019G26KT 10SM SCT025 BKN030 BKN040 27/19 A3005 RMK AO2 PK WND 21026/1706 LTG DSNT ALQDS CB DSNT E AND W-NW T02670189 KMTP 251554Z AUTO 04008KT 09/04 A3021 RMK AO1 SLP229 T00890039 KOCH 251655Z 32009KT CLR 19/10 A3002 RMK AO1 KMUI 251658Z AUTO 23006KT 10SM FEW060 SCT120 19/10 A3015 RMK AO2 SLP213 T01920101 $ KNKT 251654Z 19012G20KT 7SM BKN050 23/11 A3033 RMK SLP268 T02330111 LFCK 251700Z AUTO 12024G34KT CAVOK 13/05 Q1013 NOSIG LFBT 251700Z AUTO 03008KT 360V080 9999 SCT026 BKN140 10/05 Q1010 NOSIG LELL 251700Z 33008KT 9999 FEW025 SCT050 11/05 Q1016 LFBU 251700Z AUTO 14009KT 090V190 CAVOK 15/02 Q1012 NOSIG LEMD 251700Z 17008KT 130V200 9999 BKN027 BKN065 09/04 Q1012 NOSIG KMTV 251655Z AUTO 21008KT 180V250 10SM CLR 22/09 A3027 RMK AO2 T02220085 LELN 251700Z 04003KT 010V070 CAVOK 04/02 Q1010 KMVE 251652Z AUTO 13009KT 10SM OVC011 03/01 A3018 RMK AO2 KMTW 251656Z AUTO 06010G16KT 10SM OVC010 03/01 A3021 RMK AO2 SLP252 T00330011 LELO 251700Z 06004KT 010V130 8000 -RA FEW010 OVC030 01/01 Q1013 KMUO 251658Z AUTO 32010KT 10SM CLR 09/05 A3009 RMK AO2 SLP191 T00920047 $ KNKX 251655Z 35005KT 10SM SCT017 BKN120 18/10 A3014 RMK AO2 SLP203 T01780100 $ LEMG 251700Z 12007KT 9999 FEW025 SCT035 14/08 Q1016 NOSIG LFBY 251700Z AUTO 18008KT 160V220 9999 // NSC 11/03 Q1011 LEMH 251700Z 22013KT 190V250 9999 FEW024 14/09 Q1018 LFBZ 251700Z AUTO 20007KT 140V240 9999 OVC044 09/03 Q1010 TEMPO 21015G30KT 4000 SHRA BKN015TCU KOCQ 251655Z AUTO 06011G17KT 10SM OVC011 03/00 A3026 RMK AO1 T00250001 KMVH 251655Z AUTO 32011G17KT 10SM SCT100 08/M06 A2998 RMK AO2 EPZG 251400Z 27011G21KT 230V310 CAVOK 12/M03 Q1024 LFCR 251700Z AUTO 13018KT CAVOK 10/02 Q1013 BECMG 12020G32KT KMWA 251645Z 17015G25KT 10SM OVC024 19/15 A2994 KMUT 251655Z AUTO 05008KT 2SM BR OVC006 07/06 A2993 RMK AO2 KOEB 251654Z AUTO 08012G15KT 5SM BR BKN009 OVC038 09/08 A3013 RMK AO2 T00910077 KMVL 251654Z AUTO 36006KT 10SM OVC019 01/M02 A3030 RMK AO2 SLP272 T00111022 KMWC 251645Z 05010G21KT 10SM OVC006 03/01 A3014 KNMM 251656Z AUTO 15007KT 4SM RA BKN080 OVC095 16/13 A3013 RMK AO2 TSE25 SLP210 P0015 T01610133 $ KOCW 251700Z AUTO 24010KT 10SM SCT050 23/11 A3030 RMK AO2 T02310107 KMVN 251656Z AUTO 17015G22KT 10SM OVC028 19/13 A2992 RMK AO2 PK WND 16028/1618 SLP130 T01940133 VOVZ 251700Z 22006KT 6000 FEW018 26/25 Q1012 NOSIG KODO 251653Z AUTO 04007KT 10SM CLR 18/M01 A3015 RMK AO2 SLP184 T01781011 $ LEMO 251700Z 20012KT 170V230 5000 -SHRA SCT025TCU SCT047 13/10 Q1015 NOSIG KMWH 251652Z 20008KT 10SM CLR 09/01 A3005 RMK AO2 SLP181 T00940011 KMWK 251700Z AUTO 19008KT 150V210 10SM CLR 21/11 A3028 RMK AO2 T02140108 KMWL 251653Z AUTO 29008G17KT 10SM CLR 16/06 A3005 RMK AO2 SLP168 T01610056 KMWM 251654Z AUTO 04012G16KT 7SM OVC005 03/02 A3009 RMK AO2 KMWN 251650Z 31021KT 85SM BKN/// SCT/// FEW005 BKN040 BKN050 OVC080 M08/M10 RMK VIRGA OHD TPS LWR SCT048 TPS LWR BKN035 KODX 251707Z AUTO 01010KT 5SM BR OVC004 03/02 A3003 RMK AO2 T00330017 KOFF 251658Z AUTO 01010KT 10SM OVC010 06/04 A2996 RMK AO2 RAE11 SLP155 P0000 T00580036 KMWO 251650Z AUTO 19010KT 10SM CLR 22/08 A3012 RMK AO2 T02180078 KMXF 251658Z AUTO 15013G22KT 10SM FEW044 OVC180 25/14 A3015 RMK AO2 SLP211 T02540143 KOEO 251655Z AUTO 06009KT 10SM OVC016 04/00 A3022 RMK AO2 T00350000 KMVY 251653Z 05011KT 10SM BKN043 OVC050 08/03 A3020 RMK AO2 SLP227 T00830028 KNOG 251656Z AUTO 36007KT 9SM SCT010 OVC014 23/21 A3007 RMK AO2 SLP162 T02330211 LEPA 251700Z 23013KT 9999 FEW020 15/06 Q1017 NOSIG LFGA 251700Z AUTO 36017KT CAVOK 15/03 Q1017 PTKK 251654Z 04008KT 15SM FEW014 SCT120 OVC280 28/25 A2981 RMK SLP098 T02830253 KNPA 251656Z 15014G21KT 10SM SCT022 SCT120 BKN250 24/19 A3016 RMK AO2 SLP213 T02440189 $ KOGA 251655Z AUTO 00000KT 10SM CLR 11/M01 A3005 RMK AO2 T01101011 KMWT 251653Z AUTO VRB04KT 10SM FEW030 OVC043 18/09 A2990 RMK AO2 SLP120 T01780094 KOGB 251653Z AUTO 17009KT 10SM SCT050 23/09 A3031 RMK AO2 SLP262 T02330094 KOFK 251656Z AUTO 02012G22KT 7SM OVC005 03/02 A3002 RMK AO2 SLP178 T00280017 KOGD 251653Z 34009KT 10SM -RA BKN006 OVC012 04/04 A3001 RMK AO2 SLP152 P0002 T00440039 KMYF 251653Z 35005KT 10SM BKN021 BKN095 BKN110 16/09 A3015 RMK AO2 SLP207 T01560094 KMXO 251655Z AUTO 04014G24KT 2SM RA BKN007 04/04 A2994 RMK AO2 P0007 KOFP 251654Z AUTO 23013G18KT 10SM CLR 24/09 A3022 RMK AO2 SLP232 T02440094 GABG 251500Z 08004KT CAVOK 39/14 Q//// PTKR 251651Z 01006KT 15SM FEW016 SCT110 OVC280 27/24 A2985 RMK SLP109 T02720241 LFGJ 251700Z AUTO 19014KT 9999 OVC041 12/06 Q1017 TEMPO 18015G25KT KNQA 251650Z 16011KT 10SM SCT019 BKN027 OVC035 18/14 A2995 KMYJ 251715Z AUTO 13007KT 7SM OVC015 13/11 A2985 RMK AO2 PWINO LDZA 251700Z 11005KT CAVOK 14/02 Q1020 NOSIG KMYL 251651Z AUTO 17003KT 10SM FEW041 01/M01 A3004 RMK AO2 SLP188 T00061006 LDZD 251700Z 32004KT CAVOK 19/08 Q1017 NOSIG KNOW 251655Z AUTO 29003KT 10SM SCT022 SCT030 OVC070 07/04 A3010 RMK AO2 T00720037 LEPP 251700Z 13005KT 100V170 7000 RA SCT014 BKN019 03/02 Q1013 ESCF 251650Z AUTO 28007KT 9999 OVC120/// 08/01 Q1022 KMYP 251651Z AUTO 22014KT 10SM CLR 01/M20 A3033 RMK AO2 KMZG 251655Z AUTO 32008KT 6SM BR SCT016 BKN024 23/21 A3006 RMK A01 KMZH 251656Z AUTO 09005KT 10SM OVC020 02/M02 A3021 RMK AO2 KMYR 251645Z 16012KT 10SM OVC040 22/12 A3035 KNQI 251656Z AUTO 29007KT 10SM OVC019 26/22 A3004 RMK AO2 SLP170 T02560217 GABS 251700Z 11010KT 080V140 9999 FEW030 38/05 Q1010 NOSIG KNRB 251652Z AUTO 11007KT 10SM BKN070 23/14 A3029 RMK AO2 SLP257 T02330144 KMYV 251653Z AUTO 32007KT 10SM FEW010 OVC033 12/10 A3017 RMK AO2 SLP219 T01220100 ESDF 251650Z AUTO 32004KT 290V360 9999 NCD 11/M01 Q1022 FJDG 251655Z 12006KT 9999 FEW025 FEW250 28/26 A2987 RMK SLP112 T02780258 KMYZ 251655Z AUTO 02012KT 10SM -RA OVC009 06/05 A2994 RMK AO2 LERI 251700Z 16015KT 9999 FEW030 16/05 Q1014 NOSIG WIBB 251630Z 00000KT 7000 FEW015 26/24 Q1010 LESA 251700Z 25016KT 9999 FEW040 11/01 Q1010 KOJA 251655Z AUTO 33013G18KT 10SM OVC022 12/06 A3002 RMK AO2 KOJC 251708Z 33009KT 7SM OVC004 11/11 A2982 RMK AO2 T01060106 LGAD 251650Z 00000KT CAVOK 16/12 Q1019 KPAE 251700Z 17008KT 10SM SCT019 BKN024 OVC030 07/04 A3010 RMK AO2 T00670039 KNSE 251356Z AUTO 12008KT 10SM -RA BKN016 OVC023 19/17 A3019 RMK AO2 SLP209 P0000 T01940167 $ KNQX 251653Z 09017KT 10SM FEW014 28/19 A3016 RMK AO2 SLP211 T02780189 $ KPAH 251653Z 18015G21KT 10SM FEW021 SCT100 19/13 A2994 RMK AO2 PK WND 17026/1616 SLP135 T01940133 KMZZ 251655Z AUTO 20016G22KT 10SM CLR 21/12 A3004 RMK AO2 T02110116 FIMP 251700Z 08014KT 9999 BKN015 27/23 Q1016 KNSI 251704Z AUTO 22006KT 1/4SM FG OVC003 A3012 RMK AO2 PWINO $ FIMR 251500Z 08011KT 9999 SCT018 26/23 Q1016 LERS 251700Z 03004KT 280V060 9999 FEW038 14/07 Q1015 KNRS 251656Z AUTO 36009KT 10SM FEW021 BKN110 17/11 A3016 RMK AO2 SLP212 T01720106 $ LERT 251700Z 19009KT 150V210 9999 SCT025TCU 15/11 Q1014 TEMPO 4000 SHRA LFKB 251700Z 29006KT 260V330 6000 -TSRA SCT013 FEW020CB BKN026 BKN033 11/09 Q1018 NOSIG KOKB 251652Z AUTO 00000KT 10SM OVC028 16/11 A3013 RMK AO2 SLP204 T01560111 LFKC 251700Z AUTO 18007KT 9999 FEW086 SCT100 OVC120 11/07 Q1019 BECMG 24012KT LFJL 251700Z AUTO 06014KT CAVOK 15/M01 Q1019 TEMPO 06018G28KT KOKC 251652Z 30014KT 10SM OVC018 11/06 A3001 RMK AO2 SLP158 T01060056 LGAL 251650Z VRB02KT 9999 FEW025 15/09 Q1016 RCFN 251300Z 34003KT 300V020 9999 -RA SCT015 BKN022 BKN040 19/17 Q1019 NOSIG RMK A3011 KPAM 251656Z AUTO 16015G22KT 10SM SCT037 24/15 A3022 RMK AO2 SLP237 T02440153 $ KNTD 251656Z 00000KT 10SM SCT012 SCT035 BKN080 16/12 A3012 RMK AO2 SLP201 T01560117 $ KPAN 251655Z AUTO 18003KT 10SM CLR 11/02 A3013 RMK AO2 KPAO 251647Z 29008KT 10SM FEW015 SCT030 14/M02 A3017 LESO 251700Z 20011KT 9999 BKN044 09/05 Q1010 LFKF 251700Z AUTO 24011KT CAVOK 13/08 Q1018 NOSIG KPBF 251653Z AUTO 23012KT 10SM SCT045 19/11 A2991 RMK AO2 SLP127 T01890111 KPBG 251705Z AUTO 01012KT 10SM SCT018 OVC034 01/M04 A3035 RMK AO2 T00111044 KPBH 251655Z AUTO 08008KT 10SM OVC016 02/M01 A3021 RMK AO2 T00171010 LFJR 251700Z AUTO 08014KT 030V090 CAVOK 17/06 Q1014 TEMPO 06015G28KT KPBI 251653Z 11014KT 10SM FEW050 BKN065 25/14 A3022 RMK AO2 SLP233 T02500144 LFKJ 251700Z VRB02KT 9999 FEW016 SCT130 13/08 Q1019 RERA NOSIG WIDD 251700Z 05004KT 9999 FEW015 28/25 Q1013 LEST 251700Z 07004KT 030V110 9999 FEW024 08/03 Q1010 NOSIG LFLB 251700Z AUTO 14006KT 9999 BKN040 OVC047 10/04 Q1019 NOSIG KOKK 251656Z AUTO 19016G23KT 10SM CLR 21/12 A3003 RMK AO2 PK WND 18027/1610 SLP167 T02110122 KNUC 251456Z 30009KT 9SM SCT007 BKN013 BKN021 BKN240 14/13 A3015 RMK SLP209 T01390128 53006 LESU 251700Z 35004KT 9000 -RA FEW006 SCT015 BKN030 03/02 Q1016 LETL 251700Z AUTO 21013KT 9999 SCT045 BKN050 BKN060 08/M01 Q1013 LFLC 251700Z AUTO VRB03KT CAVOK 10/05 Q1016 NOSIG LGBL 251650Z VRB02KT CAVOK 16/10 Q1015 PTPN 251657Z 02010KT 15SM BKN017 OVC300 28/25 A2983 RMK LAST LGAV 251650Z VRB01KT CAVOK 18/01 Q1017 NOSIG KOKM 251655Z AUTO 28008KT 10SM OVC018 10/07 A2996 RMK AO2 T01000065 LETO 251700Z 19007KT 9999 SCT030 SCT050 09/04 Q1013 NOSIG KOLF 251653Z AUTO 28018G22KT 10SM BKN120 13/M01 A2989 RMK AO2 SLP128 T01281006 KOLG 251655Z AUTO 07009G14KT 10SM OVC021 02/M02 A3024 RMK AO1 ESGG 251650Z 27005KT CAVOK 08/M01 Q1023 R03/00//95 KNUI 251653Z AUTO 24007KT 10SM CLR 22/11 A3018 RMK AO2 SLP218 T02220106 LFKS 251700Z AUTO VRB01KT 9999 FEW100/// OVC110/// ///TCU 13/10 Q1017 KOMA 251652Z 01016KT 10SM BKN010 OVC012 06/03 A2997 RMK AO2 RAE16 SLP154 P0000 T00610028 ESGJ 251650Z 34006KT CAVOK 08/M02 Q1022 WIEE 251630Z 35003KT 9000 BKN020 26/23 Q1012 LEVC 251700Z 14009KT 9999 FEW030 16/04 Q1014 NOSIG LFLL 251700Z 10005KT 9999 -RA FEW023 BKN050 BKN070 09/06 Q1018 NOSIG LFMC 251700Z AUTO 16002KT 9999 SCT042 10/08 Q1019 KNTU 251656Z 26014G21KT 10SM FEW030 BKN280 23/11 A3024 RMK AO2 SLP242 T02330106 KPDC 251655Z AUTO 04006G19KT 10SM OVC009 04/02 A3004 RMK AO2 T00400020 LEVD 251700Z 28005KT 240V320 9999 BKN040 09/M03 Q1009 LFMD 251700Z AUTO 02004KT 340V050 9999 -RA BKN062/// OVC072/// ///TCU 09/08 Q1019 BECMG 22015KT FEW030 KOLM 251654Z 23006KT 10SM FEW011 BKN026 OVC032 07/06 A3013 RMK AO2 RAE19 SLP205 P0000 T00670056 KOKV 251655Z AUTO 21006KT 10SM CLR 22/10 A3017 RMK AO2 KPCM 251655Z AUTO 00000KT 10SM SCT044 27/14 A3025 RMK AO2 LFLN 251700Z AUTO 14005KT CAVOK 12/05 Q1016 TEMPO 17015G25KT 4000 -SHRA SCT040TCU BKN060 KPBX 251655Z AUTO 17006KT 10SM SCT065 23/09 A3018 RMK AO2 T02290088 LFLP 251700Z AUTO 23013KT 9999 OVC038 08/03 Q1019 TEMPO SCT015TCU BECMG VRB03KT LFMH 251700Z AUTO 16009KT CAVOK 10/04 Q1017 NOSIG KNUQ 251656Z 34005KT 10SM CLR 14/10 A3018 RMK AO2 SLP222 T01390100 KOKZ 251655Z AUTO 20004KT 10SM SCT045 BKN055 23/14 A3027 RMK AO2 T02320136 KOMH 251655Z AUTO 22006KT 10SM CLR 24/10 A3020 RMK AO2 PTSA 251655Z 06005KT 10SM BKN017 BKN130 OVC300 28/24 A2981 RMK LAST LFMI 251700Z AUTO 07010KT 9999 FEW017 BKN170 BKN190 11/08 Q1018 NOSIG LFLS 251700Z AUTO 10006KT CAVOK 09/05 Q1018 TEMPO 22015G30KT BKN014 BKN030TCU ESGR 251650Z AUTO 01003KT 9999 NCD 09/M03 Q1023 KPEA 251655Z AUTO 03007G14KT 4SM +DZ OVC006 05/04 A2995 RMK AO2 P0018 T00470043 KOLS 251654Z AUTO 19005KT 10SM CLR 19/M07 A3009 RMK AO2 SLP149 T01941067 KONA 251653Z AUTO 09009KT 10SM OVC016 03/01 A3014 RMK AO2 LFMK 251700Z AUTO 09020KT 9999 FEW025 SCT076 13/08 Q1012 NOSIG KOMK 251653Z AUTO 19006KT 10SM CLR 07/02 A3002 RMK AO2 SLP173 T00670017 KPDK 251653Z 17009KT 10SM BKN038 BKN048 22/12 A3023 RMK AO2 RAE02 SLP228 P0000 T02220117 $ ESGT 241820Z 27012KT 9999 SCT020 BKN040 05/01 Q1027 LFLU 251700Z AUTO 29004KT 9999 FEW042 OVC084 10/06 Q1018 LFML 251700Z AUTO 06010KT CAVOK 11/06 Q1018 NOSIG ESIB 251650Z AUTO 29002KT 9999 NCD 09/00 Q1023 KOLU 251655Z AUTO 02014KT 5SM OVC005 03/01 A3002 RMK AO2 RVRNO KOLV 251650Z 16017G25KT 10SM BKN016 BKN033 OVC040 A2995 KOMN 251550Z 12010G16KT 7SM BKN035 24/15 A3028 LFLW 251700Z AUTO 13010KT 100V160 CAVOK 09/01 Q1014 NOSIG LFMN 251700Z 36016KT 9999 -RA FEW016 BKN050 09/07 Q1019 NOSIG KPCW 251655Z AUTO 09017KT 10SM -RA OVC006 04/03 A3019 RMK AO2 T00440027 KNUW 251656Z VRB03KT 10SM BKN019 BKN025 OVC045 08/04 A3014 RMK AO2 RAB29E44 SLP204 P0000 T00830044 $ PTRO 251650Z 06008KT 14SM SCT016 BKN300 27/24 A2984 LFLX 251700Z AUTO 09010KT CAVOK 16/08 Q1014 TEMPO 4000 SHRA BKN030TCU LFMO 251700Z AUTO VRB02KT 9999 FEW038 BKN100 OVC120 10/08 Q1018 NOSIG LFMP 251700Z AUTO 17013KT 9999 BKN100 14/03 Q1014 NOSIG LFLY 251700Z AUTO VRB02KT CAVOK 09/06 Q1018 TEMPO 18015G30KT BKN030TCU KOLY 251655Z AUTO 16014G20KT 10SM BKN040 BKN055 OVC075 18/13 A2995 RMK AO2 KOLZ 251655Z AUTO 05015G21KT 4SM -RA OVC006 04/04 A2999 RMK AO2 P0004 KPCZ 251655Z AUTO 05009G16KT 10SM OVC011 04/01 A3020 RMK AO2 T00410011 LEVS 251700Z 20005KT 170V230 9999 BKN040 OVC055 08/04 Q1013 LFOA 251700Z AUTO 09005KT CAVOK 14/08 Q1015 TEMPO 16010KT 4000 SHRA BKN020 BKN040CB KOOA 251655Z AUTO 05010KT 4SM -RA OVC007 06/05 A2993 RMK AO2 P0001 T00550051 LEVT 251700Z 24008KT 200V280 9999 RA FEW030 OVC035 02/02 Q1011 LFOB 251700Z AUTO 03023KT CAVOK 14/03 Q1018 BECMG 04015G25KT LFMT 251700Z 10013KT 9999 BKN022 OVC028 13/09 Q1017 NOSIG KPDT 251653Z 29011KT 10SM OVC060 08/04 A3010 RMK AO2 SLP192 T00780039 LFMU 251700Z AUTO 14012KT 110V170 CAVOK 14/09 Q1016 NOSIG LFOC 251700Z AUTO 10016KT CAVOK 16/05 Q1016 LGEL 251650Z VRB03KT CAVOK 16/05 Q1017 KONL 251655Z AUTO 02004KT 1/2SM FG OVC003 02/02 A3007 RMK AO2 T00180018 LFMV 251700Z AUTO 11009KT 080V140 CAVOK 10/06 Q1018 NOSIG KONM 251655Z AUTO 15005KT 10SM CLR 15/M04 A3013 RMK AO2 T01541036 LFOE 251700Z AUTO 05014KT CAVOK 15/04 Q1017 ETAD 251658Z AUTO 07012KT 9999 CLR 13/M03 A3017 RMK AO2 SLP212 T01281026 TSNO $ LEVX 251700Z VRB02KT 9999 SCT053 13/03 Q1009 NOSIG KPEO 251706Z AUTO 35005KT 4SM -RA BR OVC006 02/00 A3031 RMK AO2 P0002 T00170000 KONO 251653Z AUTO 30003KT 10SM CLR 08/03 A3012 RMK AO2 SLP208 T00780033 KPDX 251653Z 20009KT 10SM SCT023 BKN037 BKN080 08/06 A3016 RMK AO2 SLP212 T00830056 KNXF 251656Z AUTO 15003KT 6SM HZ BKN023 OVC030 A3014 RMK AO2 SLPNO $ RCKH 251700Z 01005KT 9999 FEW015 BKN050 BKN070 19/14 Q1017 NOSIG RMK A3005 LFMY 251700Z AUTO 08010KT 9999 FEW036 OVC160 10/06 Q1018 KONP 251655Z AUTO 17003KT 7SM -RA SCT018 BKN024 OVC042 07/05 RMK AO2 P0001 LFOH 251700Z AUTO 03018KT CAVOK 11/06 Q1019 TEMPO 06020G30KT KPEQ 251655Z AUTO 00000KT 10SM CLR 17/M01 A3016 RMK AO2 T01681010 LEXJ 251700Z 25008KT 220V280 9999 FEW012 OVC018 09/07 Q1010 LFOJ 251700Z AUTO 07011KT CAVOK 16/05 Q1016 KPGA 251653Z AUTO 29004KT 10SM BKN120 11/02 A3000 RMK AO2 SLP131 T01110017 TSNO GAKA 251500Z 18004KT 9999 SCT033 39/17 Q1007 LFPB 251700Z AUTO 08016KT CAVOK 17/M00 Q1017 TEMPO 06015G28KT LFOK 251700Z AUTO 06020KT CAVOK 15/01 Q1017 BECMG 06010KT KONT 251653Z VRB04KT 10SM BKN018 14/09 A3013 RMK AO2 SLP199 CIG 016V021 T01390089 KNYC 251651Z AUTO 07005KT 9SM CLR 16/03 A3019 RMK AO2 SLP214 T01610033 $ KPGD 251653Z 10011G15KT 10SM SCT046 27/14 A3022 RMK AO2 SLP234 T02720144 GAKD 251500Z 16004KT CAVOK 41/17 Q1008 WIHH 251200Z 33002KT 5000 HZ SCT020 27/25 Q1009 NOSIG KONX 251700Z AUTO 25011G19KT 10SM CLR 22/10 A3028 RMK AO2 T02230102 KOPF 251653Z 08018G24KT 10SM SCT035 BKN046 OVC055 26/17 A3020 RMK AO2 SLP226 T02610167 KPEX 251652Z AUTO 08008KT 10SM 02/00 A3018 RMK AO2 T00171005 PTTP 251553Z 08010KT 15SM SCT018 BKN300 28/23 A2986 RMK SLP112 T02830228 VQPR 250430Z 35004KT 6000 SCT030 BKN065 16/04 Q1021 NOSIG LFOP 251700Z AUTO 05015KT CAVOK 15/01 Q1018 TEMPO 06020G30KT LFPG 251700Z 07015KT CAVOK 17/00 Q1017 TEMPO 06015G28KT KNYG 251656Z AUTO 19005KT 10SM CLR 18/11 A3018 RMK AO2 SLP222 T01780111 KNXP 251656Z AUTO 30022G27KT 10SM CLR 18/02 A3009 RMK AO2 PK WND 32028/1643 SLP163 T01830022 KONZ 251653Z AUTO 06011G17KT 10SM OVC006 06/05 A3021 RMK AO2 T00620046 KPEZ 251655Z AUTO 02003KT 10SM CLR 23/06 A3010 RMK AO2 T02270061 LFQA 251700Z AUTO 07015KT CAVOK 15/03 Q1018 ETAR 251658Z 03011G18KT 9999 CLR 15/M02 A3013 RMK AO2A SLP210 T01471018 $ LFOT 251700Z AUTO 05010KT 9999 BKN049 15/08 Q1014 NOSIG LFQB 251700Z AUTO 06012KT CAVOK 17/03 Q1016 KNYL 251657Z AUTO 28009KT 10SM CLR 23/01 A3000 RMK AO2 SLP157 T02280011 KOPL 251655Z AUTO 10SM SCT046 SCT070 BKN110 21/13 A3001 RMK AO2 LTG DSNT E AND SW T02090129 PWINO LFOV 251700Z AUTO 07018KT CAVOK 16/04 Q1015 LFPM 251700Z AUTO 08011KT CAVOK 16/04 Q1016 KPHD 251653Z AUTO 25007KT 220V300 10SM OVC075 21/11 A3017 RMK AO2 SLP211 T02110106 LFPN 251700Z AUTO 08012KT 050V110 CAVOK 17/M00 Q1016 TEMPO 06015G25KT ESKM 251650Z AUTO VRB02KT 9999 BKN074/// 07/M05 Q1020 KOPN 251655Z AUTO 18010G14KT 10SM BKN038 BKN046 23/09 A3026 RMK AO2 LFPO 251700Z 07014KT CAVOK 17/00 Q1017 NOSIG ESKN 251650Z 32008KT CAVOK 08/M02 Q1021 R26/09//95 KPHF 251654Z 24014G23KT 10SM CLR 23/11 A3024 RMK AO2 SLP238 T02280106 $ GAKO 251500Z 12006KT CAVOK 39/12 Q//// LFQG 251700Z AUTO 15004KT CAVOK 14/07 Q1015 WIII 251700Z 28002KT 4000 HZ FEW021 27/26 Q1011 NOSIG LEZG 251700Z 10012KT 9999 -RA SCT025 BKN060 10/06 Q1014 LGHI 251650Z 00000KT CAVOK 16/13 Q1015 KPIA 251654Z 17012KT 10SM SCT025 BKN032 18/13 A2990 RMK AO2 SLP124 T01780133 $ LFPT 251700Z AUTO 05015KT CAVOK 15/05 Q1017 LFRB 251700Z AUTO 05027G40KT CAVOK 11/05 Q1016 NOSIG KPIB 251655Z AUTO 16005KT 10SM FEW036 BKN050 OVC090 16/13 A3011 RMK AO1 LTG DSNT E P0010 KORB 251653Z AUTO 12006G15KT 10SM OVC019 00/M05 A3025 RMK AO2 GAKT 251500Z 00000KT CAVOK 38/19 Q//// GAMB 251500Z 08008KT CAVOK 41/03 Q1009 LEZL 251700Z 19010KT 150V230 9999 VCSH FEW015 FEW025CB 14/11 Q1014 NOSIG LFRC 251700Z AUTO 03019G32KT CAVOK 10/04 Q1020 NOSIG KPHL 251654Z 26009KT 10SM BKN120 OVC260 21/09 A3016 RMK AO2 SLP212 T02110094 $ KORC 251655Z AUTO 05008G16KT 5SM BR OVC004 03/03 A3005 RMK AO2 LFRD 251700Z AUTO 05016KT CAVOK 12/06 Q1016 BECMG 04020G35KT LFPV 251700Z AUTO 05018KT CAVOK 17/M02 Q1017 TEMPO 06018G30KT KORD 251651Z 04014KT 7SM -RA OVC005 06/04 A3004 RMK AO2 SLP176 P0003 T00560039 KPGV 251705Z AUTO 24011KT 10SM BKN050 23/10 A3030 RMK AO2 KORE 251652Z AUTO 01006KT 10SM OVC016 03/02 A3026 RMK AO2 RAE50 SLP254 P0002 T00280022 KPIE 251653Z 09008KT 10SM CLR 26/14 A3023 RMK AO2 SLP237 T02560139 KPHN 251659Z AUTO 05006KT 5SM -RA OVC005 05/03 A3024 RMK AO2 KORF 251651Z 25010G18KT 10SM CLR 23/11 A3024 RMK AO2 SLP238 T02330106 RCMQ 251700Z 02019KT 9999 -RA SCT008 BKN016 BKN040 14/14 Q1018 RMK A3006 RA AMT 0.5MM LFRG 251700Z AUTO 07013G23KT 040V100 CAVOK 15/01 Q1018 NOSIG KPHP 251655Z AUTO 13011G20KT 10SM CLR 13/M02 A2998 RMK AO2 SLP158 T01331017 KORG 251655Z AUTO 19006KT 10SM VCTS SCT055 18/16 A3005 RMK AO2 LTG DSNT E THRU SW T01820159 LFRH 251700Z AUTO 04018KT CAVOK 13/06 Q1014 BECMG 05015G30KT LFQQ 251700Z AUTO 06015KT CAVOK 15/M01 Q1022 TEMPO 05020G30KT KPIH 251653Z 24012KT 10SM BKN019 BKN095 06/03 A3006 RMK AO2 SLP175 T00560028 $ KORH 251654Z 03005KT 7SM OVC009 03/00 A3023 RMK AO2 SLP247 T00280000 LFRI 251700Z AUTO 06013KT CAVOK 14/08 Q1012 BECMG 04015G25KT LFRJ 251700Z AUTO 05021KT CAVOK 10/05 Q1017 KOSA 251655Z AUTO 27009KT 230V290 10SM CLR 18/10 A3002 RMK AO1 T01770097 LFSB 251700Z 00000KT CAVOK 17/06 Q1016 NOSIG LFRK 251700Z AUTO 03014KT CAVOK 11/06 Q1018 BECMG 03016G28KT KOQT 251653Z AUTO 18011G19KT 10SM BKN046 22/09 A3021 RMK AO2 SLP221 T02220094 KPHT 251655Z AUTO 18011KT 10SM FEW037 SCT090 19/13 A3000 RMK KOQU 251650Z 05010KT 12SM BKN028 BKN055 08/03 A3021 LFRL 251700Z AUTO 04017KT 010V070 CAVOK 12/04 Q1016 KPIL 251653Z AUTO 18010KT 8SM CLR 29/20 A3002 RMK AO2 SLP165 T02890200 ESMK 251650Z AUTO 29008KT 9999 NCD 09/02 Q1023 KORL 251653Z 08011KT 10SM SCT047 BKN065 25/14 A3024 RMK AO2 SLP244 T02500144 KOSC 251654Z AUTO 06012G20KT 10SM OVC008 01/00 A3034 RMK AO2 T00121001 ETEB 251658Z AUTO 08008KT 9999 CLR 11/M01 A3018 RMK AO2 SLP246 T01111006 RCNN 251700Z 35010KT 9999 FEW012 SCT080 16/10 Q1017 RMK A3004 LFRM 251700Z AUTO 08013KT 050V110 CAVOK 17/04 Q1015 TEMPO 06015G30KT LFSD 251700Z AUTO 19014KT 9999 OVC043 14/09 Q1016 KPIM 251655Z AUTO 14009G17KT 120V180 10SM CLR 23/13 A3023 RMK AO2 T02300126 LFRN 251700Z AUTO 04013KT CAVOK 16/06 Q1014 BECMG 05018G30KT ESND 251650Z AUTO VRB02KT 9999 OVC048/// 04/M06 Q1019 LGIO 251650Z AUTO /////KT //// // ////// 17/07 Q1018 RE// LFRO 251700Z AUTO 04011G21KT 350V090 CAVOK 11/04 Q1018 TEMPO 04020G35KT KPHX 251651Z 11008KT 10SM FEW150 SCT180 SCT200 19/03 A3000 RMK AO2 SLP149 T01890028 LFSG 251700Z AUTO 04011KT CAVOK 13/03 Q1017 KNZY 251652Z 29004KT 10SM SCT022 BKN060 BKN120 BKN200 17/11 A3014 RMK AO2 SLP207 T01720111 $ KQC5 251656Z AUTO 00000KT 9999 FEW130 26/21 A2991 RMK AO2 SLPNO T02590206 LFRQ 251700Z AUTO 05019G33KT CAVOK 13/03 Q1014 NOSIG ESNG 251650Z AUTO 22005KT 9999 NCD 02/M05 Q1006 KOSH 251653Z 05014G19KT 10SM OVC009 03/01 A3016 RMK AO2 SLP226 T00280011 LFSI 251700Z AUTO 07013KT 040V100 9999 ////// 17/01 Q1017 ESMQ 251650Z AUTO 04006KT 9999 FEW075/// 08/M01 Q1022 PTYA 251653Z 09007KT 12SM SCT016TCU BKN130 OVC300 26/24 A2986 RMK SHRAE22 TCU ALQDS SLP112 T02570243 KPIR 251653Z AUTO 15008KT 10SM OVC007 03/01 A3006 RMK AO2 SLP194 T00280006 LGIR 251650Z 34004KT CAVOK 15/12 Q1018 NOSIG LFRS 251700Z AUTO 08020KT CAVOK 16/07 Q1012 TEMPO 06020G32KT KORS 251655Z AUTO 21005KT 7SM CLR 07/03 A3007 RMK AO2 LFRT 251700Z AUTO 08019KT CAVOK 10/06 Q1017 ESMS 251650Z 32009KT CAVOK 07/01 Q1024 R88/09//95 KPIT 251651Z 28013KT 10SM FEW055 BKN070 OVC150 21/10 A3017 RMK AO2 SLP217 T02060100 KPKB 251653Z 26007KT 210V280 10SM OVC065 23/09 A3019 RMK AO2 SLP220 T02280094 GANK 251500Z 12004KT CAVOK 41/M02 Q//// LFRU 251700Z AUTO 06020KT 030V090 CAVOK 11/05 Q1017 LGKC 251050Z /////KT CAVOK 20/11 Q1021 LFSL 251700Z AUTO 12016G27KT 100V160 CAVOK 13/03 Q1012 BECMG 13008KT ESNK 251650Z AUTO 17003KT 9999 BKN064/// 04/M02 Q1017 ESMT 251650Z AUTO 34004KT 280V030 9999 NCD 06/02 Q1024 LHBC 251445Z 33011KT CAVOK 15/M01 Q1022 LFRV 251700Z AUTO 03017G28KT CAVOK 14/06 Q1013 ESNL 251650Z AUTO 25003KT 9999 SCT056/// 05/M04 Q1013 KPKD 251653Z AUTO 10011KT OVC019 03/M04 A3016 RMK AO2 SLP230 T00331039 $ KQBD 251655Z AUTO 35011KT 10SM -RA FEW006 BKN028 OVC041 05/04 A3003 RMK AO2 RAB1555 SLP143 WND DATA ESTMD P0002 T00530043 LFSN 251700Z AUTO 06015KT CAVOK 15/01 Q1018 KQD3 251656Z AUTO 00000KT 9999 FEW004 SCT006 BKN009 27/24 A2976 RMK AO2 SLP076 T02710235 LGKF 251650Z 33007KT 9999 FEW018 17/13 Q1019 LFSO 251700Z AUTO 07014KT 040V100 CAVOK 15/M00 Q1017 ESOE 251350Z 32014KT 290V350 CAVOK 11/M02 Q1022 ESNN 251650Z AUTO VRB03KT 9999 NCD 06/M03 Q1018 R16/75//66 KQBF 251656Z AUTO 04004G12KT 9999 FEW150 39/M02 A2969 RMK AO2 SLPNO T03921024 ESNO 251650Z AUTO 28009KT 9999 BKN062/// 05/M02 Q1016 ESMX 251650Z AUTO 34006KT 9999 FEW063/// 09/M03 Q1022 KS25 251655Z AUTO 25009KT 10SM CLR 12/02 A2988 RMK AO2 KOTG 251656Z AUTO 04013KT 4SM BR OVC003 02/02 A3008 RMK AO2 SLP204 T00220017 FZRANO LFTH 251700Z AUTO VRB02KT CAVOK 12/10 Q1019 NOSIG LFRZ 251700Z AUTO 07017KT CAVOK 17/06 Q1012 TEMPO 06020G35KT KOTH 251655Z 16005KT 10SM SCT015 BKN060 08/07 A3020 RMK AO1 ESNQ 251650Z AUTO 22014KT 9999 FEW038/// 00/M04 Q1004 GANR 251500Z 20006KT 9999 SCT030 40/14 Q1009 LFST 251700Z AUTO 03017KT 350V050 CAVOK 15/02 Q1018 NOSIG ESNS 251650Z 26005KT CAVOK 06/M05 Q1013 ESPA 251650Z 27006KT CAVOK 06/M04 Q1011 ESOK 251650Z AUTO 09003KT 9999 NCD 09/M06 Q1022 KOSU 251653Z 23012G18KT 10SM CLR 22/11 A3014 RMK AO2 SLP201 T02170111 LGKL 251650Z 00000KT CAVOK 16/10 Q1018 KQBL 251656Z AUTO VRB04KT 9SM FEW020 SCT025 BKN065 23/19 A3021 RMK AO2 SLP232 WND DATA ESTMD T02260185 ESNU 251650Z 28007KT CAVOK 06/M04 Q1015 R14/09//65 KS32 251715Z AUTO 16018G26KT 6SM BR OVC006 01/00 A3010 RMK AO2 KOTM 251709Z AUTO 06014KT 6SM BR OVC007 07/06 A2990 RMK AO2 RAE08 CIG 004V010 P0000 T00670061 ESNV 251650Z AUTO 23007KT 9999 BR OVC094/// 03/01 Q1013 LFSX 251700Z AUTO 20004KT CAVOK 17/05 Q1015 ESPE 251650Z AUTO 27006KT 9999 NCD 05/M04 Q1010 LGKO 251650Z 30010KT CAVOK 15/11 Q1016 ESNX 251650Z AUTO 22005KT 9999 SCT053/// 03/M05 Q1010 LGKP 251650Z 30014KT 9999 FEW020 15/12 Q1016 LHBP 251700Z 29010KT CAVOK 11/01 Q1020 NOSIG ETGG 251620Z 31016KT 9999 SCT014 BKN240 08/05 Q1027 BLU+ ESNZ 251650Z 24005KT 9999 BKN035 04/M03 Q1017 LGKR 251650Z 24002KT 9999 FEW014 17/14 Q1019 NOSIG ETHA 251620Z AUTO 09013KT //// // ////// 11/02 Q1019 /// VRMM 251600Z 02003KT 999 FEW019 29/24 Q1012 NOSIG WIMM 251700Z 22004KT 5000 HZ FEW018 26/25 Q1012 KS39 251655Z AUTO 11006KT 10SM FEW034 SCT055 BKN070 06/00 A3006 RMK AO2 ETHB 251620Z AUTO 03006KT 8000 // ////// 12/M02 Q0001 /// LHDC 251645Z 26006KT CAVOK 12/M03 Q1020 NOSIG ETHC 251620Z 35006KT 9999 FEW120 BKN260 13/M00 Q1026 BLU+ KPMD 251653Z AUTO 26011G17KT 10SM BKN039 15/06 A3010 RMK AO2 SLP181 T01500056 LGLM 251650Z 03005KT CAVOK 14/09 Q1016 LGKV 251650Z 04004KT 9999 SCT025 BKN080 16/12 Q1016 KPKV 251655Z AUTO 00000KT 10SM SCT020 SCT026 24/18 A3005 RMK AO2 T02410177 LFTW 251700Z AUTO 10008KT CAVOK 11/08 Q1017 NOSIG KOVE 251653Z AUTO 28003KT 10SM OVC030 13/09 A3017 RMK AO2 SLP219 T01280089 KPLN 251654Z AUTO 10011G20KT 10SM OVC015 02/M03 A3035 RMK AO2 SLP287 T00171028 KOUN 251655Z AUTO 30012KT 10SM OVC018 10/06 A3002 RMK AO2 ETHE 251620Z AUTO 06010KT //// // ////// 13/M05 Q1027 /// ESOW 251650Z 32005KT CAVOK 08/M03 Q1021 ETHF 251620Z 02009KT 9999 FEW180 SCT300 13/M04 Q1024 BLU+ KQDG 251656Z AUTO 00000KT 9999 FEW070 M01/M03 A3018 RMK AO2 SLP222 T10111028 PWINO FZRANO $ LGKZ 251150Z 11004KT 9999 FEW020 23/07 Q1021 KPLR 251655Z AUTO 18008G15KT 150V210 10SM BKN044 24/13 A3016 RMK A01 KOWA 251655Z AUTO 05014G20KT 10SM OVC010 03/01 A3012 RMK AO2 KPNA 251655Z AUTO 00000KT 1 1/4SM -SN OVC004 01/00 A3004 RMK AO2 KOWB 251656Z 19023G28KT 10SM BKN120 22/12 A2999 RMK AO2 PK WND 17031/1647 SLP163 T02220117 LGMK 251650Z 36006KT CAVOK 16/06 Q1017 KPNC 251653Z AUTO 29010G16KT 10SM OVC014 08/04 A2997 RMK AO2 SLP147 T00830044 KOVL 251653Z AUTO 05011G15KT 10SM OVC014 04/01 A3013 RMK AO2 KPLU 251655Z AUTO VRB06KT 10SM 08/06 A3012 RMK AO2 ETHL 251620Z 06018KT 9999 SCT280 12/02 Q1019 BLU+ KOWD 251653Z 05008KT 10SM OVC017 05/02 A3024 RMK AO2 SLP240 T00500017 ETIC 251658Z AUTO 00000KT 9999 CLR 12/00 A3018 RMK AO2 SLP236 KPNE 251654Z 27004KT 10SM SCT120 19/10 A3017 RMK AO2 SLP216 T01940100 ETHN 251620Z 06011KT 9999 FEW120 BKN260 12/M02 Q1021 BLU+ LFVP 251700Z 22012KT 9999 BKN008 OVC020 01/M00 Q1015 NOSIG KPMP 251653Z 09012KT 10SM FEW030 SCT037 26/17 A3021 RMK AO2 SLP230 T02610167 KQEI 251700Z AUTO 17001KT 2000 -SHRA BR FEW009 BKN022 03/02 A3008 RMK A02 TSNO ETIH 251658Z AUTO VRB04KT 9999 CLR 11/00 A3020 RMK AO2 SLP243 KOWI 251655Z AUTO 33008KT 1 1/2SM BR OVC005 09/09 A2985 RMK AO2 PWAK 251658Z AUTO 05008KT 9999 CLR 26/23 A2997 RMK AO2 SLP155 T02550229 $ KOVS 251653Z AUTO 06007G16KT 10SM OVC009 04/02 A3007 RMK AO2 RAB16E29 SLP187 P0000 T00440022 ETHS 251620Z 05010KT 9999 FEW040 SCT300 12/03 Q1026 BLU+ KQFB 251700Z AUTO 30002KT 4000 -RA BR OVC029 04/03 A3016 RMK A02 TSNO KOXB 251653Z AUTO 24011KT 10SM CLR 21/11 A3019 RMK AO2 SLP221 T02110106 LGMT 251650Z 00000KT CAVOK 15/08 Q1016 ESSA 251650Z 35006KT CAVOK 07/M04 Q1020 R01L/19//95 R08/19//95 R01R/19//95 NOSIG KPOB 251658Z AUTO 26012KT 10SM BKN050 BKN210 23/10 A3030 RMK AO2 SLP262 T02260103 $ KPOC 251647Z 00000KT 10SM BKN014 13/09 A3015 ESSB 251650Z AUTO 32006KT 9999 SCT064/// 08/M05 Q1020 KQEL 251700Z AUTO 02001KT 0800 BR FEW005 04/04 A3019 RMK A02 TSNO KOXC 251650Z 03010KT 10SM OVC050 08/01 A3020 KPMU 251655Z AUTO 16010G15KT 10SM RA SCT006 SCT018 BKN043 17/14 A3000 RMK AO2 T01710144 ETIK 251658Z AUTO 08005KT 9999 CLR 13/01 A3019 RMK AO2 SLP235 T01280007 WIOO 251500Z 00000KT 4000 BR SCT012 27/25 Q1011 NOSIG KPNM 251654Z AUTO 06006KT 10SM OVC015 03/M01 A3020 RMK AO2 KPMV 251655Z AUTO 01010G16KT 10SM OVC008 05/03 A2995 RMK AO2 T00530031 ESSD 251650Z AUTO 31010KT 9999 BKN100/// 07/M02 Q1021 KQEN 251700Z AUTO 25006KT 0400 FZFG CLR M02/M02 A3001 RMK A02 TSNO KPOE 251658Z AUTO 24012KT 10SM SCT029 BKN055 20/16 A3000 RMK AO2 LTG DSNT S SLP159 T02010160 KPOF 251653Z AUTO 16011G20KT 8SM OVC010 16/15 A2988 RMK AO2 RAB02E47 CIG 006V013 SLP117 P0002 T01560150 TSNO KQEP 251700Z AUTO 32002KT 4800 HZ OVC070 04/01 A3012 RMK A02 TSNO KOWP 251655Z AUTO 26010G15KT 10SM OVC015 11/07 A2995 RMK AO2 T01050067 GASG 251500Z 08004KT CAVOK 40/08 Q//// KQEQ 251700Z AUTO 11001KT 6000 HZ OVC065 02/M01 A3014 RMK A02 TSNO RCSS 251703Z 10010KT 5000 -RA FEW004 BKN022 OVC032 14/12 Q1021 NOSIG RMK A3016 KQER 251700Z AUTO 00000KT 1600 BR BKN055 03/03 A3005 RMK A02 TSNO KOXI 251655Z AUTO 07007KT 10SM BKN110 15/05 A3001 RMK AO1 KQES 251700Z AUTO 17004KT 9000 FEW017 02/00 A3015 RMK A02 TSNO KPNS 251653Z 15015KT 10SM OVC020 25/18 A3016 RMK AO2 SLP214 T02500183 LGPA 251650Z AUTO 33004KT //// // ////// 16/08 Q1017 RE// KPPA 251655Z AUTO 33014G18KT 10SM CLR 15/M02 A3007 RMK AO2 T01491019 ESTA 251650Z AUTO 29008KT 9999 NCD 06/01 Q1024 KPNT 251655Z AUTO 11009KT 10SM SCT075 OVC085 16/15 A2996 RMK AO2 T01560146 GASK 251500Z 06014KT 9999 FEW020 38/07 Q//// ESSL 251650Z AUTO 33007KT 9999 OVC110/// 09/M02 Q1021 KQEV 251650Z AUTO 00000KT 2400 BR FEW017 SCT021 SCT080 05/04 A3008 RMK A02 TSNO KQEW 250000Z AUTO 01002KT 2000 RA BR BKN004 OVC020 05/04 A3015 RMK A02 TSNO FKKD 251700Z 24009KT 9999 TS BKN020 SCT023CB 31/26 Q1008 TEMPO 4000 TSRA WIPP 251600Z 35004KT 9999 SCT012 27/25 Q1012 KQGE 251656Z AUTO 13006KT 10SM FEW200 22/18 A3019 RMK AO2 SLP227 T02180182 GASN 251500Z 04004KT CAVOK 41/03 Q//// KPPF 251652Z AUTO 33011KT 10SM OVC014 09/06 A2989 RMK AO2 SLP120 T00940061 RCTP 251700Z 05012KT 5000 -RA SCT006 BKN010 BKN020 14/13 Q1021 NOSIG RMK A3016 RA AMT 1.60MM KQEX 251700Z AUTO 03002KT 9999 OVC020 04/03 A3004 RMK A02 TSNO LGNX 250950Z 01010KT CAVOK 17/09 Q1019 KOWX 251655Z AUTO 06015KT 7SM CLR 13/08 A3014 RMK AO1 KQEY 251700Z AUTO 13003KT 4800 BKN007 OVC075 04/03 A2980 RMK A02 TSNO ESSP 251650Z 33006KT CAVOK 08/M03 Q1021 R27/09//95 KOXR 251651Z 00000KT 10SM SCT070 17/12 A3011 RMK AO2 SLP196 T01670117 KOZA 251655Z 10SM 18/01 A3017 RMK AO2 KQFT 251700Z AUTO 16001KT 6000 HZ BKN050 06/02 A3009 RMK A02 TSNO KQFU 250000Z AUTO 13002KT 4800 HZ BKN070 07/M01 A3015 RMK A02 TSNO ESST 251650Z AUTO 26004KT 9999 NCD 09/M06 Q1022 KPOU 251706Z 36007KT 10SM BKN011 OVC043 04/02 A3024 RMK AO2 T00440017 KOXV 251635Z AUTO 04010KT 1 1/2SM BR OVC005 05/04 A2992 RMK AO2 ESTL 251650Z AUTO 29011KT 9999NDV NCD 06/01 Q1024 KQFV 251700Z AUTO 28002KT 1600 BR BKN011 BKN050 03/02 A3011 RMK A02 TSNO KPOV 251659Z AUTO 24006KT 10SM SCT043 BKN050 BKN085 18/09 A3017 RMK AO2 ESSV 251650Z 29005KT CAVOK 04/M00 Q1020 R21/09//95 KQFW 251700Z AUTO 04001KT 2800 BR OVC004 04/03 A3011 RMK A02 TSNO ESUD 251650Z AUTO 24005KT 9999 FEW043/// BKN100/// 04/M03 Q1012 KQFX 250030Z AUTO 10005G13KT 8000 -RA OVC037 05/03 A3012 RMK A02 TSNO FKKN 251700Z 34004KT CAVOK 33/13 Q1014 KPPO 251655Z AUTO 09010KT 5SM BR BKN110 14/12 A3003 RMK AO2 T01360123 KPOY 251655Z AUTO 35015KT 10SM SCT050 SCT090 08/M03 A2996 RMK AO2 KPPQ 251655Z AUTO 17011KT 10SM BKN017 OVC021 15/13 A2989 RMK AO2 T01540130 LFYR 251700Z AUTO 06008KT 030V090 9999 FEW045 SCT240 18/08 Q1014 KPQI 251656Z AUTO 34014G18KT 10SM CLR 01/M14 A3023 RMK AO2 SLP281 T00061144 FZRANO FKKR 251700Z 03007KT CAVOK 41/03 Q1006 NOSIG KPRB 251653Z AUTO 31010KT 10SM FEW012 BKN022 OVC060 13/11 A3013 RMK AO2 SLP200 T01280111 TSNO KPQL 251653Z 14019G26KT 10SM BKN023 OVC030 24/18 A3012 RMK AO2 PK WND 15026/1648 SLP202 T02440178 KPRC 251653Z 17008KT 10SM CLR 13/M02 A3008 RMK AO2 SLP141 T01281017 KPQN 251654Z AUTO 07010G17KT 10SM OVC006 03/01 A3006 RMK AO2 KPRG 251655Z AUTO 18019G24KT 10SM OVC100 20/12 A2997 RMK AO2 T02000120 ESUP 251650Z AUTO 20005KT 9999 NCD 03/M06 Q1007 LGPZ 251650Z 26009KT 9999 FEW025 BKN080 15/11 Q1019 KOZR 251656Z AUTO 16013G17KT 10SM SCT038 BKN047 24/15 A3019 RMK AO2 SLP224 T02440145 LGSA 251650Z 30006KT CAVOK 15/11 Q1018 KOZS 251655Z AUTO 00000KT 10SM BKN006 OVC010 13/12 A2982 RMK AO2 P0001 KQJB 251656Z AUTO 16005KT 9999 SCT140 BKN170 27/19 A2992 RMK AO2 SLPNO T02740188 VTBD 251700Z 15005KT 9999 FEW030 30/26 Q1012 NOSIG ESUT 251650Z AUTO 32009KT 270V350 9999 FEW043/// SCT057/// 02/M04 Q1011 KPSC 251653Z 24009KT 10SM OVC095 11/03 A3011 RMK AO2 SLP196 T01110028 KRAC 251653Z AUTO 05014KT 6SM -RA BR OVC005 04/02 A3012 RMK AO2 RAB10 SLP204 P0002 T00390022 KOZW 251654Z AUTO 06007KT 10SM -RA OVC006 04/03 A3020 RMK AO2 P0011 T00420032 KPRN 251656Z AUTO 17014G19KT 10SM CLR 24/14 A3015 RMK AO2 SLP205 T02390139 $ ETMN 251620Z 34010KT 9999 FEW018 BKN250 08/04 Q1028 BLU+ KPRO 251715Z AUTO 03018KT 7SM RA BKN008 OVC011 04/04 A2997 RMK AO2 P0002 T00410035 KPSF 251654Z AUTO 27005KT 1 3/4SM -RA BR OVC004 03/02 A3021 RMK AO2 RAB12 SLP235 P0002 T00280017 KQHY 251656Z AUTO 13008G15KT 9SM SCT021 BKN065 21/18 A3020 RMK AO2 SLP233 T02130182 LGRP 251650Z 24013KT CAVOK 16/13 Q1016 NOSIG ETNG 241750Z 04010KT CAVOK 12/04 Q1029 NOSIG ETNH 251620Z 30009KT 9999 FEW020 SCT200 09/04 Q1027 BLU+ LIBA 241755Z VRB01KT 6000 NSC 13/11 Q1021 RMK BKN BKN220 VIS MIN 6000 WIND THR11 VRB1KT WIND THR29 /////KT WHT VTCC 251700Z 00000KT 9999 FEW040 28/10 Q1013 A2993 NOSIG KPRS 251655Z AUTO 15005KT 10SM CLR 21/M04 A3016 RMK AO2 T02111036 LGSK 251650Z 22005KT CAVOK 17/07 Q1016 KPSK 251655Z AUTO 21005KT 10SM CLR 20/09 A3026 RMK AO2 T02000086 KPTB 251655Z AUTO 24010KT 10SM CLR 23/09 A3024 RMK AO2 T02310091 KT20 251655Z AUTO 36004KT 10SM CLR 22/11 A3008 RMK AO2 T02210111 KRAL 251653Z VRB03KT 10SM BKN019 14/09 A3013 RMK AO2 SLP192 T01440094 ETNL 251620Z 31008KT 9999 FEW016 BKN350 08/05 Q1026 BLU+ LIBD 251650Z VRB03KT 7000 NSC 14/11 Q1019 VTBO 251100Z 23004KT 6000 FEW018CB FEW020 31/25 Q1010 CB SE KRBD 251653Z 28012G20KT 10SM CLR 17/08 A3002 RMK AO2 SLP162 T01670078 LGSM 251220Z 14009KT CAVOK 20/11 Q1017 KPSM 251658Z 32004KT 3SM -RASN BR SCT014 OVC019 02/00 A3028 RMK AO2A SNB21 SLP257 P0002 T00240003 LHKE 251645Z 30006KT CAVOK 12/01 Q1020 NOSIG RMK BLU KPSN 251655Z AUTO 27006KT 10SM CLR 17/10 A3005 RMK AO2 T01770106 LIBF 251450Z 07010KT CAVOK 21/13 Q1018 LGSO 251150Z 36009KT CAVOK 19/06 Q1019 ETNN 251620Z AUTO 04014KT 9999 // ////// 14/01 Q1023 /// VTCH 250900Z 19004KT 130V270 7000 NSC 38/06 38/06 Q1006 A2973 INFO LGRX 251650Z 00000KT CAVOK 17/12 Q1019 KPRX 251655Z 26011G17KT 10SM CLR 17/09 A3000 RMK AO1 KPSO 251655Z AUTO 18003KT 10SM CLR 09/M02 A3015 RMK AO2 T00891023 LIBG 251650Z 25006KT CAVOK 18/10 Q1018 KRAP 251652Z 15011KT 10SM CLR 13/01 A2991 RMK AO2 SLP134 T01330006 KPSP 251653Z 19004KT 10SM CLR 23/04 A3000 RMK AO2 SLP156 T02280039 KRBG 251700Z AUTO 00000KT 10SM SCT009 OVC034 09/07 A3018 RMK AO2 T00890067 LGTG 251620Z 00000KT CAVOK 20/01 Q1017 BLU KQKG 251655Z AUTO 00000KT 9999 FEW090 BKN100 BKN240 20/15 A3038 RMK AO2 LTG DSNT S SLP236 WND DATA ESTMD T02010146 $ VTBS 251700Z 17004KT CAVOK 29/23 Q1012 NOSIG LIBH 251655Z 18003KT CAVOK 17/14 Q1018 RMK SKC QUK 1 QUL 1 S VIS MAR 15 KM VIS MIN 9999 LGSR 251650Z 25006KT CAVOK 16/10 Q1017 VTCL 251200Z 15005KT 8000 FEW025 SCT100 33/19 Q1007 A2976 VTBU 251700Z 35004KT 6000 FEW020 27/23 Q1012 NOSIG LICA 251650Z 29004KT CAVOK 17/10 Q1019 KRAS 251655Z AUTO 00000KT 10SM OVC027 24/20 A3005 RMK AO2 T02410201 KRCA 251658Z AUTO 16012KT 10SM FEW210 14/01 A2990 RMK AO2 SLP129 T01360007 LICB 251650Z 31005KT CAVOK 16/11 Q1020 ETNS 251620Z AUTO 31011KT //// // ////// 08/04 Q1027 /// KPTK 251653Z 06009KT 10SM -RA OVC006 04/03 A3021 RMK AO2 SLP236 P0004 T00440033 KPUB 251653Z 13007KT 10SM CLR 09/01 A3005 RMK AO2 SLP171 T00940006 VTCN 251200Z 35002KT CAVOK 30/17 Q1007 A2975 ETNT 251620Z AUTO 01009KT 9999 // ////// 09/04 Q1029 /// KPUC 251653Z AUTO 13007KT 10SM CLR 10/M01 A3000 RMK AO2 SLP153 T01001006 LICC 251650Z 05010KT CAVOK 15/11 Q1019 KRBL 251654Z AUTO 33006KT 10SM FEW011 12/09 A3017 RMK AO2 SLP217 T01220094 LICD 251650Z 13005KT 8000 SCT008 16/15 Q1019 KQN2 251656Z AUTO 00000KT 9999 CLR 26/22 A2998 RMK AO2 LTG DSNT NW SLPNO T02550216 KRCE 251615Z AUTO 33012KT 10SM CLR 09/07 A3003 RMK AO2 VTCP 251700Z AUTO 21007KT 9999 // SKC 31/18 Q1011 LIBN 251655Z 25004KT CAVOK 18/12 Q1019 RMK SKC VIS MIN 9999 WIND THR14 25004KT WIND THR32 26005KT BLU KPTN 251656Z AUTO 20015KT 10SM VCTS BKN019 24/21 A3008 RMK AO2 LTG DSNT SW-N TSB54 SLP186 T02440206 KQN3 251656Z AUTO 06010G17KT 9999 CLR 41/00 A2982 RMK AO2 SLP065 T04081002 GAYE 251500Z 14010KT 9999 BKN030 41/14 Q//// ETNW 251620Z AUTO 35008KT //// // ////// 13/M01 Q1027 /// LICF 251655Z 21004KT CAVOK 15/13 Q1020 RMK FEW FEW200 QUK 2 QUL 0 VIS MAR 14 KM MON LIB NC VIS MIN 9999 KPSX 251653Z AUTO 28005G14KT 10SM CLR 26/17 A3004 RMK AO2 WSHFT 1540 SLP171 T02560172 KRBO 251655Z AUTO 00000KT 10SM OVC023 25/21 A3005 RMK AO2 T02530206 LICG 251655Z 21004KT 9999 OVC017 16/14 Q1019 LGSY 251650Z 00000KT CAVOK 19/02 Q1015 BLU LIBP 251650Z 05004KT 8000 NSC 16/11 Q1018 KT35 251655Z AUTO 30006KT 10SM CLR 19/09 A3007 RMK AO2 T01880091 VTCT 251600Z AUTO 17005KT CAVOK 24/19 Q1012 LIBR 251645Z /////KT 8000 NSC 14/11 Q1019 NOSIG KQKR 251656Z AUTO 05004KT 9999 FEW003 SCT005 41/02 A2975 RMK AO2 SLPNO T04050018 KPTS 251655Z AUTO 32003KT 10SM OVC007 11/10 A2984 RMK AO2 T01050098 LICJ 251650Z 06016KT 9000 SCT015 17/13 Q1019 LGTS 251650Z 22005KT 9999 FEW018TCU SCT030 19/04 Q1016 NOSIG KPUJ 251655Z AUTO 15009G17KT 120V200 10SM SCT037 24/15 A3022 RMK AO2 KPVB 251655Z AUTO 05017G22KT 7SM OVC005 04/04 A3000 RMK AO1 T00420042 KPTT 251655Z AUTO 34016G19KT 10SM OVC010 06/03 A3000 RMK AO2 T00590025 LICL 251655Z 21003KT CAVOK 16/12 Q1019 RMK SKC QUK 1 QUL 0 VIS MAR 10 KM VIS MIN 9999 KPVC 251656Z AUTO 03008KT 10SM SCT016 BKN032 OVC041 05/02 A3027 RMK AO2 SLP248 T00500017 LIBV 251555Z 18008KT 9999 SCT040 17/07 Q1019 RMK SCT VIS MIN 9999 WIND THR32 18008KT WIND THR14 18008KT BLU KPVD 251651Z 05009KT 10SM BKN032 BKN043 OVC050 08/02 A3022 RMK AO2 SLP233 T00780022 KRDD 251653Z 30004KT 10SM SCT012 11/08 A3016 RMK AO2 SLP214 T01110083 KRCM 251715Z AUTO 07007KT 10SM OVC015 14/11 A2983 RMK AO2 KPTV 251656Z AUTO 31004KT 10SM CLR 15/11 A3014 RMK AO2 SLP218 T01500106 ETOU 251658Z AUTO 05013G20KT 9999 CLR 15/M03 A3019 RMK AO2 SLP227 T01541035 GCGM 251700Z 22008KT 170V250 9999 FEW015 SCT022 18/09 Q1017 RMK R09/VRB05KT ARP/22006KT 160V260 GCFV 251700Z 06007KT 030V100 9999 SCT040 18/09 Q1016 KPTW 251654Z AUTO 35003KT 8SM -RA OVC110 19/08 A3017 RMK AO2 RAB46 SLP213 P0000 T01890083 TSNO KRBW 251655Z AUTO 15007G15KT 110V180 10SM SCT043 SCT055 22/12 A3033 RMK AO2 KPVF 251655Z AUTO 23003KT 10SM CLR 10/06 A3013 RMK AO1 LIBY 251655Z 25004KT CAVOK 16/15 Q1019 RMK SKC QUK 1 QUL 0 VIS MAR 20 KM VIS MIN 9999 KPVG 251655Z 26010G18KT 10SM CLR 24/12 A3024 RMK AO1 KRDG 251654Z 00000KT 10SM FEW050 BKN060 OVC110 19/09 A3014 RMK AO2 SLP212 T01940094 LICR 251650Z 20005KT CAVOK 14/12 Q1020 KRCR 251654Z AUTO 18012G20KT 10SM SCT043 23/11 A3002 RMK AO2 GCHI 251700Z 05004KT 020V080 9999 FEW026 BKN052 18/11 Q1017 KPWA 251653Z 31013KT 10SM OVC019 11/06 A3001 RMK AO2 SLP160 T01060061 LIEA 251650Z 25004KT 150V310 9999 FEW030 14/07 Q1020 KPVJ 251655Z AUTO 30010KT 10SM OVC019 11/06 A3002 RMK AO2 T01080062 LIEB 251655Z 08007KT 9999 SCT035 16/13 Q1017 RMK SCT QUK 2 QUL 0 VIS MAR 30 KM MON LIB VIS MIN 9999 LICT 251655Z 20012KT 9999 FEW023 16/15 Q1020 KRDK 251655Z AUTO 04012G20KT 7SM -RA SCT010 BKN013 BKN021 06/05 A2995 RMK AO2 P0004 LIEC 251655Z 28019KT 9999 FEW017 16/11 Q1019 RMK FEW QUK 3 QUL 0 VIS MAR 16 KM VIS MIN 9999 KPWC 251653Z AUTO 10011G15KT 10SM OVC021 02/M02 A3023 RMK AO2 LIED 251655Z 33007KT 9999 SCT040 15/09 Q1019 RMK SCT VIS MIN 9999 WIND THR35 33008KT WIND THR17 /////KT BLU KRCV 251650Z AUTO 00000KT 10SM CLR 07/M06 A3017 RMK AO2 T00661063 KRDM 251656Z 11006KT 10SM FEW060 08/M01 A3006 RMK AO2 SLP183 T00831011 KQND 251656Z AUTO 06003G12KT 9999 CLR 39/02 A2979 RMK AO2 SLPNO T03890021 KPUW 251653Z AUTO 22009KT 10SM FEW027 BKN060 OVC110 06/03 A3008 RMK AO2 RAB03E20 SLP201 P0000 T00610028 LIEE 251650Z 36008KT 9999 FEW040 16/08 Q1020 FLHN 250800Z VRB04KT CAVOK 27/20 Q1020 KRCX 251655Z AUTO 06011KT 10SM OVC017 04/00 A3022 RMK AO2 T00351003 KPWG 251656Z AUTO VRB04KT 10SM CLR 18/08 A3006 RMK AO2 SLP192 T01780083 KREG 251655Z AUTO 22007G14KT 10SM VCTS BKN028 BKN037 OVC065 24/19 A3006 RMK AO2 LTG DSNT ALQS T02360189 LICZ 251655Z 05007KT CAVOK 17/15 Q1019 RMK SKC VIS MIN 9999 WIND THR28 /////KT WIND THR10 06007KT A3012 BLU KRCZ 251700Z AUTO 21010G14KT 160V240 10SM SCT044 SCT060 22/11 A3031 RMK AO2 T02180110 KRDR 251658Z AUTO 17016G23KT 10SM OVC016 03/00 A3014 RMK AO2 SLP223 T00280001 ETSA 251620Z 05014KT 9999 SCT200 11/01 Q1020 BLU+ KPWK 251652Z 04010KT 3SM -RA BR OVC005 04/04 A3007 RMK AO2 SLP188 P0005 T00390039 $ ETSB 251620Z AUTO 05016KT 9999 // ////// 12/M06 Q1022 /// KRDU 251651Z 22015G23KT 10SM BKN037 BKN250 22/11 A3030 RMK AO2 SLP258 T02170106 KPVU 251658Z 03008KT 10SM SCT030 BKN060 OVC150 09/05 A3001 KPWM 251651Z VRB04KT 10SM SCT025 BKN050 BKN100 04/M02 A3026 RMK AO2 SLP249 T00441017 $ KRFD 251654Z 08017G23KT 4SM -RA BR OVC007 06/04 A3003 RMK AO2 PK WND 07026/1623 SLP174 P0011 T00560039 $ KPVW 251655Z AUTO 33012G17KT 10SM CLR 15/M01 A3008 RMK AO2 T01481008 KPXE 251655Z AUTO 16008G15KT 10SM 25/11 A3026 RMK AO2 T02490108 KREO 251652Z AUTO 03004KT 08/M01 A3009 RMK AO1 SLP192 T00781011 LIEO 251650Z 28010KT 9999 FEW015 SCT030 15/08 Q1019 KT65 251655Z AUTO 19009G14KT 10SM CLR 28/21 A3002 RMK AO2 T02800205 ETSH 251620Z 33006KT 9999 BKN230 11/M02 Q1025 BLU+ KRFI 251655Z AUTO 27006KT 10SM CLR 18/10 A3004 RMK AO2 T01810098 ETSI 251620Z AUTO 09009KT 4800 // ////// 13/03 Q1021 /// LHPA 251645Z 36004KT CAVOK 12/01 Q1021 NOSIG RMK BLU KRGA 251655Z AUTO 20010G16KT 10SM CLR 22/10 A3014 RMK AO2 KPWT 251655Z AUTO 18010G14KT 10SM OVC075 07/05 A3013 RMK AO1 KT70 251658Z AUTO 32010KT 10SM CLR 22/05 A3007 RMK AO2 SLP176 T02170050 $ ETSL 251620Z AUTO 05017KT 9999 // ////// 11/00 Q1020 /// ETSN 251620Z 07007KT 9999 FEW270 BKN290 13/01 Q1021 BLU+ LGZA 251650Z VRB02KT 9999 FEW025 17/14 Q1019 GCLA 251700Z 36005KT 300V070 9999 FEW020 SCT035 BKN057 17/10 Q1017 KRGK 251655Z AUTO 07011G17KT 10SM OVC017 04/M01 A3014 RMK AO2 FLKK 250300Z 23002KT CAVOK 17/15 Q1019 KPYM 251652Z AUTO 04010KT 10SM SCT015 OVC034 05/01 A3024 RMK AO2 SLP241 T00500011 TSNO KT82 251655Z AUTO 26006KT 10SM CLR 19/04 A3010 RMK AO2 T01920044 LHPP 251645Z 30003KT CAVOK 15/02 Q1021 FMCH 251600Z VRB02KT 9999 FEW020 27/26 Q1010 NOSIG KRHI 251653Z AUTO 09014KT 10SM OVC012 02/M01 A3023 RMK AO2 SLP253 T00221006 TSNO LHPR 251645Z 32005KT CAVOK 11/00 Q1021 RMK BLU AGGH 251700Z 14002KT 30KM HZ FEW014 SCT100 24/23 Q1010 KRIC 251654Z 23013KT 10SM BKN250 24/11 A3021 RMK AO2 SLP235 T02390111 KRID 251715Z AUTO 21016G20KT 10SM CLR 20/11 A3010 RMK AO2 KQRD 251658Z AUTO 12006KT 10SM FEW220 22/19 A3019 RMK AO2 SLP227 KPYX 251655Z AUTO 33017G24KT 10SM CLR 14/00 A3003 RMK AO2 T01401005 KRHP 251700Z AUTO 00000KT 10SM BKN035 OVC042 18/11 A3026 RMK AO2 T01780105 GCLP 251700Z 04008KT 010V070 9999 FEW030 SCT040 18/09 Q1016 NOSIG KPZQ 251655Z AUTO 06010G16KT 10SM OVC012 00/M03 RMK AO2 T00011031 KQRH 251656Z AUTO 13003KT 9999 CLR 28/24 A2982 RMK AO2 SLP085 T02760240 KSAA 251655Z AUTO 17008KT 142V202 10SM CLR 08/M05 A3004 RMK AO2 KRIL 251653Z AUTO 00000KT 10SM CLR 11/M02 A3004 RMK AO2 SLP150 T01061022 KSAC 251653Z 33007KT 10SM FEW012 OVC027 13/11 A3016 RMK AO2 SLP214 T01280111 KSAD 251651Z AUTO VRB05KT 10SM CLR 17/00 A3007 RMK AO2 SLP153 T01720000 KRHV 251647Z 29006KT 10SM FEW025 BKN050 12/09 A3019 FMEE 251700Z AUTO 13014KT CAVOK 26/21 Q1014 TEMPO 4000 SHRA FEW025TCU SCT025 KSAF 251653Z 36007KT 10SM CLR 13/M02 A3012 RMK AO2 SLP152 T01331022 KQQY 251655Z AUTO VRB05KT 12SM FEW026 SCT039 BKN065 29/22 A3005 RMK AO2 SLP152 T02880221 $ KU16 251058Z AUTO 00000KT 8SM OVC033 11/06 A3002 RMK AO2 SLP789 P0001 T01110056 $ FMCZ 251700Z AUTO VRB02KT 9999 BKN023/// 27/24 Q1012 TEMPO 2000 TSRA SCT025CB KSBA 251653Z 14008KT 10SM CLR 15/12 A3010 RMK AO2 SLP193 T01500122 KRKD 251656Z AUTO VRB03KT 10SM OVC034 05/M03 A3023 RMK AO2 SLP237 T00501028 KRIV 251658Z AUTO 00000KT 10SM BKN016 13/10 A3012 RMK AO2 BKN V OVC SLP199 T01300096 KSBD 251650Z 00000KT 10SM BKN031 14/08 A3014 LHSM 251545Z 32004KT 9999 FEW045 SCT200 14/03 Q1022 ETWM 251620Z AUTO 02007KT 9999 // ////// 12/M03 Q1027 /// LHSN 251645Z 26004KT CAVOK 13/02 Q1020 NOSIG RMK BLU KSAN 251651Z 01004KT 10SM BKN018 BKN120 17/09 A3016 RMK AO2 SLP213 T01670094 KRIW 251653Z AUTO 34004KT 10SM BKN100 10/M01 A2996 RMK AO2 SLP125 T01001006 FMEP 251700Z AUTO 10002KT 9999 SCT088 27/21 Q1014 KSAR 251655Z AUTO 16020G24KT 10SM OVC022 17/13 A2989 RMK AO2 T01730129 KSAT 251651Z 02005KT 10SM FEW250 23/07 A3009 RMK AO2 SLP174 T02280067 KSAV 251653Z 16010KT 10SM SCT045 BKN060 BKN140 BKN250 24/11 A3031 RMK AO2 SLP264 T02390106 $ KSBM 251653Z AUTO 05017KT 10SM OVC007 03/01 A3017 RMK AO2 CIG 006V011 SLP223 T00280011 KSCD 251655Z AUTO 17007KT 10SM SCT046 SCT060 25/16 A3016 RMK AO2 T02470155 KRLD 251655Z AUTO 22006KT 10SM OVC100 11/04 A3010 RMK AO2 T01060038 LHUD 251645Z 36003KT CAVOK 14/00 Q1021 GBYD 251700Z 24009KT CAVOK 27/16 Q1009 LJCE 251700Z AUTO 09005KT 9999 NCD 13/03 Q1020 KSBN 251654Z 07007KT 6SM BR BKN085 BKN100 11/10 A3006 RMK AO2 RAB31E43 SLP181 P0001 T01110100 KSAW 251647Z 02006KT 10SM OVC013 01/M01 A3031 KSCF 251655Z AUTO VRB04KT 7SM CLR 23/21 A3009 RMK A01 KSBO 251655Z AUTO 15006KT 10SM BKN048 OVC050 23/11 A3029 RMK AO2 TSNO KRKP 251653Z AUTO 35005KT 7SM SCT020 SCT027 OVC034 25/21 A3005 RMK AO2 RAB03E13 SLP176 P0000 T02500206 KSBP 251656Z 31007KT 10SM FEW010 FEW018 OVC033 15/12 A3013 RMK AO2 SLP201 T01500122 KSCH 251646Z 03007KT 10SM -DZ SCT011 OVC030 02/01 A3030 KSAZ 251653Z AUTO 11009KT 083V143 10SM BKN022 04/M03 A3018 RMK AO2 KRKR 251655Z AUTO 26011G17KT 10SM OVC017 13/09 A2995 RMK AO2 T01270088 LIMA 251705Z 23008KT 190V250 1200 TSRAGR BKN005CB 11/09 Q1017 KRKS 251654Z AUTO 12004KT 10SM CLR 07/00 A3000 RMK AO2 SLP129 T00720000 KSBS 251654Z AUTO 00000KT 10SM CLR 06/M02 A3004 RMK AO1 T00561023 KSDA 251655Z AUTO 04013G19KT 5SM -RA BKN010 BKN014 06/05 A2995 RMK AO2 P0004 KSDB 251704Z AUTO 00000KT 10SM BKN011 09/05 A3012 RMK AO2 T00890050 KSCK 251655Z 30006KT 8SM BKN010 OVC018 13/12 A3016 RMK AO2 CIG 007V013 SLP211 T01280117 LIMC 251650Z 18006KT 9999 FEW040 18/09 Q1017 NOSIG KRME 251653Z 31003KT 6SM -RA BR FEW012 BKN032 OVC045 02/02 A3031 RMK AO2 SLP266 P0005 T00220017 LIME 251650Z 16006KT 8000 NSC 19/11 Q1017 NOSIG LIMF 251650Z 04009KT 010V070 8000 -RA BKN035 BKN060 14/11 Q1017 KSDF 251656Z 18016G28KT 10SM FEW055 FEW170 SCT200 BKN250 24/09 A3005 RMK AO2 PK WND 17029/1637 SLP172 T02440089 KQVF 251655Z AUTO VRB06KT 9999 CLR 28/23 A2983 RMK AO2 SLP100 WND DATA ESTMD T02840233 LIMG 251650Z 23003KT 9999 RA SCT020 BKN040 13/12 Q1016 KRMG 251653Z AUTO 17011G22KT 10SM FEW045 24/11 A3017 RMK AO2 SLP210 T02390111 $ KSBY 251654Z 23013KT 10SM CLR 21/11 A3019 RMK AO2 SLP225 T02110106 LIMH 251655Z /////KT 0800 -SN FZFG VV/// M07/M10 Q1020 RMK MON INVIS VAL INVIS VIS MIN 0800 KSCR 251700Z AUTO 20012G16KT 10SM SCT045 OVC050 20/10 A3031 RMK AO2 T02030100 KSEA 251653Z 19011KT 10SM BKN015 BKN065 08/05 A3011 RMK AO2 SLP204 T00780050 LIMJ 251650Z 15009KT 9999 RA FEW015 BKN045 15/11 Q1018 LIMK 251655Z 36008KT 9999 -TSRA SCT006CB BKN020TCU 10/10 Q1017 RMK OVC VAL FOSCHIA VIS MIN 9999 FKYS 251600Z 15004KT 060V200 8000 SCT020 FEW026CB 31/21 Q1013 NOSIG KSDL 251653Z 15005KT 10SM CLR 18/06 A3002 RMK AO2 SLP151 T01830056 LIML 251650Z 17007KT 9000 SCT070 18/10 Q1016 NOSIG KRNC 251655Z AUTO 19014G21KT 10SM CLR 23/11 A3012 RMK KSDM 251653Z 32004KT 10SM BKN019 17/11 A3015 RMK AO2 SLP207 T01670106 KRND 251658Z AUTO 02003KT 10SM CLR 22/07 A3008 RMK AO2 SLP182 T02170065 $ LIMN 241755Z 24004KT 190V310 9999 SCT030 12/10 Q1023 RMK OVC BKN080 VIS MIN 9999 BLU KRMN 251655Z AUTO 22005KT 10SM CLR 24/11 A3022 RMK AO2 T02430105 KSEE 251647Z 00000KT 10SM BKN020 15/10 A3015 LIMP 251650Z 13005KT 8000 BKN050 19/11 Q1017 KSEG 251653Z AUTO 00000KT CLR 14/07 A3015 RMK AO2 SLP210 T01440072 $ KRNH 251655Z AUTO 07011G16KT 10SM OVC015 03/00 A3019 RMK AO2 T00311005 LIMS 241755Z 29003KT 4000 BR SCT010 11/11 Q1022 KROA 251654Z 10SM CLR 21/09 A3025 RMK AO2 SLP237 T02110089 LIMT 250855Z 00000KT CAVOK 09/06 Q1022 KSFB 251653Z 11010G17KT 10SM SCT045 OVC065 25/13 A3025 RMK AO2 SLP242 T02500133 LIMU 251655Z 22010KT 6000 -RA BKN010 09/09 Q1017 RMK OVC QUK 2 QUL 1 S VIS MAR 6 KM VIS MIN 6000 KROC 251654Z 08006KT 6SM -RA BR OVC009 02/01 A3033 RMK AO2 CIG 007V011 SLP280 P0008 T00220006 LIMV 251655Z /////KT 7000 -RA SCT015 13/08 Q1018 RMK OVC BKN070 MON LIB CUF VAL FOSCHIA VIS MIN 7000 KRNM 251653Z 28008KT 250V320 10SM BKN014 13/09 A3014 RMK AO2 SLP202 T01330094 $ KSEM 251655Z AUTO 18011G18KT 10SM BKN044 OVC050 25/14 A3014 RMK AO2 KSFF 251653Z 23009KT 10SM BKN021 BKN080 07/03 A3006 RMK AO2 SLP185 T00720028 VTPH 251200Z 16009KT 140V200 9999 FEW030 30/24 Q1009 KRNO 251655Z 00000KT 10SM FEW031 FEW043 SCT070 08/01 A3011 RMK AO2 SLP184 SH DSNT S-SW MTN TOPS OBSCD SE AND SW-NW T00780011 LIMY 251655Z 10008KT 5000 -RA BR SCT015 SCT050 11/09 Q1017 RMK BKN VAL FOSCHIA VIS MIN 5000 KRMY 251653Z AUTO 07010G15KT 10SM OVC007 06/05 A3016 RMK AO2 P0001 T00580051 KRNP 251655Z AUTO 05006KT 10SM OVC008 04/02 A3022 RMK AO2 T00370023 KSDY 251656Z AUTO 30013KT 10SM BKN110 14/M02 A2990 RMK AO2 SLP135 T01391017 KSEP 251655Z AUTO 30010G15KT 10SM CLR 16/05 A3009 RMK AO2 T01640051 KROG 251658Z 29010KT 2 1/2SM -RA BR OVC003 09/09 A2988 RMK AO2 RAB20 SLP115 P0001 T00890089 LIMZ 251650Z 30003KT 9000 SCT030 BKN070 11/10 Q1017 GCRR 251700Z 09007KT 9999 FEW042 SCT047 17/09 Q1017 LIPA 251655Z 17003KT CAVOK 20/08 Q1017 RMK SKC VIS MIN 9999 WIND THR05 19003KT WIND THR23 15004KT A3005 BLU KU68 251655Z AUTO 04012KT 10SM SCT070 OVC085 11/00 A2995 RMK AO2 LIPB 251650Z 16006KT 140V200 CAVOK 22/05 Q1015 VTPM 251000Z 26010KT 240V300 9999 SCT024 36/15 Q1008 A2976 RMK/RWY 27 INFO J KRNT 251653Z 14009KT 10SM SCT018 BKN027 OVC065 09/05 A3011 RMK AO2 SLP202 T00890050 KSET 251654Z AUTO 15011KT 10SM OVC016 16/13 A2988 RMK AO2 SLP116 T01560133 LIPC 251655Z 14005KT CAVOK 15/10 Q1017 VTPO 251100Z 14005KT 8000 FEW022 35/23 Q1006 KSFM 251656Z AUTO 35004KT 10SM -RA BKN018 BKN027 OVC034 03/M01 A3028 RMK AO2 RAB24 SLP264 P0000 T00281006 KRNV 251655Z AUTO 20015G20KT 10SM SCT025 OVC034 19/17 A2997 RMK AO2 LTG DSNT S T01850169 KRPD 251655Z AUTO 06004KT 10SM OVC015 03/00 A3021 RMK AO2 T00271003 VTPP 251300Z 17003KT 6000 FEW025 31/21 Q1008 LIPE 251650Z 11010KT CAVOK 19/10 Q1017 LIPF 251655Z 12004KT CAVOK 19/10 Q1017 KSGF 251652Z 00000KT 10SM OVC055 15/10 A2979 RMK AO2 RAE11 SLP084 P0000 T01500100 KQWX 251655Z AUTO VRB04KT 12SM FEW009 BKN011 OVC017 06/04 A2998 RMK AO2 RAB1455E1612DZB1612E1613 SLP159 WND DATA ESTMD T00590035 KSFO 251656Z 01003KT 10SM FEW015 SCT200 14/09 A3018 RMK AO2 SLP219 T01390094 FNBG 251600Z 21006KT 9999 FEW015 FEW025CB 32/23 Q1009 LIPH 251650Z 12004KT 080V140 CAVOK 19/09 Q1017 KSGH 251656Z AUTO 22013KT 10SM CLR 19/11 A3011 RMK AO2 PK WND 23027/1630 SLP195 T01940106 KRPH 251655Z AUTO 28009G14KT 10SM SCT034 16/07 A3006 RMK AO2 T01550065 KSEZ 251655Z AUTO 00000KT 10SM CLR 11/03 A3008 RMK AO2 KSFQ 251655Z AUTO 24014G18KT 10SM CLR 23/11 A3027 RMK AO2 T02340108 KROS 251654Z AUTO 07008KT 10SM OVC017 03/M01 A3021 RMK AO2 T00321007 KRPJ 251655Z AUTO 06014G18KT 10SM OVC006 06/05 A3001 RMK AO2 P0001 T00550050 KSGJ 251658Z 12014KT 6SM HZ BKN060 25/14 A3029 RMK AO2 SLP257 T02500144 FNCA 251600Z 22008KT 9999 FEW020 31/26 Q1008 EVLA 251650Z AUTO 34008KT 310V010 9999 NCD 04/01 Q1018 KRQB 251654Z AUTO 09012G17KT 10SM OVC008 02/01 A3022 RMK AO2 T00220007 LIQC 251655Z 26005KT 9999 SCT020 16/14 Q1019 RMK SCT QUK 1 QUL 0 VIS MAR 10 KM VIS MIN 9999 LIPL 251655Z /////KT 5000 BR NSC 18/08 Q1016 RMK SKC VIS MIN 5000 WIND THR31 13005KT WHT KSHD 251655Z AUTO 19006KT 10SM CLR 22/10 A3022 RMK AO2 T02150101 KROW 251651Z 16016KT 10SM CLR 17/M02 RMK AO2 SLPNO T01671022 $ KRQE 251653Z AUTO 21004KT 10SM CLR 09/M03 A3013 RMK AO2 SLP146 T00941033 TSNO LIPO 251650Z 13007KT 6000 NSC 19/10 Q1016 KROX 251654Z AUTO 16013KT 10SM BKN024 04/M01 A3018 RMK AO2 KSFY 251655Z AUTO 06019G27KT 3SM RA OVC009 06/05 A2997 RMK AO2 T00550047 LIPQ 251650Z 18004KT CAVOK 18/10 Q1017 KSFZ 251656Z AUTO 04008KT 10SM OVC019 06/02 A3022 RMK AO2 SLP254 T00560017 LIPR 251645Z 09008KT 5000 BR NSC 13/10 Q1017 VTSB 251400Z 28004KT 8000 FEW020 27/25 Q1011 KSGR 251653Z 30008KT 10SM CLR 23/11 A3004 RMK AO2 SLP173 T02330106 VTSC 250900Z 06009KT 9999 SCT022 31/25 Q1008 RWY20 INFO J LIPS 251655Z 12005KT CAVOK 20/09 Q1017 RMK SKC VIS MIN 9999 WIND THR26 14005KT WIND THR08 14005KT BLU LIRA 251650Z 20006KT 180V240 CAVOK 16/11 Q1019 KSGS 251654Z AUTO 05009G14KT 10SM OVC015 05/00 A3015 RMK AO2 T00450000 GCTS 251700Z 10007KT 9999 BKN042 BKN050 17/09 Q1017 NOSIG KSGT 251655Z AUTO 20014KT 10SM FEW030 21/12 A2991 RMK AO1 LIPU 250655Z VRB02KT CAVOK 13/10 Q1022 VTSE 251100Z 10006KT 9999 FEW024 30/24 Q1008 KSHL 251655Z AUTO 05017KT 6SM BR OVC006 04/04 A3005 RMK AO2 KSGU 251656Z AUTO 01003KT 9SM -RA SCT034 BKN043 OVC055 11/04 A3001 RMK AO2 RAB04 SLP153 P0002 T01060044 VTSF 251400Z 28003KT 9999 FEW020 26/26 Q1011 KSHM 251658Z AUTO 20010G15KT 10SM CLR 08/M01 A3007 RMK AO2 SLP184 T00771010 $ LIQN 251650Z 16007KT CAVOK 18/08 Q1017 VTSG 251700Z VRB02KT 8000 FEW020 23/22 Q1012 LIRE 251655Z 19004KT 9999 FEW020 15/13 Q1019 RMK FEW VIS MIN 9999 WIND THR13 20004KT WIND THR31 /////KT BLU KSHN 251653Z AUTO 20005KT 10SM -RA BKN010 BKN024 OVC038 07/05 A3010 RMK AO2 RAB41 SLP196 P0000 T00720050 LIQO 251655Z 17016KT 9999 OVC001 12/06 Q1017 RMK OVC VAL CLD SCT NC VIS MIN 9999 KRPX 251615Z AUTO 00000KT 10SM 08/M03 A2989 VTSH 251000Z 04006KT 9999 FEW020 31/23 Q1008 NOSIG KSIF 251700Z AUTO 21010G15KT 10SM CLR 22/10 A3027 RMK AO2 T02220102 LIRF 251650Z 20008KT CAVOK 16/12 Q1019 NOSIG LIPX 251650Z 09008KT CAVOK 21/08 Q1016 LIRG 241755Z 24003KT CAVOK 17/12 Q1021 LIPY 251650Z 06005KT 9000 NSC 15/08 Q1017 LIRH 241755Z 30005KT CAVOK 17/08 Q1020 WMBA 251700Z 09002KT 9999 FEW032 SCT150 BKN280 27/25 Q1011 LIPZ 251650Z 08005KT CAVOK 17/10 Q1017 NOSIG LIRI 251550Z 24005KT CAVOK 18/10 Q1019 KSHR 251653Z AUTO 33011KT 10SM OVC060 11/02 A3000 RMK AO2 SLP159 T01060017 FMMI 251700Z 00000KT 9999 VCTS FEW017CB SCT020 21/8 Q1020 NOSIG VTSM 251530Z 11007KT 9999 FEW020 30/25 Q1013 KSIK 251655Z AUTO 16013G17KT 10SM -RA SCT033 BKN045 OVC065 17/15 A2992 RMK AO2 LIRL 241755Z 25001KT CAVOK 17/08 Q1020 KSJC 251653Z 30004KT 10SM FEW019 SCT060 BKN200 14/09 A3017 RMK AO2 SLP216 T01390089 $ KRRL 251655Z AUTO 10013G16KT 10SM OVC014 03/00 A3021 RMK AO2 T00250000 LIRM 251655Z 24005KT CAVOK 16/15 Q1018 KTAD 251654Z AUTO 13006KT 10SM CLR 09/00 A3008 RMK AO2 SLP168 T00940000 KSHV 251656Z 25009KT 220V300 10SM FEW280 21/10 A2998 RMK AO2 SLP151 T02060100 VTSP 251630Z 16002KT 8000 FEW018 SCT100 25/23 Q1014 NOSIG LIRN 251650Z 18005G15KT 150V250 CAVOK 17/13 Q1019 NOSIG VTSR 251200Z 00000KT 9999 FEW025 27/25 Q1009 LIRP 251645Z 24015G25KT 9999 -RA FEW025TCU SCT030 BKN040 16/12 Q1019 BECMG 5000 SHRA VTSS 251700Z 32005KT 9999 FEW020 27/25 Q1011 NOSIG LIRQ 251650Z 28005KT 230V320 9999 FEW040 SCT080 19/10 Q1017 VTST 251200Z 36004T 9999 FEW020 29/25 Q1008 WMAU 251700Z AUTO /////KT //// // ///// Q//// QFF//// LIRS 251655Z 21007KT 9999 FEW040 16/11 Q1018 KSKA 251658Z AUTO 21009KT 10SM SCT015 SCT070 OVC085 05/04 A3003 RMK AO2 SLP185 T00510043 $ LIRT 250355Z /////KT CAVOK 11/03 Q1022 RMK SKC MON INVIS VAL INVIS VIS MIN 9999 VTUD 251500Z 28006KT 220V310 9999 FEW035 SCT060 27/24 Q1012 KRRT 251654Z AUTO 15012G18KT 10SM OVC024 03/M01 A3020 RMK AO2 LIRU 251550Z 24009KT CAVOK 18/10 Q1018 FMMT 251600Z 02004KT 9999 TS SCT017CB 28/25 Q1012 TEMPO TSRA KRSL 251653Z AUTO 35014KT 10SM OVC006 05/03 A2999 RMK AO2 SLP167 T00500033 LIRV 251655Z 25009KT CAVOK 16/06 Q1019 FMNM 251600Z 26002KT 9999 TS SCT020CB 28/24 Q1010 NOSIG KTAN 251652Z AUTO 05008KT 10SM OVC018 06/01 A3023 RMK AO2 SLP236 T00610011 KSJN 251654Z AUTO 07003KT 10SM CLR 11/M07 A3009 RMK AO2 SLP152 T01061072 TSNO KRSN 251655Z AUTO 22007KT 10SM SCT031 22/14 A3000 RMK AO2 LTG DSNT E T02180136 LIRX 251655Z 23004KT 0000 FG VV/// 13/13 Q1017 RMK VIS MIN 0000 VIS MAR 0030 M KSKF 251658Z AUTO 01003KT 10SM CLR 23/07 A3007 RMK AO2 SLP179 T02250073 $ KRSP 251454Z AUTO 30010G16KT CLR RMK AO2 SLPNO PWINO FZRANO $ VTUI 251700Z AUTO 08009KT 050V110 9999 -RA SCT057/// BKN076/// OVC097/// 26/24 Q1013 A2992 KSIY 251653Z AUTO 06004KT 10SM CLR 07/03 A3015 RMK AO2 SLP226 T00670028 LIRZ 251650Z 20004KT 9999 FEW050 22/05 Q1017 VTUK 251700Z VRB02KT 9000 NSC 27/22 Q1012 NOSIG VTUL 251200Z 19005KT 150V220 4000 BR BKN028 23/22 Q1011 RETSRA KSJS 251655Z AUTO 23006KT 10SM OVC070 23/09 A3017 RMK AO2 T02260090 KSJT 251651Z 00000KT 10SM CLR 18/03 A3012 RMK AO2 SLP188 T01830028 KSLB 251655Z AUTO 04019KT 3/4SM -UP OVC002 03/03 A3002 RMK AO2 KRST 251654Z 06017KT 10SM OVC009 02/01 A3010 RMK AO2 SLP205 T00220011 KTCC 251653Z AUTO 15007KT 10SM CLR 16/M01 A3008 RMK AO2 SLP161 T01561011 KSLC 251707Z 34009KT 3SM RA BR BKN007 BKN014 OVC020 06/05 A3003 RMK AO2 P0003 T00610050 VTUO 251200Z 15003KT 110V170 8000 FEW020 SCT120 30/25 Q1010 A2983 INFO M RWY 04 KRSV 251655Z AUTO 17019G23KT 10SM BKN042 OVC110 20/12 A2997 RMK AO2 T02000118 KTBN 251658Z AUTO 14009KT 10SM BKN008 OVC015 14/13 A2980 RMK AO2 BKN V OVC SLP092 T01440130 KRSW 251653Z 13013G20KT 10SM BKN045 BKN060 27/14 A3020 RMK AO2 SLP223 T02670144 KRTN 251653Z AUTO VRB03KT 10SM CLR 08/M01 A3010 RMK AO2 SLP166 T00831011 KRUE 251653Z AUTO 24008G16KT 10SM BKN021 OVC033 16/11 A2988 RMK AO2 SLP114 T01560111 KSLE 251656Z 19011KT 10SM FEW012 SCT075 09/05 A3015 RMK AO2 SLP211 T00890050 VTUQ 251600Z AUTO 23004KT ////NDV ////// 26/23 Q1014 A2994 KSJX 251656Z AUTO 08013G19KT 10SM SCT009 OVC014 01/M01 A3034 RMK AO2 T00111010 VVCR 251700Z 03006KT 9999 FEW015 27/25 Q1015 NOSIG GCXO 251700Z 30008KT 250V340 9999 FEW025 14/07 Q1017 NOSIG KRUG 251655Z AUTO 15015G22KT 10SM 00/00 A3000 RMK AO2 KSLG 251655Z AUTO 29008KT 9SM OVC005 09/07 A2989 RMK AO1 KSLH 251654Z AUTO 08011G18KT 10SM OVC014 00/M02 A3036 RMK AO2 T00001023 KTAZ 251655Z AUTO 18015G21KT 10SM BKN038 BKN050 OVC065 17/11 A2992 RMK AO2 VVCT 251100Z 09007KT 070V130 9999 FEW015TCU SCT040 30/23 Q1009 NOSIG TCU/NE KTBR 251655Z AUTO 17007G16KT 10SM BKN060 24/13 A3030 RMK AO2 T02440126 KSLI 251658Z 00000KT 10SM BKN018 BKN024 16/12 A3012 RMK AO2A SLP203 T01620121 FNGI 251500Z 20004KT 9999 FEW006 SCT016 28/18 Q1016 VTUU 251700Z 05003KT 8000 FEW025 BKN100 28/24 Q1012 NOSIG LJLJ 251700Z 12004KT CAVOK 14/04 Q1019 NOSIG KRTS 251655Z AUTO 10006KT 10SM BKN019 BKN037 05/00 A3011 RMK AO2 VTUV 251400Z 14005KT 8000 FEW022 29/23 Q1012 A2988 INFO O RWY 36 LJMB 251700Z VRB01KT CAVOK 13/03 Q1021 KSLK 251651Z AUTO 06005KT 10SM OVC014 00/M02 A3026 RMK AO2 PRESRR SLP266 T00001017 LIVC 242055Z 10022KT 0000 FG VV000 03/00 Q1026 RMK MON INVIS VAL INVIS VIS MIN 0000 VVDN 251700Z 11002KT 7000 FEW015 BKN060 26/25 Q1014 NOSIG VTUW 251300Z 16005KT 9999 FEW045 29/24 Q1011 KTCL 251653Z 19017G25KT 10SM BKN041 OVC047 22/13 A3012 RMK AO2 SLP197 T02220133 LIVD 251655Z /////KT 9999 FEW030 14/05 Q1019 RMK SCT SCT200 VIS MIN 9999 KTCM 251658Z AUTO 21010KT 10SM BKN013 OVC038 08/07 A3012 RMK AO2 SLP205 T00750073 $ LIVE 251655Z 22006G16KT 9999 FEW030 09/M08 Q1016 RMK FEW VIS MIN 9999 KSLN 251653Z 35018KT 10SM OVC012 07/04 A2997 RMK AO2 SLP153 T00670044 KSME 251655Z AUTO 19012G18KT 10SM CLR 22/09 A3016 RMK AO2 LIVF 250655Z 15002KT CAVOK 11/08 Q1022 RMK SKC MON LIB VAL FOSCHIA SKC SUP DIM VIS MIN 9999 KTDF 251700Z AUTO 23010G21KT 10SM SCT045 20/09 A3030 RMK AO2 KSMF 251653Z 32007KT 10SM BKN013 OVC028 12/11 A3016 RMK AO2 SLP212 T01220111 KSKX 251655Z AUTO 00000KT 10SM 09/M03 A3016 RMK AO1 KSLO 251655Z AUTO 15012G19KT 10SM OVC031 20/12 A2992 RMK AO2 T01950120 KTBX 251655Z AUTO 14004KT 10SM OVC075 03/M01 A3007 RMK AO2 PWINO KRUQ 251700Z AUTO 21008G14KT 10SM BKN048 20/10 A3030 RMK AO2 T01950100 KSLR 251655Z AUTO 30007KT 10SM CLR 16/10 A3003 RMK AO2 T01620096 KTCS 251653Z AUTO 10004KT 10SM CLR 17/M04 A3012 RMK AO2 SLP144 T01671039 KSNA 251653Z 17003KT 10SM BKN021 OVC027 16/12 A3013 RMK AO2 SLP204 T01610117 KTEB 251651Z 01007KT 10SM CLR 14/05 A3018 RMK AO2 SLP218 T01440050 KRUT 251708Z AUTO 30003KT 2SM -SN BR OVC007 02/01 A3029 RMK AO2 VIS 1 1/4V4 UPE05SNB05 P0000 FZRANO $ EVRA 251650Z 36011KT 9999 OVC003 01/01 Q1016 R36/290195 NOSIG LKCV 251700Z 30006KT CAVOK 09/00 Q1023 NOSIG RMK BLU+ BLU KSMN 251655Z AUTO 00000KT 10SM FEW060 OVC070 05/M01 A3005 RMK AO1 LIVO 251655Z 11003KT CAVOK 12/04 Q1018 RMK BKN BKN180 VIS MIN 9999 KSMO 251651Z VRB04KT 10SM CLR 17/10 A3012 RMK AO2 SLP198 T01670100 KRWF 251708Z AUTO 05009G15KT 010V090 10SM OVC010 04/01 A3012 RMK AO2 T00440006 KSMP 251624Z AUTO 1/2SM FZFG VV005 M01/M01 A3000 RMK AO2 SNE24 P0002 T10061006 $ KSMQ 251653Z AUTO 00000KT 10SM SCT075 16/07 A3015 RMK AO2 SLP210 T01610067 KSNH 251655Z AUTO 15011G17KT 5SM BR FEW032 FEW037 FEW049 16/14 A3003 RMK A01 P0006 LIVR 251655Z 14009KT 9999 FEW030 04/M01 Q1022 RMK FEW MON CLD SCT VIS MIN 9999 KRWI 251653Z AUTO 21012G17KT 10SM SCT046 SCT055 22/12 A3030 RMK AO2 SLP259 T02220117 $ KTDR 251656Z AUTO 17016G27KT 10SM FEW038 FEW075 25/16 A3022 RMK AO2 PK WND 18032/20 SLP237 T02510160 $ KRVS 251653Z VRB05KT 10SM OVC016 10/06 A2995 RMK AO2 SLP149 T01000061 KSMS 251655Z AUTO 19011KT 10SM SCT050 BKN055 24/11 A3032 RMK AO2 KSOA 251655Z AUTO VRB03KT 10SM CLR 18/02 A3018 RMK AO2 LIVT 251655Z 00000KT CAVOK 16/09 Q1017 RMK SKC QUK 2 QUL 0 VIS MAR 18 KM VIS MIN 9999 KSNK 251655Z AUTO 32007KT 10SM CLR 15/03 A3012 RMK AO2 T01520026 KRWL 251653Z AUTO 20014G17KT 10SM CLR 11/M06 A3001 RMK AO2 SLP124 T01111061 TSNO KSNL 251655Z AUTO 27013KT 10SM OVC020 11/06 A2999 RMK AO2 T01110058 FNHU 251600Z 31015KT 9999 SCT019 27/13 Q1019 FMSD 251600Z 06004KT 9999 FEW020 27/25 Q1011 KRXE 251653Z AUTO 22012KT 10SM SCT018 OVC025 05/01 A3002 RMK AO2 SLP167 T00500011 KSMX 251651Z 32006KT 10SM BKN007 BKN014 OVC020 14/13 A3014 RMK AO2 SLP207 T01440133 KTDZ 251653Z AUTO 06012G25KT 7SM OVC009 08/05 A3020 RMK AO2 SLP228 T00780050 KSPA 251715Z AUTO 21005KT 10SM SCT036 BKN049 20/09 A3028 RMK AO2 KSNS 251653Z 32008KT 10SM CLR 14/11 A3015 RMK AO2 SLP219 T01440106 KSNT 251651Z AUTO 35003KT 01/M03 A3005 RMK AO1 SLP153 T00061028 KSPB 251653Z AUTO 16008KT 10SM BKN022 OVC030 08/05 A3014 RMK AO2 SLP207 T00830050 KSPD 251656Z AUTO 34008KT 13/M02 A3006 RMK AO1 SLP160 T01281022 KTEW 251654Z AUTO 10007KT 7SM RA OVC005 04/04 A3022 RMK AO2 T00400035 KTEX 251655Z AUTO 00000KT 10SM CLR 08/M11 A3014 RMK AO2 T00781110 KSPF 251655Z AUTO 32006KT 10SM CLR 13/M00 A2993 RMK AO2 KSOP 251656Z AUTO 22012KT 10SM OVC050 22/10 A3031 RMK AO2 SLP280 T02170100 KSNY 251653Z AUTO 20010KT 10SM CLR 12/M01 A3002 RMK AO2 SLP173 T01221011 KSPG 251653Z 05004KT 10SM CLR 24/17 A3022 RMK AO2 SLP231 T02390172 KTFP 251655Z AUTO 31006KT 10SM SCT020 OVC028 25/21 A3005 RMK AO2 T02530211 KSPI 251652Z 19014G23KT 10SM BKN022 OVC027 17/12 A2991 RMK AO2 SLP127 T01720122 KTGI 251655Z AUTO 18009G14KT 10SM CLR 17/11 A3020 RMK AO1 KTHA 251655Z AUTO 19012G24KT 10SM SCT044 22/09 A3013 RMK KRYM 251656Z AUTO 09009KT 10SM OVC018 03/M02 A3020 RMK AO2 SLP243 T00301017 TSNO $ KRYN 251645Z 11005KT 10SM CLR 18/M03 A3007 KSOW 251655Z AUTO 19014KT 10SM CLR 12/M04 A3013 RMK AO2 KSQI 251656Z AUTO 07017G24KT 10SM OVC006 07/06 A2996 RMK AO2 RAE23 SLP171 P0009 T00670061 KSPR 251655Z AUTO 18016KT 5SM HZ CLR 24/21 A3006 RMK A01 KSPS 251652Z AUTO 33011KT 10SM OVC030 14/06 A3005 RMK AO2 SLP171 T01390056 MBGT 251700Z 09022KT 9999 BKN025TCU BKN060 26/00 Q1016 FNMA 251400Z 27004KT 9999 SCT007 FEW009CB BKN057 31/23 Q1010 KRYT 251453Z AUTO VRB03KT 10SM CLR 21/11 A3016 RMK AO2 SLP204 T02110106 53004 TSNO $ EVVA 251650Z AUTO 35009KT CAVOK 03/01 Q1018 KSRB 251655Z AUTO 16011G17KT 130V190 10SM CLR 21/11 A3013 RMK A01 KSQL 251650Z 01003KT 10SM SCT016 14/10 A3018 KSRC 251656Z AUTO 21013G21KT 10SM BKN039 OVC050 20/12 A2988 RMK AO2 SLP120 T02000122 KRZL 251655Z AUTO 18008KT 10SM SCT042 SCT075 OVC120 20/13 A2998 RMK AO2 KRYV 251655Z AUTO 07013KT 10SM OVC006 03/03 A3010 RMK AO2 T00340034 KSPW 251653Z AUTO 05013KT 10SM OVC007 03/02 A3006 RMK AO2 SLP188 T00330017 TSNO $ KRYW 251655Z AUTO 31006G15KT 10SM CLR 20/06 A3009 RMK AO2 T01980063 KRZN 251650Z AUTO 08005G15KT 10SM OVC018 03/M01 A3022 RMK AO2 T00331011 KTIF 251655Z AUTO 11004KT 10SM CLR 11/M01 A3002 RMK AO2 T01051010 KRYY 251647Z 18010G15KT 10SM SCT039 22/12 A3021 WMKA 251700Z 06001KT 9999 FEW030 BKN280 26/25 Q1011 LJPZ 251700Z VRB02KT CAVOK 18/09 Q1017 WMKB 251700Z 09002KT 7000 -RA FEW024 SCT140 BKN270 27/26 Q1011 NOSIG KRZR 251655Z AUTO 16010G20KT 10SM FEW042 22/12 A3018 RMK A01 WMKC 251700Z 00000KT 9999 SCT020 BKN280 28/25 Q1011 WMKD 251700Z 28005KT 9999 FEW024 BKN280 27/25 Q1011 NOSIG KTIK 251658Z AUTO 31012KT 10SM OVC019 10/05 A2999 RMK AO2 SLP160 T01030054 $ KRZT 251655Z AUTO 21011KT 10SM SCT075 22/08 A3014 RMK AO2 WMKE 251700Z AUTO 00000KT //// // 26/25 Q1010 KSSC 251658Z AUTO 16007KT 10SM SCT049 24/10 A3029 RMK AO2 SLP257 T02410095 $ GEML 251700Z 01007KT 340V060 CAVOK 16/07 Q1015 KTHV 251653Z AUTO 25007KT 10SM CLR 24/11 A3015 RMK AO2 SLP209 T02390111 FNLU 251700Z 23010KT 9999 SCT020 BKN100 29/24 Q1008 KW13 251655Z AUTO 24005KT 10SM CLR 22/11 A3022 RMK AO1 T02180108 KSSF 251653Z VRB03KT 10SM CLR 24/07 A3007 RMK AO2 SLP177 T02390067 FNMO 251600Z 26015KT 9999 FEW022 FEW030CB 27/21 Q1010 WMKI 251700Z 00000KT 9999 FEW030 SCT150 BKN280 26/24 Q1011 KTIP 251655Z AUTO 19008KT 10SM SCT070 OVC080 19/12 A2996 RMK AO2 T01930123 WMKJ 251700Z VRB01KT 9999 FEW023 BKN280 25/24 Q1011 KSRQ 251653Z VRB03KT 10SM CLR 26/13 A3020 RMK AO2 SLP226 T02560133 $ WMKK 251700Z VRB01KT 9999 FEW030 BKN280 26/23 Q1011 NOSIG KSSI 251653Z AUTO 12008KT 10SM BKN060 23/13 A3030 RMK AO2 SLP263 T02280133 KSRR 251655Z AUTO 04003KT CLR 14/M07 A3019 RMK AO2 WMKL 251700Z 18002KT 9999 FEW012 SCT140 BKN270 26/26 Q1012 WMKM 251700Z 06002KT 9999 FEW017CB BKN140 BKN270 27/25 Q1012 LKKB 251700Z 32004KT 280V020 CAVOK 11/M01 Q1023 NOSIG WMKN 251700Z 23002KT 9999 FEW022 BKN300 27/25 Q1011 KSTC 251653Z 07009KT 10SM OVC013 02/M01 A3019 RMK AO2 SLP242 T00221006 KTKC 251653Z AUTO 05013G17KT 5SM BR OVC004 03/03 A3011 RMK AO2 T00310029 KW22 251655Z AUTO 33005KT 10SM BKN050 OVC055 21/09 A3021 RMK AO2 WMKP 251700Z 13002KT 8000 FEW025 SCT140 BKN270 27/25 Q1011 NOSIG KTIW 251653Z 19010KT 10SM -RA SCT010 BKN037 BKN060 08/06 A3012 RMK AO2 RAB1554E28B52 SLP202 P0000 T00780061 KSTE 251655Z AUTO 06015G22KT 10SM OVC011 02/00 A3019 RMK AO2 T00210000 KUBE 251655Z AUTO 06009KT 10SM OVC012 02/M01 A3020 RMK AO2 KTIX 251653Z 11012KT 7SM SCT037 BKN055 23/13 A3026 KUAO 251653Z 19006KT 10SM SCT010 SCT060 OVC080 09/06 A3016 RMK AO2 SLP214 T00940056 KSTF 251715Z AUTO 23006KT 10SM SCT010 OVC070 16/15 A3011 RMK AO2 LLBG 251650Z 32007KT CAVOK 17/12 Q1016 NOSIG KTKI 251653Z 30013G20KT 10SM FEW032 16/09 A3003 RMK AO2 SLP172 T01560089 KSTJ 251653Z 02011KT 10SM OVC008 09/08 A2989 RMK AO2 SLP122 T00890083 KSUA 251647Z 11018G25KT 7SM SCT025 27/16 A3023 KW29 251655Z AUTO 15009KT 7SM HZ CLR 22/11 A3017 RMK AO2 TSNO KSTK 251650Z AUTO 20007KT 10SM CLR 11/02 A3003 RMK AO2 KSTL 251651Z 15011KT 10SM OVC015 17/12 A2989 RMK AO2 SLP116 T01670122 KW31 251655Z AUTO 21012G20KT 10SM CLR 22/11 A3025 RMK AO1 T02160114 KSUE 251656Z AUTO 08014G19KT 10SM OVC010 03/00 A3026 RMK AO2 SLP271 T00280000 KSTP 251653Z 05010KT 10SM OVC017 04/01 A3018 RMK AO2 SLP222 T00440006 KTLH 251653Z 14010KT 10SM SCT060 BKN250 25/13 A3024 RMK AO2 SLP237 T02500133 VVNB 251700Z 36007KT 9999 BKN040 19/13 Q1020 NOSIG KSTS 251653Z 31003KT 10SM SCT002 10/09 A3017 RMK AO2 SLP211 T01000089 KTMA 251650Z AUTO 16007G17KT 10SM SCT039 SCT048 SCT050 23/14 A3025 RMK AO2 T02330137 KTMB 251653Z 10019KT 10SM SCT034 BKN047 27/17 A3018 RMK AO2 SLP220 T02670167 KSVC 251655Z AUTO 19005KT 10SM CLR 16/M03 A3016 RMK AO2 T01581032 KTKV 251655Z AUTO 06007KT 030V090 10SM OVC014 02/M01 A3021 RMK AO2 T00191010 LKKV 251700Z 02009KT CAVOK 09/M02 Q1023 FOGM 251500Z /////KT 9999 SCT015 BKN030 33/24 Q//// LKLN 251700Z AUTO 02003KT CAVOK 11/M01 Q1023 KSVE 251655Z AUTO 08005KT 10SM CLR 06/00 A3013 RMK AO2 KSUN 251650Z 31007KT 10SM OVC140 03/M01 A3004 KTME 251655Z AUTO 33008KT 300V360 10SM FEW060 20/09 A3007 RMK AO2 KW43 251655Z AUTO 00000KT 10SM BKN110 12/M01 A2996 RMK AO2 KTKX 251655Z AUTO 17012G20KT 8SM BKN020 OVC027 17/15 A2990 RMK AO2 FOGO 251500Z 00000KT 9999 SCT016 31/23 Q//// KUCP 251656Z AUTO 28011G15KT 10SM BKN045 OVC080 20/11 A3017 RMK AO2 SLP229 T02000106 KUDG 251656Z AUTO 21008KT 10SM BKN050 22/11 A3032 RMK AO2 SLP272 T02220106 KSVH 251700Z AUTO 23006KT 10SM SCT037 OVC046 19/11 A3028 RMK AO2 T01940108 FOGR 251500Z /////KT 9999 SCT015TCU 35/25 Q//// LKNA 251700Z 32010KT CAVOK 08/M03 Q1022 NOSIG RMK BLU BLU KSUS 251654Z 11004KT 10SM OVC016 16/13 A2987 RMK AO2 SLP112 T01560133 KSUT 251705Z AUTO 22005KT 10SM BKN043 OVC050 22/11 A3035 RMK AO2 T02170114 KTMK 251655Z AUTO 14005KT 7SM BKN023 BKN035 OVC043 07/05 A3017 RMK AO2 P0001 PWINO KTNB 251655Z AUTO 23008G16KT 170V240 10SM CLR 16/07 A3030 RMK AO2 T01620068 KSUU 251703Z AUTO 34006KT 10SM BKN018 14/10 A3015 RMK AO2 BKN V SCT $ KSVN 251658Z AUTO 16010KT 10SM FEW050 SCT065 SCT180 24/13 A3029 RMK AO2 SLP260 T02380132 KSUW 251655Z AUTO 07014G19KT 10SM SCT010 OVC027 02/00 A3028 RMK AO2 T00171001 KSWF 251645Z 03006KT 10SM OVC040 06/04 A3022 KSUX 251652Z 04011G18KT 10SM OVC008 04/03 A3004 RMK AO2 SLP182 T00390028 VVPB 251700Z 26005KT 2500 BR SCT020 SCT150 25/25 Q1015 NOSIG KTOA 251547Z 27007KT 10SM BKN014 OVC020 15/12 A3013 RMK ILS 29R FNSA 251600Z 00000KT 9999 FEW030 SCT140 31/18 Q1018 KTOB 251653Z AUTO 06016G20KT 10SM OVC010 03/01 A3010 RMK AO2 LKMT 251700Z 04002KT CAVOK 09/01 Q1021 NOSIG KTOC 251655Z AUTO 23006KT 10SM BKN031 BKN040 OVC046 22/13 A3028 RMK AO2 KW63 251655Z AUTO 21012G17KT 10SM CLR 21/11 A3026 RMK AO1 KSWO 251653Z 29011G17KT 10SM OVC014 09/06 A2999 RMK AO2 SLP151 T00890056 KTOI 251653Z AUTO 14012G19KT 10SM FEW037 24/14 A3018 RMK AO2 SLP217 T02440144 KTPA 251653Z VRB06KT 10SM FEW210 BKN270 26/14 A3024 RMK AO2 SLP238 T02560139 KUES 251645Z 06014G24KT 2SM -RA BR OVC003 02/02 A3012 LLET 251650Z 36011KT CAVOK 23/01 Q1012 KTOL 251652Z AUTO 07016KT 8SM SCT011 BKN065 08/04 A3018 RMK AO2 SLP219 T00780044 KTNU 251655Z AUTO 05013KT 1 1/2SM BR OVC006 04/03 A2994 RMK AO2 PWINO LKPD 251700Z 31006KT CAVOK 11/M01 Q1022 NOSIG RMK BLU BLU KSWW 251655Z AUTO 29005KT 10SM CLR 16/04 A3013 RMK AO2 T01570035 VVPQ 251700Z 06002KT 9000 SCT015 SCT040 26/25 Q1012 NOSIG KTPF 251655Z AUTO 12003KT 10SM BKN090 BKN110 27/16 A3023 RMK AO2 KSYF 251700Z AUTO 01005KT 10SM CLR 11/M01 A3005 RMK AO2 KTOP 251653Z 36012KT 10SM BKN010 OVC027 09/08 A2987 RMK AO2 RAE12 CIG 008V014 SLP116 P0001 T00940083 KW75 251655Z AUTO 22009G16KT 190V250 10SM CLR 23/12 A3020 RMK AO1 T02270121 KTPH 251656Z AUTO 01012KT 10SM SCT024 09/ A3006 RMK AO2 SLP153 T0089 $ KTOR 251653Z AUTO 19006KT 10SM CLR 12/M01 A2996 RMK AO2 SLP145 T01171006 KSYI 251655Z AUTO 18022KT 10SM FEW046 24/13 A3011 RMK LLHA 251650Z 34006KT CAVOK 17/13 Q1016 KSXS 251658Z AUTO 17008KT 8SM FEW036 SCT060 24/14 A3018 RMK AO2 SLP220 T02420143 KW78 251655Z AUTO 20008G20KT 10SM CLR 22/09 A3025 RMK AO1 T02210090 KSXT 251656Z AUTO VRB04KT 1/4SM FG VV002 02/02 A3009 RMK AO2 SLP204 T00220022 KTPL 251651Z AUTO 32012KT 10SM CLR 19/08 A3008 RMK AO2 SLP196 T01890083 KW81 251650Z AUTO 25009G14KT 220V280 10SM CLR 24/11 A3023 RMK AO1 T02370111 FNSU 251000Z 20009KT 9999 FEW013 20/// Q1014 KSYM 251650Z AUTO 20007KT 10SM CLR 22/08 A3018 RMK AO2 KTQE 251706Z AUTO 03015KT 10SM -RA OVC010 05/03 A3001 RMK AO2 CIG 009V012 P0000 T00500033 KSYN 251654Z AUTO 06015KT 10SM OVC013 04/01 A3013 RMK AO2 T00400010 KUGN 251659Z 06013KT 1 3/4SM RA BR OVC004 03/03 A3008 RMK AO2 P0003 T00330033 $ FNUG 251600Z 24008KT 9999 SCT023 30/21 Q1011 WMSA 251700Z 00000KT 8000 FEW017CB SCT140 BKN280 26/25 Q1012 KTQH 251655Z AUTO 27011KT 10SM OVC009 08/07 A2994 RMK AO2 KSYR 251654Z 00000KT 4SM RA BR OVC006 02/02 A3030 RMK AO2 SLP262 P0005 T00220022 LKPR 251700Z 34008KT CAVOK 10/M01 Q1023 NOSIG LLIB 251550Z 32006KT CAVOK 17/02 Q1015 KSZL 251658Z 00000KT 10SM BKN015 OVC024 14/14 A2981 RMK AO2A SLP096 T01440144 $ GFLL 251600Z 30006KT 9999 SCT014 31/24 Q1009 MBPV 251500Z 06014G24KT 8000 -RA SCT010 SCT030 24/21 Q1017 KW96 251655Z AUTO 23006G16KT 10SM CLR 23/11 A3021 RMK AO1 T02280112 KTRI 251653Z 22007KT 10SM FEW130 SCT200 BKN250 21/09 A3022 RMK AO2 SLP216 T02110089 MDAB 251700Z 33006KT 9999 BKN018 BKN070 27/24 Q1014 RERA KSZT 251655Z AUTO 22005KT 10SM BKN022 BKN026 OVC041 06/03 A3003 RMK AO2 KTRK 251645Z 00000KT 2SM VCFG OVC004 01/00 A3012 RMK NOSPECI KW99 251655Z AUTO 27008KT 10SM BKN065 BKN120 23/12 A3019 RMK AO2 T02330120 KTRL 251653Z AUTO 28006KT 10SM CLR 17/08 A3003 RMK AO2 SLP165 T01670078 KUIL 251653Z AUTO VRB04KT 10SM FEW021 FEW029 07/05 A3009 RMK AO2 RAB17E27 SLP190 P0000 T00720050 KTRM 251652Z AUTO 28004KT 10SM CLR 23/04 A2997 RMK AO2 SLP149 T02330044 KVAD 251658Z AUTO 18009KT 10SM FEW044 BKN055 BKN150 BKN190 24/13 A3024 RMK AO2 SLP241 T02380129 $ KUIN 251654Z AUTO 20010KT 10SM CLR 18/12 A2986 RMK AO2 SLP107 T01830122 KVAF 251655Z AUTO 23014KT 4SM HZ CLR 24/21 A3004 RMK A01 KTTA 251710Z AUTO 23010G14KT 10SM SCT045 SCT050 21/11 A3030 RMK AO2 T02100106 LKTB 251700Z 36004KT CAVOK 11/M03 Q1022 NOSIG FOOB 251500Z /////KT 9999 BKN020TCU 32/21 Q1006 KTTD 251653Z 22007KT 10SM SCT021 BKN070 OVC085 09/06 A3016 RMK AO2 SLP211 T00940056 KUKF 251700Z AUTO 16007KT 10SM SCT046 21/09 A3030 RMK AO2 KTTF 251652Z AUTO 07007KT 7SM OVC009 07/05 A3020 RMK AO2 T00680052 KTSP 251655Z AUTO 32011KT 2 1/2SM -RA FEW003 BKN016 06/06 A3011 RMK AO2 P0005 KVBG 251658Z AUTO 34006KT 10SM OVC007 13/13 A3014 RMK AO2 OVC V BKN SLP210 T01330133 MDBH 251700Z 13010KT 9999 FEW024 31/19 Q1015 FOOG 251600Z 22010KT 9999 SCT011 FEW020CB 31/25 Q1008 VVTS 251700Z 11005KT 060V140 9999 FEW017 SCT050 27/24 Q1012 NOSIG KUKI 251656Z AUTO 00000KT 10SM OVC008 09/07 A3019 RMK AO2 SLP222 T00890072 KVCB 251653Z AUTO 36007KT 10SM CLR 14/10 A3018 RMK AO2 SLP219 T01390100 FOOK 251500Z VRB02KT 9999 SCT018TCU FEW020CB 33/22 Q1008 FOOL 251600Z 26008KT 230V300 9999 SCT015 31/25 Q1008 NOSIG KTTN 251653Z 00000KT 10SM FEW043 FEW080 OVC090 17/09 A3016 RMK AO2 RAB31E51 SLP206 P0000 T01670089 FOON 251600Z /////KT 9999 TS FEW016 FEW023CB 32/23 Q1010 KVAY 251654Z AUTO 26006KT 10SM CLR 22/09 A3015 RMK AO2 SLP209 T02170089 FOOR 251500Z /////KT 9999 BKN008 30/23 Q//// KTTS 251658Z AUTO M 10SM FEW039 25/15 A3025 RMK AO2 SLP248 T02460152 VISNO RWY15 CHINO RWY15 $ KVBS 251655Z AUTO 05012KT 10SM FEW033 OVC041 17/16 A3007 RMK A01 KVBT 251655Z AUTO 29008KT 10SM OVC004 09/08 A2989 RMK AO1 P0001 KUKT 251655Z AUTO 25004KT 10SM FEW050 FEW065 SCT120 18/09 A3017 RMK AO1 FOOT 251500Z 24014KT 200V270 9999 SCT013 FEW016CB BKN023 34/24 Q1008 KTVC 251653Z 08011G17KT 10SM OVC013 03/01 A3026 RMK AO2 SLP255 T00330006 KTUL 251653Z 27011KT 10SM OVC017 11/07 A2992 RMK AO2 SLP130 T01060072 $ KULM 251654Z AUTO 05013G17KT 10SM OVC010 04/01 A3011 RMK AO2 KVBW 251655Z AUTO 12009KT 110V170 10SM CLR 23/11 A3019 RMK AO2 T02270109 KVDF 251715Z AUTO 09008KT 10SM SCT046 28/13 A3023 RMK AO2 KTVF 251556Z AUTO 15011G18KT 10SM OVC017 A3019 RMK AO2 SLPNO FZRANO $ KTUP 251653Z 11012KT 10SM OVC090 16/14 A3004 RMK AO2 SLP169 T01560139 $ RJAA 251700Z 07007KT 9999 FEW030 BKN050 07/M00 Q1019 NOSIG RMK 1CU030 7SC050 A3011 KTVI 251655Z AUTO 19008KT 10SM SCT047 24/14 A3025 RMK AO2 KVDI 251655Z AUTO 19009KT 10SM SCT045 BKN055 24/13 A3028 RMK AO2 KTUS 251653Z VRB05KT 10SM CLR 18/M05 A3008 RMK AO2 SLP155 T01831050 KVCT 251651Z 10SM BKN025 23/12 A3006 RMK AO2 SLP179 T02330122 $ KTVK 250915Z AUTO 06005KT 10SM -RA OVC001 12/12 A2983 RMK AO2 KTVL 251653Z AUTO 16003KT 10SM CLR 03/M01 A3009 RMK AO2 SLP180 T00331011 KVCV 251655Z AUTO 28013KT 10SM CLR 14/03 A3009 RMK AO2 RJAF 250700Z 35007KT 320V020 9999 FEW060 SCT070 08/M07 Q1014 KTWF 251653Z 24011KT 10SM CLR 06/02 A3006 RMK AO2 SLP166 T00610017 MDCY 251700Z 02015KT 9999 SCT016 SCT070 26/23 Q1013 RERA RJAH 251700Z 01004KT 9999 FEW030 BKN050 03/M01 Q1020 KTVR 251708Z AUTO 21008G17KT 170V260 10SM TS BKN031 BKN039 BKN048 23/17 A2996 RMK AO2 LTG DSNT N AND NE TSB02 T02280172 KUNI 251655Z AUTO 26007KT 10SM SCT060 BKN075 22/10 A3016 RMK AO2 T02240099 RJBB 251700Z AUTO 06008KT 9999 NCD 08/03 Q1017 NOSIG KX60 251655Z AUTO 11006KT 9SM FEW037 FEW046 FEW055 27/15 A3025 RMK A01 RJBD 251000Z 31003KT 290V350 9999 -RA FEW025 BKN035 BKN050 09/05 Q1018 KVEL 251653Z AUTO 00000KT 10SM CLR 11/M01 A3000 RMK AO2 SLP135 T01061006 RJBE 251200Z 27009KT CAVOK 08/01 Q1018 KTWM 251654Z AUTO 07014G21KT 10SM BKN012 BKN017 OVC027 02/M01 A3026 RMK AO2 SABE 251700Z 09007KT 060V120 9999 FEW020 SCT030 25/21 Q1015 KUNO 251700Z AUTO 16010G17KT 10SM BKN014 BKN026 OVC080 16/13 A2982 RMK AO2 T01610133 SAAR 251700Z 07010KT 9999 SCT035 30/19 Q1013 KVER 251655Z AUTO 12006KT 10SM OVC013 15/15 A2983 RMK AO2 T01460147 RJCB 251100Z 00000KT 9999 FEW040 SCT070 01/M07 Q1018 KVES 251655Z AUTO 20008G15KT 10SM CLR 19/11 A3009 RMK AO2 RJCC 251700Z VRB01KT 9999 FEW030 M04/M04 Q1020 RMK 1SC030 A3014 KTXK 251653Z 26010G16KT 10SM BKN030 OVC036 17/11 A2998 RMK AO2 SLP150 T01720106 EYKA 251650Z VRB04KT 9999 -RA SCT007 BKN017 OVC032 02/00 Q1014 R08/29//95 KUNU 251655Z AUTO 05015KT 7SM OVC004 03/02 A3012 RMK AO2 T00260020 RJAW 251500Z 10010KT 9999 BKN015 BKN030 20/18 Q1014 RMK 5CU015 7CU030 A2995 KUNV 251653Z 25008KT 10SM BKN042 BKN047 OVC060 19/11 A3015 RJCH 251100Z 30004KT 9999 FEW040 SCT080 03/M05 Q1020 RJBT 250900Z 36006KT 9999 FEW040 SCT/// 06/M01 Q1018 RJCK 251100Z VRB02KT 9999 FEW020 BKN045 01/M04 Q1019 RJDC 251200Z 10006KT 9999 FEW030 SCT090 BKN/// 09/03 Q1018 RJCM 251100Z 18004KT 9999 FEW020 SCT050 M02/M06 Q1020 LLOV 251450Z 03010KT CAVOK 22/M01 Q1014 RMK FEW070 RJCN 250900Z VRB02KT 9999 FEW030 01/M07 Q1017 RJCO 250017Z 34010KT 5000 -SHSN FEW005 SCT020 BKN050 01/00 Q1019 RMK 1ST005 3CU020 7CU050 A3011 SADF 251700Z 09007KT 9999 FEW035 27/20 Q1015 SACO 251700Z 05011KT 9999 BKN020TCU 29/18 Q1013 KUOX 251655Z AUTO 15012G19KT 010V020 10SM BKN014 15/13 A3003 RMK AO2 KTYQ 251655Z AUTO 19012G15KT 10SM CLR 20/12 A3003 RMK AO2 T01980115 FQCH 251700Z 15010KT 9999 SCT015 FEW020CB 24/22 Q1017 RMK CB TO SE KTYR 251653Z VRB04KT 10SM CLR 17/09 A3002 RMK AO2 SLP162 T01720094 RJEB 250700Z 32010KT 9999 FEW030 02/M06 Q1018 KTYS 251653Z 19010G20KT 10SM SCT040 SCT120 BKN250 21/09 A3020 RMK AO2 SLP219 T02060094 FQBR 251600Z /////KT 9999 SCT018 FEW030TCU BKN/// 29/25 Q1011 RJEC 251100Z 30003KT 9999 FEW020 SCT060 M00/M05 Q1019 KVGT 251653Z AUTO 34021G32KT 10SM CLR 17/03 A2998 RMK AO2 PK WND 33032/1642 SLP156 T01670033 RJCW 250900Z 25006KT 9999 FEW050 01/M05 Q1019 SADP 251037Z 00000KT 9000 FEW030 18/17 Q1016 KVIH 251653Z AUTO 11007KT 5SM RA BR FEW011 BKN016 OVC040 14/13 A2982 RMK AO2 RAE19B23 SLP094 P0015 T01390133 $ KTZR 251650Z 23012G18KT 10SM SKC 22/12 A3015 RJDT 251100Z 06004KT 350V120 9999 FEW030 SCT070 BKN080 10/02 Q1017 MDJB 251700Z 02013KT 9999 FEW020 31/21 Q1013 LLSD 251650Z 34008KT CAVOK 17/12 Q1016 RJFF 251700Z AUTO 05002KT 9999 NSC 09/M00 Q1016 RMK A3002 KUSE 251655Z AUTO 06017KT 7SM SCT065 BKN080 BKN090 11/07 A3015 RMK AO2 RJFG 250900Z 03008KT 340V090 4000 -SHRA BR FEW001 SCT003 BKN005 11/11 Q1014 KVJI 251655Z AUTO 29004KT 10SM CLR 20/08 A3024 RMK AO2 T02040083 RJFK 251200Z 00000KT 9999 FEW002 SCT015 BKN080 09/09 Q1016 RMK 1ST002 3CU015 6AC080 A3002 KUTA 251655Z AUTO 16017G22KT 10SM BKN022 BKN028 17/14 A2995 RMK AO2 TSNO KVIS 251701Z AUTO 28003KT 3SM -RA BR BKN007 BKN018 OVC026 12/11 A3015 RMK AO2 CIG 004V010 P0000 KY19 251655Z AUTO 16016G21KT 10SM BKN006 02/02 A3003 RMK AO2 RJFM 251200Z 31006KT 5000 -SHRA BR FEW005 SCT007 BKN015 09/09 Q1017 KWAL 251654Z AUTO 26012G20KT 10SM CLR 21/11 A3021 RMK AO2 SLP228 T02110111 RJFO 251300Z VRB01KT 9999 FEW030 BKN050 07/04 Q1018 KY23 251655Z AUTO 05007KT 10SM OVC016 03/00 A3020 RMK AO2 T00261005 RJGG 251700Z 03007KT 7000 -RA FEW015 BKN035 BKN050 08/05 Q1017 NOSIG SAEZ 251700Z 06014G24KT 9999 FEW043 SCT050TCU 28/17 Q1015 RJFR 251700Z VRB02KT 9999 FEW030 SCT080 BKN100 09/03 Q1016 RJFS 251700Z 01005KT 9999 FEW040 SCT060 BKN080 09/04 Q1016 RJFT 251200Z 06003KT 9999 FEW025 SCT030 BKN040 09/06 Q1016 RJFU 251200Z 14003KT 9999 FEW050 BKN070 11/06 Q1017 EYPA 251650Z 34007KT 300V020 CAVOK 03/00 Q1018 R01/0///95 KY31 251654Z AUTO 05010G17KT 10SM OVC006 02/00 A3028 RMK AO2 T00150001 KVLD 251653Z 13008KT 10SM SCT041 BKN055 24/13 A3025 RMK AO2 SLP251 T02440128 RJFY 250305Z 07006KT 5000 -RA BR FEW003 SCT020 BKN045 10/09 Q1017 RMK 1ST003 3SC020 6SC045 A3005 VIS VRB KUTS 251653Z AUTO 27007KT 10SM CLR 20/08 A3004 RMK AO2 SLP170 T02000083 $ KUVA 251655Z AUTO 00000KT 10SM CLR 23/06 A3011 RMK AO2 T02250061 KVKS 251655Z AUTO 20015G22KT 10SM FEW037 FEW047 24/18 A2996 RMK A01 KVLL 251654Z AUTO 05011KT 3SM -RA OVC006 05/04 A3024 RMK AO2 T00540041 GGOV 251700Z 25009KT 220V280 CAVOK 30/17 Q1008 NOSIG KVKY 251655Z AUTO 00000KT 10SM CLR 24/20 A3014 RMK A01 KWDG 251655Z 31014G18KT 10SM OVC020 10/06 A2999 SBAA 242000Z 05006KT 9999 SCT030 35/23 Q1008 MDLR 251700Z 32010KT 9999 BKN020 28/22 Q1013 KY50 251656Z AUTO 06014G22KT 10SM OVC007 03/01 A3017 RMK AO2 SLP243 T00280011 KY49 251655Z AUTO 10006KT 10SM OVC021 02/M02 A3019 RMK AO2 T00171025 KVNC 251655Z AUTO 05006KT 10SM SCT039 27/16 A3022 RMK AO2 LMML 251645Z 15011KT 9999 BKN010 16/14 Q1019 NOSIG KUUU 251706Z AUTO 01009KT 10SM BKN029 OVC050 08/03 A3020 RMK AO2 T00830033 KY51 251655Z AUTO 06015KT 4SM OVC004 02/02 A3008 RMK AO1 T00230022 SBAF 251600Z 20010KT 9999 FEW025 29/23 Q1012 RJKA 251000Z 01018KT 9999 -SHRA FEW009 BKN015 BKN025 17/15 Q1012 KWDR 251417Z AUTO 15003KT 10SM SCT028 SCT035 18/13 A3034 RMK AO1 KVOA 251655Z AUTO 14014G24KT 110V170 5SM HZ BKN016 OVC022 24/20 A3015 RMK A01 EYSA 251650Z 36008KT 330V030 8000 -SNRA OVC003 00/00 Q1015 R32R/29//95 R32L/29//95 YLO2 TEMPO BKN005 OVC008 YLO1 SBAN 251600Z 32004KT 9999 BKN030 FEW040TCU 27/19 Q1019 SBBE 251700Z 04005KT 9999 VCSH BKN020 FEW025TCU 26/24 Q1010 KY63 251654Z AUTO 11008KT 10SM OVC012 01/M01 A3017 RMK AO2 T00101012 SBBG 242000Z 15002KT 9999 SCT030 27/18 Q1013 FQIN 251300Z 24008KT 9999 SCT020 30/21 Q1013 SBAQ 250200Z 00000KT CAVOK 23/19 Q1016 SBBH 251600Z 26005KT 9999 SCT035 29/14 Q1015 SBBI 251600Z 22005KT 9999 BKN040 27/15 Q1018 SBAR 251700Z 09013KT 9999 SCT020 29/23 Q1011 SBCA 251600Z 30010KT 9999 SCT040 SCT080 30/16 Q1017 SBAT 251600Z 03002KT 9999 SCT020 33/24 Q1014 SBCB 251700Z 24010KT 9999 FEW025 31/22 Q1012 SBAU 242300Z 18006KT CAVOK ///// Q1013 SBCC 251600Z 25006KT 9999 SCT013 BKN020 BKN100 27/22 Q1014 KVOK 251658Z 06008G18KT 10SM OVC008 03/01 A3013 RMK AO2A SLP215 KY70 251656Z AUTO 04016G20KT 3SM UP OVC006 03/02 A3016 RMK AO2 P0003 T00290023 KVPC 251653Z AUTO 18012G18KT 10SM FEW045 23/11 A3021 RMK AO2 SLP219 T02280111 MDPC 251700Z 12010KT 9999 BKN018 SCT080 27/23 Q1013 TEMPO 6000 -RA KUXL 251655Z AUTO 20010G19KT 10SM -TSRA SCT095 BKN110 18/15 A3005 RMK AO2 LTG DSNT SE THRU NW T01770150 SBAX 242200Z 27002KT 9999 SCT025 ///// Q1017 SBCF 251700Z 27005KT 9999 SCT040 29/14 Q1015 SBCG 251700Z 28004KT 220V360 9999 VCSH BKN045 FEW050TCU 31/20 Q 1013 KUYF 251655Z AUTO 22012G19KT 10SM CLR 22/12 A3013 RMK AO2 SBBQ 251600Z 29006KT 210V330 9999 SCT040 28/15 Q1019 SBCH 251500Z 12010KT 9999 FEW020 27/19 Q1017 KVNY 251651Z 13003KT 10SM CLR 16/11 A3011 RMK AO2 SLP192 T01560106 SBCI 242000Z 01008KT 9999 TS SCT020 FEW023CB BKN100 24/22 Q1009 RERA SBBR 251700Z VRB04KT 9999 SCT040 FEW045TCU SCT080 29/15 Q1017 SBCJ 251700Z 04002KT 9999 SCT027 29/21 Q1014 SBBT 251600Z AUTO 31003KT 250V360 CAVOK 27/22 Q1014 KUZA 251654Z AUTO 24008KT 10SM BKN036 BKN050 21/12 A3030 RMK AO2 SLP255 T02110117 SBBU 251600Z 21007KT 9999 SCT045 31/19 Q1015 SBCM 251500Z 18010KT 9999 BKN020 28/22 Q1016 FPST 251600Z 32008KT 9999 FEW020CB SCT040 30/25 Q1009 NOSIG SBBV 251700Z 12008KT 9999 SCT030 33/21 Q1011 SBBW 242100Z 05002KT 9999 SCT020 SCT080 BKN100 30/23 Q1011 FQLC 251700Z 20003KT 9999 SCT020 FEW025CB 20/18 Q1019 RMK DIST LIT TO SW/W SAME 251700Z 14005KT 050V180 9999 SCT040 FEW050TCU FEW056CB 26/16 Q1010 SBCO 251500Z /////KT 9999 BKN025 ///// Q1017 SBCP 251700Z 02002KT CAVOK 34/22 Q1010 MDPP 251700Z 00000KT 9999 FEW020 SCT070 28/22 Q1014 SBCR 251700Z 36005KT 9999 FEW020 33/23 Q1010 KVPS 251655Z 14014KT 10SM BKN017 BKN060 BKN200 22/17 A3020 RMK AO2A BKN017 V SCT SLP233 T02230171 $ SBCT 251700Z 20010KT 9999 SCT040 BKN100 26/11 Q1017 FQMA 251700Z 19013KT 9999 SCT015 BKN025 23/18 Q1019 KVRB 251653Z AUTO 11012KT 10SM CLR 26/13 A3024 RMK AO2 SLP238 T02610133 SANE 251130Z 05006KT 8000 RA OVC010 22/18 Q1011 SBDN 251600Z 02003KT CAVOK 34/15 Q1013 SBCX 251400Z 21004KT 9999 SCT015 20/17 Q1019 RJNG 251548Z 13003KT 9999 -RA FEW020 SCT030 BKN040 08/03 Q1017 RMK 1SC020 3SC030 7SC040 A3006 SBCY 251700Z 27003KT 9999 SCT020 FEW030TCU 32/22 Q1011 SBEG 251700Z 01002KT 9999 BKN018 BKN100 26/23 Q1013 KWHP 242353Z 21006KT 10SM SKC 20/06 A3018 SBCZ 251700Z 33003KT 9999 BKN030 BKN100 30/24 Q1013 KVQQ 251650Z 14006KT 10SM BKN043 BKN070 24/14 A3027 KVPZ 251656Z AUTO 09010KT 5SM BR FEW036 BKN100 16/14 A3002 RMK AO2 RAE12 SLP166 P0000 T01560139 RJOA 251200Z VRB02KT 9999 FEW030 SCT100 BKN/// 05/M01 Q1017 SBEK 242100Z 00000KT CAVOK 32/25 Q1008 RJOB 251200Z 05002KT 9999 FEW030 BKN110 05/M02 Q1017 RJNK 251700Z VRB01KT 9999 FEW050 02/M02 Q1018 EYVI 251654Z 09002KT 4700 -RASN BR OVC003 00/M00 Q1013 R01/2///95 TEMPO 3000 RASN BR RJOC 251100Z 10008KT CAVOK 07/M00 Q1019 SAOC 251700Z 36024KT 9999 SCT030 29/16 Q1012 KVQT 251655Z AUTO 00000G10KT 5SM HZ CLR 24/21 A3007 RMK A01 MDSD 251700Z 35008KT 9999 30/23 BKN020 Q1013 RJOF 250627Z 13010KT 9999 FEW030 BKN120 BKN230 11/M02 Q1017 RMK 1CU030 5AC120 A3006 KVSF 251654Z AUTO 00000KT 1/2SM SN FG BKN006 OVC015 01/M01 A3030 RMK AO2 SLP268 P0004 T00061006 KWJF 251656Z 23012KT 10SM CLR 15/06 A3010 RMK AO2 SLP188 T01500061 RJOH 251700Z 18004KT 9999 FEW050 02/M01 Q1018 SBFI 251700Z 16004KT 9999 FEW040 31/21 Q1013 RJOI 251655Z 30005KT 9999 FEW030 SCT090 BKN120 07/03 A3004 RMK SLP171 T00670028 SBES 251600Z 22013KT 9999 SCT020 FEW030TCU 30/21 Q1012 RJNS 251200Z VRB02KT 9999 -SHRA FEW015 SCT035 BKN045 07/07 Q1019 RJNT 251200Z 21004KT 9999 FEW040 SCT/// 04/00 Q1020 RJOK 251100Z 36003KT 9000 -RA FEW005 SCT035 BKN050 08/06 Q1018 KVTA 251654Z AUTO 25014KT 10SM FEW070 21/11 A3014 RMK AO2 SLP203 T02110106 SANT 251700Z 23004KT 9000 BKN030 29/21 Q1010 SBFL 251700Z 18012KT 9999 SCT030 27/20 Q1014 SANU 251600Z 18006KT 9999 FEW045 30/15 Q1010 RJOM 251200Z 06005KT 9999 FEW025 BKN050 08/03 Q1018 SBFN 251700Z 12012KT 9999 SCT017 30/25 Q1010 RJNW 251000Z 05004KT 9999 FEW040 SCT160 BKN/// 03/M03 Q1020 LOAN 251700Z 03002KT 40KM SCT140AC BKN300CI RJOO 251100Z 32005KT CAVOK 10/M03 Q1018 RJNY 251128Z 04002KT 9999 -SHRA FEW015 BKN045 BKN080 08/06 Q1019 RMK 1CU015 6SC045 6AC080 A3012 RJOR 251200Z 15003KT CAVOK 05/01 Q1019 FQNP 251700Z 04004KT 120V360 9000 RA SCT010 BKN020 FEW025CB BKN100 22/22 Q1014 RMK CB TO N/S SBFS 241900Z /////KT 9999 FEW030 ///// Q//// KVTI 251655Z AUTO 04015G20KT 5SM -RA OVC007 05/03 A2996 RMK AO2 RJOT 251200Z 15002KT 9999 FEW030 SCT060 BKN070 07/00 Q1018 VYMD 251330Z 34012G24KT 6000 NSC 29/14 Q1008 SBGL 251700Z 21014KT 9999 SCT047 30/20 Q1011 MDST 251700Z 01008KT 330V040 9999 SCT020 29/15 Q1014 SBGM 251600Z 35006KT 9999 SCT030 32/23 Q1014 FQPB 251700Z VRB02KT 9999 TS SCT020 FEW025CB BKN/// 28/25 Q1012 RMK DIST. LIT CB TO SW/W/NW/N LOAV 251700Z 04005KT 25KM FEW120AC BKN300CI 12/M03 RJOW 251000Z 04005KT 350V130 9999 FEW030 SCT050 BKN100 10/03 Q1018 KWLD 251654Z AUTO 31011KT 10SM OVC014 08/06 A2996 RMK AO2 SLP144 T00780056 KVTN 251652Z AUTO 00000KT 10SM CLR 08/M02 A3003 RMK AO2 SLP188 T00831022 SBGO 251700Z 01012KT 330V030 9999 BKN030 FEW035TCU SCT100 26/18 Q1015 RJOY 251000Z 25007KT 9999 FEW035 BKN120 BKN140 11/M03 Q1018 SBFZ 251700Z 08011KT 9999 SCT017 FEW025TCU 31/24 Q1009 KXBP 251655Z AUTO 31006KT 10SM CLR 16/07 A3007 RMK AO2 T01580066 SBGR 251700Z 19007KT 2500 +RA BKN040 FEW045TCU BKN080 20/18 Q10 17 KVUJ 251700Z AUTO 24006KT 10SM SCT040 OVC050 20/11 A3035 RMK AO2 T02040112 SBIC 242100Z 00000KT 9999 FEW020 29/25 Q1007 SARC 251700Z 05010KT 9999 FEW030 SCT040 BKN200 31/22 Q1011 KWMC 251656Z AUTO 28005KT 10SM CLR 07/02 A3009 RMK AO2 SLP186 T00720017 TSNO SBGW 251600Z 26003KT 180V320 9999 SCT030 FEW033TCU 29/20 Q1014 SARE 251700Z 05008KT 9999 SCT040 FEW056CB BKN100 BKN200 30/22 Q1011 SARF 251700Z 14002KT 9999 SCT030 FEW050CB 27/23 Q1011 KVUO 251653Z AUTO 19006KT 10SM FEW017 SCT023 BKN070 09/06 A3015 RMK AO2 SLP211 T00890061 SBIH 251600Z 11006KT 9999 SCT015 SCT080 29/24 Q1012 KVVG 251650Z AUTO 10SM 26/17 A3016 RMK A01 SARI 251700Z 18004KT CAVOK 31/22 Q1014 RJSA 251200Z 19006KT 9999 FEW020 SCT060 00/M03 Q1020 SASA 251700Z 05005KT 9999 SCT022TCU SCT035 24/18 Q1014 SBHT 251600Z 35003KT 6000 -RA SCT012 BKN015 BKN100 26/25 Q1012 RKJB 251700Z AUTO 09003KT 4100 BR NCD 03/02 Q1020 SBIL 251500Z 07005KT 9999 FEW025 30/23 Q1013 RJSC 251000Z 05006KT 010V080 9999 FEW050 03/M05 Q1021 SARL 251600Z 09010KT 6000 FEW024 SCT028TCU BKN200 30/19 Q1013 FQQL 251700Z 00000KT 9999 BKN015 FEW025CB 27/24 Q1011 RMK DIST LIT TO N/W SBJF 251600Z 21007KT 9999 VCSH SCT020 FEW025TCU 26/22 Q1016 RJSF 251100Z 11006KT 080V140 9999 FEW025 02/M04 Q1020 SBIP 251600Z 11006KT 9999 SCT025 31/18 Q1012 SARP 251700Z 05006KT 9999 FEW025 33/21 Q1013 RJSH 250429Z 29008KT 240V330 9999 FEW035 BKN060 06/M05 Q1019 RMK 2CU035 6SC060 A3009 RJSI 251000Z 33004KT 290V360 9999 FEW030 SCT040 03/M04 Q1021 SASJ 251700Z 05008KT 9999 SCT020 23/22 Q1012 SCBA 251700Z VRB02KT CAVOK 17/01 Q1014 RKJK 251658Z AUTO 32005KT 10SM BKN055 OVC080 06/01 A3011 RMK AO2 SLP201 T00590005 VISNO RWY18 CHINO RWY18 $ RJSK 251200Z VRB02KT 9999 FEW045 01/M02 Q1022 HAAB 251700Z 06004KT 9999 FEW024 CB BKN025 16/13 Q1025 KVVV 251654Z AUTO 14007KT 10SM OVC011 02/M01 A3016 RMK AO2 RJSN 251200Z 03010KT 9999 FEW070 SCT/// 06/M01 Q1021 RJTF 250700Z 16006KT 120V240 9999 FEW030 BKN/// 11/M07 Q1018 SBKG 251600Z 11013KT 9999 SCT040 31/18 Q1012 SBJP 251700Z 08010KT 9999 BKN030 31/22 Q1010 SCAP 251700Z AUTO /////KT ///V/// 5000 // NSC 18/09 Q1018 SBIZ 251500Z 24005KT 9999 BKN015 BKN100 33/26 Q1012 SBJR 251600Z 21008KT 9999 FEW020 29/23 Q1012 RJTI 250700Z 12015KT 9999 FEW030 BKN/// 11/M01 Q1019 RJSR 251000Z 21005KT 9999 FEW015 SCT060 02/M03 Q1021 SCAR 251700Z 21010KT CAVOK 25/13 Q1014 SCAS 241900Z 24011KT CAVOK 17/10 Q1012 RJSS 251200Z 28003KT 250V320 9999 FEW030 BKN060 04/M06 Q1022 SBLB 251600Z /////KT 9999 FEW025 31/22 Q1012 W///S2 SCAT 251700Z 27007KT 200V340 CAVOK 22/12 Q1018 SCCC 241900Z 36007KT CAVOK 18/01 Q1011 SBJU 251500Z 11009KT 9999 FEW022 30/23 Q1015 SBJV 251500Z 08006KT 9999 FEW025 28/21 Q1014 KVWU 251650Z AUTO 13013G20KT 10SM BKN027 BKN055 OVC070 04/M02 A3021 RMK AO2 SBLE 242100Z 10003KT CAVOK 31/17 Q1013 RJTO 250800Z 10006KT 9999 FEW030 SCT050 BKN070 10/01 Q1019 SCCF 251700Z 28013KT 9999 FEW060 22/05 Q1026 RJSY 251200Z 13004KT 9999 FEW040 00/M04 Q1022 SBKP 251700Z 25008KT 9999 SCT040 30/// Q1015 SCCH 251700Z 02008KT 9999 BKN030 22/10 Q1015 RJTR 251705Z AUTO 34006KT 3SM -RA FEW018 SCT030 OVC037 06/01 A3011 RMK AO2 RAE1658RAB1659 SCCI 251700Z 13008KT CAVOK 10/02 Q1019 NOSIG SCDA 251700Z 19014KT CAVOK 24/15 Q1015 SBMA 251700Z 04004KT 9999 BKN023 FEW024TCU 36/24 Q1010 RJTT 251700Z 02008KT 9999 -RA FEW030 BKN040 08/01 Q1019 NOSIG RMK 1CU030 7SC040 A3011 SAVC 251700Z 18010KT CAVOK 17/13 Q1014 SBMD 242000Z 00000KT 9999 FEW025 BKN100 30/26 Q1009 SBME 251600Z 13009KT 9999 FEW020 33/24 Q1011 SBLO 251700Z 08001KT CAVOK 32/19 Q1014 SBLP 241900Z 00000KT 9999 FEW030 37/16 Q1009 SBMG 251600Z 24005KT 9999 SCT030 31/18 Q1014 RJTY 251700Z AUTO VRB04KT 10SM -DZ FEW035 06/00 A3017 RMK AO2 DZB00 SBLS 251600Z VRB04KT 9999 FEW030 30/15 Q1016 SBMK 251600Z VRB04KT 9999 SCT045 32/12 Q1014 KVYS 251655Z AUTO 08016G19KT 5SM BR OVC004 09/08 A2997 RMK AO2 T00940084 SBML 242300Z 16004KT CAVOK 27/17 Q1014 KWRB 251658Z AUTO 20008KT 10SM FEW044 BKN055 23/12 A3025 RMK AO2 SLP245 T02330122 FQTT 251700Z 00000KT 9999 BKN020 25/23 Q1013 SBMN 251700Z 07005KT 9999 -RA BKN010 BKN090 26/23 Q1013 SAWE 251700Z 09005KT 9999 FEW015 12/09 Q1019 SBNF 251700Z 12010G20KT 9999 SCT025 27/22 Q1014 SBMO 251700Z 12013KT 9999 SCT030 31/21 Q1011 SCCY 251700Z 22005KT 180V290 CAVOK 14/08 Q1013 SAWG 251700Z 14010KT 9999 SCT030 13/04 Q1017 SBMQ 251700Z 06007KT 9999 -RA SCT022 FEW025TCU BKN100 33/25 Q10 10 SAWH 251700Z 23010KT CAVOK 10/M00 Q1018 KXIH 251655Z AUTO 25014KT 5SM HZ CLR 25/21 A3002 RMK A01 SBMS 251500Z 06005KT 9999 BKN020 34/23 Q1010 KWRI 251658Z AUTO 31007KT 10SM SCT130 22/10 A3013 RMK AO2 SLP203 T02200103 SCFA 251700Z 18011KT CAVOK 22/14 Q1015 NOSIG SBMT 251600Z 22006KT 9999 SCT040 27/18 Q1016 SCEL 251700Z 22005KT 180V290 7000 NSC 22/11 Q1015 NOSIG SAVV 241940Z 14016KT 9999 TS FEW040CB SCT100 29/17 Q1009 KWRL 251653Z AUTO 03004KT 10SM OVC085 07/03 A2994 RMK AO2 SLP136 T00720028 $ SBMY 242100Z 27007KT 9999 TS SCT025CB SCT090 28/26 Q1008 SAVY 251135Z 09006KT 9999 BR BKN006 17/17 Q1010 SBOI 251700Z 32003KT 5000 -RA BKN025 FEW030TCU 29/23 Q1011 SBPA 251700Z 13007KT 9999 VCSH BKN030 FEW040TCU 24/21 Q1016 SBPB 251700Z 05007KT 9999 SCT020 SCT100 30/25 Q1009 SBNT 251700Z 11013KT 9999 BKN025 30/23 Q1010 SBPC 251600Z 30008KT 9999 SCT020 29/19 Q1019 RKPC 251700Z 18004KT 9999 SCT030 07/03 Q1020 NOSIG SCFM 251700Z 18005KT 9999 FEW030 11/01 Q1020 SCGE 251700Z 30008KT 9999 SCT030 BKN070 14/11 Q1014 SBPF 251500Z 19002KT 9999 FEW030 25/18 Q1018 RKNY 251700Z AUTO 20005KT 2900 BR ///048 04/03 Q1018 SBPJ 251600Z 34005KT 9999 SCT025 FEW027TCU 30/25 Q1012 SBPK 251700Z 11012KT 9999 SCT025 28/20 Q1017 LPBJ 251700Z 24012KT 9999 SCT030 14/04 Q1012 RKPK 251700Z 33003KT 9000 NSC 06/04 Q1019 NOSIG SCFT 251700Z AUTO 32003KT 270V010 //// SKC 17/09 Q1012 MGCB 251700Z 09006KT 9999 FEW018 25/14 QFE872.5 KWST 251653Z AUTO 36005KT 10SM FEW037 SCT048 BKN055 12/04 A3020 RMK AO2 SLP228 T01220039 SBPL 251700Z 15006KT 9999 FEW025 35/17 Q1011 SBPP 251700Z 28004KT 9999 BKN020 31/21 Q1014 SBPR 251600Z 33005KT 9999 SCT025 30/16 Q1016 LPAZ 251700Z 31021KT 9999 SCT015 BKN034 16/11 Q1018 SBPS 251700Z 08014KT 9999 FEW020 29/23 Q1011 SBRB 251700Z 11004KT 9999 SCT025 FEW030TCU 30/23 Q1013 SCIC 251700Z VRB07KT 9999 BKN040 25/12 Q1014 SAZM 251700Z 07014KT 9999 SCT008 FEW025TCU 23/20 Q1018 SBPV 251700Z 02003KT 9999 VCSH SCT025 FEW030TCU SCT100 30/23 Q1 012 KXLL 251655Z AUTO 00000KT 10SM -RA SCT060 SCT075 SCT100 18/08 A3017 RMK AO2 SAZN 251700Z 05010KT CAVOK 29/14 Q1009 SCIE 251700Z 01011KT 340V040 9999 SCT030 BKN040 18/14 Q1015 SBRF 251700Z 13010KT 090V180 9999 SCT025 30/25 Q1010 SCGZ 251600Z 27013KT 9999 FEW046 10/02 Q1018 SCHR 241800Z 30009KT CAVOK 17/06 Q1009 KWVI 251707Z AUTO 20005KT 10SM SCT010 BKN016 14/13 A3017 RMK AO2 T01440133 SBRJ 251700Z 18013KT 9999 FEW025 SCT100 30/22 Q1011 SAZS 251700Z 32012KT 9999 FU FEW035 SCT200 18/08 Q1013 LPCS 251700Z 24012KT 200V260 9999 SCT028 13/07 Q1011 KXNA 251704Z 27010KT 10SM OVC005 09/09 A2988 RMK AO2 T00940089 SBSC 251600Z 21012KT 9999 FEW015 28/23 Q1013 FSIA 251700Z 05003KT 9999 FEW019 28/24 Q1011 NOSIG SBQV 251600Z 04005KT 9999 SCT035 29/14 Q1017 KWVL 251656Z AUTO 01010KT 10SM BKN035 04/M04 A3020 RMK AO2 SLP265 T00441039 KWWD 251656Z AUTO 27008KT 10SM CLR 21/11 A3017 RMK AO2 SLP219 T02110106 $ RKSG 251658Z 00000KT 4SM BR CLR 03/00 A3011 RMK AO2A SLP200 T00291004 $ SBSG 251700Z 15014KT 120V180 9999 VCSH BKN020 31/24 Q1010 SBRP 251700Z 28006KT 9999 BKN045 33/17 Q1013 SCIP 251700Z 13013KT 9999 SCT020 26/20 Q1024 NOSIG SCIR 251700Z 32017KT 9999 FEW026 SCT120 21/13 Q1015 RKSI 251700Z 23003KT 210V360 5000 BR FEW010 SCT070 04/03 Q1019 NOSIG SBTA 251600Z 22011KT 9999 FEW030 30/18 Q1014 SBSJ 251700Z 19014KT 9999 SCT020 29/18 Q1015 KXMR 251658Z AUTO 12013KT 10SM CLR 26/15 A3025 RMK AO2 DZB25E30 SLP247 P0000 T02640148 $ SBTC 251500Z 06005KT CAVOK 30/24 Q1013 SBSL 251700Z 01009KT 9999 BKN020 FEW027TCU 29/25 Q1009 SBSM 251600Z 11010KT 9999 BKN020 26/20 Q1016 RKSM 251600Z 20001KT 9999 BKN060 06/M04 A3012 RMK CIG060 SLP199 8/500 9/600 SBSN 251700Z 09008KT 9999 SCT017 BKN100 29/25 Q1011 SBTE 251700Z 12004KT 9999 BKN040 32/23 Q1009 SCJO 251700Z 01006KT 8000 SCT025 BKN040 19/11 Q1012 SBTF 251700Z 28004KT 9999 SCT018 FEW025TCU SCT090 31/24 Q1012 RKSO 251655Z 00000KT 7SM SCT060 01/M04 A3012 RMK AO2A SLPNO WND DATA ESTMD ALSTG ESTMD $ KXNO 251658Z AUTO 16007KT 10SM FEW055 22/10 A3030 RMK AO2 SLP262 T02240102 $ SBSP 251700Z 18009KT 140V220 9999 FEW030 SCT060 26/18 Q1017 SBSR 251600Z 30005KT 9999 SCT035 33/17 Q1016 SBUA 251500Z 12003KT 9999 SCT025 SCT090 31/25 Q1013 RKSS 251700Z 31001KT CAVOK 03/M03 Q1019 NOSIG KWWR 251655Z AUTO 32013G19KT 10SM OVC027 11/02 A3004 RMK AO2 SBTK 242200Z 17004KT 9999 FEW030 FEW033TCU SCT100 30/24 Q1009 SBST 251600Z 23007KT 9999 SCT040 28/22 Q1014 MGES 251700Z 00000KT 9999 SCT020 26/13 QFE911.4 HBBA 251600Z 09008KT 9999 FEW024TCU BKN300 24/20 Q1013 NOSIG KXNT 251655Z AUTO VRB04G12KT 2 1/2SM BR BKN007 BKN016 02/02 A3027 RMK AO2 LPFL 251700Z 18008KT 9999 VCSH SCT015 FEW016TCU SCT049 16/13 Q1018 SBSV 251700Z 10012KT 9999 SCT020 30/23 Q1011 RKTN 251700Z 05001KT 6000 -RA BKN015 OVC025 05/04 Q1019 NOSIG SBUF 251500Z 11008KT 9999 SCT021 34/18 Q1012 RKTP 250600Z 24008KT 9999 BKN050 BKN100 11/M03 A3009 SBUG 251700Z 10008KT 9999 FEW023 31/19 Q1013 SBSY 251600Z AUTO VRB03KT CAVOK 31/16 Q1015 LPFR 251700Z 25010KT 9999 FEW025 15/09 Q1013 SBTT 251700Z 32004KT 9999 SCT015 BKN080 27/23 Q1013 SBTU 242100Z 09002KT 9999 FEW020 FEW022TCU SCT080 ///// Q1010 SBUL 251600Z 33006KT 9999 SCT030 29/17 Q1017 RKTU 251700Z 32001KT 8000 NSC 05/03 Q1019 NOSIG VYYY 251700Z 23004KT 7000 NSC 28/20 Q1012 SBVH 251600Z 16004KT 110V210 9999 VCSH SCT020 FEW025TCU SCT100 29/21 Q1016 SBUR 251600Z 26004KT 9999 BKN045 31/16 Q1016 SCMK 251600Z 05009KT 9999 OVC020 15/11 Q1011 KWYS 251650Z AUTO 23004KT 1SM -SN BKN004 OVC018 00/00 A3002 RMK AO2 P0003 MGGT 251700Z 18004KT 9999 FEW020 23/11 Q1027 A3033 KXPY 251655Z AUTO 17014KT 8SM CLR 25/21 A3007 RMK A01 YABA 251700Z AUTO 31010KT 9999 // NCD 15/14 Q1004 LPHR 251700Z 28010KT 250V310 9999 SCT016 18/11 Q1019 KXSA 251655Z AUTO 22011G16KT 10SM CLR 24/02 A3020 RMK AO2 T02400022 SBVT 251700Z 15012KT CAVOK 30/23 Q1011 MGHT 251700Z 00000KT 9000 SKC 25/08 QFE819.8 HZ WSAP 251500Z 04002KT 9999 FEW018 BKN300 27/24 Q1011 KYIP 251653Z 07009KT 7SM OVC007 07/06 A3022 RMK AO2 RAB1554E09 SLP235 P0000 T00720056 SCNT 241900Z 20003KT 170V240 CAVOK 13/05 Q1009 MHAM 251700Z 23006KT 9999 SKC 31/22 SCON 251700Z AUTO 36004KT 330V030 7000 ///009 15/13 Q1012 LPLA 251700Z 31015KT 9999 FEW025 18/13 Q1019 MHCA 251700Z 36002KT 9999 SCT028 29/17 LQBK 251700Z 34002KT CAVOK 14/06 Q1021 NOSIG KYKM 251653Z 07004KT 10SM CLR 09/03 A3006 RMK AO2 SLP184 T00940028 KYKN 251655Z AUTO 04009KT 10SM OVC006 03/01 A3008 RMK AO1 SCPQ 251700Z VRB02KT 9999 SCT009 OVC040 14/12 Q1012 MHCH 251700Z 02008KT 9999 FEW034 34/17 HZ SBYS 251600Z 31003KT 9999 BKN045 31/16 Q1015 LPMA 251700Z 04006KT 9999 SCT016 16/07 Q1016 SCRD 251700Z 30013KT 9999 FEW020 20/10 Q1017 SCRG 242000Z 18006KT 2000 BR OVC010 15/14 Q1016 SCQP 251700Z 30006KT 9999 SCT038 OVC059 19/13 Q1013 KXVG 251656Z AUTO 09006KT 10SM OVC022 03/M03 A3020 RMK AO2 FSPP 251600Z 04002KT //// //// 28/23 Q1012 SCRM 251700Z 28028KT 0500 FG OVC002 03/03 Q0995 MGMM 251700Z 09006KT 9999 SCT018 30/19 Q1017 A3003 SCSE 251600Z 28009KT CAVOK 20/13 Q1017 LOWG 251650Z 24003KT 190V290 CAVOK 13/04 Q1021 NOSIG KYNG 251651Z 28009KT 10SM BKN040 OVC055 19/10 A3017 RMK AO2 SLP213 T01890100 LOWI 251650Z 09007KT 060V120 9999 FEW080 SCT300 14/06 Q1017 NOSIG SCTB 251700Z 23004KT 5000 HZ FEW060 23/09 Q1016 MGMT 251700Z 18004KT CAVOK 33/21 QFE1012.8 LOWK 251650Z 09006KT 060V130 CAVOK 15/06 Q1019 NOSIG SEAM 251700Z 16003KT 9999 FEW023 SCT090 20/12 Q1029 LOWL 251650Z AUTO 11007KT 9999 NCD 13/M01 Q1021 NOSIG SCTE 251700Z 01008KT 9999 SCT035 OVC050 17/14 Q1013 NOSIG SCSN 251700Z 27009KT 9999 FEW033 20/13 Q1016 SECA 251700Z 27010KT 9999 FEW030 OVC100 27/18 Q1018 LOWS 251650Z 01008KT CAVOK 12/01 Q1020 NOSIG MGPB 251700Z 33008KT 9999 SCT020 28/23 Q1017 A3003 LPPD 251700Z 29012KT 9000 SCT014 BKN030 15/13 Q1017 SCTN 251700Z AUTO VRB01KT 9999 OVC049 15/12 Q1012 LOWW 251650Z 35006KT CAVOK 11/M00 Q1022 NOSIG LOXT 251650Z 00000KT 35KM FEW160AC BKN300CI 12/M03 Q1022 RMK BKN SCVD 251700Z 35008KT 9999 FEW030 BKN044 OVC055 18/13 Q1013 SECO 251600Z 13003KT 9999 SCT026 SCT120 30/24 Q1015 LOXZ 251650Z 19004KT 30KM FEW050SC SCT300CI 14/06 Q1019 NOSIG LPPR 251700Z 05003KT 320V120 9999 FEW021 SCT030CB BKN035 10/07 Q1009 RETSRA LPPS 251700Z 29010KT 250V320 9999 FEW015 17/08 Q1016 LPPT 251700Z 23014KT 9999 FEW028 BKN034 13/06 Q1011 SECU 251700Z 02004KT 9999 FEW033 BKN300 20/11 Q1027 SCVM 251700Z 28010KT 9999 FEW070 21/14 Q1017 YBAF 251700Z AUTO 18004KT 9999 // NCD 21/19 Q1013 RMK MGQZ 251700Z 00000KT 8000 SCT200 20/11 QFE774.1 HZ YBAS 251700Z AUTO 28005KT 9999 // NCD 23/03 Q1011 MGSJ 251700Z 18012KT 7000 FEW018 32/17 Q1015 A2997 FU MGRT 251700Z 21004KT 8000 SKC 31/19 Q1017 A3003 HZ VOL. STA. MARIA Y SANTIAGUITO EN ACTIVIDAD LRBC 251700Z 18005KT 9999 OVC042 08/05 Q1018 YBBN 251700Z 05003KT 9999 FEW018 SCT260 22/20 Q1013 YBCG 251700Z AUTO 25004KT 9999 // NCD 21/20 Q1013 YBCK 251700Z AUTO 13003KT //// // ////// 23/17 Q1012 RMK LRAR 251700Z 34003KT CAVOK 11/M01 Q1020 YAMB 251700Z AUTO 00000KT 9999 // NCD 21/20 Q1013 MHLC 251700Z 34007KT 9999 FEW030 29/21 Q1016 A3000 NOSIG LRBM 251700Z AUTO 29009KT 9999 FEW012/// SCT180/// BKN240/// 11/M01 Q1018 YBDG 251700Z AUTO 14007KT 9999 // NCD 19/17 Q1012 RMK MHLE 251700Z 05002KT 9999 FEW024 23/10 LRBO 251700Z 02004KT 9999 BKN080 09/01 Q1019 BLU BLU YBCS 251700Z 21003KT 9999 FEW025 25/23 Q1007 NOSIG SEGS 251700Z 06006KT 9999 FEW020 30/23 Q1013 A2993 LRBS 251700Z 11001KT 9999 BKN039 10/04 Q1020 NOSIG LRCK 251700Z 17006KT 9999 BKN026 BKN039 07/06 Q1019 NOSIG SEGU 251700Z 06005KT 010V120 9999 FEW023 SCT033 BKN100 30/24 Q1012 NOSIG RMK A2989 YBCV 251700Z AUTO 05004KT 9999 // NCD 25/17 Q1012 MGTU 251700Z 27008KT 9000 SKC 33/24 HZ LRCL 251700Z 30009KT CAVOK 11/M02 Q1018 MHLM 251700Z 19003KT 9999 SCT026 BKN250 29/24 Q1016 A3000 NOSIG LRCT 251700Z 34012KT 9999 FEW070 SCT200 11/M01 Q1017 BLU BLU YBDV 251700Z AUTO 17004KT //// // ////// 31/13 Q1008 SEJD 251700Z 10004KT 9999 SCT020 SCT100 29/26 Q1015 LRCV 251700Z 13005KT CAVOK 10/05 Q1018 LQMO 251700Z 18005KT CAVOK 19/10 Q1016 ROAH 251700Z 33016KT 9999 -SHRA SCT020 BKN030 BKN045 17/13 Q1016 RMK 4CU020 6CU030 7SC045 A3003 BGBW 251650Z 06011KT 9999 FEW080 BKN200 M05/M18 Q1007 SFAL 251650Z 33015KT 9999 FEW018 SCT065 13/09 Q1017 GMAD 251700Z 25008KT 190V280 CAVOK 19/03 Q1015 NOSIG MHNO 251700Z 17004KT 9999 FEW040 28/12 HZ GMAG 251700Z 34012KT 9999 FEW016 17/04 Q1015 NOSIG FTTA 251600Z 24004KT CAVOK 26/16 Q1012 FTTC 251400Z 36014KT CAVOK 40/M08 Q1009 FTTD 251500Z 00000KT 9999 SCT040 40/10 Q1007 HDAM 251400Z 08012KT 9999 SCT023 FEW030 29/23 Q1009 YBHI 251700Z AUTO 17006KT 9999 // NCD 24/10 Q1013 RMK KZPH 251715Z AUTO 09006KT 10SM SCT044 27/14 A3024 RMK AO2 T02680136 MGZA 251700Z 08004KT 9999 FEW030 29/15 QFE991.8 SEMC 251700Z 06008KT 9999 VCSH SCT026 25/20 Q1018 FTTJ 251600Z 05009KT CAVOK 41/06 Q1007 YBHM 251700Z AUTO 15026KT 9999 // SCT006 BKN011 OVC035 25/24 Q1006 MHPL 251500Z METAR MHCA 251500Z 36002KT 9999 SCT028 25/22 FU GMAT 251700Z 36008KT 8000 FEW016 16/05 Q1016 NOSIG YARG 251700Z AUTO 03006KT 9999 // SCT098 28/23 Q1009 LRIA 251700Z 26003KT 230V290 CAVOK 08/M00 Q1018 BGGH 251650Z 06018KT 9999 DRSN SCT070 BKN200 M07/M13 Q1004 SELT 251700Z 16008KT 130V230 9999 SCT030 BKN100 19/12 Q1030 YARM 251700Z AUTO 17004KT //// // ////// 18/18 Q1017 RMK FVBU 251200Z 17007KT 110V230 CAVOK 27/16 Q1020 NOSIG RODN 251706Z AUTO 34012G18KT 10SM -DZ BKN019 BKN025 OVC041 16/16 A3004 RMK AO2 DZB06 CIG 019V039 BGGN 251305Z 13003KT 9999 -SG BKN019 M13/M16 Q1009 YCBA 251700Z AUTO 15001KT 9999 NCD 23/20 Q1011 HCMH 251300Z 15009KT 9999 BKN035 31/14 Q1014 NOSIG YCBB 251700Z AUTO 03006KT 030V090 //// // ////// 20/19 Q1016 SEMT 251700Z 35008KT 9999 FEW023 SCT100 31/26 Q1012 RMK A2991 WSSL 251500Z 00000KT 9999 FEW018 BKN300 26/24 Q1011 RMK 1430Z Q1011 LQSA 251700Z 29006KT 9999 SCT050 16/07 Q1020 NOSIG SENL 251700Z 07004KT 9999 -SHRA SCT016TCU SCT100 27/24 Q1014 YBKE 251700Z AUTO 33003KT //// // ////// 26/17 Q1010 RMK MHSC 251658Z AUTO 32007KT 280V350 9999 FEW200 29/13 A3006 RMK AO2 SLP140 T02850131 $ HCMM 251300Z 11012KT 9999 SCT024 30/26 Q1007 NOSIG MHRO 251700Z 09014KT 9999 FEW022 28/21 Q1017 A3003 NOSIG YCAR 251700Z AUTO 17016KT 9999 // SCT014 23/20 Q1010 YCAS 251700Z AUTO 00000KT //// // ////// 20/18 Q1013 WSSS 251700Z 05004KT 360V070 9999 FEW020 BKN300 27/25 Q1011 NOSIG FVFA 251156Z 10020G38KT 060V130 1000 TSRA FEW040CB BKN045 20/17 Q1017 BECMG 9999 MHTE 251700Z 35002KT 9999 SCT026TCU 29/23 Q1015 TCU N SW NW HZ YCBP 251700Z AUTO 08011KT 9999 NCD 29/09 Q1010 MHTG 251700Z 03010KT 9999 FEW030 26/12 Q1021 A3015 NOSIG GMFF 251700Z 31007KT 9999 SCT030 BKN200 17/06 Q1015 NOSIG YBMA 251700Z AUTO 00000KT 9999 // NCD 25/20 Q1010 YBKT 251700Z AUTO 29005KT //// // ////// 26/26 Q1007 MHSR 251700Z 08004KT 9999 FEW025 24/10 HZ YBLN 251700Z AUTO 30011KT //// // ////// 19/14 Q1006 RMK GMFK 251700Z 18013KT 9999 SCT030 SCT080 17/M07 Q1016 NOSIG GMFM 251700Z 32008KT 9999 FEW020 BKN200 14/04 Q1015 NOSIG BGJN 251650Z 04002KT 9999 FEW020 BKN200 M15/M22 Q1011 GMFO 251700Z 33008KT 9999 FEW026 SCT100 17/05 Q1013 NOSIG YBNA 251700Z AUTO 34001KT 9999 // OVC030 20/// Q1013 RMK MHTR 251700Z 16002KT 9999 FEW028 30/20 HZ YBMK 251700Z AUTO 18012KT 9999 // SCT027 BKN044 25/23 Q1007 SERB 251700Z 15005KT 9999 BKN040 19/12 Q1029 FVHA 251700Z 14007KT 9999 FEW025CB BKN300 21/15 Q1021 NOSIG YCEE 251700Z AUTO 10005KT //// // ////// 19/17 Q1012 SEQM 251700Z 16003KT 9999 -RA SCT023 BKN100 19/12 Q1026 NOSIG RMK A3032 YCDO 251700Z AUTO 12003KT //// // ////// 22/22 Q1012 RMK BGKK 251650Z 18004KT 140V210 9999 SCT022 BKN066 M04/M07 Q0995 YCCY 251700Z AUTO 00000KT //// // ////// 28/19 Q1008 ROIG 251100Z 01012KT 8000 -SHRA FEW009 SCT014 BKN021 16/15 Q1017 LQTZ 251700Z 10004KT 9999 FEW050 14/04 Q1020 SESA 251700Z 21005KT 9999 FEW012 29/25 Q1012 YCDU 251700Z AUTO 09006KT 9999 // NCD 20/16 Q1009 RMK YCEM 251700Z AUTO 00000KT //// // ////// 19/18 Q1014 RMK SESD 251700Z 27005KT 9999 BKN020 SCT130 26/23 Q1013 GLRB 251700Z 24003KT 9999 FEW022 FEW028CB BKN290 31/24 Q1009 RMK CB-NE/E SERO 251700Z 01004KT 350V050 9999 FEW050 BKN080 28/27 Q1012 SESG 251700Z 27004KT 9999 FEW030 OVC090 07/06 Q1018 YBNS 251700Z AUTO 30006KT 9999 // SCT078 SCT088 17/16 Q1012 YBOK 251700Z AUTO 05007KT 9999 // NCD 19/17 Q1014 YCFL 251700Z AUTO 14004KT //// // ////// 27/24 Q1007 RMK SESM 251700Z 08004KT 9999 SCT033 BKN100 27/20 Q1018 A3007 YAYE 251700Z AUTO 12004KT 9999 // NCD 23/04 Q1010 LROD 251700Z 26005KT CAVOK 11/M02 Q1019 YCFS 251700Z AUTO 25007KT 9999 -RA BKN021 BKN068 OVC082 21/19 Q1013 SGAS 251700Z 09005KT 040V120 9999 FEW040 BKN070 32/22 Q1010 SEST 251700Z 35006KT 9999 SCT026 28/24 Q1012 A2990 HEBA 251600Z 35009KT CAVOK 17/12 Q1017 NOSIG FVKB 250700Z 00000KT 9999 FEW030TCU SCT100 BKN300 26/23 Q1016 YBPN 251700Z AUTO 15013KT 9999 // BKN043 26/20 Q1007 RMK LSGC 251650Z 03005KT 330V070 CAVOK 13/04 Q1016 HEAL 250600Z 04004KT 6000 NSC 17/08 Q1015 NOSIG SETN 251700Z 32004KT 290V350 9999 FEW026 BKN300 30/26 Q1012 A2989 LROP 251700Z 17003KT 9999 OVC039 09/03 Q1019 NOSIG LSGG 251650Z 21020KT 9999 BKN033 11/05 Q1017 NOSIG YCHK 251700Z AUTO 01006KT 9999 // SCT105 26/23 Q1011 RMK YAYT 251700Z 29004KT 6000 SCT035 OVC100 15/06 Q1015 HEAR 251600Z 34004KT CAVOK 17/11 Q1016 NOSIG SETU 251700Z 09004KT 9999 BKN023 BKN100 16/11 Q1032 HECA 251700Z 34008KT CAVOK 21/06 Q1016 NOSIG HEAT 251600Z 34020KT CAVOK 21/04 Q1014 NOSIG HEBL 251600Z 35012KT CAVOK 26/M04 Q1012 NOSIG HEAX 251600Z 34010KT 9999 SCT020 17/10 Q1016 NOSIG MHYR 251700Z 23004KT 9999 SCT025TCU 27/16 TCU ALL HZ YBRK 251700Z AUTO 14009KT 9999 // NCD 24/21 Q1010 YBRL 251700Z AUTO 32002KT //// // ////// 26/25 Q1007 RMK LSGS 251650Z 07016KT 9999 FEW100 19/00 Q1013 YBRM 251700Z AUTO 02003KT 9999 // NCD 26/25 Q1008 GMMB 251700Z 30007KT 260V330 9999 FEW013 BKN200 16/07 Q1017 NOSIG YCIN 251700Z AUTO 08005KT //// // ////// 25/25 Q1007 GMMC 251700Z 32004KT 9999 SCT016 16/09 Q1016 FWCL 251400Z 24008KT 9999 FEW025CB SCT028 27/20 Q1014 NOSIG YBSG 251700Z AUTO 17001KT //// // ////// 25/24 Q1008 RMK GMMD 251700Z 22006KT 9999 FEW026 BKN100 17/05 Q1015 NOSIG GMME 251700Z 31008KT 280V350 9999 SCT020 BKN200 15/06 Q1016 NOSIG GMMH 251700Z 02022KT CAVOK 20/11 Q1013 NOSIG GMMI 251700Z 36013KT 8000 NSC 16/05 Q1015 NOSIG LRSB 251700Z 32010KT 9999 FEW056 12/M04 Q1017 NOSIG LTAC 251650Z 02010KT CAVOK 14/M04 Q1015 NOSIG SGEN 251700Z 05005KT 9999 FEW040 SCT080 32/18 Q1012 GMML 251700Z 36018KT CAVOK 21/05 Q1015 NOSIG KZZV 251653Z AUTO 23010KT 10SM FEW065 22/10 A3016 RMK AO2 SLP207 T02220100 YBRY 251700Z AUTO 15004KT 9999 // BKN071 OVC094 26/21 Q1012 YBTH 251700Z AUTO 00000KT 9000 // BKN096 17/17 Q1016 RMK ROMY 251100Z 36011KT 9999 SCT022 BKN026 18/13 Q1017 LTAF 251650Z 16004KT CAVOK 16/12 Q1014 NOSIG GMMN 251700Z 33010KT 9999 SCT016 16/07 Q1016 NOSIG LTAG 251650Z 17005KT CAVOK 16/10 Q1014 NOSIG SGES 251700Z 06003KT 9999 FEW033 SCT070 32/20 Q1012 LTAI 251650Z 04005KT 9999 FEW030 BKN200 17/09 Q1015 NOSIG YBSU 251700Z AUTO 24003KT 9999 // SCT025 21/20 Q1013 LTAJ 251650Z 24008KT CAVOK 14/04 Q1013 NOSIG LTBA 251650Z 01012KT CAVOK 08/05 Q1019 NOSIG YBTL 251700Z AUTO 17007KT 9999 // NCD 27/21 Q1007 YBUD 251700Z AUTO 17007KT 9999 // SCT035 22/21 Q1012 YCKN 251700Z AUTO 27003KT 9999 // NCD 25/24 Q1007 LRTC 251700Z 21002KT 9999 SCT049 09/07 Q1019 R16/190095 LTBD 251050Z 26005KT CAVOK 23/04 Q1013 LRSM 251700Z 31006KT CAVOK 09/02 Q1018 FVMV 250900Z 22010KT 9999 SCT018 BKN300 22/18 Q1021 LTAN 251650Z 16003KT CAVOK 14/M01 Q1016 NOSIG LTBF 251650Z VRB02KT CAVOK 15/06 Q1017 NOSIG GMMW 251700Z 03011KT 360V060 CAVOK 15/08 Q1015 NOSIG LTAP 251650Z 03010KT 9999 FEW040 SCT100 BKN180 11/M03 Q1014 NOSIG GMMX 251700Z 29005KT 210V020 9999 FEW023 SCT200 18/M03 Q1014 NOSIG BGSF 251650Z AUTO 19002KT 9999NDV NCD M18/M25 Q1011 LTBH 251650Z 04008KT CAVOK 12/05 Q1017 LTAR 251650Z 02008KT CAVOK 05/M03 Q1017 GMMZ 251700Z 08008KT 060V130 9999 FEW030 19/M09 Q1014 NOSIG LTAS 251430Z 28013KT 6000 FEW015 BKN180 08/05 Q1018 RMK RWY18 35013KT LTBJ 251650Z 01008KT CAVOK 16/07 Q1015 NOSIG LTCA 251650Z 22003KT CAVOK 10/M05 Q1013 NOSIG LTAT 251650Z 27005KT CAVOK 12/M04 Q1013 NOSIG LTCB 251650Z 26002KT CAVOK 08/04 Q1019 LTAU 251650Z 00000KT CAVOK 12/M06 Q1016 NOSIG LTCC 251650Z 15003KT CAVOK 12/M02 Q1013 NOSIG LRTM 251700Z 31008KT 280V340 9999 SCT047 12/M00 Q1017 LRSV 251700Z 20004KT CAVOK 05/02 Q1017 LTCD 251650Z 34008KT 9999 SCT040 12/M05 Q1015 NOSIG LTAW 251150Z 22008KT 190V260 CAVOK 20/M04 Q1016 YDBY 251700Z AUTO 05004KT //// // ////// 27/24 Q1007 RMK LTCE 251650Z 00000KT CAVOK 01/M05 Q1016 NOSIG LTCF 251650Z 28004KT 240V300 9999 FEW035 00/M05 Q1015 LTCG 251650Z 11002KT CAVOK 08/07 Q1019 NOSIG LTAY 251650Z 29006KT CAVOK 17/M03 Q1016 LTAZ 251650Z 24004KT CAVOK 12/M04 Q1015 LTBQ 251650Z 05003KT 020V120 CAVOK 09/05 Q1018 NOSIG LRTR 251700Z 33004KT CAVOK 11/M01 Q1020 NOSIG LTBR 251650Z 20002KT CAVOK 14/05 Q1017 NOSIG LTCI 251650Z 15003KT 9999 FEW040 02/M02 Q1016 NOSIG LSMA 251650Z AUTO 04006KT 9999NDV NCD 13/07 Q1016 RMK LTCJ 251650Z 05005KT CAVOK 11/04 Q1013 LTBS 251650Z 13003KT 090V210 CAVOK 16/13 Q1016 NOSIG LTDA 251650Z 24013KT CAVOK 15/12 Q1014 YCMM 251700Z AUTO 06008KT //// // ////// 21/18 Q1011 RMK LTCK 251650Z 13005KT CAVOK 03/M01 Q1017 BIAR 251700Z 19017G30KT 170V240 9999 -RA BKN042 06/M03 Q1004 LTBU 251650Z 01015KT 8000 NSC 09/06 Q1018 LTCL 251450Z 27004KT 230V290 CAVOK 16/04 Q1013 LTCM 250950Z 35008KT 9999 FEW035 SCT100 12/05 Q1020 LSMD 251650Z AUTO 10005KT 060V170 9999NDV NCD 13/05 Q1017 RMK LSME 251650Z AUTO 35002KT 9999NDV NCD 14/07 Q1016 RMK BGTL 251658Z AUTO 11004KT 9999 CLR M22/M28 A2972 RMK AO2 SLP057 T12191283 LTCN 251650Z 29014KT CAVOK 17/04 Q1013 BECMG TL1800 VRB02KT HEGN 251600Z 36017KT CAVOK 22/10 Q1012 NOSIG LTCO 251350Z VRB02KT CAVOK 05/M05 Q1016 LTBY 251650Z 24006KT CAVOK 13/02 Q1016 LTCP 251250Z 22006KT 180V270 CAVOK 18/M05 Q1014 LRTZ 251700Z VRB03KT 9999 BKN020 OVC030 07/05 Q1019 BLU BLU LTBZ 250550Z 00000KT CAVOK 04/M03 Q1021 YCMT 251700Z AUTO 15004KT //// // ////// 23/20 Q1011 RMK YCNK 251700Z AUTO 00000KT //// // ////// 20/19 Q1012 RMK LTCR 251250Z 26006KT 220V300 9999 FEW040 20/01 Q1013 LTCS 251650Z 11004KT CAVOK 14/M04 Q1015 LTCT 251250Z 13005KT 060V170 CAVOK 14/M04 Q1015 YCNM 251700Z AUTO 09006KT //// // ////// 24/21 Q1012 RMK YCOE 251700Z AUTO 36004KT //// // ////// 24/23 Q1008 LTCU 251250Z 07012KT 030V100 CAVOK 14/M04 Q1015 LTCV 251350Z 24004KT 180V300 CAVOK 18/M00 Q1013 LSMM 251650Z AUTO 03023G36KT 350V090 9999NDV NCD 15/05 Q1014 RMK LTCW 251250Z 13003KT CAVOK 03/M05 Q1016 YBWP 251700Z AUTO 11003KT 9999 // SCT044 SCT054 OVC079 25/23 Q1008 LSMP 251650Z 05009KT 020V080 CAVOK 15/06 Q1015 RMK BLU RORS 251000Z 36023KT 9999 FEW019 BKN024 18/14 Q1016 LSMS 251650Z 07016KT 9999 FEW100 19/00 Q1013 YCOM 251700Z AUTO 00000KT 0300 // OVC001 08/08 Q1017 LTFC 251650Z 27008KT 9999 FEW035 BKN200 17/M05 Q1015 LTFD 251650Z 32003KT CAVOK 15/10 Q1016 YBWX 251700Z AUTO 22015KT //// // ////// 27/24 Q1008 YCNY 251700Z AUTO 33004KT //// // ////// 28/23 Q1008 RMK LTFE 251650Z 24005KT CAVOK 16/11 Q1016 NOSIG RORY 251700Z AUTO 33020KT 9999 -RA FEW019 SCT038 BKN070 16/13 Q1016 LTFG 251650Z VRB02KT CAVOK 13/11 Q1015 LTFH 251650Z 00000KT 6000 FEW010 BKN100 06/05 Q1018 NOSIG BIEG 251700Z 21017KT CAVOK 08/M02 Q1004 RPLB 251700Z VRB01KT 9999 FEW020 26/22 Q1013 NOSIG RMK A2991 LTFJ 251650Z 02010KT CAVOK 07/04 Q1018 NOSIG HEIS 251600Z 36010KT CAVOK 21/04 Q1015 RPLC 251700Z 34004KT 9999 SCT020 BKN300 27/21 Q1015 NOSIG A2997 GMTA 251700Z 02010KT CAVOK 17/07 Q1015 NOSIG ROTM 251658Z 34015G22 9999 -SHRA FEW015 BKN020 OVC040 16/13 A3005 RMK SHRAB45 SLP164 STNPR29750 P0000 T01610133 RPLI 251500Z 07002KT 9999 FEW019 25/20 Q1013 NOSIG RMK A2991 YBYU 251700Z AUTO 24015KT 9999 // SCT017 SCT165 BKN200 28/25 Q1007 YDGU 251700Z AUTO 15003KT 9999 // NCD 22/21 Q1011 RMK FWKI 251600Z 00000KT 9999 FEW025CB 25/18 Q1017 NOSIG RPLL 251700Z 12006KT 080V160 9999 FEW025 28/22 Q1014 NOSIG RMK A2994 RPMD 251600Z 36006KT 9999 FEW016 SCT090 BKN290 26/22 Q1013 RMK A2991 GMTN 251700Z 10008KT 070V130 9999 SCT026 15/06 Q1016 NOSIG HEMA 251600Z 34015KT CAVOK 21/13 Q1011 NOSIG GMTT 251700Z 24009KT 9999 SCT016 BKN200 16/07 Q1016 NOSIG RPMR 250900Z 18002KT 9999 SCT018 OVC080 30/26 Q1010 RMK A2983 HEMM 251600Z 35012KT 9999 FEW020 17/14 Q1018 NOSIG BIHN 241900Z 20013KT 9999 FEW020 SCT032 BKN050 06/// Q1012 HELX 251600Z 00000KT CAVOK 24/04 Q1011 NOSIG RPMZ 251500Z 00000KT 9999 FEW017 SCT300 26/22 Q1014 RMK A2994 NCAI 251600Z AUTO 08002KT //// ////// 26/24 Q1013 MKJP 251700Z 21008KT 9999 FEW022 28/21 Q1014 MKJS 251700Z 06012KT 9999 FEW022 28/21 Q1014 YCUN 251700Z AUTO 28007KT //// // ////// 16/14 Q1009 RMK BIIS 251600Z 23020G36KT 4000 SHGS OVC025 03/M04 Q0999 ROYN 251700Z AUTO 01021KT 9999 FEW017 SCT025 BKN034 17/14 Q1019 YDLQ 251700Z AUTO 04006KT //// // ////// 21/17 Q1012 RMK YCWA 251700Z AUTO 17002KT 9999 // SCT091 24/20 Q1012 RMK GOGG 251700Z 27006KT CAVOK 37/12 Q1009 BIKF 251700Z 22026KT 9999 FEW033 BKN047 05/M02 Q1007 GOGK 251500Z 34004KT CAVOK 39/12 Q1009 HEPS 251600Z 35008KT CAVOK 19/14 Q1016 NOSIG GOGS 251700Z VRB06KT CAVOK 25/19 Q1010 YCWR 251700Z AUTO 16003KT //// // ////// 18/16 Q1014 HESC 251600Z 03012KT CAVOK 15/M01 Q1018 NOSIG HESG 251600Z 31016KT CAVOK 24/M09 Q1010 NOSIG HESH 251600Z 36007KT CAVOK 24/07 Q1011 NOSIG YDPO 251700Z AUTO 15004KT 9999 // NCD 13/13 Q1013 RMK HESN 251600Z 01008KT CAVOK 26/M08 Q1011 NOSIG LSZA 251650Z 20004KT 9999 FEW065 19/08 Q1016 NOSIG LSZB 251650Z 36004KT 300V070 CAVOK 14/07 Q1015 NOSIG RPVD 251500Z 00000KT 9999 FEW015 26/24 Q1014 RMK A2994 LSZC 251650Z AUTO 20004KT 110V260 9999 NCD 14/07 Q1016 LSZG 251650Z AUTO 08014KT CAVOK 14/05 Q1015 LSZH 251650Z 06009G19KT 020V100 CAVOK 14/05 Q1017 NOSIG HETR 251700Z 31018KT 6000 NSC 20/12 Q1012 RPVM 251700Z 05006KT 9999 FEW020 27/23 Q1013 NOSIG RMK A2991 LSZL 251650Z AUTO 26001KT 9999NDV NCD 19/10 Q1016 RMK RPVP 251200Z 09008KT 9999 FEW020 29/24 Q1012 RMK A2988 LSZR 251650Z 27006KT CAVOK 12/06 Q1017 NOSIG RMK K LSZS 251650Z 22007KT 9999 SCT070 08/M01 Q1019 RMK V MMAA 251646Z 26008KT 7SM SKC 29/23 A2998 RMK HZY CU FXMM 251000Z 21006KT 9999 SCT030 FEW035TCU 19/09 Q1025 NOSIG YELD 251700Z AUTO 32015KT //// // ////// 29/26 Q1008 RMK CAHR 251700Z AUTO 36015G20KT M01/M05 RMK AO1 SOG 08 3018 PK WND 34023/1603 SLP195 T10081046 BIRK 251700Z 22023KT 9999 VCSH FEW028 BKN034 05/M02 Q1008 GOOD 251500Z 02004KT CAVOK 37/13 Q1009 MMAN 251641Z 35006KT 10SM SKC 28/10 A3009 RMK HZY ISOL SC YFBS 251700Z AUTO 13006KT //// // ////// 21/19 Q1013 RMK GOOG 251500Z 36006KT CAVOK 39/18 Q//// MMAS 251641Z 36003KT 12SM SKC 23/M03 A3031 MMCB 251646Z 14006KT 7SM FEW200 26/12 A3017 RMK 8/001 HZY LUKK 251700Z 31005KT 9999 BKN049 10/M03 Q1017 R08/CLRD// NOSIG GOOK 251700Z 04004KT CAVOKL 40/17 Q1009 FYGB 251500Z AUTO 30001KT //// // ////// 27/16 Q1022 YFDF 251700Z AUTO 32004KT 9999 // BKN091 25/23 Q1011 RMK MMCE 251645Z 15015KT 7SM SKC 29/19 A3000 CBBC 251700Z AUTO 19007KT 9SM -RA FEW013 BKN036 OVC048 03/ A2994 RMK TD MISG SLP141 FYGF 251700Z AUTO 06003KT //// // ////// 24/16 Q1021 YEML 251700Z AUTO 15004KT 9999 // NCD 23/23 Q1011 MMBT 251652Z 27015KT 7SM SKC 30/20 A3002 RMK HZY MMCL 251640Z 00000KT 10SM SKC 24/16 A2998 MMCM 251641Z 13010KT 7SM FEW020 28/18 A3005 RMK 8/100 MMCN 251643Z 00000KT 10SM SKC 26/M01 A2995 RMK HZY MMCP 251642Z 10010G20KT 7SM SKC 30/16 A2999 GOOY 251700Z 36016KT CAVOK 22/17 Q1012 NOSIG MMCS 251647Z 15007KT 10SM FEW250 17/M01 A3009 RMK 8/005 MMCT 251643Z 14015KT 8SM BKN030 30/16 A3007 RMK 8/400 MSGTX MMMD MMCU 251644Z 00000KT 10SM SKC 21/M06 A3019 RMK HZY MMCV 251640Z 36002KT 5SM SKC 27/18 A3005 RMK HZ MMDO 251640Z 27003KT 14SM SKC 19/M11 A3032 RMK HZY MMCZ 251640Z 10008KT 8SM SCT015 28/19 A3007 RMK 8/100 BIVM 251700Z 25016KT 9999 VCSH SCT025 BKN035 06/01 Q1010 MMEP 251653Z 22004KT 12SM SCT140 26/02 A3012 RMK 8/030 GOSM 251700Z 36002KT CAVOK 42/12 Q1007 GOSP 251500Z 36002KT CAVOK 38/13 Q1009 GOSS 251700Z 34012KT 290V360 CAVOK 24/16 Q1010 GOTK 251500Z 28006KT 9999 -RA NSC 36/19 Q1008 MMGL 251646Z 26003KT 10SM SKC 23/05 A3025 RMK CU S MMGM 251642Z 00000KT 10SM SKC 27/08 A2993 RMK HZY FYKM 251500Z 00000KT 9999 BKN030 28/18 Q1015 MMIA 251647Z 00000KT 8SM SCT030TCU 25/19 A3010 RMK 6//// 8/200 YERN 251700Z AUTO 00000KT //// // ////// 19/04 Q1013 GOTT 251700Z VRB08KT CAVOK 39/07 Q1007 FYKT 251500Z AUTO 13001KT //// // ////// 30/03 Q1019 MMHO 251643Z 00000KT 10SM SKC 25/04 A3000 RMK ISOL SC HZY NCRG 251700Z 13002KT 9999 SCT020 SCT290 25/24 Q1013 NCPY 251700Z AUTO 0600KT //// //// 26/25 Q1011 FYML 251600Z AUTO 08001KT //// // ////// 33/05 Q1020 YESP 251700Z AUTO 36013KT 9999 // NCD 18/16 Q1006 RMK MMIO 251640Z 00000KT 10SM SKC 26/01 A3027 YGBI 251700Z AUTO 33002KT //// // ////// 27/27 Q1008 RMK YEST 251700Z AUTO 35010KT 9999 // NCD 19/17 Q1006 RMK FYLZ 251700Z AUTO 21015KT //// // ////// 20/12 Q1011 FYOA 251200Z 00000KT 9999 FEW045TCU 29/19 Q1018 YGAY 251700Z AUTO 16004KT //// // ////// 22/19 Q1013 RMK YFLI 251700Z AUTO 06006KT 9999 // BKN056 BKN077 14/14 Q1012 MNBL 251600Z 03004KT 9999 BKN017 29/23 Q1016 YGDH 251700Z AUTO 32003KT //// // ////// 22/20 Q1013 RMK FYOO 251600Z AUTO 00000KT //// // ////// 30/16 Q1016 MNCH 251700Z 09006KT CAVOK 34/16 Q1013 MMMA 251640Z 17008KT 7SM FEW020 28/20 A3003 RMK 8/100 HZY MMLM 251640Z 36008KT 10SM SKC 23/08 A2999 RMK HZY MMMD 251646Z 11012KT 7SM FEW020 FEW300 31/14 A3005 RMK 8/108 MMLO 251640Z 20007KT 8SM SKC 24/06 A3032 RMK HZY FYOW 251500Z AUTO 07005KT //// // ////// 28/15 Q1018 MMLP 251640Z 35006KT 10SM SKC 24/03 A3004 RMK HZY YGEL 251700Z AUTO 21011KT 9999 // SCT033 21/16 Q1012 MMLT 251646Z 00000KT 8SM SKC 24/15 A2999 MMML 251640Z 26014KT 10SM SKC 24/M09 A3001 MMMM 251645Z 28005KT 5SM SKC 21/12 A3028 RMK HZY MMMT 251554Z 36006KT 10SM SKC 27/23 A2998 MMNL 251644Z 33007KT 8SM SKC 23/13 A3008 YGFN 251700Z AUTO 02005KT 9999 // OVC026 22/19 Q1013 RMK MMMV 251640Z 04008KT 6SM SKC 23/M05 A3014 HZY SKBG 251700Z 31005KT 9999 FEW010 SCT240 25/20 A3004 REDZ FYRN 251500Z 10007KT 9999 FEW035CB SCT040TCU 30/14 Q1016 MMMX 251641Z 36006KT 6SM SKC 22/04 A3036 NOSIG RMK HZY CU FRMG SSW AC MMMY 251641Z 28005KT 6SM SKC 29/15 A3004 RMK HZ SC/NE SKAR 251700Z 02003KT 9999 BKN025 SCT100 26/18 A3009 MMMZ 251640Z 19005KT 14SM SKC 26/17 A3004 MMPA 251640Z 02010KT 3SM BR HZ FEW020 BKN090 27/21 A3007 RMK 8/430 MMPB 251642Z 00000KT 8SM SCT120 22/04 A3035 RMK 8/030 HZY SKCC 251700Z VRB02KT 9999 SCT020 BKN080 28/22 A2996 FYRU 251600Z AUTO 14003KT //// // ////// 30/17 Q1018 MMPE 251658Z RTD 13005KT 10SM SKC 22/06 A3000 SKBO 251700Z 24008KT 8000 VCSH FEW017TCU SCT020 18/12 A3035 RMK TCU VCSH/NE/E SKCG 251700Z 36016KT 9999 FEW017TCU SCT200 31/25 A2987 RMK TCU/E MMPG 251642Z 34010KT 8SM SKC 23/07 A3014 RMK HZY SKBQ 251700Z 04012KT 350V120 9999 SCT020 32/24 A2990 SKCL 251700Z VRB02KT 9999 SCT030 SCT300 28/20 A3003 MMPN 251646Z 18008KT 7SM SKC 21/13 A3013 RMK FU HZ SC MMOX 251645Z 19005KT 6SM SCT220 23/10 A3026 RMK 8/008 HZY ISOL CU MMPQ 251645Z 00000KT 4SM SKC 28/18 A2997 RMK HZY MSGTX MMMD MMPR 251646Z 22004KT 15SM SKC 26/18 A2999 MMPS 251706Z RTD 27010KT 6SM SKC 29/22 A3006 RMK HZY YHBA 251700Z AUTO 16004KT 9999 // SCT031 SCT041 BKN052 24/22 SKEJ 251700Z 22003KT 9999 SCT008 29/25 A2989 YFRT 251700Z AUTO 08009KT //// // ////// 23/16 Q1007 MMQT 251645Z 11005KT 7SM SKC 24/07 A3033 RMK HZY BKPR 251700Z 01011KT CAVOK 15/04 Q1018 NOSIG RMK 17010095 FYWB 251600Z AUTO 26008KT //// // ////// 20/12 Q1013 MMSD 251645Z 32010KT 15SM SKC 27/M06 A3003 FYWE 251500Z 18005KT 9999 FEW050CB BKN060TCU 28/09 Q1022 MNJG 251700Z 36004KT 9999 SCT020 24/15 Q1016 YGLA 251700Z AUTO 15008KT 9999 // SCT029 BKN035 BKN041 24/21 Q1010 FYWH 251500Z 15007KT 9999 FEW050CB BKN060TCU 28/11 Q1022 NOSIG TAPA 251700Z 11010KT 9999 SCT020 SCT038 27/20 Q1014 NOSIG GQNI 251500Z 04008KT 8000 NSC 38/02 Q//// MMSL 251648Z 15002KT 9SM SKC 24/08 A3008 MMTC 251641Z 00000KT 10SM SKC 24/M13 A3019 YHAY 251700Z AUTO 04006KT //// // ////// 23/18 Q1011 RMK MMRX 251654Z 09005KT 8SM FEW025 26/17 A3003 RMK 8/100 HZY GQNO 251700Z 33012KT 7000 NSC 26/16 Q1011 NOSIG MMTG 251640Z 30005KT 5SM FEW017 SCT300 28/16 A3003 RMK 8/501 FU HZ MMSP 251644Z 00000KT 10SM SKC 22/02 A3029 RMK HZY MMTJ 251647Z 36005KT 7SM BKN020 15/09 A3017 RMK 8/500 HZY GQPA 251200Z 07005KT 280V090 8000 -RA OVC100 25/10 Q1016 MNJU 251700Z 05008KT 9999 FEW025 32/22 Q1014 MMTM 251650Z E12005KT 8SM BKN025 26/20 A3003 RMK 8/100 HZY YFTZ 251700Z AUTO 07004KT //// // ////// 24/22 Q1008 RMK FYWW 251600Z 10004KT CAVOK 27/11 Q1022 MMTO 251647Z 29006KT 5SM SKC 17/07 A3044 RMK HZY CU MMTP 251641Z 00000KT 8SM SKC 32/17 A2997 RMK HZY YGLS 251700Z AUTO 36004KT //// // ////// 28/07 Q1010 RMK SKIB 251700Z 10005KT 9999 BKN030 26/21 A3013 MMVA 251640Z 00000KT 7SM SKC 29/18 A3000 K04V 251656Z AUTO 17006KT 10SM CLR 07/M04 A3017 RMK AO2 K06D 251655Z AUTO 18019G25KT 10SM OVC004 M01/M01 A3000 RMK AO2 MMUN 251643Z 13012KT 7SM BKN018 28/20 A3009 RMK 8/100 K04W 251559Z AUTO 09011G18KT 10SM OVC019 03/M01 A3022 RMK AO2 MNMG 251700Z 08008KT 9999 FEW020 32/17 Q1013 A2993 NOSIG GQPP 251700Z 33016KT 8000 FEW020 20/13 Q1012 NOSIG K05U 251655Z AUTO 00000KT 10SM CLR 03/01 A3009 RMK A01 SKIP 251700Z 08003KT 9999 FEW018TCU SCT080 16/10 A3046 RMK TCU/W GQPZ 250900Z 12014KT 080V140 CAVOK 18/03 Q1016 MMVR 251646Z 07003KT 6SM SCT012 27/22 A3001 RMK 8/100 HZY ISOL AC SLAL 251700Z 02009KT 9999 SCT020 SCT200 18/06 Q1027 K08D 251655Z AUTO 19014KT 10SM CLR 03/03 A2990 RMK AO2 LWOH 251700Z 12002KT 9999 FEW035 16/03 Q1018 SLCA 251700Z 00000KT 9999 BKN033 28/21 Q1012 SLCB 251700Z 14004KT 9999 SCT027 SCT200 24/09 Q1023 SKLC 251700Z 33007KT 9999 SCT025 31/25 A2988 LXGB 251650Z 12010KT 9999 FEW040 SCT060 16/05 Q1016 NOSIG MNPC 251700Z 08006KT 7000 BKN016 29/26 Q1015 HZ NFFN 251700Z 10003KT 9999 -SHRA FEW025 SCT045 25/25 Q1013 NOSIG YHID 251700Z AUTO 00000KT 9999 // NCD 27/27 Q1008 SKMD 251700Z 36006KT 9000 FEW025 BKN100 25/16 A3017 RMK HZ MMZC 251645Z 09010KT 10SM SKC 22/M09 A3035 SLCO 251700Z 00000KT 9999 BKN017 30/24 Q1012 SLCP 251700Z 34006KT 9999 BKN017 BKN200 28/23 Q1016 MMZH 251643Z 22007KT 6SM SKC 31/23 A2998 RMK HZY SKLT 251700Z 28003KT 9999 SCT013 BKN080 28/24 A2992 MMZO 251643Z 00000KT 10SM FEW020 30/23 A2999 RMK 8/100 HZY SKMR 251700Z 00000KT 9999 BKN017 33/23 A2988 K11R 251655Z AUTO 30005KT 10SM CLR 21/10 A3009 RMK AO2 T02060096 YGTE 251700Z AUTO 00000KT 9999 // NCD 27/26 Q1007 RMK YGTH 251700Z AUTO 11005KT 9999 // NCD 19/18 Q1012 RMK K12N 251654Z AUTO VRB03KT 10/04 A3020 RMK AO1 SLP230 T01000039 SKMZ 251700Z 31008KT 9000 FEW010 SCT050 BKN100 19/14 A3034 RMK VCFG/W YHLC 251700Z AUTO 00000KT //// // ////// 24/22 Q1009 RMK MNRS 251700Z 09008KT CAVOK 30/20 Q1014 SLET 251700Z 32014G26KT 9999 SCT012 BKN017 BKN200 29/23 Q1011 TBPB 251700Z 10017KT SCT018 BKN280 29/22 Q1013 NOSIG SKPC 251700Z 00000KT 9999 SCT023 SCT200 33/22 A2979 LWSK 251700Z 03008KT CAVOK 19/05 Q1017 NOSIG YGTN 251700Z AUTO 00000KT //// // ////// 23/22 Q1010 SKNV 251700Z 08003KT 9999 FEW030 SCT120 30/21 A2994 SKPE 251700Z 28004KT 9999 SCT017 SCT080 26/19 A3010 LYBE 251700Z 06003KT CAVOK 14/03 Q1020 NOSIG MPBO 251600Z 30004KT 8000 -RA SCT015 BKN080 Q1018 RWY WET SKPS 251700Z 33005KT 9999 VCSH SCT020 22/17 A3019 RMK VCSH/S MPDA 251500Z 18006KT CAVOK 31/21 Q1011 LYBT 251700Z 36004KT CAVOK 14/03 Q1020 NOSIG SKPV 251700Z 05004KT 9999 SCT018 29/24 A//// SKRG 251700Z 07006KT 9999 BKN017 SCT080 20/13 A3031 SKRH 251700Z 02010KT 9999 BKN020 30/24 A2990 K14Y 251653Z AUTO 06010KT 10SM OVC014 01/M01 A3019 RMK AO2 NFNA 251700Z 00000KT 9999 SCT020 BKN048 25/25 Q1014 K0A9 251655Z AUTO 00000KT 10SM CLR 22/08 A3021 RMK AO2 SLJE 251500Z 00000KT 9999 BKN015 30/25 Q1017 YIFL 251700Z AUTO 27004KT 9999 // NCD 23/23 Q1007 RMK SKSM 251700Z 26006KT 9999 FEW020TCU 31/25 A2990 RMK TCU/E YHOO 251700Z AUTO 31004KT //// // ////// 25/21 Q1008 RMK SLJO 251700Z 27005KT 9999 SCT017 31/25 Q1013 SKSP 251700Z 04012KT 9999 FEW018 29/23 A2998 YHOT 251700Z AUTO 27007KT 9999 // ////// 13/10 Q1018 K18H 251655Z AUTO 14010KT FEW022 24/22 A3008 RMK A01 SKUC 251700Z 09004KT 9999 BKN017 SCT200 30/24 A2992 TDCF 251700Z 13007KT 9999 SCT019 31/18 Q1013 SKUI 251700Z 00000KT 9999 BKN017 SCT080 29/24 A2985 K0E0 251655Z AUTO 27006KT 10SM CLR 17/M06 A3014 RMK AO2 T01721061 NGFU 251700Z 00000KT 9999 FEW020 SCT310 28/25 Q1010 K21D 251653Z AUTO 06012KT 10SM OVC015 03/01 A3018 RMK AO2 SLMG 251700Z 00000KT 9999 FEW017 BKN080 30/25 Q1012 SLLP 251700Z 08007KT 9999 SCT016 BKN200 12/05 Q1037 YJAB 251700Z AUTO 00000KT //// // ////// 26/25 Q1008 RMK K19S 251655Z AUTO 33015G20KT 10SM CLR 13/M02 A3004 RMK AO2 T01271019 K20U 251655Z AUTO RMK AO2 PWINO TSNO K20V 251654Z AUTO 00000KT 10SM CLR 06/M02 A3012 RMK AO2 K0F2 251655Z AUTO 31010KT 10SM OVC026 14/07 A3005 RMK AO2 T01400070 SKVP 251700Z 04008KT 9999 FEW015 SCT070 31/20 A2993 K0CO 251654Z AUTO 31007KT 10SM CLR 00/M06 A3022 RMK AO2 YHSM 251700Z AUTO 22005KT 9999 // NCD 15/14 Q1013 RMK SKVV 251700Z 10008KT 9999 BKN015TCU SCT090 29/21 A2998 RMK TCU/NW K22N 251655Z AUTO 00000KT 10SM CLR 16/06 A3016 RMK AO2 K24A 251700Z AUTO 18005KT 10SM OVC026 15/09 A3030 RMK AO2 T01480087 HKEL 251630Z 26007KT 9999 FEW019CB BKN080 15/14 Q1023 YHUG 251700Z AUTO 11005KT //// // ////// 24/16 Q1010 RMK NFTF 251700Z 00000KT 9999 FEW008 SCT015TCU BKN110 25/25 Q1015 SLOR 251700Z 33008KT 9999 SCT020 17/07 Q1034 K24J 251655Z AUTO 10006G15KT 10SM SCT050 SCT055 26/11 A3026 RMK A01 NFTL 251200Z 09005KT 9999 FEW020 28/26 Q1015 SLPO 251400Z 00000KT 9999 NSC 11/04 Q1037 SLPS 251700Z 00000KT 9999 SCT020 BKN200 33/26 Q1011 SLRB 251700Z 36008KT 9999 SCT020 BKN200 31/24 Q1015 LYKV 251700Z 05005KT 9999 BKN045 14/04 Q1020 NOSIG NFTV 251700Z 00000KT 9999 SCT016 26/25 Q1014 MPMG 251700Z 31013KT 9999 FEW016CB SCT018TCU BKN080 28/23 Q1013 NOSIG K0J4 251658Z AUTO 19015KT 10SM FEW028 FEW033 24/15 A3019 RMK AO2 SLP222 T02390150 $ SLRI 251700Z 36010KT 9999 BKN017 FEW020CB BKN200 31/24 Q1013 K1A5 251700Z AUTO 09004KT 10SM OVC035 17/09 A3027 RMK AO2 T01660093 SLSA 251700Z 34007KT 9999 SCT017 31/23 Q1012 K1A6 251655Z AUTO 20006G14KT 10SM BKN046 22/10 A3020 RMK AO2 T02200100 K1A9 251655Z AUTO 17008G17KT 140V200 10SM SCT037 SCT050 24/15 A3016 RMK AO2 T02390148 SLRQ 251700Z 13004KT 5000 -RA SCT008 BKN015 FEW017CB BKN200 25/25 Q1012 SLSI 251700Z 00000KT 9999 BKN015 BKN070 29/24 Q1013 LYNI 251700Z 32012KT CAVOK 14/05 Q1019 NOSIG SLRY 251700Z 34008KT 9999 SCT017 FEW023CB BKN080 27/24 Q1013 SMJP 251700Z 02008KT 9999 SCT035 32/21 Q1011 NOSIG SLTJ 251700Z 24004KT 9999 FEW030 SCT200 25/15 Q1016 MPPA 251700Z 02014KT 9999 FEW010 SCT090 ///// Q1014 K28J 251655Z AUTO 09008KT 10SM BKN037 OVC046 24/15 A3028 RMK AO2 HKJK 251630Z 10011KT 9999 SCT027 26/10 Q1018 NOSIG K1AM 251658Z AUTO 24020G28KT 10SM BKN220 09/M08 A2994 RMK AO2 SLP099 T00881078 $ K1AN 251656Z AUTO 16016G22KT 10SM CLR 01/M01 A2993 RMK AO2 SLP174 T00131006 $ LYPG 251700Z 14009KT 100V160 CAVOK 18/09 Q1017 NOSIG SLTR 251700Z 30005KT 9999 FEW017 SCT200 31/25 Q1011 HKKI 251600Z VRB03KT 5000 RA FEW020CB SCT021 BKN090 20/20 Q1017 K1BM 251658Z AUTO 26013G18KT 10SM BKN210 08/M07 A2995 RMK AO2 SLP155 T00821070 $ K1BN 251656Z AUTO 21027G32KT 10SM SCT130 02/00 A2992 RMK AO2 PK WND 21034/33 SLP158 T00150000 $ ZBAA 251700Z 32006MPS CAVOK 09/M07 Q1021 NOSIG LZIB 251700Z 33008KT CAVOK 12/M02 Q1022 NOSIG SLVM 251700Z 00000KT 9999 BKN015 29/24 Q1009 K1F0 251655Z AUTO 00000KT 10SM OVC025 13/05 A3003 RMK AO2 K1CM 251658Z AUTO 09003KT 10SM CLR 08/M07 A2995 RMK AO2 SLP155 T00791075 $ K1CN 251656Z AUTO 18013KT 10SM SCT006 02/01 A2998 RMK AO2 SLP178 T00170007 $ K1BW 251658Z AUTO 22013KT 10SM CLR 12/01 A3002 RMK AO2 SLP154 T01170010 $ SLVR 251700Z 35012G23KT 9999 FEW013 BKN020 29/22 Q1012 HKML 251600Z 13008KT 9999 FEW023 29/24 Q1008 K1DM 251658Z AUTO 26018KT 10SM BKN200 09/M06 A2992 RMK AO2 SLP150 T00941061 $ K1DN 251656Z AUTO 17016KT 7SM SCT005 BKN110 01/00 A2995 RMK AO2 SLP170 T00070003 $ K1CW 251658Z AUTO 22014KT 10SM CLR 13/00 A3002 RMK AO2 SLP149 T01330002 $ HKMO 251600Z 11006KT 9999 BKN024 29/24 Q1009 NOSIG GUCY 251700Z 27008KT 9999 BKN110 30/23 Q1010 NOSIG SLYA 251700Z 00000KT 9999 FEW005 BKN017 OVC070 25/22 Q1010 YJLC 251700Z AUTO 11006KT //// // ////// 26/17 Q1009 RMK NGTA 250600Z 08013KT 9999 FEW016CB FEW019TCU SCT040 27/25 Q1009 TDPD 251700Z 13005KT 9999 BKN019 26/22 Q1015 MPSM 251400Z 35016KT 9999 FEW020 29/22 Q1012 K1H2 251655Z AUTO 14011G19KT 10SM BKN035 BKN047 OVC065 19/13 A2995 RMK AO2 T01890126 K1EM 251658Z AUTO 27008KT 10SM CLR 09/M04 A2994 RMK AO2 SLP153 T00891041 $ CERM 251700Z AUTO 33010G20KT M01/M16 RMK AO1 SOG 69 1009 PK WND 35020/1653 SLP248 T10051163 K1EN 251656Z AUTO 16012KT 10SM BKN110 02/00 A2992 RMK AO2 SLP166 T00170002 $ K1DW 251658Z AUTO 23013KT 10SM CLR 11/00 A3004 RMK AO2 SLP161 T01130000 $ K0R0 251655Z AUTO 17006G11KT 10SM FEW095 17/ A3009 RMK AO2 K1FM 251658Z AUTO 24008KT 10SM CLR 06/M08 A2994 RMK AO2 SLP160 T00641078 $ HKNW 251600Z 09010KT 9999 FEW029 27/08 Q1017 MPTO 251700Z 02005KT 9000 SCT017 BKN090 31/22 Q1014 NOSIG K1FN 251656Z AUTO 18014G20KT 10SM CLR 01/00 A2983 RMK AO2 PK WND 17026/1557 SLP163 T00101003 $ K0R4 251655Z AUTO 19018G21KT 10SM BKN021 OVC030 23/19 A2999 RMK AO2 T02250193 NGTT 251700Z 09010KT 9999 SCT017 SCT300 26/25 Q1009 RESHRA K1J0 251558Z AUTO 15011KT 10SM CLR 24/14 A3022 RMK AO2 SLP192 T02440144 K2A0 251655Z AUTO 16008KT 10SM FEW039 21/13 A3017 RMK A01 YIVO 251700Z AUTO 09003KT //// // ////// 26/18 Q1011 RMK LYTV 251700Z VRB01KT CAVOK 15/12 Q1018 NOSIG K1GM 251658Z AUTO 20012KT 10SM CLR 06/M05 A2994 RMK AO2 SLP154 T00601055 $ K1GN 251656Z AUTO 19018KT 10SM FEW120 02/00 A2989 RMK AO2 RAE08 SLP155 T00170001 $ K1FW 251658Z AUTO 20012KT 10SM BKN220 12/01 A3001 RMK AO2 SLP152 T01150010 TSNO $ LZKZ 251700Z 10006KT CAVOK 08/M02 Q1018 NOSIG K0S9 251655Z AUTO 09004KT 10SM FEW016 SCT023 OVC028 09/05 A3010 RMK AO2 K1K1 251655Z AUTO 34014G18KT 10SM OVC012 06/04 A2994 RMK AO2 T00620039 K1HM 251658Z AUTO 23011KT 10SM CLR 08/M07 A2994 RMK AO2 SLP147 T00771074 $ K1HN 251656Z AUTO 16012KT 10SM BKN130 04/01 A2991 RMK AO2 SHRAE23 SLP155 T00360012 $ LYUZ 251700Z 04003KT 010V090 9999 FEW020 10/07 Q1020 LYVR 251700Z VRB06KT CAVOK 12/01 Q1020 NOSIG K1L0 251655Z AUTO 18019G25KT 10SM TS BKN031 BKN043 OVC060 26/18 A3004 RMK AO2 LTG DSNT W THRU NE T02640184 GVAC 251700Z 04016KT 9999 BKN014 23/14 Q1014 NOSIG K36U 251700Z AUTO 22010KT 7SM -DZ OVC027 06/03 A2999 RMK AO2 K1IN 251656Z AUTO 18014KT 10SM FEW160 BKN190 02/00 A2989 RMK AO2 SLP151 T00230002 $ K1HW 251658Z AUTO 16011G18KT 10SM CLR 13/M01 A3002 RMK AO2 SLP171 T01251007 $ SOCA 251700Z AUTO 05012KT 020V080 9999 BKN022 BKN029 BKN035 30/23 Q1011 TEMPO SHRA FEW015TCU GVBA 251700Z 03016KT 9999 SCT015 23/15 Q1015 NOSIG K2C8 251655Z AUTO 17015KT 10SM 02/M00 A3011 RMK AO2 K40B 251616Z AUTO VRB06G14KT 00/M15 A3022 RMK AO1 SLP257 T00021149 51013 K1JM 251658Z AUTO 24019G23KT 10SM CLR 07/M06 A2994 RMK AO2 SLP157 T00721059 $ ZBHH 251700Z 00000MPS 9999 FEW040 M02/M08 Q1023 NOSIG K1JN 251656Z AUTO 21027G32KT 10SM BKN140 01/00 A2987 RMK AO2 PK WND 20033/1557 SLP144 T00141003 $ K1IW 251658Z AUTO 19008KT 10SM CLR 11/M01 A3002 RMK AO2 SLP173 T01121014 $ K1M4 251656Z AUTO 22011G14KT 10SM -RA OVC032 19/13 A3013 RMK AO2 LTG DSNT SW RAB46 SLP218 P0000 T01890128 K0V4 251655Z AUTO 22012G16KT 10SM CLR 23/08 A3023 RMK AO1 T02300082 K1M5 251655Z AUTO 19017G25KT 10SM BKN070 22/11 A3007 RMK A01 K40J 251655Z AUTO 13005KT 10SM SCT055 26/13 A3025 RMK AO2 T02550131 K1KM 251658Z AUTO 30019KT 10SM BKN100 06/M05 A2998 RMK AO2 PK WND 29028/15 SLP165 T00631054 $ K1KN 251656Z AUTO 20022G28KT 10SM FEW160 01/00 A2987 RMK AO2 PK WND 20031/28 SLP144 T00141004 $ K1JW 251658Z AUTO M 10SM CLR 11/M01 A3002 RMK AO2 SLP166 T01061010 $ YKII 251700Z AUTO 23005KT 9999 // OVC020 18/16 Q1013 RMK LZPP 251700Z 33008KT CAVOK 10/M01 Q1021 HLLM 250755Z 12006KT 8000 SKC 22/11 Q1020 K1LN 251656Z AUTO 22013G19KT 10SM SCT170 04/01 A2988 RMK AO2 SLP140 T00380009 $ K1KW 251658Z AUTO 22013KT 10SM CLR 12/01 A2999 RMK AO2 SLP154 T01170008 $ AYGN 242300Z 00000KT 9999 VCSHRA SCT020 SCT040 BKN140 26/25 Q1012 K2F5 251655Z AUTO 36012KT 10SM SCT110 17/M01 A3013 RMK AO2 K0VG 251650Z AUTO 22004KT 10SM 22/08 A3023 RMK AO2 YLBD 251700Z AUTO 33008KT 9999 // SCT019 28/25 Q1007 RMK K42J 251655Z AUTO 18007KT 10SM FEW036 FEW044 SCT080 25/10 A3027 RMK AO1 TSNO MSAC 251650Z 27006KT 9999 FEW040 32/23 Q1012 A2989 K1P1 251655Z AUTO 27003KT 10SM SCT060 BKN070 OVC085 03/M01 A3026 RMK AO2 T00271007 K1MM 251658Z AUTO 28010KT 10SM CLR 09/M07 A2996 RMK AO2 SLP153 T00871073 $ TFFF 251700Z AUTO 12013KT 9999 BKN027 BKN034 OVC062 29/21 Q1014 TEMPO 4000 SHRA FEW020TCU K1MN 251656Z AUTO 19014KT 10SM FEW110 02/00 A2989 RMK AO2 SLP148 T00210000 $ K1LW 251658Z AUTO 20011KT 10SM CLR 11/01 A3004 RMK AO2 SLP164 T01050005 $ K2G4 251700Z AUTO 28004KT 10SM SCT032 BKN044 16/08 A3024 RMK AO1 K2DP 251656Z AUTO 22012KT 10SM CLR 23/10 A3030 RMK AO2 SLPNO T02260099 $ K2G9 251655Z AUTO 27009KT 10SM BKN035 OVC046 17/10 A3021 RMK AO2 LZSL 251700Z 01006KT CAVOK 10/M03 Q1019 K1NM 251658Z AUTO 27010KT 10SM FEW120 09/M05 A2993 RMK AO2 SLP150 T00901050 $ K1NN 251656Z AUTO 16010KT 10SM FEW110 BKN140 01/00 A2992 RMK AO2 SLP153 T00141001 $ K1MW 251658Z AUTO 20010KT 10SM CLR 12/M02 A3003 RMK AO2 SLP173 T01161021 $ TFFR 251700Z AUTO 12017KT 9999 SCT033 BKN040 BKN070 28/19 Q1014 TEMPO SCT018TCU MRLB 251700Z 11008KT 9999 FEW035 33/19 A2990 NOSIG K2I0 251555Z AUTO 19018G23KT 10SM CLR 23/13 A2999 RMK AO2 T02260127 K1ON 251656Z AUTO 16019KT 10SM FEW007 BKN110 01/00 A2992 RMK AO2 SLP158 T00061001 $ K1NW 251658Z AUTO 20011KT 10SM CLR 11/M01 A3002 RMK AO2 SLP163 T01051007 TSNO $ YLEC 251700Z AUTO 11015KT //// // ////// 28/11 Q1011 RMK K1R7 251655Z AUTO 18011G16KT 10SM CLR 22/17 A3005 RMK AO2 LZTT 251700Z 25013KT CAVOK 07/M07 Q1018 NOSIG MRLM 251700Z 06009KT 9999 FEW020 BKN110 27/23 A2997 YKMP 251700Z AUTO 00000KT //// // ////// 20/19 Q1012 RMK SMZO 251700Z 04006KT 9999 SCT035 31/23 Q1011 NOSIG K1OW 251658Z AUTO 20008KT 10SM CLR 09/00 A3002 RMK AO2 SLP164 T00871003 PWINO $ K1S5 251655Z AUTO 24009G14KT 10SM CLR 09/00 A3009 RMK AO2 T00940001 YLEO 251700Z AUTO 03003KT 9999 // NCD 21/20 Q1010 RMK YKNT 251700Z AUTO 17010KT //// // ////// 29/06 Q1008 MROC 251700Z 09012KT CAVOK 29/16 A3004 NOSIG K46U 251640Z AUTO 00000KT 8SM BKN004 02/02 A3006 RMK A01 AYMO 250000Z 36006KT 9999 SCT018 SCT140 28/24 QNIL RESH YKOW 251700Z AUTO 07003KT 9999 // ////// 26/26 Q1008 RMK K3D2 251655Z AUTO 07013G19KT 10SM OVC008 02/01 A3027 RMK AO2 T00190007 YLHI 251700Z AUTO 00000KT 9999 // SCT047 20/14 Q1014 K1V4 251654Z AUTO 02/M02 A3026 RMK AO1 SLP258 T00221022 K1V6 251220Z AUTO 01005KT 10SM CLR M01/M03 A3009 RMK AO2 SPCL 251700Z VRB01KT 9999 SCT015 BKN070 30/23 Q1014 RMK BIRD HAZARD RWY 02/20 PP000 K3AU 251655Z AUTO 32011G16KT 10SM OVC012 06/04 A2994 RMK AO2 YLHR 251700Z AUTO 32006KT //// // ////// 24/24 Q1008 LZZI 251700Z 35004KT CAVOK 09/M01 Q1021 YKSC 251700Z AUTO 00000KT 9999 // NCD 17/16 Q1012 RMK AYNZ 242200Z 00000KT 9999 FEW016 SCT030 OVC120 25/23 Q1010 MRPV 251700Z 08015KT 9999 FEW045 26/14 A3008 NOSIG K3F3 251655Z AUTO 23009KT 200V260 10SM CLR 21/11 A3003 RMK AO2 T02060111 PWINO YMBA 251700Z AUTO 00000KT //// // ////// 22/21 Q1011 YLIS 251700Z AUTO 00000KT 1700 // BKN006 19/19 Q1013 ZBSJ 251700Z 31004MPS CAVOK 08/M04 Q1023 NOSIG OAHR 251655Z 31006KT CAVOK 13/10 Q1018 RMK BLU YMBD 251700Z AUTO 24004KT 9999 // NCD 17/15 Q1013 RMK K2LS 251655Z AUTO 18013G20KT 9SM BKN020 BKN031 25/20 A3007 RMK AO2 YKRY 251700Z AUTO 12003KT 9999 // NCD 18/17 Q1015 RMK K2P2 251655Z AUTO 09007G16KT 10SM OVC009 01/M01 A3030 RMK AO2 T00121006 ZBTJ 251700Z 24002MPS 4500 HZ NSC 08/03 Q1020 NOSIG AYPY 251700Z 00000KT 9999 FEW040 26/24 Q1008 YMAV 251700Z AUTO 19004KT 170V280 9999 // OVC012 19/18 Q1013 OAKB 251650Z VRB03KT CAVOK 12/06 Q1024 NOSIG RMK BLU BLU YLLE 251700Z AUTO 01009KT 9999 // NCD 30/12 Q1008 OAJL 251655Z 32001KT 8000 HZ FEW130 BKN250 21/10 A3007 RMK AO2A SLP165 T02070098 $ YMAY 251700Z AUTO 12001KT 9999 // NCD 17/16 Q1014 RMK GVNP 251700Z 01018KT 9999 FEW017 24/15 Q1013 NOSIG OBBI 251700Z 09006KT 7000 NSC 22/20 Q1008 NOSIG K54J 251655Z AUTO 15011G16KT 10SM SCT028 BKN034 OVC065 23/15 A3021 RMK AO2 T02290154 SPGM 251700Z /////KT 8000 SCT025 OVC090 24/21 Q1018 RMK BIRD HAZARD RWY19 PP000 YMCO 251700Z AUTO 31006KT //// // ////// 17/16 Q1012 NIUE 251600Z AUTO 13003KT //// ////// 24/24 Q1014 YMDG 251700Z AUTO 00000KT 9999 // NCD 19/19 Q1015 RMK K3I2 251655Z AUTO 23005KT 10SM CLR 24/11 A3018 RMK AO2 T02390111 OAKN 251658Z 07011KT 9999 BKN190 21/11 A3006 RMK SLP122 Q1018 DA4790 MTCH 251600Z 36008KT 9999 FEW025 26/18 Q1016 A3001 SPHI 251700Z 22006KT 160V310 9999 BKN020 30/23 Q1012 RMK PP000 SPHO 251700Z 08005KT 9999 VCSH SCT040 SCT080 21/11 Q1028 RMK SH QUAD N/E PP000 MSLP 251650Z 07005KT 340V140 CAVOK 32/16 Q1014 A2995 YMEK 251700Z AUTO 00000KT 9999 // NCD 21/20 Q1011 K4A6 251655Z AUTO 20013G20KT 10SM BKN045 22/12 A3015 RMK AO2 K3J7 251655Z AUTO 19006KT 10SM BKN035 BKN041 OVC050 21/13 A3025 RMK AO2 SPJC 251700Z 23007KT CAVOK 28/20 Q1013 NOSIG RMK PP000 MSLU 251650Z 07005KT CAVOK 31/17 Q1013 A2993 YMEN 251700Z AUTO 26004KT 9999 // SCT011 OVC015 19/19 Q1014 K4A9 251655Z AUTO 19010G19KT 10SM SCT046 SCT050 22/08 A3017 RMK AO2 K1YT 251658Z AUTO 00000KT 10SM CLR 07/02 A3003 RMK AO2 SLPNO T00720018 $ K57C 251655Z AUTO 07017G24KT 5SM -RA OVC004 03/03 A3006 RMK AO2 P0001 T00300025 SPHY 251700Z /////KT 9000 SCT012 BKN070 13/09 Q1036 RMK BIRD HAZARD RWY03/21 PP000 K3K3 251655Z AUTO 36011G16KT 10SM CLR 15/M04 A3005 RMK AO2 SPHZ 251110Z 00000KT 9999 SCT050 BKN090 10/09 Q1031 YMER 251700Z AUTO 00000KT 2300 // NCD 15/14 Q1012 YMES 251700Z AUTO 26004KT //// // SCT077 16/14 Q1013 SPJI 251700Z 00000KT 9999 0VC020 27/24 Q1023 RMK PP000 YMGB 251700Z AUTO 33006KT //// // ////// 29/24 Q1008 OAMS 251650Z 23005KT 9999 -RA BKN012 OVC100 10/09 Q1021 GRN GRN TEMPO YLO YMGD 251700Z AUTO 30004KT 9999 // NCD 28/25 Q1008 RMK SPJL 251700Z VRB03KT 9999 SCT020 14/05 Q1038 RMK PP000 SPJR 251700Z 18006KT 140V230 9999 SCT026 BKN050 20/12 Q1030 RMK PP000 YMHB 251700Z 34004KT 9999 FEW040 13/12 Q1014 ZBYN 251700Z 32003MPS CAVOK 01/M06 Q1024 NOSIG K2V5 251655Z AUTO 00000KT 10SM CLR 11/M02 A3006 RMK AO2 YMIA 251700Z AUTO 18005KT 9999 // OVC125 24/16 Q1012 RMK K2V6 251649Z AUTO 00000KT 10SM CLR 10/M01 A3004 RMK AO2 YLRE 251700Z AUTO 09006KT 9999 // NCD 24/18 Q1011 RMK SPME 251700Z /////KT 9999 SCT013 BKN017 28/24 Q1012 RMK BIRD HAZARD RWY 17/35 PP000 SPLO 251700Z 16008KT CAVOK 23/18 Q1012 RMK PP000 GVSV 251700Z 06019G31KT 9999 FEW024 25/14 Q1014 NOSIG K4BM 251655Z AUTO 26005KT 10SM CLR 05/M15 A3023 RMK AO2 K3LF 251655Z AUTO 17010KT 10SM SCT033 BKN060 OVC070 15/13 A2991 RMK AO2 T01450125 K2W6 251701Z AUTO 24008G14KT 200V260 10SM CLR 22/10 A3019 RMK AO1 YMHU 251700Z AUTO 01001KT 9999 // NCD 27/25 Q1007 K3N8 251655Z AUTO 15010KT 120V180 10SM OVC018 03/M02 A3017 RMK AO2 T00271016 YMIN 251700Z AUTO 11005KT //// // ////// 19/17 Q1012 RMK SPMS 251700Z 11005KT 9999 FEW013 SCT100 30/24 Q1016 RMK BIRD HAZARD RWY 09/27 PP000 MSSA 251650Z 03003KT CAVOK 28/14 Q1021 A3017 YNAR 251700Z AUTO 11005KT //// // ////// 18/16 Q1013 RMK YLST 251700Z AUTO 34003KT 9999 // NCD 21/21 Q1010 RMK YLTN 251700Z AUTO 27004KT //// // ////// 21/21 Q1010 MSSM 251650Z 14002KT CAVOK 32/13 Q1013 A2994 DAAD 251700Z 17006KT CAVOK 17/M05 Q1019 DAAE 251700Z 08007KT CAVOK 15/07 Q1020 YNBR 251700Z AUTO 11009KT 9999 RA BKN061 OVC078 OVC110 24/18 YMMB 251700Z AUTO 20003KT 9999 // OVC033 20/17 Q1013 RMK DAAG 251700Z 03012KT CAVOK 16/08 Q1019 MSSS 251650Z 09005KT CAVOK 29/17 Q1018 A3009 YLTV 251700Z AUTO 29009KT 9999 // NCD 18/15 Q1013 RMK DAAJ 251700Z 00000KT CAVOK 29/M02 Q1019 MUCC 251552Z 08018KT 9000 SCT018 25/20 Q1020 DABB 251630Z 05005KT 9999 FEW026 15/10 Q1020 DABC 251700Z 07010KT 9999 FEW026 14/04 Q1020 K4I3 251700Z AUTO 25010G15KT 200V260 10SM SCT070 21/11 A3016 RMK AO2 MUCF 251650Z 09012KT 050V150 9999 SCT025 31/17 Q1018 K2WX 251656Z AUTO 00000KT 10/01 A2986 RMK AO1 SLP120 T01000006 DAAP 251700Z 06012KT CAVOK 33/M02 Q1015 YMLT 251701Z AUTO 18006KT 0300 // BKN001 11/11 Q1013 YMML 251700Z 25003KT 9999 BKN011 18/17 Q1014 NOSIG K3R7 251655Z AUTO 22015G22KT 10SM -VCTSRA SCT034 SCT060 BKN120 20/13 A3001 RMK AO2 LTG DSNT S THRU W P0001 T01980125 YMNE 251700Z AUTO 00000KT 9999 // NCD 21/20 Q1011 RMK DAAS 251700Z 22005KT 9999 FEW030 15/M06 Q1019 MUCL 251651Z 05011KT 9000 FEW020 27/18 Q1019 DAAT 251700Z 18007KT CAVOK 29/// Q1021 MUCM 251650Z 09016KT 9000 SCT020 27/17 Q1019 YMNG 251700Z AUTO 21005KT 9999 // BKN048 19/17 Q1013 RMK TGPY 251700Z 10018KT 9999 FEW019 29/24 Q1012 NOSIG DAAV 251700Z 04005KT CAVOK 15/08 Q1020 DAAY 251700Z 17018KT CAVOK 15/M05 Q1020 K5A6 251700Z AUTO 23007KT 10SM OVC060 16/16 A3005 RMK AO2 LTG DSNT SW T01580156 AZUH 251651Z 00000KT CAVOK 10/M05 Q1015 SPQT 251700Z 33004KT 9999 BKN020 BKN100 30/24 Q1013 NOSIG RMK PP000 K3S8 251655Z AUTO 00000KT 10SM -DZ SCT007 BKN012 OVC065 08/06 A3020 RMK AO2 K65S 251655Z AUTO 20004KT 10SM SCT022 SCT031 BKN070 06/02 A2999 RMK AO2 SPQU 251700Z 25008KT 210V300 9999 SCT020 17/11 Q1027 NOSIG RMK PP000 DABS 251700Z 02010KT 8000 SCT033 15/07 Q1019 MUCU 251652Z 17008KT 130V190 9000 FEW020TCU 28/16 Q1016 DABT 251700Z 31004KT 9999 FEW026 SCT200 18/M02 Q1019 YMOG 251700Z AUTO 29006KT //// // ////// 23/18 Q1011 RMK K3T5 251655Z AUTO 01008KT 10SM CLR 21/10 A3006 RMK AO2 T02050102 K66R 251655Z AUTO 34008KT 10SM CLR 21/09 A3007 RMK AO2 T02140089 SPRU 251700Z 18010KT 9000 FEW020 28/23 Q1012 RMK HZ PP000 K5C1 251655Z AUTO 35006KT 10SM CLR 20/05 A3010 RMK AO1 SPSO 251700Z 28009KT CAVOK 24/20 Q1012 RMK BIRD HAZARD RWY 22/04 PP000 YMOR 251700Z AUTO 03010KT 9999 // SCT085 24/18 Q1012 RMK SPST 251700Z 12003KT 9999 SCT020 BKN080 29/22 Q1014 RMK BIRD HAZARD RWY 17/35 PP000 SPTN 251700Z 21008KT CAVOK 28/15 Q1015 RMK PP000 YMRB 251700Z AUTO 15009KT 9999 // NCD 22/20 Q1010 RMK YNHL 251700Z AUTO 17006KT //// // ////// 15/14 Q1012 RMK DAFH 251700Z 15004KT CAVOK 21/M03 Q1018 MUHA 251655Z 09010KT 050V120 9000 SCT030 27/15 Q1020 SPTU 251700Z /////KT 8000 BCFG FEW007 OVC060 26/23 Q1012 RMK BIRD HAZARD RWY 01/19 PP000 K4M9 251655Z AUTO 16014G18KT 10SM BKN009 OVC014 16/16 A2989 RMK AO2 MUGM 251656Z 13010KT 9999 FEW035 SCT250 28/22 A2999 RMK SLP157 T02830217 MTPP 251700Z 29011KT 9999 FEW026 29/20 Q1012 A2990 MUHG 251653Z 04012KT 8000 VCSH FEW020TCU SCT025 24/20 Q1017 SPUR 251228Z VRB01KT 9000 -RA BKN005 SCT080 25/24 Q1012 RMK BIRD HAZARD RWY 19/01 K4O4 251655Z AUTO 27009G14KT 10SM SCT027 BKN034 16/09 A2999 RMK AO2 YMTG 251700Z AUTO 12005KT 9999 // OVC014 17/15 Q1014 YMTI 251700Z AUTO 32007KT //// // ////// 29/26 Q1008 RMK K4MR 251658Z AUTO 23012G17KT 10SM CLR 14/M02 A3012 RMK AO2 SLP175 T01391018 $ K5H4 251655Z AUTO 17018G23KT 10SM 01/01 A3005 RMK AO2 PWINO SPYL 251700Z 25008KT 9999 BKN030 28/25 Q1012 RMK BIRD HAZARD RWY 17/35 PP000 DBBB 251600Z 21012KT 9999 SCT014 31/26 Q1007 NOSIG K4R5 251655Z AUTO 07008G15KT 040V120 10SM OVC031 01/M02 A3030 RMK AO2 T00131017 K6A1 251655Z AUTO 21005KT 10SM 25/15 A3025 RMK AO2 T02530148 K74V 251655Z AUTO 00000KT 10SM BKN090 08/01 A3002 RMK AO2 K6A2 251655Z AUTO 16008G15KT 10SM SCT035 22/15 A3025 RMK AO2 SPZO 251700Z VRB03KT 9999 FEW030 SCT046 BKN080 14/06 Q1033 NOSIG RMK BIRD HAZARD RWY 28 PP000 UAAA 251700Z 18002MPS 1200 R23R/P2000U R23L/P2000D BR FU SCT100 07/03 Q1016 R88/CLRD65 NOSIG K6B0 251655Z AUTO 34005KT 10SM OVC014 01/M01 A3030 RMK AO2 T00131011 UAAH 251100Z 03003MPS CAVOK 03/01 Q1020 R05/0///60 NOSIG RMK QFE728/0970 YMYB 251700Z AUTO 14005KT 9000 // SCT014 SCT019 BKN033 23/22 Q1012 K6B9 251655Z AUTO 01005KT 6SM -RA OVC003 01/01 A3028 RMK AO2 P0005 UACC 251700Z 21003MPS 180V250 7000 OVC006 M02/M03 Q1023 R22/1/0065 TEMPO 2000 BR OVC005 RMK QBB180 QFE736/0981 K4V0 251655Z AUTO 00000KT 10SM CLR 11/M01 A2999 RMK AO2 T01071006 DAOB 251700Z 19012KT CAVOK 15/08 Q1018 TJBQ 251650Z 20008G15KT 170V230 10SM SCT032 SCT049 28/21 A2994 DAOF 251700Z 25015KT 9999 FEW046 24/M05 Q1014 YNRC 251700Z AUTO 00000KT //// // ////// 14/13 Q1013 RMK UACK 251130Z 29004MPS CAVOK 02/M05 Q1020 R20/010060 NOSIG RMK QFE741/0989 DAOI 251700Z 00000KT CAVOK 19/08 Q1016 K79J 251656Z AUTO 16009G16KT 130V200 10SM FEW032 BKN042 26/15 A3017 RMK AO2 SLP212 T02560150 UADD 251700Z 28002MPS 240V330 9999 OVC025 07/06 Q1018 R31/0///65 NOSIG RMK QFE706/0941 K5M9 251655Z AUTO 18007G20KT 150V230 10SM SCT100 21/12 A2997 RMK AO2 T02050123 DAOL 251700Z 02012KT 9999 SCT030 19/03 Q1015 UACP 251130Z 23006MPS CAVOK 02/M03 Q1019 R23/0/0060 NOSIG RMK QFE752/1003 DAON 251700Z 34010KT 9999 FEW026 19/08 Q1014 DAOO 251700Z 36013KT 9999 FEW026 17/06 Q1015 DAOR 251700Z 19010KT CAVOK 19/M00 Q1016 YPAD 251700Z 09002KT CAVOK 21/18 Q1012 NOSIG K82C 251655Z AUTO 06007G14KT 020V080 5SM BR OVC009 03/02 A3013 RMK AO2 T00280015 YPAG 251700Z AUTO 15008KT 9999 NCD 25/15 Q1011 RMK DAOV 251700Z 20010KT 9999 FEW030 SCT233 20/01 Q1015 DAOY 251700Z 19013KT CAVOK 13/M07 Q1018 YNSM 251700Z AUTO 01013KT //// // ////// 20/20 Q1007 RMK OEAB 251700Z 18019KT 9999 SCT018 SCT090 16/14 Q1021 NOSIG MUSC 251650Z 07018KT 9000 SCT016 26/17 Q1020 OEAH 251700Z 30017KT 1000 BLDU SCT040 BKN100 22/19 Q1009 NOSIG OEBA 251700Z 23010KT CAVOK 20/08 Q1015 NOSIG YPCC 251700Z AUTO 21006KT 9999 // NCD 26/22 Q1011 YOLD 251700Z AUTO 15005KT 9999 // NCD 25/12 Q1010 RMK YNTN 251700Z AUTO 31004KT 9999 // NCD 28/26 Q1007 YPBO 251700Z AUTO 11004KT 9999 // NCD 25/22 Q1010 RMK K82V 251655Z AUTO 21011G17KT 10SM CLR 12/M01 A3002 RMK AO2 OEAO 251700Z 36010KT CAVOK 23/M03 Q1013 OEBH 251700Z 27006KT CAVOK 23/14 Q1012 NOSIG OEAR 251700Z 32004KT CAVOK 25/12 Q1010 MWCB 251700Z 05009KT 030V110 9999 BKN016 28/21 Q1017 K6I2 251655Z AUTO 17016G23KT 10SM CLR 23/10 A3010 RMK AO2 YPEA 251700Z AUTO 33005KT 9999 // BKN041 17/15 Q1010 YPED 251700Z AUTO 00000KT 9999 NCD 21/17 Q1012 RMK K5R8 251655Z AUTO 21006KT 10SM CLR 17/15 A3003 RMK AO2 LTG DSNT S AND SW T01730145 YOLW 251700Z AUTO 24010KT //// // ////// 26/21 Q1008 RMK DAUA 251700Z 22012KT 9000 NSC 32/// Q1013 YPDN 251700Z 07004KT 9999 FEW010 SCT180 26/25 Q1007 DAUB 251700Z 31016KT 9999 FEW040 23/M05 Q1017 TJIG 251647Z 17012KT 10SM FEW010 SCT025 BKN080 27/21 A2995 DATM 251200Z 27012KT CAVOK 33/M02 Q1016 OEDF 251703Z 35013KT 8000 SCT020 BKN090 20/17 Q1009 NOSIG DAUE 251700Z ///12KT CAVOK 23/03 Q1017 UAII 251700Z VRB01MPS 8000 -SHRA SCT007 OVC040CB 09/09 Q1018 R10/2///55 NOSIG RMK QFE728/0971 MWCR 251700Z 05014KT 9999 SCT025 28/22 Q1016 DAUG 251700Z 09004KT 050V130 CAVOK 22/M12 Q1018 DAUH 251700Z 02006KT CAVOK 24/M10 Q1018 YOOD 251700Z AUTO 11007KT //// // ////// 29/06 Q1008 RMK YNWN 251700Z AUTO 25003KT 9999 // SCT056 SCT100 25/22 Q1011 DAUK 251700Z 33006KT CAVOK 23/05 Q1018 OEDM 251600Z 02014KT8000 SCT040 BKN100 22/07 Q1011 DAUL 251700Z 18004KT CAVOK 20/M04 Q1018 DAUO 251700Z 32008KT CAVOK 23/03 Q1017 MUVR 251651Z 06020KT 030V090 9000 SCT020 27/16 Q1020 OEDR 251700Z VRB06KT 8000 SCT040 BKN080 23/19 Q1006 NOSIG UBBB 251700Z 18015KT 9999 SCT010 09/07 Q1018 R88/CLRD// NOSIG YOOM 251700Z AUTO 17005KT 9999 BKN120 31/09 Q1008 RMK K5T9 251655Z AUTO 33010KT 310V020 10SM CLR 23/04 A3012 RMK A01 DAUT 251700Z 05007KT 9000 NSC 29/M03 Q1014 DAUU 251700Z 04008KT CAVOK 24/// Q1017 ZGGG 251700Z 02004MPS 9999 -RA OVC060 13/11 Q1022 NOSIG UBBG 251700Z 20004KT 9999 FEW100 08/02 Q1017 R30/CLRD// NOSIG K6L4 251655Z AUTO 00000KT 10SM CLR 23/08 A3019 RMK AO2 ZGHA 251700Z 05002MPS 4000 BR NSC 10/09 Q1025 NOSIG DAUZ 251700Z 11004KT 080V140 CAVOK 31/M06 Q1017 UAKK 251700Z 09002MPS 340V150 9999 BKN012 M02/M05 Q1022 R23/910560 NOSIG RMK QFE719/0959 TIST 251653Z 14015KT 10SM FEW025 SCT030 OVC100 26/23 A2996 RMK AO2 RAB04E51 SLP144 P0000 T02610233 UBBL 251700Z 14013KT 9999 NSC 09/07 Q1019 R33/CLRD// RMK MT OP UBBN 251700Z 04006KT 9999 NSC 06/M03 Q1014 R14R/CLRD// NOSIG RMK MT OP QFE685 TISX 251653Z 15007KT 10SM SCT024 BKN080 27/23 A2997 RMK AO2 SLP147 T02720228 $ K5SM 251655Z AUTO 22007G16KT 190V250 10SM CLR 00/M09 A3020 RMK AO2 UBBQ 251700Z 12003KT 9999 FEW035 07/03 Q1017 R16/////// NOSIG RMK MT OBSC YPGV 251700Z AUTO 32007KT 9999 // NCD 28/26 Q1008 OEGN 251700Z 13004KT CAVOK 29/24 Q1008 NOSIG K7BM 251654Z AUTO 11006KT 10SM CLR 07/M11 A3015 RMK AO2 UBBY 251700Z 07008KT 9999 FEW100 07/03 Q1019 R33/////// NOSIG RMK MT OP OEGS 251700Z 03010KT 9999 FEW040 22/10 Q1012 OEGT 251700Z 24002KT CAVOK 19/01 Q1014 NOSIG OEHL 251700Z 03008KT 9999 FEW040 17/04 Q1014 NOSIG UBEE 251500Z 00000KT CAVOK 12/04 Q1017 R30/CLRD// NOSIG YPKA 251700Z AUTO 24009KT 9999 // SCT092 28/21 Q1007 RMK OEJB 251700Z AUTO /////KT //// ///////// ///// Q//// NOSIG YPKG 251700Z AUTO 01004KT 1200 // OVC002 19/19 Q1009 TJNR 251653Z AUTO 15015KT 10SM SCT017 BKN026 OVC040 26/23 A2998 RMK AO2 RAB07E16 SLP152 P0001 T02610228 $ YPJT 251700Z AUTO 27009KT 9999 // SCT041 19/13 Q1009 RF00.0/000.0 YPLC 251700Z AUTO 01004KT 9999 // SCT120 19/19 Q1011 RMK ZHCC 251700Z 30006MPS CAVOK 12/M09 Q1024 NOSIG ZGKL 251700Z VRB01MPS 6000 -RA SCT033 OVC066 11/09 Q1025 NOSIG K6P9 251655Z AUTO 30003G17KT 10SM CLR 15/05 A3008 RMK AO2 UAOO 251700Z 34001MPS 9999 BKN016 04/02 Q1020 R05/CLRD70 NOSIG RMK QFE753/1004 OEJN 251700Z 32007KT CAVOK 24/15 Q1009 NOSIG YPKS 251700Z AUTO 00000KT //// // NCD 20/19 Q1013 RMK YPKT 251700Z AUTO 11006KT //// // ////// 25/23 Q1007 RMK OEKJ 251700Z 20006KT 7000 FEW040 SCT050 23/21 Q1013 YPKU 251700Z AUTO 19004KT 130V200 9000 // NCD 24/23 Q1009 RF00.0/001.8 OEKK 251700Z 20010KT CAVOK 20/05 Q1013 NOSIG YPLM 251700Z AUTO 24009KT 9999 // BKN096 25/21 Q1009 OEKM 251700Z 22012KT 9999 SCT020 17/13 Q1020 NOSIG K6R3 251655Z AUTO 31005KT 10SM CLR 22/11 A3005 RMK AO2 T02210109 TJPS 250850Z 11010KT 8SM -RA FEW010 OVC020 22/22 A2995 K6R6 251653Z AUTO VRB03KT 21/M01 A3013 RMK AO1 SLP178 T02061006 OEMA 251700Z 25006KT 8000 SKC 26/M01 Q1011 NOSIG K6S0 251500Z AUTO 23021KT 10SM BKN070 06/01 A2999 RMK A01 K8A0 251655Z AUTO 16008G20KT 10SM SCT041 22/16 A3014 RMK AO2 K6S2 251655Z AUTO 18004KT 10SM SCT055 09/07 A3018 RMK AO2 YPMQ 251700Z AUTO 29001KT 9999 // NCD 20/20 Q1012 SUAA 251700Z 07009KT 9999 FEW030 27/18 Q1017 YPOD 251700Z AUTO 00000KT 9999 // OVC015 17/13 Q1014 RMK OEMK 251700Z 00000KT CAVOK 26/14 Q1009 ZGNN 251700Z 34001MPS 9999 OVC043 15/10 Q1023 NOSIG K8B0 251655Z AUTO 35010KT 10SM OVC022 00/M05 A3020 RMK AO2 OENG 251700Z 24008KT 9999 SCT030 SCT090 27/11 Q1013 NOSIG UARR 251700Z 20007MPS 4100 -SHRA BR BKN004 OVC015CB 02/02 Q1007 R22/290155 TEMPO BKN003 RMK QBB140 QFE752/1003 TJSJ 251656Z 15012G19KT 10SM FEW030 SCT085 BKN110 28/22 A2994 RMK AO2 SLP136 T02780217 $ UASK 251700Z 14002MPS 9999 SCT050 BKN100 01/M03 Q1023 R12/710150 NOSIG RMK QFE742/0989 YPPD 251700Z AUTO 25005KT 9999 // NCD 27/26 Q1008 YPPF 251700Z AUTO 00000KT 9999 // NCD 20/17 Q1012 RMK UATE 251700Z 16008MPS 9999 SCT010 08/06 Q1018 R12/0///70 NOSIG RMK QFE761/1015 K7L2 251655Z AUTO 16022G27KT 10SM 02/02 A3006 RMK AO2 YPPH 251700Z 28007KT 9999 FEW025 SCT045 20/13 Q1009 NOSIG UATG 251700Z 19004MPS 9999 BKN028CB 05/03 Q1016 R14/CLRD70 NOSIG RMK QFE764/1018 UASP 251700Z 27003MPS CAVOK M03/M03 Q1024 R21/0///60 NOSIG RMK QFE756/1009 SUCA 251700Z 12008 9999 SCT026 FEW030TCU 25/21 Q1014 UASS 251030Z 22001MPS 9999 OVC048 02/M01 Q1021 NOSIG RMK QFE747/0996 OEPA 251700Z 04004KT 9999 FEW035 21/12 Q1012 NOSIG ZGOW 251700Z 00000MPS 7000 -RA SCT015 OVC026 14/13 Q1021 NOSIG ZHHH 251700Z 00000MPS CAVOK 10/08 Q1024 NOSIG K8D3 251656Z AUTO 18012KT 02/00 A3014 RMK AO1 SLP225 T00170000 UATT 251700Z 15007MPS 5000 FU FEW005 M01/M02 Q1015 R13/0///60 NOSIG RMK QBB170 QFE742/0989 K7N0 251656Z AUTO 16013G21KT 5SM -TSRA 24/20 A3005 RMK AO2 LTG DSNT W TSB46RAB26 SLP176 T02390200 PNO $ CMGB 251700Z AUTO 01004KT M01/M05 RMK AO1 SOG 27 1012 SLP280 T10071052 CMFM 251700Z AUTO 34007G16KT M04/M18 RMK AO1 SOG 104 1010 SLP257 T10421179 UAUU 251700Z 20008MPS 9999 OVC024 00/M03 Q1018 R33/CLRD60 NOSIG RMK QFE748/0998 OERF 251700Z 31011G22KT 9999 SCT040 19/00 Q1013 SUDU 251600Z 05004KT 9999 FEW030 26/17 Q1015 OERK 251700Z 02014KT 3000 BLDU FEW040 SCT080 21/14 Q1012 NOSIG OESH 251700Z 26010KT 9999 SCT040 SCT080 32/08 Q1008 NOSIG OERR 251700Z 01004KT 9999 SCT030 18/09 Q1014 NOSIG OETB 251700Z 31010KT CAVOK 20/M05 Q1013 NOSIG OESK 251700Z 06006KT CAVOK 18/M01 Q1014 NOSIG UCFL 251700Z 30002MPS 9999 SCT130 05/M03 Q1020 R88/////// RMK G/O YPTN 251700Z AUTO 00000KT 9999 // SCT055 25/23 Q1009 UCFM 251700Z 20003MPS 4600 BR FU NSC 11/07 Q1014 R26/CLRD70 TEMPO 1500 BR FU UCFO 251700Z 26007MPS 7000 SCT050 BKN166 11/08 Q1016 R12/CLRD70 TEMPO 27008G13MPS OETF 251700Z 23015KT 6000 SKC 19/03 Q1015 NOSIG ZGSZ 251700Z 04005MPS 9999 -RA FEW012 OVC026 14/11 Q1021 NOSIG TKPK 251700Z 11012KT 9999 SCT021 29/22 Q1015 TKPN 251700Z 12013KT 9999 SCT020 28/20 Q1014 OETR 251700Z 02005KT CAVOK 15/00 Q1015 NOSIG K9A5 251655Z AUTO 00000KT 10SM SCT039 SCT047 23/12 A3019 RMK AO2 T02320116 YREN 251700Z AUTO 17005KT 9999 // SCT115 22/15 Q1012 RMK OEWD 251700Z 01012KT 9999 FEW030 BKN080 25/22 Q1007 NOSIG YPWR 251700Z AUTO 13011KT 9999 // NCD 26/13 Q1011 OEWJ 251700Z 31018KT CAVOK 24/17 Q1009 NOSIG YPXM 251715Z AUTO 29005KT 9999 // SCT010 BKN014 OVC105 26/24 Q1012 SVBM 251600Z 11008KT 9999 BKN016 27/18 Q1017 MYGF 251700Z 10013KT 9999 SCT018 25/18 A3018 HTAR 251500Z 10008KT 9999 BKN030 23/20 Q1014 OEYN 251700Z 28017KT CAVOK 25/16 Q1007 NOSIG K7W4 251655Z AUTO 26008G14KT 220V280 10SM CLR 23/10 A3019 RMK AO1 T02340103 K7W6 251700Z AUTO 25010G15KT 10SM CLR 22/11 A3031 RMK AO2 T02180110 SULS 251700Z 08009KT 050V110 9999 SCT026 SCT200 26/19 Q1017 HTDA 251600Z 09005KT 9999 FEW022 FEW024CB 29/25 Q1010 NOSIG HTBU 251600Z 00000KT 9999 FEW019 FEW021CB SCT090 23/18 Q1016 SUMU 251700Z 12010KT CAVOK 26/19 Q1017 NOSIG HTDO 251600Z 18006KT 9999 TS SCT031 FEW032CB SCT310 28/16 Q1015 NOSIG YSBK 251700Z AUTO 00000KT 9999 // SCT052 19/18 Q1013 YSCB 251700Z AUTO 02001KT 0350 // ////// 11/11 Q1016 TLPC 251700Z 10013G23KT 9999 BKN024 29/21 Q1014 NOSIG HSOB 251700Z 34004KT CAVOK 32/02 Q1011 HSNN 251700Z 00000KT CAVOK 33/06 Q1009 YRMD 251700Z AUTO 05003KT //// // ////// 25/18 Q1009 RMK TLPL 251700Z 11016KT 9999 FEW028 29/22 Q1014 NOSIG YSCO 251700Z AUTO 00000KT //// // ////// 19/19 Q1013 RMK YSCR 251700Z AUTO 35005KT //// // ////// 19/16 Q1008 RMK HSPN 251700Z 02009KT 8000 25/17 Q1011 MZBZ 251700Z 12006KT 9999 FEW024 28/21 A3004 Q1017 NOSIG HRYR 251630Z 16005KT 9999 SCT025 SCT100 19/15 Q1020 NOSIG YSDU 251700Z AUTO 06005KT 9999 // NCD 21/20 Q1013 YROM 251700Z AUTO 03007KT 9999 // NCD 22/18 Q1013 RMK YSGE 251700Z AUTO 01009KT //// // ////// 25/18 Q1012 SUSO 251700Z 12008KT 9999 BKN030 30/19 Q1013 MYNN 251700Z 05014KT 9999 BKN020 27/13 A3019 RMK PKWND 19KT K9L2 251658Z AUTO 24012KT 9SM CLR 15/05 A3007 RMK AO2 SLP174 T01530054 TNCA 251700Z 09009KT 9999 FEW018 29/23 Q1013 A2992 NOSIG HTIR 251600Z 00000KT 9999 FEW020 FEW021BC BKN070 22/18 Q1020 TNCB 251655Z AUTO 11013KT 070V150 9999 FEW019/// SCT022/// 30/23 Q1013 HTKA 251600Z 30005KT 9999 FEW024 FEW025CB BKN260 27/21 Q1016 TNCC 251700Z 08009KT 9999 VCSH FEW016TCU 27/24 Q1013 NOSIG TNCE 251655Z AUTO 15009KT 090V200 //// // ///////// 26/22 Q1015 RE// DFFD 251600Z 11007KT 050V170 8000 NSC 41/04 Q1008 NOSIG YSHK 251700Z AUTO 18012KT //// // ////// 21/18 Q1011 RMK ZJHK 251700Z 04006MPS 020V080 5000 BR BKN007 BKN033 19/18 Q1018 NOSIG HTKJ 251600Z 08010KT 9999 FEW040CB 30/16 Q1011 NOSIG HTMG 251600Z 00000KT 9999 FEW026 FEW028CB 28/24 Q1013 HSSS 251700Z 35012KT 4000 BLSA 30/M01 Q1011 TEMPO 6000 TNCM 251700Z 13014KT 9999 FEW021 27/22 Q1015 A2997 NOSIG K8W2 251655Z AUTO 25006KT 10SM CLR 23/10 A3018 RMK AO1 T02310099 SVMG 251700Z /////KT 9999 SCT010 33/19 Q1012 NOSIG SVMI 251600Z 05004KT 9999 BKN016 29/22 Q1012 YSHT 242300Z AUTO /////KT //// SCT033 BKN063 BKN075 ///// YSHW 251700Z AUTO 22003KT 9999 // OVC050 19/18 Q1013 RMK HTMB 251200Z 00000KT 9999 TS SCT020 FEW021CB SCT090 20/14 Q//// UEEE 251700Z 00000MPS CAVOK M11/M13 Q1017 R23L/490150 NOSIG RMK QFE754 HTMG 251600Z 00000KT 9999 FEW026 FEW028CB 28/24 Q1013 OIAA 251700Z 33006KT CAVOK 20/14 Q1010 OIAD 250800Z 28006KT 9999 SCT040 BKN100 22/09 Q1013 A2993 K9MN 251653Z AUTO 04007G15KT 360V110 10SM OVC011 03/01 A3012 RMK AO1 T00270009 YTAR 251700Z AUTO 09009KT //// // ////// 27/09 Q1010 RMK YRTI 251700Z AUTO 27014KT //// // ////// 19/13 Q1009 RMK OIAG 251700Z 00000KT 9999 SCT040 21/17 Q1010 OIAH 251700Z 00000KT 9999 FEW035CB SCT040 14/10 Q1012 OIAI 251652Z 32004KT CAVOK 18/12 Q1009 OIBA 251500Z 03018KT 4000 BR FEW025CB OVC090 21/21 Q1009 OIBB 251700Z 00000KT 9999 FEW030CB SCT035 BKN080 18/15 Q1010 A2983 HTMT 251400Z 19008KT 9999 SCT022 FEW023CB BKN080 26/25 Q1010 DGAA 251600Z 18013KT CAVOK 30/24 Q1009 NOSIG HTMU 251500Z 28010KT 9999 FEW023 FEW024CB BKN100 25/20 Q1016 OIAM 251700Z 00000KT 9999 BKN040 20/16 Q1009 HTMW 251600Z 27010KT 9999 FEW023 FEW024CB BKN270 25/19 Q1015 NOSIG HUEN 251600Z 23005KT 9999 FEW021 FEW023CB BKN120 23/19 Q1017.6 NOSIG OIBJ 251500Z 17014KT 7000 BKN015 OVC080 19/16 Q1010 OIBK 251700Z 12019KT 4000 SA FEW025CB SCT030 OVC080 21/20 Q1009 OIBL 251700Z 12010KT 5000 -RA FEW025CB SCT030 OVC080 21/20 Q1013 OICC 251700Z 10006KT 9999 FEW040 SCT080 08/04 Q1014 A2995 OIAW 251700Z 31004KT CAVOK 20/13 Q1010 YSMH 251700Z AUTO 13011KT 9999 // SCT014 SCT021 26/23 Q1009 YSMI 251700Z AUTO 08002KT //// // ////// 13/13 Q1013 OIBP 251700Z 09006KT 9999 FEW035 SCT100 22/18 Q1008 A2978 OIBQ 251500Z 10006KT 9999 FEW040 SCT100 19/17 Q1009 OICI 251700Z 06002KT 9000 FEW040 SCT090 08/48 Q1015 A2998 OICJ 251650Z 32008KT 9999 FEW035 SCT090 06/03 Q1016 OIBS 251500Z 33010KT 3200 RA FEW030CB SCT030 OVC070 21/20 Q1014 OICK 251650Z 14004KT CAVOK 09/07 Q1014 YTEE 251700Z AUTO 03009KT 9999 // NCD 29/14 Q1010 RMK OIBV 251400Z 08031KT 4000 BR FEW015 FEW020CB SCT025 OVC090 21/19 Q1006 OICM 251700Z 29002KT CAVOK 17/14 Q1010 YSNF 251700Z AUTO 23009KT 9999 // BKN021 21/17 Q1012 YTEF 251700Z AUTO 02005KT 9999 // NCD 27/21 Q1009 OICS 251652Z 35008KT 9999 FEW045 08/M01 Q1014 YTEM 251700Z AUTO 00000KT //// // ////// 14/13 Q1014 RMK CPBT 251600Z AUTO 23012KT 08/M05 RMK AO1 PK WND 27025/1500 T00841048 UDSG 251700Z 13004KT 9999 NSC 01/M06 Q1015 R02/CLRD70 NOSIG YSOL 251700Z AUTO 08003KT 9999 // NCD 25/19 Q1011 RMK YSNW 251700Z AUTO 29007KT 9999 // NCD 17/17 Q1013 CPEH 251600Z AUTO 25017KT 10/M05 RMK AO1 PK WND 25024/1520 T00951046 YTGM 251700Z AUTO 01010KT //// // ////// 31/13 Q1009 OIFK 251700Z 00000KT 9999 SCT030 BKN090 07/05 Q1017 HTTB 251600Z 00000KT 9999 FEW022 FEW023CB BKN250 26/20 Q1016 OIFM 251700Z 31004KT 9999 FEW040 SCT200 08/05 Q1015 A2998 HTSO 251600Z 00000KT 9999 FEW023 FEW025CB SCT090 23/20 Q1017 OIGG 251700Z 09006KT CAVOK 10/07 Q1018 YTIB 251700Z AUTO 12007KT //// // ////// 28/07 Q1011 RMK SVVA 251600Z 11006KT 9999 BKN016 30/24 Q1015 OIFS 251700Z 24002KT 9999 SCT040 04/00 Q1015 CPFI 251700Z AUTO 25015KT 11/M04 RMK AO1 PK WND 25022/1647 T01101037 OIGK 251650Z 00000KT CAVOK 01/M04 Q1016 K9V9 251655Z AUTO 12007KT 10SM OVC008 04/01 A3007 RMK AO2 T00370010 HTSU 251600Z 00000KT 9999 FEW021 FEW023CB BKN230 22/14 Q1020 YSRI 251700Z AUTO 19002KT 9999 SCT046 BKN125 19/19 Q1013 DFOO 251600Z 10012KT CAVOK 38/08 Q1009 OIHH 251652Z 12008KT 9999 FEW035CB BKN040 05/02 Q1016 YSRN 251700Z AUTO 00000KT 9999 // SCT021 OVC026 16/14 Q1013 OIHM 251652Z 00000KT 9999 FEW030CB SCT040 05/03 Q1015 OIIE 251700Z 32003KT 9999 FEW030 BKN100 06/03 Q1017 OIHR 250730Z 33008KT 9999 FEW020 SCT030 OVC080 03/02 Q1017 OIII 251700Z 00000KT 9999 SCT035 BKN100 06/03 Q1017 A3005 NOSIG OIIK 251700Z 00000KT CAVOK 03/02 Q1017 PAAD 251655Z AUTO 24012KT 10SM OVC100 M20/M23 A3001 RMK AO2 T11981230 OIIP 251700Z 15004KT 5000 BR FEW035 BKN100 02/01 Q1017 OJAI 251700Z 27005KT 6000 NSC 14/00 Q1016 NOSIG OIIS 251700Z 00000KT 9999 SCT025 OVC090 08/04 Q1017 PABA 251652Z AUTO 28015KT 5SM -SN BR BKN026 OVC032 M16/M18 A3003 RMK AO2 SLP153 P0000 T11611183 FZRANO TSNO OIKB 251700Z 13004KT 5000 RA FEW010 FEW025CB SCT030 OVC080 20/19 Q1014 A2997 PAAK 251656Z 08026G34KT 6SM BKN012 OVC018 07/01 A2913 RMK AO1 OJAM 251700Z 35010KT 6000 NSC 15/02 Q1015 NOSIG YSSY 251630Z 27003KT CAVOK 21/19 Q1013 NOSIG ZJSY 251700Z 00000MPS 9999 FEW015 SCT030 26/23 Q1015 NOSIG PABE 251653Z 01012KT 10SM CLR M16/M18 A2984 RMK AO2 SLP108 T11561178 OJAQ 251700Z 36010KT CAVOK 22/03 Q1012 NOSIG PAAQ 251653Z 00000KT 10SM CLR M13/M15 A2961 RMK AO2 SLP034 T11281150 PABI 251653Z 00000KT 10SM FEW100 SCT200 M23/M26 A2982 RMK AO2 SLP151 T12281261 $ CPIR 251600Z AUTO 24016KT 08/M03 RMK AO1 PK WND 25025/1547 T00761030 OIKK 251700Z 19012KT 9999 RA SCT030CB SCT035 OVC070 14/04 Q1017 A3004 PABL 251611Z AUTO 15006KT 1/2SM FZFG OVC003 M26/M28 A3008 RMK AO2 FZRANO YSTW 251700Z AUTO 31004KT 9999 // BKN030 BKN040 OVC125 21/19 Q1015 PACD 251653Z VRB04KT 10SM CLR M03/M06 A2955 RMK AO2 SLP007 T10281061 OIKO 251650Z 00000KT 5000 BR SCT015 OVC080 20/19 Q1016 OIKQ 251700Z 12008KT 7000 RA FEW005 FEW025CB BKN030 OVC090 19/19 Q1014 PABR 251653Z 23011KT 4SM BLSN HZ FEW010 SCT150 M19/M22 A2987 RMK AO2 UPE1555 SLP116 P0000 T11891217 $ HTZA 251600Z 06004KT 9999 FEW020 30/24 Q1008 NOSIG OIMB 251700Z 28008KT 6000 FEW030CB SCT035 SCT100 16/05 Q1016 PABT 251653Z 32005KT 10SM CLR M22/M26 A2999 RMK AO2 SLP182 T12171261 OIMC 251700Z 24004KT 7000 -DZ BKN020 OVC080 08/07 Q1023 YTMO 251700Z AUTO 04008KT //// // ////// 30/15 Q1009 RMK OIMD 251700Z 00000KT 9999 FEW030 11/08 Q1012 PACM 251656Z AUTO 00000KT 10SM CLR M22/M24 A2997 RMK AO2 SLP146 T12171239 FZRANO PABV 251656Z AUTO 00000KT 10SM CLR M16/M19 A2965 RMK AO2 SLP048 T11611189 FZRANO $ YTNG 251700Z AUTO 15005KT 9999 // SCT023 23/19 Q1012 PADE 251653Z AUTO 00000KT 1/4SM HZ VV002 M25/M29 A3003 RMK AO2 SLP170 I1000 T12501289 TSNO $ YSWG 251700Z AUTO 12005KT 9999 // NCD 17/15 Q1013 YSWH 251700Z AUTO 29004KT 230V310 9999 // OVC125 20/15 Q1011 PADG 251705Z 04004KT SKC M21/M21 A2995 UDYZ 251700Z 35003KT 9999 NSC 07/M04 Q1014 R09/000070 NOSIG YTNK 251700Z AUTO 31005KT 9999 // NCD 28/19 Q1009 OINB 251700Z 06008KT 9999 SCT020 BKN100 10/08 Q1019 PADK 251656Z AUTO 07015G21KT 8SM BKN016 OVC025 04/M01 A2914 RMK AO1 PAEC 251646Z 36014KT 30SM FEW080 M14/M19 A2958 RMK NOSPECI FIRST PADL 251656Z 03007KT 10SM CLR M09/M16 A2973 RMK AO2 SLP075 T10941161 PAED 251658Z AUTO 00000KT 10SM CLR M14/M18 A2962 RMK AO2 SLP029 T11421179 CHINO RWY24 OIMM 251700Z 12010KT 1500 -DZ BR BKN005 OVC080 04/04 Q1020 A3013 PACV 251653Z 00000KT 10SM FEW035 SCT065 M08/M10 A2956 RMK AO2 SLP010 T10831100 PADM 251656Z AUTO 09012KT 10SM CLR M12/M17 A2994 RMK AO2 SLP146 T11221167 FZRANO OINE 251700Z 09004KT 9999 FEW030 SCT200 06/05 Q1020 OIMN 251700Z 00000KT 8000 -RA SCT010 SCT030 OVC060 03/01 Q1019 OING 251700Z 00000KT 9999 SCT035 09/08 Q1021 PAEG 251653Z AUTO 00000KT 10SM CLR M23/M26 A2990 RMK AO2 SLP154 T12331261 TSNO OIMQ 251700Z 00000KT 9999 SCT030 BKN090 12/11 Q1015 PADQ 251653Z 32003KT 10SM FEW025 M03/M12 A2960 RMK AO2 SLP023 T10331117 $ PACZ 251655Z AUTO VRB02KT 10SM CLR M07/M18 A2987 RMK AO2 SLP129 T10701176 PAEH 251655Z AUTO 16003KT 10SM CLR M06/M17 A2971 RMK AO2 SLP075 T10571173 PAEI 251658Z AUTO 00000KT 10SM CLR M28/M32 A2988 RMK AO2 SLP138 T12801318 $ OIMS 251500Z 03006KT 4000 -RA SCT015 SCT030CB BKN100 07/05 Q1018 NSFA 251600Z 14004KT 9999 FEW024 24/23 Q1012 PAFA 251653Z 00000KT 10SM FEW150 M24/M27 A2990 RMK AO2 SLP141 T12441272 OINK 251700Z 00000KT CAVOK 06/05 Q1019 PAFB 251658Z AUTO 00000KT 9SM CLR M28/M30 A2991 RMK AO2 SLP147 T12761304 $ PADU 251656Z 08016G29KT 10SM -SN SCT007 BKN018 OVC025 02/M01 A2945 RMK AO2 PK WND 09029/1653 UPE38SNB38 SLP974 OBS WND 09032/0837 BP P0000 T00221011 OINN 251700Z 12004KT 9999 SCT025 BKN090 09/07 Q1019 PAEN 251653Z 00000KT 9SM CLR M17/M19 A2965 RMK AO2 SLP044 T11671194 PAFE 251656Z AUTO 00000KT 10SM CLR 01/M03 A2965 RMK AO1 P0003 OINR 251700Z VRB02KT 9999 SCT025 09/06 Q1018 PAGA 251657Z AUTO 27004KT 10SM CLR M23/M26 A3002 RMK AO2 SLP171 T12281256 FZRANO PAFM 251704Z AUTO 00000KT 8SM BKN001 M27/M29 A3008 RMK AO2 FZRANO OINZ 251700Z 03004KT 9999 FEW090 08/07 Q1019 PAGH 251657Z AUTO 12005KT 10SM SCT003 M29/M32 A3007 RMK AO2 SLP220 T12891317 FZRANO PAFR 251654Z AUTO 00000KT 10SM CLR M17/M19 A2961 RMK AO1 SYCJ 251700Z 07012KT 040V110 9999 BKN019 31/22 Q1012 NOSIG PAGK 251653Z AUTO 00000KT 5SM HZ BKN040 BKN060 OVC085 M16/M19 A2965 RMK AO2 SNB12E52 SLP090 P0000 T11611189 TSNO $ PAHC 251656Z AUTO 36009G15KT 10SM CLR M13/M17 A2991 RMK AO2 SLP132 T11331172 FZRANO PNO $ PAGL 251656Z AUTO 31011KT 10SM CLR M21/M24 RMK AO1 YTRE 251700Z AUTO 02003KT //// SCT002 BKN047 20/20 Q1012 PAGM 251656Z AUTO 17007KT 9SM -SN FEW033 M14/M16 A3003 RMK AO2 SNB49 SLP176 P0000 T11441161 FZRANO PAGN 251656Z AUTO 00000KT 10SM FEW012 OVC100 02/01 A2964 RMK AO2 SLP027 T00170006 FZRANO PAGS 251656Z AUTO 00000KT 10SM FEW042 02/M01 A2963 RMK AO2 SLP034 T00171011 FZRANO SYEC 251700Z 07014KT 050V120 9999 BKN018 BKN080 29/23 Q1012 NOSIG PAHL 251656Z AUTO 32005KT 8SM CLR M23/M26 A3002 RMK AO2 SLP175 T12331256 FZRANO PAHN 251654Z AUTO 31011KT 10SM OVC070 M01/M08 A2962 RMK AO2 SLP032 T10061083 TSNO PAHO 251653Z 06007KT 10SM CLR M07/M14 A2962 RMK AO2 SLP031 T10671139 $ PAGY 251653Z AUTO 24004KT 10SM OVC060 03/M06 A2961 RMK AO2 SLP027 T00281061 TSNO PAHP 251556Z AUTO 05007KT 10SM CLR M13/M17 A2993 RMK AO2 SLP173 T11281167 FZRANO PAIG 251656Z AUTO 17003KT 10SM CLR M19/M22 A2970 RMK AO2 SLP068 T11941217 FZRANO $ PAII 251656Z AUTO 05004KT 10SM CLR M13/M17 A2968 RMK AO2 SLP054 T11331167 FZRANO OISA 251650Z 00000KT 9999 SCT040 BKN200 08/04 Q1016 NTAA 251700Z 17002KT 9999 FEW023 SCT056 BKN260 27/22 Q1014 NOSIG PAIK 251701Z AUTO 02003KT 10SM CLR M25/M28 A3008 RMK AO2 SLP233 T12501278 FZRANO PAIL 251653Z 35009KT 10SM CLR M16/M19 A2969 RMK AO2 SLP059 T11561194 PAJC 251556Z AUTO 17004KT 10SM CLR M06/M09 A2963 RMK AO2 SLP032 T10611089 FZRANO PAIM 251655Z AUTO 00000KT 10SM CLR M20/M22 A2990 RMK AO2 SLP176 T12021218 PAIN 251656Z AUTO 00000KT 10SM CLR M27/M29 RMK AO1 OISF 251700Z 31012KT 2000 RA SCT030CB SCT035 OVC070 10/09 Q1014 RETS PAHX 251656Z AUTO 03007KT 10SM CLR M16/M18 A2994 RMK AO2 SLP140 T11611183 FZRANO YTTI 251700Z AUTO 24013KT //// // ////// 29/24 Q1008 RMK YTST 251700Z AUTO 23006KT 9999 // NCD 28/24 Q1007 OISL 251700Z 06004KT 9999 FEW030CB SCT040 OVC100 17/15 Q1012 PAJN 251653Z 24003KT 3SM -SN BR FEW008 BKN026 OVC043 01/00 A2961 RMK AO2 SLP027 VIS HYR W-NW P0001 T00060000 PAIW 251658Z AUTO 00000KT 10SM SCT001 M21/M23 A3005 RMK AO2 SLP175 T12111233 FZRANO DIAD 251600Z ///// 9999 FEW016 32/23 Q1008 NOSIG PAKF 251701Z AUTO 11008KT 10SM OVC027 02/M04 A2956 RMK AO2 SLP104 T00171039 FZRANO $ CPRO 251700Z AUTO 23008KT 10/M03 RMK AO1 T01031032 PAKH 251656Z AUTO 02009KT SCT028 M04/M07 A2960 RMK AO2 SLP023 T10391072 PWINO FZRANO $ OISR 251500Z 13012KT 9999 SCT030CB OVC100 20/16 Q1010 ZLLL 251700Z 31002MPS CAVOK M06/M12 Q1027 NOSIG OISS 251700Z 14004KT 4000 RA FEW010 FEW030CB SCT035 OVC070 08/08 Q1017 A3005 OKBK 251700Z 02005KT CAVOK 21/14 Q1011 NOSIG PAKK 251656Z 10SM CLR M16/M27 A2998 RMK AO1 OITL 251650Z 10004KT CAVOK 01/M02 Q1015 OITM 251700Z VRB02KT CAVOK 05/M07 Q1015 PAKN 251654Z 36008KT 10SM CLR M16/M18 A2966 RMK AO2 SLP044 T11561183 OITP 251700Z 14004KT 9999 FEW040 09/06 Q1014 OISY 251700Z 10004KT 9999 SCT040 BKN080 06/04 Q1016 PAKP 251656Z AUTO 00000KT 10SM CLR M26/M31 A2981 RMK AO1 PALG 251656Z AUTO 00000KT 10SM CLR M16/M18 A2987 RMK AO2 SLP299 PWINO FZRANO TSNO RVRNO PAJZ 251656Z AUTO 34007KT 7SM CLR M12/M17 A2977 RMK AO2 SLP087 T11221172 FZRANO $ PALH 251653Z 00000KT 9SM CLR M13/M14 A2964 RMK AO2 SLP038 T11331144 CPRY 251600Z AUTO 24007KT 06/M03 RMK AO1 T00581031 DIAP 251700Z 22009KT 9999 FEW012 30/24 Q1008 NOSIG OITR 251700Z 16004KT CAVOK 04/M07 Q1015 PALJ 251650Z 00000KT 40SM SKC M23/M29 A2968 RMK FIRST EST PASS OPEN NOSPECI OITT 251700Z 33004KT CAVOK 04/M08 Q1016 A3000 NOSIG PAKT 251653Z 14005KT 10SM -RA SCT020 BKN034 OVC045 01/01 A2973 RMK AO2 UPE1554RAB1554SNB1554E49 SLP069 HARBOR WIND VRB04KT P0005 T00110011 $ PAMB 251656Z AUTO 05013KT 10SM M09/M16 A2972 RMK AO2 SLP069 T10941161 FZRANO $ PAKU 251445Z 23013KT 10SM R24/P6000FT FEW025 BKN120 M20/M24 A3002 OITU 251650Z 00000KT CAVOK 06/M01 Q1015 PAMC 251653Z AUTO 27003KT 10SM CLR M20/M23 A2987 RMK AO2 SLP127 T12001233 TSNO DIBK 251600Z 12004KT 9999 BKN016 33/21 Q1011 NOSIG CPST 251700Z AUTO 19010KT 08/M05 RMK AO1 T00811048 PAKV 251653Z AUTO 23004KT 10SM CLR M28/M31 A3003 RMK AO2 SLP176 T12781306 TSNO $ PAMD 251656Z AUTO 09008KT 10SM FEW024 BKN050 OVC080 01/M05 A2952 RMK AO1 P0002 PAKW 251653Z AUTO 00000KT 6SM -RA BR SCT012 BKN020 OVC031 03/01 A2968 RMK UPB32E41RAB44 SLP052 P0001 T00280011 TSNO VIA AUTODIAL CPSV 251700Z AUTO 26017KT 11/M03 RMK AO1 PK WND 26024/1600 T01121028 PALP 251651Z 20010KT 10SM SKC M24/M27 A3000 OITZ 251500Z 27004KT 9999 SCT035 05/M01 Q1014 PAMH 251656Z AUTO VRB03KT 10SM CLR M12/M20 A2985 RMK AO2 SLP131 T11221200 FZRANO PANA 251656Z AUTO 02013G17KT 10SM CLR M14/M18 A2983 RMK AO2 SLP101 T11441178 FZRANO PAMK 251656Z AUTO 08003KT 10SM CLR M20/M22 A2998 RMK AO2 SLP157 T12001222 FZRANO $ PALU 251655Z AUTO 21025KT 160V230 2 1/2SM -SN BR BKN002 M14/M16 A3000 RMK AO2 PK WND 23031/1613 SNB1455 SLP157 P0000 T11431164 PANC 251653Z 07003KT 10SM FEW040 M12/M16 A2963 RMK AO2 SLP036 ACSL SE T11171161 $ PAMM 251656Z AUTO 19005KT 10SM SCT044 BKN050 OVC070 04/04 A2976 RMK AO1 DIBU 251600Z 00000KT 9999 SCT016 FEW023CB 35/19 Q1010 BECMG TS PAMO 251656Z AUTO 04012KT CLR M12/M16 A2992 RMK AO2 SLP147 T11171161 PWINO FZRANO $ PAMR 251653Z 00000KT 10SM CLR M14/M16 A2963 RMK AO2 SLP036 T11441156 $ PANI 251656Z AUTO 00000KT 9SM CLR M19/M21 A2987 RMK AO1 UHBB 251700Z 24002MPS CAVOK M03/M08 Q1018 R36/090060 NOSIG RMK QFE746/0994 DIDK 251600Z ///// 9999 FEW015 34/24 Q1008 NOSIG DIDL 251600Z ///// 9999 SCT015 33/23 Q1010 NOSIG PANN 251653Z AUTO 17003KT 10SM CLR M28/M31 A2989 RMK AO2 SLP137 T12781311 TSNO PAMY 251656Z AUTO 00000KT M1/4SM FZFG VV002 M19/M21 A2987 RMK AO2 SNB42E55 SLP119 P0000 T11891211 FZRANO PAOH 251656Z AUTO 00000KT 10SM CLR 01/01 A2963 RMK AO2 SLP033 T00060006 FZRANO PANT 251653Z AUTO VRB05KT 10SM FEW021 BKN060 OVC075 05/01 A2974 RMK AO2 SLP072 T00500011 TSNO PAPB 251653Z AUTO 08020G24KT 10SM OVC015 M02/M06 A2960 RMK AO2 PK WND 07027/1641 SLP012 T10221061 TSNO PAOM 251653Z 00000KT 10SM CLR M21/M23 A3000 RMK SLP159 T12111233 VIA AUTODIAL PANV 251656Z AUTO 03014G18KT 10SM CLR M13/M18 A2990 RMK AO1 PANW 251656Z AUTO 35013KT 10SM CLR M13/M18 A2971 RMK AO2 SLP077 T11281178 FZRANO UGKO 251700Z 25007KT CAVOK 07/03 Q1018 R25/09//70 NOSIG PAPG 251656Z 00000KT 2 1/2SM SCT003 SCT009 OVC014 01/M01 A2961 RMK AO1 -SN P0003 PAPH 251656Z AUTO 04013KT 10SM CLR M12/M15 A2964 RMK AO2 SLP041 T11221150 FZRANO PAOR 251653Z 32006KT 10SM SCT035 M14/M18 A2970 RMK AO2 SLP110 T11391183 OIZB 251700Z 16012KT 9999 FEW030 FEW035CB BKN080 23/11 Q1013 PAOT 251653Z 00000KT 1SM R09/3000V6000FT BR VV002 M29/M31 A3006 RMK AO2 SLP180 T12891306 $ DIGA 251600Z 24006KT 8000 BKN013 32/23 Q1010 NOSIG OIZC 250800Z 16012KT 7000 SCT040 BKN100 30/14 Q1012 A2991 PAOU 251656Z AUTO 03017KT 10SM CLR M05/M08 A2962 RMK AO2 SLP029 T10501078 FZRANO PAPM 251656Z AUTO 04007KT 10SM CLR M17/M19 A2974 RMK AO2 SLP073 T11721194 FZRANO CPXL 251700Z AUTO 26014KT 11/M05 RMK AO1 PK WND 26022/1655 T01081050 PAPN 251656Z AUTO 04008KT 10SM CLR M16/M18 A2965 RMK AO2 SLP043 T11611183 FZRANO PAPO 251656Z AUTO 17007KT 10SM CLR M23/M25 A3005 RMK AO2 SNE49 SLP175 P0000 T12281250 FZRANO OIZH 251700Z 18018KT 9999 FEW015 FEW035CB SCT200 15/09 Q1017 A3005 PAQH 251656Z AUTO 35006KT 10SM CLR M19/M22 A2976 RMK AO2 SLP080 T11941217 FZRANO OIZI 251700Z 08004KT CAVOK 19/17 Q1017 OIZJ 251600Z 14010KT 6000 SCT020 BKN080 25/20 Q1010 PAPT 250054Z 27005KT 25SM SKC M02/M02 A2968 RMK NO SPECI LAST OIYY 251700Z 32006KT 8000 SCT035 OVC100 10/10 Q1017 PASA 251656Z AUTO 24004KT 10SM CLR M17/M19 A3004 RMK AO2 SLP173 T11671189 FZRANO $ PAQT 251653Z AUTO 17010KT 10SM BKN090 OVC110 M25/M27 A3000 RMK SLP160 T12501267 TSNO VIA AUTODIAL PASC 251653Z 22014KT 10SM CLR M22/M26 A2999 RMK AO2 SLP158 T12221256 PASD 251656Z 00000KT 10SM FEW032 BKN050 M01/M06 A2959 RMK AO1 WEA YWCA 251700Z AUTO 13007KT //// // ////// 26/13 Q1010 RMK PASH 251656Z AUTO 10012G23KT 10SM CLR M26/M32 A3009 RMK AO1 PNO PASI 251653Z 08004KT 10SM FEW030 BKN036 BKN060 02/00 A2964 RMK AO2 SLP035 T00170000 YWBL 251700Z AUTO 00000KT 9999 // OVC020 17/15 Q1014 RMK OLBA 251700Z 19003KT CAVOK 17/07 Q1017 PATA 251652Z 29004KT 10SM CLR M28/M31 A2997 RMK AO2 SLP158 T12781311 PNO $ PARS 251656Z AUTO 00000KT 10SM CLR M19/M21 A2990 RMK AO2 SLP130 T11941211 FZRANO $ PASK 251704Z AUTO 06003KT 8SM OVC004 M27/M30 A3009 RMK AO2 FZRANO $ PATC 251655Z AUTO 00000KT 10SM CLR M15/M16 A3000 RMK AO2 SLP168 T11501160 PASL 251636Z AUTO 00000KT 10SM CLR M11/M19 A2986 RMK AO1 PASM 251656Z AUTO 08009KT 10SM CLR M12/M16 A2992 RMK AO2 SLP148 T11171161 FZRANO $ PASN 251653Z AUTO 08017G26KT 9SM -SN BKN013 M04/M06 A2964 RMK AO2 PK WND 08026/1644 SLP038 P0000 T10391061 TSNO PATE 251458Z AUTO 13007KT 10SM CLR M14/M16 A3001 RMK AO2 SLP174 T11441161 56010 FZRANO PASO 251653Z AUTO 00000KT 10SM CLR M09/M12 A2962 RMK AO2 SLP029 T10941122 TSNO YWBR 251700Z AUTO 00000KT //// // ////// 27/15 Q1009 PATG 251656Z AUTO 36009KT 10SM CLR M17/M21 A2974 RMK AO2 SLP168 T11721206 FZRANO PARY 251656Z AUTO 00000KT 10SM CLR M18/M22 A2992 RMK AO2 SLP163 T11831217 FZRANO PATK 251653Z 03008KT 10SM CLR M08/M19 A2964 RMK AO2 SLP044 T10781194 PATL 251655Z AUTO 00000KT 10SM CLR M15/M19 A2985 RMK AO2 SLP136 T11521191 $ PASV 251655Z AUTO 00000KT 10SM CLR M15/M20 A2959 RMK AO2 SLP070 T11531198 MUI 251700Z AUTO 31007KT //// // OVC021 OVC115 19/19 Q1016 RMK PATO 251653Z AUTO 00000KT 10SM OVC050 M20/M22 A2963 RMK AO2 SLP038 T12001222 TSNO PASX 251656Z AUTO 06003KT 10SM CLR M20/ A2965 RMK AO1 UHHH 251700Z VRB01MPS CAVOK M03/M04 Q1016 R23L/090060 NOSIG PASY 251656Z 06024G29KT 6SM -RA BR BKN009 OVC019 03/03 A2908 RMK AO2 RAB06 SLP846 WND DATA ESTMD T00330030 $ PATQ 251656Z AUTO 23015KT 3/4SM -SN BR CLR M23/M25 A2992 RMK AO2 SNB25 SLP141 P0000 T12281250 FZRANO TSNO PAVA 251656Z AUTO 05010KT 10SM CLR M14/M18 A2992 RMK AO2 SLP147 T11391178 FZRANO NSTU 251652Z 11011KT 10SM FEW021 SCT040 BKN100 29/27 A2989 RMK SLP122 T02870272 PAVC 251656Z AUTO 05012KT 10SM OVC028 00/M05 A2958 RMK AO2 SLP021 T00001050 FZRANO PAVD 251656Z 00000KT 10SM SCT075 SCT120 M04/M14 A2960 RMK AO1 1647Z WEA PAUN 251656Z AUTO 28003KT 10SM CLR M21/M23 A2999 RMK AO2 SLP159 T12061228 FZRANO DIKO 251600Z 02004KT 9999 FEW013 34/20 Q1010 NOSIG UIAA 251700Z 35002MPS 9999 NSC M05/M11 Q1020 R29/CLRD70 NOSIG RMK QFE706 UGSB 251700Z 01004KT CAVOK 08/06 Q1021 R13/CLRD70 NOSIG PAUT 251655Z AUTO 08019G24KT 10SM OVC024 02/M02 A2947 RMK AO2 T00161021 PAVL 251653Z AUTO 08005KT 10SM CLR M29/M33 A3005 RMK AO2 SLP176 T12941328 TSNO $ PAWD 251653Z AUTO 10SM BKN050 M09/M15 A2960 RMK AO2 SLP022 T10891150 TSNO $ PAWG 251648Z 00000KT 1 1/2SM -SN BR BKN005 OVC010 01/00 A2965 RMK -SN BR (KB) PAWI 251653Z AUTO 22009KT 3SM BR OVC004 M21/M23 A2989 RMK SLP123 T12111228 TSNO VIA AUTODIAL UIBB 251700Z 14002MPS 080V160 9999 NSC M01/M12 Q1017 R30/912060 NOSIG RMK QFE720/0960 UGTB 251700Z 06006KT CAVOK 06/01 Q1018 R31L/CLRD70 NOSIG PAWM 251658Z AUTO 36009KT 10SM CLR M17/M18 A2999 RMK AO2 SLP166 T11721183 FZRANO PAWN 251656Z AUTO 00000KT 10SM CLR M30/M33 A3008 RMK AO2 SLP204 T13001333 FZRANO DIMN 251600Z 12002KT 9999 SCT015 33/22 Q1011 NOSIG YWHA 251700Z AUTO 19004KT 9999 // NCD 21/19 Q1011 PAYA 251653Z AUTO 07003KT 9SM SCT100 M05/M07 A2958 RMK AO2 SLP017 T10501067 TSNO PAWS 251656Z AUTO 00000KT 10SM CLR M07/M16 A2970 RMK AO1 ZLXY 251700Z 02003MPS CAVOK 07/M04 Q1027 NOSIG DIOD 251600Z 12008KT 8000 SCT015 35/18 Q1010 NOSIG UHMA 250800Z 02002MPS 9999 -SN SCT010 OVC080 M11/M12 Q1018 RMK QFE759/1013 YWGT 251700Z AUTO 23003KT 9999 // BKN060 OVC071 17/17 Q1013 YVRD 251700Z AUTO 33004KT //// // ////// 27/21 Q1008 PAZK 251656Z AUTO 00000KT 10SM BKN032 OVC046 M16/M19 A2950 RMK AO1 UHMM 251700Z 08001MPS 9999 NSC M19/M21 Q1014 RMK QFE746 YWIS 251700Z AUTO 16005KT //// // ////// 26/21 Q1009 RMK OMAA 251700Z 03022KT 9000 -SHRA FEW015 FEW045TCU 22/19 Q1012 WS ALL RWY TEMPO VRB25G40KT 3000 TSRA FEW045CB OMAD 251700Z 36018KT 7000 -TSRA BKN013 FEW045CB 22/20 Q1012 WS ALL RWY TEMPO VRB25G40KT 3000 TSRA ZMUB 251700Z VRB01MPS CAVOK M07/M13 Q1021 NOSIG RMK QFE657.8 64 OMAL 251700Z 01014KT 9999 FEW045 24/18 Q1012 NOSIG YWLG 251700Z AUTO 35006KT 9999 // SCT088 26/18 Q1011 RMK TQPF 251600Z 13015KT 9999 FEW021 28/20 Q1016 YWLM 251700Z AUTO 29003KT 9999 // SCT054 20/19 Q1012 DITB 251600Z 18008KT 9999 FEW015 FEW020CB 31/26 Q1009 NOSIG UHPP 251700Z 31006MPS 9999 NSC 01/M08 Q1004 R34L/CLRD70 NOSIG RMK QFE749/0999 EBBE 251655Z AUTO 05015KT 9999 NCD 13/M02 Q1023 BLU DISP 251600Z 16008KT 9999 FEW015 31/26 Q1009 NOSIG OMDB 251700Z 04016KT 010V070 9999 FEW025 22/18 Q1014 WS ALL RWY TEMPO 34024G35KT 3000 TSRA FEW030CB DISS 251600Z ///// 9999 FEW016 30/25 Q1009 NOSIG EBBL 251655Z 05015KT 9999 SCT250 14/M04 Q1024 BLU EBAW 251650Z 06015KT CAVOK 14/M03 Q1024 NOSIG UIII 251700Z 14002MPS CAVOK M03/M09 Q1019 R12/CLRD60 NOSIG RMK QFE722/0963 EBCI 251650Z 06019KT CAVOK 13/M01 Q1022 NOSIG EBBR 251650Z 06014KT CAVOK 14/M01 Q1023 NOSIG CTCK 251700Z AUTO 34005KT 01/M03 RMK AO1 SOG 14 3017 SLP289 T00101030 VAAH 251700Z 00000KT 4000 FU NSC 27/11 Q1011 NOSIG VABB 251700Z 29003KT 3500 FU NSC 30/19 Q1011 NOSIG KA08 251655Z AUTO 19011G24KT 10SM BKN039 OVC046 23/15 A3014 RMK AO2 T02320151 OMDW 251700Z 04020KT 8000 -RA FEW035 21/18 Q1014 WS ALL RWY TEMPO 35024G35KT 3000 TSRA FEW030CB EBCV 251655Z AUTO 06013KT 9999 NCD 14/M01 Q1022 BLU UHSS 251700Z 36002MPS 9999 NSC M06/M08 Q1019 R01/CLRD70 NOSIG RMK QFE763/1017 OMFJ 251700Z 29006KT 8000 SCT025 22/20 Q1014 RMK A2997 VAAU 251500Z 00000KT 5000 HZ FEW020 33/18Q1013 NOSIG EBDT 251655Z AUTO 05014KT 9999 NCD 14/M03 Q1023 BLU VABO 251500Z 02004KT 6000 NSC 33/14 Q1010 NOSIG VABP 251600Z 00000KT 6000 NSC 28/11 Q1014 NOSIG VABV 251300Z 07006KT 8000 NSC 35/11 Q1008 EBFN 251655Z 04021KT 9999 SCT250 10/03 Q1024 BLU KA39 251655Z AUTO 13010KT 10SM CLR 19/00 A3006 RMK AO2 EBFS 251655Z AUTO 04013KT 9999 FEW160/// BKN220/// 12/02 Q1021 BLU DIYO 251600Z 18010KT 9999 BKN015 34/22 Q1009 NOSIG YWUD 251700Z AUTO 00000KT //// // ////// 19/13 Q1011 YWTN 251700Z AUTO 07004KT //// // ////// 26/16 Q1010 RMK UHWW 251700Z 06003MPS 9999 NSC M03/M05 Q1020 R25L/0///70 NOSIG RMK QFE763 TRPG 251600Z 13013KT 9999 SCT020 SCT042 26/22 Q1016 VAID 251500Z 29006KT 6000 NSC 31/10 Q1013 NOSIG EBLB 251655Z AUTO 07011KT 9999 NCD 11/M05 Q1022 BLU EBLG 251650Z 06019KT CAVOK 14/M03 Q1023 TEMPO 06020G30KT YWWL 251700Z AUTO 00000KT //// // ////// 17/16 Q1013 RMK VAJB 251500Z 00000KT 6000 NSC 28/15 Q1013 VAJJ 251300Z 32012G22KT 290V060 5000 FU NSC 30/20 Q1009 NOSIG UKBB 251700Z VRB02MPS 9999 -RA BKN030 04/M02 Q1017 R88/CLRD// NOSIG YWYM 251700Z AUTO 09012KT //// // ////// 27/23 Q1008 RMK CTNK 251700Z AUTO 00000KT M03/M06 RMK AO1 SOG 33 3016 SLP303 T10281055 50004 UKDD 251700Z 36001MPS CAVOK 05/M09 Q1016 R08/090070 NOSIG UKDE 251700Z 34003MPS CAVOK 04/M09 Q1016 R02/210370 NOSIG YWYY 251700Z AUTO 27005KT 9999 // OVC045 15/14 Q1013 RMK TTCP 251700Z 13018KT 9999 FEW022 30/23 Q1013 NOSIG UIUU 251700Z 14001MPS 9999 NSC M05/M09 Q1022 R26/811055 NOSIG RMK QFE722/0962 EBOS 251650Z 03020G30KT CAVOK 10/03 Q1024 NOSIG UKDR 251700Z 05003MPS CAVOK 05/M08 Q1016 R36/09//70 NOSIG OMRK 251700Z 36012KT 9999 SCT030 22/18 Q1015 A2999(RERA) NVSC 241800Z 00000KT 9999 FEW020 BKN110 26/25 Q1010 RMK RESH VANP 251700Z 09004KT 4000 HZ NSC 30/08 Q1012 NOSIG NVSG 250900Z 00000KT 9999 FEW020 FEW025CB 28/26 Q1012 RMK LIGHTNING VIS OMSJ 251700Z 03015KT 9999 -RA SCT040 22/18 Q1014 EDAC 251550Z 33007KT 310V020 CAVOK 12/04 Q1025 NVSS 250900Z VRB02KT 9999 SCT020 FEW025CB BKN110 24/24 Q1012 RMK LIGHTNING VIS EDAH 251550Z 31009KT 260V360 9999 FEW025 09/03 Q1024 UKHH 251700Z 30001MPS CAVOK 04/M11 Q1016 R25/0///67 NOSIG VAPR 250900Z 27010KT 6000 NSC 34/20 Q1010 PFCL 251656Z AUTO 02010KT CLR M10/M16 A2972 RMK AO2 SLP068 T11001161 PWINO FZRANO $ YYNG 251700Z AUTO 00000KT //// // ////// 15/15 Q1014 RMK ULAA 251700Z 30003MPS CAVOK M04/M04 Q1012 R26/190065 NOSIG RMK QFE757/1010 VARK 251500Z 29002KT 6000 NSC 30/M03 Q1010 EDDB 251650Z 32011KT CAVOK 11/M01 Q1024 NOSIG EDDC 251650Z 32006KT CAVOK 10/M00 Q1024 NOSIG EDDE 251650Z 06007KT CAVOK 11/M01 Q1024 NOSIG EDDF 251650Z 04015KT CAVOK 16/M02 Q1022 NOSIG EDDG 251650Z 03010KT CAVOK 13/M05 Q1026 NOSIG EDDH 251650Z 31009KT 9999 FEW023 BKN250 10/05 Q1026 NOSIG KC07 251654Z AUTO 20003KT 10SM CLR 00/M07 A3015 RMK AO2 KAAA 251655Z AUTO 18012KT 10SM SCT024 OVC060 17/13 A2992 RMK AO2 T01670128 KC09 251655Z AUTO 06007KT 7SM OVC004 10/09 A2998 RMK AO2 T00950085 PFEL 251658Z AUTO 34005KT 10SM CLR M11/M16 A3000 RMK AO2 SLP163 T11061156 FZRANO NVVV 242000Z 00000KT 9999 FEW020 BKN300 24/24 Q1012 RMK HZ EDDK 251650Z 03010KT CAVOK 16/M01 Q1023 NOSIG EDDL 251650Z 04015KT CAVOK 14/M06 Q1024 NOSIG EDDM 251650Z 07007KT CAVOK 12/01 Q1021 NOSIG KAAF 251653Z AUTO 13010KT 10SM CLR 23/18 A3023 RMK AO2 SLP235 T02280178 EDDN 251705Z 10004KT CAVOK 12/01 Q1022 NOSIG VCBI 251610Z 12004KT 360V170 8000 FEW018 28/22 Q1012 NOSIG EDDP 251650Z 34008KT CAVOK 11/M03 Q1025 NOSIG UKKK 251700Z 26003MPS 210V290 9999 -RA OVC032 03/M01 Q1016 R26/190060 NOSIG VASU 251400Z 00000KT 6000 NSC 33/17 Q1009 EDDR 251650Z 06019KT CAVOK 14/M04 Q1019 NOSIG VAUD 251500Z 17003KT 6000 NSC 29/08 Q1013 NOSIG EDDS 251650Z 06013KT CAVOK 14/01 Q1019 NOSIG UKKM 251700Z AUTO 22003MPS 9999 SCT054/// 04/M01 Q1016 EDDT 251650Z 33008KT 290V030 CAVOK 11/M01 Q1024 NOSIG ZPPP 251700Z 05006MPS 8000 TS FEW005 SCT020CB BKN043 05/04 Q1027 NOSIG EDDV 251650Z 34008KT CAVOK 12/01 Q1026 NOSIG KABE 251651Z 21006KT 10SM SCT070 BKN120 19/08 A3015 RMK AO2 SLP211 T01940078 EDDW 251650Z 01008KT 9999 SCT025 SCT280 10/05 Q1027 NOSIG KAAO 251654Z AUTO 35014KT 10SM OVC012 07/04 A2994 RMK AO2 SLP142 T00670044 $ EDFE 251650Z 02010KT CAVOK 15/M01 Q1021 UKLI 251700Z 27002MPS 9999 SCT046 BKN100 08/M03 Q1017 R28/090070 NOSIG KABH 251656Z AUTO 23007KT A3006 RMK AO2 SLPNO $ KABI 251652Z 29008KT 250V340 10SM CLR 15/05 A3010 RMK AO2 SLP180 T01500050 $ EDFH 251650Z 07009KT CAVOK 12/M02 Q1022 UKLL 251700Z 28004MPS 250V310 CAVOK 07/M03 Q1017 R31/CLRD// NOSIG KAAT 251655Z AUTO 14004KT 10SM CLR 05/01 A3010 RMK AO2 SLP198 T00500011 TSNO KACB 251655Z AUTO 06009G16KT 10SM OVC016 03/00 A3029 RMK AO2 T00341001 KC29 251655Z AUTO 06014G20KT 10SM OVC005 04/03 A3007 RMK AO1 T00400031 UKLN 251700Z 00000MPS CAVOK 08/M04 Q1017 R33/09//70 NOSIG EDFM 251650Z 06008KT CAVOK 16/M01 Q1021 KC35 251655Z AUTO 05013G17KT 7SM OVC005 02/02 A3011 RMK AO2 T00230023 UKLR 251500Z 27008MPS 230V310 9999 SCT020CB OVC100 07/M01 Q1016 NOSIG KABQ 251652Z VRB03KT 10SM BKN250 12/M04 A3013 RMK AO2 SLP161 T01221044 KABR 251653Z AUTO 17007KT 10SM OVC011 02/M02 A3013 RMK AO2 SLP219 T00221022 KACJ 251655Z AUTO 17008KT 10SM CLR 23/10 A3026 RMK AO2 UKLU 251700Z VRB02MPS 9999 SCT100 SCT200 11/M02 Q1018 NOSIG KACK 251653Z 04014KT 10SM BKN050 07/02 A3020 RMK AO2 SLP226 T00670022 KADC 251652Z AUTO 11010KT 10SM OVC018 02/M02 A3017 RMK AO2 KADF 251656Z AUTO 25009KT 10SM OVC034 17/11 A2995 RMK AO2 SLP145 T01720111 KADG 251653Z AUTO 10015KT 6SM HZ OVC011 08/06 A3019 RMK AO2 SLP226 T00830056 KABY 251653Z 17009G16KT 10SM SCT040 25/13 A3026 RMK AO2 SLP244 T02500128 KACP 251655Z AUTO 21004KT 10SM CLR 20/15 A3000 RMK AO2 LTG DSNT SW T01980145 KACQ 251653Z AUTO 05016G19KT 10SM OVC011 03/01 A3012 RMK AO2 KADH 251655Z AUTO 27008KT 10SM OVC017 11/06 A3001 RMK AO2 EDHI 251320Z 29011KT CAVOK 12/06 Q1029 EDGS 251650Z 07012KT CAVOK 11/M04 Q1023 KACT 251651Z 34008KT 10SM CLR 18/09 A3007 RMK AO2 SLP177 T01830089 EDHK 251450Z 32010KT 290V350 9999 FEW024 10/04 Q1027 EDHL 251650Z 30003KT 220V360 CAVOK 11/03 Q1026 KACV 251706Z AUTO VRB03KT 10SM FEW007 BKN040 OVC049 11/09 A3019 RMK AO2 T01060094 KADM 251655Z 30009G15KT 10SM OVC024 13/08 A3002 UKOH 251600Z 29003MPS 260V330 9999 BKN040 10/M01 Q1017 R03/CLRD65 NOSIG KAEG 251646Z VRB04KT 10SM BKN150 12/M04 A3015 KACY 251654Z 24006KT 10SM CLR 26/10 A3014 RMK AO2 SLP205 T02560100 KAEJ 251655Z AUTO 13004KT 10SM CLR 08/M09 A3010 RMK AO2 T00801091 KADS 251647Z AUTO 28012G18KT 13SM SKC 16/07 A3004 DNAA 251600Z 09006KT 060V120 CAVOK 39/08 Q1007 NOSIG EDJA 251650Z 06012KT CAVOK 10/02 Q1019 KAEL 251651Z AUTO 06016G23KT 7SM OVC011 03/01 A3007 RMK AO2 KADU 251655Z AUTO 04014G20KT 10SM RA BKN011 BKN014 05/03 A2996 RMK AO2 P0002 UKON 251700Z 35001MPS CAVOK 08/M03 Q1016 NOSIG KC62 251655Z AUTO 09012G15KT 10SM SCT065 13/09 A3008 RMK AO2 T01400093 UKOO 251700Z 18002MPS CAVOK 07/02 Q1017 R16/090060 NOSIG KADW 251658Z AUTO 25005KT 10SM CLR 23/10 A3016 RMK AO2 SLP219 T02340101 CWAE 251700Z 00000KT 1SM -SHSN VV006 01/M00 A2997 RMK SN8 SLP165 KAFF 251658Z AUTO 18007KT 10SM CLR 09/M01 A3005 RMK AO2 SLP171 T00891014 CWAF 251700Z AUTO 30017KT M02/M13 RMK AO1 PK WND 30020/1657 T10231128 KAFJ 251655Z AUTO 27011G15KT 10SM SCT050 BKN060 21/09 A3020 RMK AO1 CWBA 251600Z AUTO 36007KT M06/M14 RMK AO1 SOG 31 T10551136 CWAJ 251700Z AUTO RMK AO1 KAFK 251655Z AUTO 03013KT 10SM -DZ OVC008 05/05 A2994 RMK AO2 T00490049 KAGC 251653Z 28010KT 10SM OVC065 21/09 A3017 RMK AO2 SLP216 T02110089 TTPP 251700Z 12016KT 090V170 9999 FEW030 32/22 Q1012 NOSIG KAFN 251705Z AUTO 01003KT 1SM -SN BR FEW005 OVC020 02/01 A3027 RMK AO2 PRESRR P0001 T00170006 CWBE 251700Z AUTO 07009KT M00/M14 RMK AO1 SLP325 T10021135 51003 KAEX 251653Z 26016KT 10SM -RA FEW041 22/16 A2998 RMK AO2 SLP153 P0000 T02170161 $ KAFO 251655Z AUTO 00000KT 7SM RA BKN004 OVC007 01/01 A3002 RMK AO2 KAFP 251700Z AUTO 23003KT 10SM OVC045 22/10 A3030 RMK AO2 T02170103 KC75 251655Z AUTO 09008KT 7SM SCT010 BKN018 OVC110 15/13 A2992 RMK AO2 T01470130 CWAQ 251600Z AUTO 27021G28KT 11/M01 RMK AO1 SOG 00 1012 PK WND 27029/1531 SLP099 T01071009 CWAR 251700Z AUTO M00/M01 RMK AO1 6PAST HR SOG 03 8023 SLP147 P0002 T10021006 50006 PFKT 251658Z AUTO 09006KT 10SM CLR M21/M22 A3005 RMK AO2 SLP176 T12061217 FZRANO CWCA 251700Z 28010G17KT 270V330 15SM FEW020 M11/M20 A2981 RMK SC1 SC TR SLP096 CWBK 251700Z AUTO 29014KT 01/M02 RMK AO1 SOG 40 1006 PK WND 28018/1610 SLP179 T00141020 PFKW 251656Z AUTO 03012KT 10SM CLR M13/M17 A2983 RMK AO2 SLP101 T11281167 FZRANO CWAV 251700Z AUTO 24010G17KT 07/M08 RMK AO1 SOG 00 1008 PK WND 25017/1651 SLP102 T00651079 KAFW 251653Z 29011G16KT 10SM FEW030 17/07 A3003 RMK AO2 SLP165 T01720072 CWCF 251700Z AUTO 15014G24KT 03/M03 RMK AO1 SOG 04 6032 PK WND 15024/1658 SLP175 T00251030 CWBO 251700Z AUTO 25009G15KT 11/M05 RMK AO1 SLP106 T01081050 50009 CWCI 251600Z AUTO 10014KT M00/M04 RMK AO1 PK WND 10017/1528 SLP297 T10031041 51005 KAIA 251653Z AUTO 19014KT 10SM CLR 14/M02 A2998 RMK AO2 SLP152 T01441017 $ KAGS 251653Z 17008KT 10SM FEW045 BKN060 24/12 A3028 RMK AO2 SLP252 T02390122 CWDA 251600Z AUTO 27023KT 01/M04 RMK AO1 PK WND 26027/1554 SLP066 T00111036 58024 CWCJ 251700Z AUTO 06006KT M00/M16 RMK AO1 SOG 26 8006 SLP308 T10041160 CWBS 251700Z AUTO 02010KT M00/M13 RMK AO1 T10031126 KAIB 251655Z AUTO 00000KT 10SM CLR 10/M02 A3010 RMK AO2 EDMA 251650Z 08009KT CAVOK 12/M00 Q1021 CWBT 251700Z AUTO 30007G16KT M02/M18 RMK AO1 PK WND 31018/1609 SLP199 T10211179 53008 KAID 251648Z 19015G30KT 10SM CLR 22/12 A3006 CWDC 251500Z AUTO 09002KT M04/M07 RMK AO1 SOG 50 6004 SLP147 T10351069 CWBU 251600Z AUTO 09001KT 00/M01 RMK AO1 4PAST HR SOG 17 6034 SLP053 P0009 T00001013 50029 CWBV 251700Z AUTO 33010KT 04/ RMK AO1 SLP174 T0036 53004 KAHN 251651Z VRB04KT 10SM FEW037 BKN049 21/13 A3027 RMK AO2 SLP247 T02110128 $ EDLN 251650Z 04016KT 360V070 CAVOK 14/M04 Q1024 CWCO 251700Z AUTO 03002KT 03/M00 RMK AO1 1012 SLP287 T00301004 50002 KAIG 251655Z AUTO 09012G21KT 10SM OVC012 01/00 A3021 RMK AO2 T00101004 CWBY 251600Z AUTO 31011G18KT M06/M16 RMK AO1 SOG 49 1018 PK WND 31024/1507 SLP197 T10581161 EDLP 251650Z 05007KT CAVOK 12/M08 Q1025 KAHQ 251655Z AUTO 02011G17KT 10SM -RA OVC009 05/03 A3000 RMK AO2 T00450033 CWBZ 251700Z AUTO 06008KT M00/M03 RMK AO1 2021 SLP291 T10021032 50024 UMBB 251300Z 29007G10MPS CAVOK 09/M03 Q1018 R29/CLRD// NOSIG KD07 251656Z AUTO 15019G23KT 07/01 A2995 RMK AO1 PK WND 15026/1639 SLP159 T00720011 OOMS 251650Z 08004KT 9999 SCT025 BKN100 25/20 Q1013 NOSIG CWDJ 251700Z AUTO 26020KT 11/01 RMK AO1 SOG 01 0002 PK WND 25026/1647 SLP085 T01080006 KAIK 251655Z AUTO 17007KT 10SM SCT040 OVC050 21/11 A3033 RMK AO2 KBAB 251603Z AUTO 33003KT 10SM SCT022 OVC032 12/10 A3014 RMK AO2 $ CWDK 251700Z AUTO 22014KT 09/M05 RMK AO1 PK WND 23020/1646 SLP130 T00851046 50007 CWCT 251600Z AUTO 26011KT 03/02 RMK AO1 1018 SLP103 T00250018 50002 CWEB 251700Z AUTO 12003KT 06/04 RMK AO1 3013 SLP181 T00570044 50006 KBAC 251655Z AUTO 16017G23KT 9SM -UP OVC006 00/00 A3012 RMK AO2 KBAD 251658Z AUTO 29011KT 10SM CLR 20/11 A2998 RMK AO2 SLP154 T02000105 CWDM 251600Z AUTO 31016KT M06/M14 RMK AO1 SOG 90 1019 PK WND 32022/1510 SLP120 T10581138 EDLV 251650Z 05009KT 360V090 CAVOK 14/M04 Q1025 PFNO 251704Z AUTO 00000KT 1/4SM HZ OVC001 M28/M31 A3008 RMK AO2 FZRANO CWEE 251600Z AUTO M08/M20 RMK AO1 SLP307 T10751200 50008 KBAF 251653Z 02010KT 10SM OVC023 05/02 A3024 RMK AO2 SLP247 T00500017 EDLW 251650Z 04008KT CAVOK 11/M06 Q1025 KAIO 251655Z AUTO 04015KT 3SM RA BKN010 BKN013 BKN021 05/04 A2995 RMK AO2 P0006 EDMO 251650Z 06009KT CAVOK 10/00 Q1020 CWEF 251600Z AUTO 28019KT M01/M02 RMK AO1 PK WND 27021/1517 SLP151 T10141024 51006 CWDO 251600Z AUTO 21011G17KT M01/M02 RMK AO1 SOG 119 8027 PK WND 20019/1501 SLP102 T10091023 KAJG 251655Z AUTO 16017G23KT 10SM SCT042 BKN048 BKN075 21/12 A2996 RMK AO2 T02070115 CWDQ 251600Z AUTO 36007KT M04/M19 RMK AO1 SOG 51 1014 SLP308 T10441188 CWEH 251700Z AUTO 28021G26KT 08/M03 RMK AO1 SOG 00 1015 PK WND 28028/1611 SLP115 T00751028 EEEI 251650Z 30004KT 280V350 9999 FEW031 03/01 Q1016 R24/290095 NOSIG KBAK 251653Z 17015G18KT 10SM BKN150 20/12 A3005 KAIT 251653Z AUTO 09010G15KT 10SM OVC021 04/M03 A3020 RMK AO2 KBBB 251654Z AUTO 14008KT 10SM OVC012 04/M01 A3019 RMK AO2 CWDT 251600Z AUTO 29011KT M11/M22 RMK AO1 21 1014 SLP295 T11081218 CWEK 251600Z AUTO 20020KT 05/02 RMK AO1 1037 PK WND 21028/1511 SLP076 T00540022 50016 KAJL 251655Z AUTO 4SM -SN OVC002 A3002 RMK AO2 TSNO CWEL 251700Z AUTO 23009KT 08/01 RMK AO1 SLP174 T00760013 51016 KBAM 251655Z AUTO 34003KT 10SM CLR 08/01 A3008 RMK AO1 NWWW 251700Z AUTO 14002KT CAVOK 21/20 Q1011 NOSIG CWDV 251700Z AUTO 15007KT M00/M10 RMK AO1 SOG 32 8008 SLP290 T10021102 KBAN 251652Z AUTO 00000KT 10SM 02/M02 A3007 RMK AO2 SLP171 T00221022 $ KAJO 251656Z AUTO 16003KT 10SM CLR 16/09 A3013 RMK AO2 SLP216 T01560094 KBBF 251655Z AUTO 33005KT 3SM BR FEW014 FEW018 SCT031 23/21 A3005 RMK A01 ULLI 251700Z 29002MPS 9999 FEW011 BKN016 01/M00 Q1014 R28L/290050 NOSIG CWFF 251700Z AUTO 21010KT 04/01 RMK AO1 5017 SLP040 T00430014 50022 KD25 251655Z AUTO 09006KT 10SM OVC014 01/00 A3024 RMK AO2 T00101001 KBBG 251648Z 25008KT 10SM BKN014 BKN075 14/12 A2982 CWEP 251700Z AUTO 34018KT M01/M04 RMK AO1 SOG 04 3013 PK WND 33022/1639 SLP186 T10091041 KAKH 251654Z AUTO VRB06G15KT 10SM SCT038 BKN050 21/09 A3030 RMK AO2 SLP256 T02110089 KAIZ 251656Z AUTO 11003KT 9SM -RA BKN004 BKN012 OVC038 A2983 RMK AO2 RAB00 SLPNO P0004 FZRANO $ CWEQ 251700Z AUTO 30002KT 02/M02 RMK AO1 SOG 02 6023 SLP100 T00201019 CWDZ 251600Z AUTO 03001KT 05/M00 RMK AO1 T00481001 KAJR 251655Z AUTO 16004KT 10SM BKN026 BKN033 OVC042 18/12 A3029 RMK AO2 T01840120 CWER 251700Z AUTO 10007KT RMK AO1 CWFJ 251700Z AUTO 23007KT 08/M04 RMK AO1 T00751036 KALB 251651Z 36009KT 7SM -RA FEW013 BKN031 OVC050 03/M01 A3030 RMK AO2 SLP264 VIS LWR N FEW V SCT PCPN VRY LGT AND INTMT P0000 T00281006 KBCB 251655Z AUTO 00000KT 10SM CLR 20/09 A3029 RMK AO2 T01990089 CWGB 251700Z AUTO 10002KT 08/02 RMK AO1 SLP170 T00750017 53014 CWEU 251700Z 13005KT 15SM IC BKN090 BKN210 M33/M37 A2982 RMK AC5CS2 HALO SLP101 CWGD 251700Z AUTO 09017KT 04/02 RMK AO1 0005 PK WND 09021/1655 SLP250 T00350015 50023 KBCE 251653Z AUTO 15008KT 10SM FEW055 BKN120 05/M03 A3006 RMK AO2 SLP130 T00501028 TSNO CWEW 251700Z AUTO 02007KT 00/M11 RMK AO1 SOG 14 1011 SLP302 T00001113 KAKO 251653Z AUTO 18006KT 10SM CLR 11/M02 A3003 RMK AO2 SLP166 T01111022 KBAX 251656Z AUTO 06010G15KT 10SM OVC006 02/01 A3029 RMK AO2 T00180010 KBBP 251655Z AUTO 23008G14KT 10SM OVC050 22/12 A3031 RMK AO2 KBAZ 251651Z 33004KT 10SM CLR 23/06 A3007 RMK AO2 SLP176 T02280061 EDNY 251650Z 04011KT CAVOK 13/05 Q1017 EDOP 251650Z 32004KT CAVOK 09/02 Q1026 KAJZ 251655Z AUTO 00000KT 10SM CLR 12/M02 A3005 RMK AO2 T01161025 KAKQ 251654Z AUTO 22014G19KT 10SM CLR 23/11 A3025 RMK AO2 SLP242 T02280106 CWFQ 251700Z AUTO 36007KT M01/M03 RMK AO1 SOG 36 3009 SLP269 T10131033 50008 CWEZ 251700Z AUTO 19008KT 09/04 RMK AO1 SLP186 T00910043 51019 KALI 251653Z AUTO 34005KT 9SM OVC016 24/20 A3005 RMK AO2 SLP173 T02390200 $ KAKR 251654Z AUTO 27006KT 10SM FEW049 OVC080 21/11 A3016 RMK AO2 SLP206 T02060106 TSNO KAMA 251653Z 32011KT 10SM CLR 15/M03 A3009 RMK AO2 SLP171 T01501028 ULMM 251700Z 20002MPS CAVOK M00/M12 Q1006 R13/090070 NOSIG RMK QFE748 KD39 251651Z AUTO 09008KT 10SM OVC014 02/M01 A3018 RMK AO2 T00171009 KALK 251656Z AUTO 08004KT 10SM CLR 19/M07 A3012 RMK AO2 SLP132 T01941072 $ KBCK 251655Z AUTO 07013G19KT 10SM OVC014 04/00 A3015 RMK AO2 T00420004 CWGL 251700Z AUTO 06006KT 03/M01 RMK AO1 SLP281 T00261007 51015 KALM 251655Z AUTO 20005KT 10SM CLR 17/M02 A3015 RMK AO2 CWGM 251700Z AUTO 22010KT 04/M03 RMK AO1 T00441033 KBBW 251653Z AUTO 34009KT 10SM OVC005 04/03 A3003 RMK AO2 SLP179 T00390028 KBDE 251653Z AUTO 14013G20KT 10SM OVC024 03/M02 A3020 RMK AO2 SLP242 T00331022 KALN 251647Z 15010KT 10SM OVC020 16/13 A2991 KALO 251654Z 04012KT 2 1/2SM RA BR OVC007 03/02 A3000 RMK AO2 RAB06 CIG 006V011 SLP165 P0007 T00330022 KAMG 251653Z AUTO 15011KT 10SM FEW045 SCT060 24/13 A3027 RMK AO2 SLP248 T02440133 KBDG 251655Z AUTO 13007KT 10SM CLR 09/M05 A3014 RMK AO1 T00941046 KBDH 251655Z AUTO 10010KT 10SM OVC012 03/01 A3017 RMK AO2 NZAA 251700Z AUTO 05009KT 9999 FEW017/// SCT080/// 19/17 Q1014 NOSIG OOSA 251650Z 18008KT 9999 SCT025 27/21 Q1012 NOSIG CWHI 251600Z AUTO 21007KT 04/M00 RMK AO1 T00391001 CWGR 251700Z AUTO 33026G31KT M03/M09 RMK AO1 PK WND 33032/1642 SLP177 T10321086 53011 ZSAM 251700Z 03002MPS 9999 BKN030 OVC060 13/10 Q1022 NOSIG KALS 251652Z AUTO 00000KT 10SM CLR 07/M01 A3016 RMK AO2 SLP193 T00671011 KBEA 251655Z AUTO 04007KT 10SM OVC019 22/13 A3007 RMK AO2 T02160129 KBCT 251647Z 07015G20KT 10SM FEW040 25/16 A3021 KANB 251653Z AUTO 16011G17KT 10SM FEW047 23/13 A3018 RMK AO2 SLP212 T02330128 CWGT 251700Z AUTO 23014KT 07/02 RMK AO1 PK WND 23021/1612 SLP168 T00730015 51016 KBDL 251651Z 36010KT 5SM -DZ OVC024 06/03 A3024 RMK AO2 DZB47 SLP240 P0000 T00560028 KBEC 251655Z AUTO 35014G20KT 10SM OVC011 07/04 A2994 RMK AO2 T00650035 CWHL 251700Z AUTO 16012G17KT 05/02 RMK AO1 1023 PK WND 14019/1602 SLP095 T00540023 50014 KBED 251656Z 05007KT 10SM -RA BKN015 OVC019 04/00 A3026 RMK AO2 RAB39 SLP260 P0000 T00390000 KAND 251656Z AUTO 20009KT 10SM FEW032 20/11 A3028 RMK AO2 SLP250 T02000111 EDQM 251650Z 01011KT CAVOK 08/M05 Q1024 CWID 251700Z AUTO 06004KT M09/M14 RMK AO1 SLP179 T10941142 50001 KALW 251653Z 26009KT 10SM SCT045 BKN050 OVC070 09/04 A3011 RMK AO2 SLP199 T00890039 $ KANE 251645Z 07012KT 10SM OVC016 04/02 A3018 KBDN 251655Z AUTO 21011KT 10SM SCT065 06/M02 A3006 RMK AO2 KAMN 251654Z AUTO 05013G19KT 7SM -RA OVC005 03/02 A3024 RMK AO2 T00250023 CWHN 251600Z AUTO 34003KT 310V080 9SM OVC008 OVC070 OVC080 M01/M06 A2971 RMK SLP092 CWGW 251700Z AUTO 18008G17KT 02/M00 RMK AO1 SOG 02 5000 PK WND 16017/1602 SLP155 T00241003 KALX 251655Z AUTO 16008G15KT 120V200 10SM SCT041 SCT049 22/13 A3018 RMK AO2 T02240129 CWHO 251700Z AUTO 00002KT M16/M24 RMK AO1 SLP092 T11611235 55003 CWGX 251700Z AUTO 10005KT M06/M18 RMK AO1 SOG 37 8023 SLP239 T10641175 KD55 251655Z AUTO 18021G26KT 10SM BKN011 BKN045 OVC055 03/01 A3006 RMK AO2 PFSH 251658Z AUTO 02011KT 10SM CLR M21/M23 A3000 RMK AO2 SLP176 T12111228 FZRANO CWHP 251600Z AUTO 31024KT M05/M13 RMK AO1 PK WND 32030/1500 SLP165 T10541133 51032 CWIG 251700Z AUTO 06007KT RMK AO1 CWGY 251700Z AUTO 26011KT 08/M00 RMK AO1 PK WND 26018/1600 SLP102 T00841001 51025 KBEH 251653Z AUTO 08011G18KT 4SM -RA BR BKN007 BKN029 OVC085 08/06 A3006 RMK AO2 RAB1555E22B39 SLP182 P0006 T00830061 CWGZ 251700Z 36003KT 30SM FEW035 SCT130 M29/M33 A2989 RMK SC1AS2 SLP133 ULPB 251700Z AUTO 00000MPS 9999 // NCD M02/M11 Q1013 RMK QFE756/1008 CWHQ 251700Z AUTO 33008KT 03/M14 RMK AO1 PK WND 33018/1612 T00331137 KBDR 251652Z 01005KT 10SM SCT041 BKN048 BKN110 13/04 A3021 RMK AO2 PRESRR SLP229 T01280039 KD57 251655Z AUTO 15010KT 10SM CLR 05/00 A2997 RMK AO2 CWII 251700Z AUTO 17020G25KT 03/M01 RMK AO1 PK WND 18025/1619 T00341012 KANJ 251655Z AUTO 08007KT 10SM CLR 02/M04 A3037 RMK AO2 SLP292 T00221044 CWIJ 251400Z AUTO M24/M27 RMK AO1 SOG 68 T12411271 KANK 251715Z AUTO 18012G19KT 10SM CLR 13/M09 A3014 RMK AO1 T01301089 KD60 251655Z AUTO 20013G19KT 10SM BKN120 07/05 A2988 RMK AO2 OPKC 251555Z 26012KT 6000 NSC 30/18 Q1012 NOSIG CWHT 251700Z AUTO 32007KT M09/M16 RMK AO1 SOG 39 3002 SLP062 T10901156 CWJB 251700Z AUTO 34003KT 01/M14 RMK AO1 SOG 97 T00141135 50012 CWIK 251700Z AUTO 21007KT 08/01 RMK AO1 SOG 01 3001 PK WND 21020/1625 SLP106 T00770012 EDSB 251650Z 03015KT CAVOK 15/01 Q1019 KBDU 251656Z AUTO 09003KT 10SM CLR 11/M02 A3001 RMK AO2 UKWW 251700Z 00000MPS 9999 SCT026 BKN100 05/M02 Q1016 R31/0///65 TEMPO 2000 -SHRASN BR BKN005 BKN015CB ULOO 251700Z AUTO VRB01MPS 5000 // ///061/// 02/01 Q1015 RMK QFE757 CWIL 251700Z AUTO 14019KT M24/ A2991 RMK SLP142 KBFD 251706Z AUTO 30010KT 10SM BKN028 BKN033 OVC048 17/12 A3017 RMK AO2 T01670117 TSNO CWHV 251700Z AUTO 34009KT M00/ RMK AO1 SLP260 T1001 51010 CWJD 251700Z AUTO 15006KT M00/M04 RMK AO1 SOG 39 6041 SLP129 T10011041 UMGG 251700Z 20002MPS 9999 -SHSNRA OVC048CB 02/M00 Q1015 R28/CLRD// NOSIG KAMW 251653Z AUTO 04014KT 3SM RA BR BKN008 OVC012 04/04 A2997 RMK AO2 SLP153 P0013 T00390039 NZAP 251700Z 06006KT 20KM SCT045 15/13 Q1018 RMK ALT VATSIM USE ONLY KBFF 251653Z AUTO 17007KT 10SM CLR 13/01 A2997 RMK AO2 SLP145 T01330011 CXAF 251600Z AUTO 27005KT M01/M02 RMK AO1 T10051024 TUPJ 251700Z 17012KT 9999 SCT018 27/32 A2993 RMK Q1014 CXAG 251600Z AUTO 26005KT 00/M02 RMK AO1 T00001018 CWIP 251700Z AUTO 29012G18KT M06/ RMK AO1 PK WND 30022/1628 T1060 KAOH 251653Z AUTO 21016G21KT 10SM CLR 21/11 A3010 RMK AO2 PK WND 22026/1624 SLP188 T02110111 KANQ 251655Z AUTO 11013KT 10SM SCT065 SCT075 14/09 A3010 RMK OPLA 251655Z 29003KT 4000 HZ NSC 25/12 Q1013 A29.89 NOSIG CWJH 251700Z AUTO 05006KT M06/M07 RMK AO1 3PAST HR SOG 58 8022 SLP135 P0001 T10571071 50007 KBFI 251653Z 17011KT 10SM SCT075 BKN140 08/05 A3011 RMK AO2 SLP197 T00830050 CWJI 251700Z AUTO 26017KT 11/M01 RMK AO1 SOG 00 1012 PK WND 24024/1616 SLP107 T01061012 KAPA 251653Z 16007KT 10SM SCT160 BKN220 11/M01 A3001 RMK AO2 SLP154 T01111011 PHBK 251656Z AUTO 07004KT 10SM CLR A3018 RMK AO2 SLP223 CXBA 251600Z AUTO 28012KT 03/02 RMK AO1 PK WND 28022/1519 T00320023 50006 CXAJ 251600Z AUTO 20002KT M00/M02 RMK AO1 SOG 03 T10021022 CWIS 251700Z AUTO 04005G25KT M04/M17 RMK AO1 SOG 137 1009 PK WND 19027/1620 SLP249 T10371172 EEKA 250850Z 29007KT 250V330 5000 SN OVC004 01/01 Q1015 CXAK 251600Z AUTO 25006KT 05/02 RMK AO1 T00450022 KAPC 251701Z 16003KT 8SM BKN003 12/11 A3018 RMK AO2 T01170106 KBFL 251708Z 19007KT 8SM BKN009 BKN015 OVC055 13/11 A3013 RMK AO2 T01330111 KBGD 251651Z AUTO 35010G17KT 10SM CLR 15/M05 A3007 RMK AO2 SLP171 T01501050 KBFM 251707Z 15016G24KT 10SM BKN022 OVC050 24/20 A3014 RMK AO2 T02440200 CWKD 251600Z AUTO 28009KT M14/M24 RMK AO1 19 1017 SLP286 T11351235 KBGE 251655Z AUTO 13008G14KT 10SM CLR 26/12 A3023 RMK AO2 PWINO KANW 251655Z AUTO 00000KT 10SM SCT003 03/03 A3003 RMK AO2 T00280028 CWIW 251700Z AUTO 25015G20KT 10/01 RMK AO1 SOG 02 3002 PK WND 23026/1600 SLP053 T01010013 KAPF 251653Z 10008KT 10SM FEW047 SCT060 SCT070 28/16 A3018 RMK AO2 SLP219 T02780161 $ KAOO 251653Z AUTO 28012KT 10SM FEW110 21/11 A3018 RMK AO2 SLP213 T02060111 EEKE 251650Z AUTO 35011KT 9999NDV NCD 03/00 Q1017 KBGF 251655Z AUTO 19009KT 10SM BKN045 22/12 A3014 RMK CWIX 251600Z AUTO 28012KT M09/M18 RMK AO1 SLP311 T10931183 51014 CWJO 251600Z AUTO 28011G16KT M07/M17 RMK AO1 PK WND 28019/1503 SLP312 T10741174 51017 NZCH 251700Z AUTO 05016KT 9999 OVC022/// 13/10 Q1017 TEMPO 4000 RA KAPG 251658Z AUTO 27005KT 10SM BKN170 23/11 A3016 RMK AO2 SLP216 T02280105 NZCI 251700Z 25002KT 1000 FG SCT007 15/15 Q1019 RMK ALT NZNR VATSIM USE ONLY CWKG 251700Z AUTO 05005KT 06/M03 RMK AO1 SOG 10 0002 SLP193 T00601029 CWIZ 251700Z AUTO 04005KT M02/M06 RMK AO1 SOG 28 T10181063 CWKH 251700Z AUTO 05/01 RMK AO1 1014 SLP167 T00520010 50002 CXBI 251700Z AUTO 06008KT 02/M00 RMK AO1 SOG 01 1012 SLP287 T00231003 50003 CWJR 251700Z AUTO 12004KT 07/05 RMK AO1 3PAST HR 1005 SLP174 P0001 T00710048 50011 CXCA 251600Z AUTO 30002KT M03/M16 RMK AO1 SOG 00 8003 SLP320 T10291157 KBHB 251656Z AUTO 36008G14KT 10SM FEW028 OVC035 04/M02 A3021 RMK AO2 SLP233 T00391022 NZCM 251155Z 07017G24KT 9999 BKN050 BKN080 M17/M25 A2928 RMK SLP921 CWKK 251600Z AUTO 01002KT M07/M16 RMK AO1 SOG 21 8007 SLP318 T10721163 CXAT 251500Z AUTO 20001KT M29/M33 RMK AO1 SOG 03 SLP148 T12891333 CWLB 251700Z AUTO 27003KT 01/M04 RMK AO1 SOG 08 1004 SLP096 T00071039 CXBK 251700Z AUTO 26020G26KT 10/01 RMK AO1 SOG 00 1009 PK WND 25026/1644 SLP082 T00960006 CWJT 251700Z AUTO 03003KT 01/M09 RMK AO1 1009 SLP290 T00131086 50020 KBHC 251655Z AUTO 15007KT 10SM SCT040 SCT049 OVC060 24/15 A3027 RMK AO2 PNO EDTL 250920Z 03011KT 9000 NSC 10/06 Q1023 CWLC 251700Z AUTO 20008KT 05/02 RMK AO1 PK WND 19019/1619 T00540024 CWJU 251700Z AUTO 23013KT 04/02 RMK AO1 1026 PK WND 22019/1614 SLP081 T00390022 50002 KBGM 251701Z 36006KT 1 1/4SM -RA BR OVC003 02/02 A3022 RMK AO2 TWR VIS 2 1/2 P0000 T00220022 CXCD 251600Z AUTO 02003KT M01/M04 RMK AO1 T10141038 CWJV 251700Z AUTO 09004KT 04/03 RMK AO1 1010 SLP156 T00420032 50002 CWKM 251700Z AUTO 22009KT A3005 KAPN 251654Z AUTO 07011KT 10SM OVC012 02/M01 A3038 RMK AO2 SLP295 T00171006 KBFW 251654Z AUTO 06014G22KT 10SM BKN010 OVC030 01/M02 A3028 RMK AO2 CWLE 251700Z AUTO 28027G34KT 06/02 RMK AO1 SOG 00 1026 PK WND 27034/1651 SLP080 T00620017 CWJW 251700Z AUTO 19006KT 03/M02 RMK AO1 SOG 16 0006 SLP110 T00301017 VCRI 251410Z VRB02KT 9999 FEW018 27/20 Q1011 NOSIG CWKO 251700Z AUTO 28014G21KT 10/M02 RMK AO1 SOG 00 1013 PK WND 28024/1640 SLP119 T01041018 CXBO 251700Z AUTO 13004KT RMK AO1 CWJX 251700Z AUTO 28015KT 08/02 RMK AO1 SOG 01 0028 PK WND 27018/1652 SLP105 T00820018 UMII 251600Z 23003G06MPS 9999 SCT020 SCT300 02/M05 Q1013 TEMPO SCT005 UNAA 251700Z 21004MPS CAVOK 06/M08 Q1018 R20/090065 NOSIG RMK QFE741 CWKP 251700Z AUTO 24024KT M22/ A2983 RMK SLP151 CXCH 251700Z AUTO M00/M03 RMK AO1 SOG 10 T10041033 KBGR 251653Z 32012KT 10SM BKN030 OVC037 03/M02 A3021 RMK AO2 SLP233 T00331022 CXBR 251600Z AUTO 20005KT 07/M04 RMK AO1 T00711038 CWLI 251700Z AUTO ///// 3/4SM //// BKN006 BKN013 OVC023 ///// A//// KARA 251702Z 00000KT 2SM +TSRA SCT060 BKN075 OVC090 17/14 A3010 RMK AO2 LTG DSNT ALQDS P0004 T01670139 KARB 251702Z 04008KT 6SM -RA BR OVC008 06/05 A3020 RMK AO2 P0000 T00610050 KBHK 251651Z AUTO 34011KT 10SM CLR 13/00 A2993 RMK AO2 SLP135 T01330000 CXDB 251600Z AUTO 21007KT 05/M03 RMK AO1 T00481029 CXCK 251600Z AUTO 30005KT M10/M13 RMK AO1 SOG 48 6005 SLP067 T10971129 NZDN 251700Z 06006KT 35KM BKN025 10/08 Q1016 RMK ALT VATSIM USE ONLY KBHM 251653Z 19017G25KT 10SM BKN043 24/13 A3017 RMK AO2 SLP208 T02440128 KBID 251656Z AUTO 07010KT 10SM BKN038 OVC050 07/04 A3019 RMK AO2 RAE08 PRESFR SLP227 P0000 T00670039 CWLM 251700Z AUTO 25013KT 08/04 RMK AO1 PK WND 26019/1648 SLP185 T00830041 53017 KBIE 251655Z AUTO 03013G21KT 10SM -RA OVC009 06/05 A2995 RMK AO2 P0002 T00580053 EDVE 251450Z 33005KT 280V360 CAVOK 14/M03 Q1027 CXBW 251600Z AUTO 26024KT 10/M04 RMK AO1 PK WND 26030/1554 T00971041 CWME 251600Z AUTO 25008KT 03/02 RMK AO1 4PAST HR M P0005 T00300020 50080 CXDE 251600Z AUTO 29005KT M20/M22 RMK AO1 SOG 21 3004 SLP213 T11951217 CWKW 251700Z AUTO ///// A2938 KBIF 251658Z AUTO 17009KT 9SM CLR 17/M05 A3012 RMK AO2 SLP152 T01691051 $ KAQO 251650Z AUTO 28009KT 030V040 10SM CLR 19/06 A3013 RMK AO2 CWKX 251700Z AUTO 00000KT M05/M07 RMK AO1 SOG 34 3009 SLP022 T10491069 KAQP 251654Z AUTO 11007KT 10SM OVC012 03/M01 A3017 RMK AO2 KARG 251655Z AUTO 17016KT 10SM BKN014 OVC024 17/14 A2987 RMK AO1 KD95 251654Z AUTO 08007KT 10SM -RA OVC006 04/03 A3025 RMK AO2 T00350032 OPNH 251600Z 13504KT 5000 FU NSC 30/16 Q1009 NOSIG KAPY 251655Z AUTO 32009KT 7SM OVC020 25/18 A3005 RMK AO2 T02540191 CWLP 251700Z AUTO 17013KT 05/02 RMK AO1 SLP156 T00540021 53015 CXCP 251700Z AUTO 23018KT 09/M06 RMK AO1 PK WND 22022/1659 T00851058 EDTY 251650Z 06013KT CAVOK 13/M01 Q1021 KBIH 251656Z AUTO 01016G22KT 10SM CLR 14/M02 A3003 RMK AO2 SLP142 T01391017 UNBB 251700Z 23004MPS 5000 -SN BKN003 BKN016 00/M01 Q1020 R24/490248 NOSIG RMK QBB090 QFE742 KAQR 251655Z AUTO 30007KT 10SM OVC025 13/06 A3001 RMK AO2 OPMT 251700Z 00000KT 4000 FU NSC 28/16 Q1012 NOSIG CXDI 251700Z AUTO 07004KT 03/02 RMK AO1 6PAST HR SOG 00 0014 SLP253 P0006 T00270019 50096 KBIJ 251655Z AUTO 17007G14KT 10SM CLR 25/12 A3023 RMK AO2 CXCS 251600Z AUTO 29014KT 04/02 RMK AO1 PK WND 28020/1544 T00380015 CXEA 251700Z AUTO 11005KT M00/M06 RMK AO1 SOG 13 8015 SLP256 T10011059 CWLS 251700Z AUTO 08010KT 01/M00 RMK AO1 3013 SLP276 T00051001 50017 CWMJ 251700Z AUTO 01005KT M03/M10 RMK AO1 SOG 33 1006 SLP309 T10261104 EDVK 251650Z 02008KT CAVOK 11/M04 Q1025 CXDK 251600Z AUTO 14008KT M09/M14 RMK AO1 SOG 28 0000 SLP154 T10931141 KBJC 251645Z 02005KT 50SM SCT150 12/M02 A3002 KBIL 251653Z 22004KT 10SM OVC085 09/01 A2999 RMK AO2 SLP153 VIRGA SHRA DSNT S T00940006 KE11 251655Z AUTO 02006KT 10SM CLR 15/01 A3016 RMK AO2 T01530006 CXEC 251700Z AUTO 23005KT 01/M01 RMK AO1 SOG 00 0006 SLP101 T00061010 CWNC 251700Z AUTO 06006KT 04/01 RMK AO1 SOG 00 1018 SLP276 T00390005 50018 KASD 251653Z AUTO 17013KT 10SM SCT019 BKN029 OVC060 24/21 A3006 RMK AO2 LTG DSNT ALQDS RAE09B29E41 TSB08E23 SLP177 P0003 T02440206 KCAD 251655Z AUTO 08016G23KT 10SM OVC007 02/00 A3021 RMK AO2 T00210006 KAQV 251656Z AUTO 21005KT 10SM BKN030 OVC035 21/14 A2999 RMK AO2 SLP152 T02060139 $ KARM 251655Z AUTO 34006KT 10SM CLR 24/07 A3006 RMK AO2 T02350069 CWND 252325Z M01/M01 RMK 6020 T10141006 CWMM 251700Z AUTO 17002KT 08/04 RMK AO1 SLP181 T00820035 51013 KASE 251653Z 32004KT 10SM CLR 07/M04 A3007 RMK AO2 SLP128 T00671044 $ KAQW 251652Z AUTO 24005KT 2SM -RA BR OVC005 02/01 A3026 RMK AO2 CIG 004V010 SLP253 P0002 T00170011 KCAE 251656Z 18008KT 10SM FEW042 BKN055 OVC130 23/10 A3030 RMK AO2 SLP258 T02330100 $ CWNE 251700Z AUTO 36012KT M01/M07 RMK AO1 PK WND 00017/1612 SLP199 T10091066 51019 KAQX 251655Z AUTO 16009KT 10SM BKN050 OVC060 23/10 A3030 RMK AO2 KASG 251647Z 27012KT 2 1/2SM BR BKN006 OVC009 10/10 A2989 VEBI 250630Z 30007KT 5000 HZ SCT020 FEW025CB BKN100 18/13 Q1016 CWLX 251700Z AUTO 07005KT M28/ A2988 RMK SLP148 KCAG 251653Z AUTO 06010KT 10SM CLR 13/M05 A3001 RMK AO2 SLP147 T01281050 CXDP 251600Z AUTO 25005KT M00/M01 RMK AO1 T10011011 CXEG 251600Z AUTO M00/M00 RMK AO1 SOG 07 T10041004 CWLY 250500Z AUTO 19013G18KT 6SM -RA BR OVC040 07/05 A2978 RMK SLP092 KASH 251656Z 33005KT 5SM -RA BR OVC009 02/02 A3030 RMK AO2 PRESRR SLP273 P0005 T00220017 KE16 251655Z AUTO 34008KT 10SM SCT014 13/10 A3017 RMK AO2 PWINO PNO CWMQ 251700Z AUTO 28014G21KT 10/M04 RMK AO1 PK WND 27023/1636 SLP118 T01021042 51020 UMKK 251700Z 34006MPS 310V010 9999 FEW013 04/M00 Q1019 R24/CLRD60 NOSIG RMK QFE763/1018 VEAT 251530Z 00000KT 5000 BR FEW020 SCT100 21/19 Q1012 NOSIG CWNH 251600Z AUTO 34006KT M04/M14 RMK AO1 SOG 44 1019 SLP274 T10371141 ZSHC 251700Z 27002MPS CAVOK 11/05 Q1023 NOSIG KARR 251652Z 06020G26KT 9SM BKN006 OVC033 07/05 A3001 RMK AO2 PK WND 06033/1616 RAE1555 SLP166 P0000 T00670050 KBJI 251653Z AUTO 13014G21KT 10SM OVC019 02/M02 A3019 RMK AO2 T00201025 PFWS 251656Z AUTO 02011KT 10SM CLR M13/M17 A2970 RMK AO2 SLP063 T11331167 FZRANO KASJ 251700Z AUTO 21004KT 10SM 23/12 A3028 RMK AO2 T02280117 VECC 251700Z 16008KT 3200 HZ SCT020 27/24 Q1011 NOSIG KBIS 251652Z 16016KT 10SM OVC006 02/00 A3005 RMK AO2 SLP194 T00220000 KBJJ 251656Z AUTO 26008KT 10SM OVC080 20/11 A3016 RMK AO2 SLP209 T02000106 KCAK 251651Z 24008KT 10SM SCT045 BKN075 19/09 A3017 RMK AO2 SLP212 T01890094 KART 251656Z AUTO 05013KT 10SM BKN016 BKN060 03/01 A3032 RMK AO2 SLP271 T00280006 $ KBKB 251654Z AUTO VRB03KT 10SM FEW032 21/16 A2998 RMK AO2 SLP179 T02110156 VEBN 251630Z 24002KT 3500 HZ NSC 27/16 Q1011 CWNK 251600Z AUTO 16017KT 01/M01 RMK AO1 PK WND 15022/1541 T00101010 CWMT 251700Z AUTO 28002KT M18/M21 RMK AO1 SLP203 T11781208 52006 CWOB 251700Z AUTO 03043G56KT ////SM //// FEW008 FEW012 ///// A2951 KASL 251655Z AUTO RMK AO1 PNO CWOC 251700Z AUTO 28010G18KT M00/M15 RMK AO1 PK WND 29018/1652 SLP203 T10031154 50009 CWNL 251600Z AUTO 07009G17KT M00/M06 RMK AO1 PK WND 08017/1555 SLP296 T10031056 51010 KBIV 251653Z AUTO 09012G22KT 10SM OVC008 04/03 A3012 RMK AO2 RAE35 SLP206 P0001 T00440028 KARV 251655Z AUTO 11004KT 10SM OVC013 03/00 A3023 RMK AO2 T00250000 KBKD 251655Z AUTO 33010KT 5SM HZ SCT038 16/05 A3009 RMK AO2 T01620052 CWOD 251700Z AUTO 31010KT M07/M18 RMK AO1 SOG 81 2002 SLP304 T10711179 CWNM 251700Z AUTO 29006KT 06/04 RMK AO1 3006 SLP166 T00620035 50008 ZSFZ 251700Z 01002MPS 9999 SCT030 12/10 Q1023 NOSIG KCBE 251702Z AUTO 27005KT 10SM SCT055 SCT070 23/09 A3020 RMK AO1 KBKE 251653Z AUTO 29003KT 10SM CLR 06/02 A3007 RMK AO2 SLP196 T00560022 KARW 251655Z AUTO 17008G16KT 10SM CLR 23/12 A3032 RMK AO2 KASN 251655Z AUTO 17016G21KT 10SM SCT045 SCT055 24/13 A3018 RMK AO2 T02370130 CWOE 251700Z AUTO 27018G23KT 09/M03 RMK AO1 PK WND 29032/1604 SLP130 T00931033 51023 CXDW 251700Z AUTO 17020G26KT 03/M00 RMK AO1 SOG 05 5007 PK WND 19026/1640 SLP196 T00291003 KCAO 251655Z AUTO VRB03KT 10SM CLR 15/M02 A3008 RMK AO2 SLP165 T01501017 KCBF 251655Z AUTO 03014KT 10SM 05/05 A2996 RMK AO2 KBIX 251658Z AUTO 15009G17KT 10SM OVC022 24/19 A3011 RMK AO2 OVC V BKN SLP199 T02390191 KBKF 251658Z 19009KT 10SM FEW140 BKN220 13/M03 A3001 RMK AO2A SLP136 T01281034 KCBG 251656Z AUTO 07006KT 10SM OVC017 04/M02 A3018 RMK AO2 VEBS 251630Z 21008KT 4000 HZ NSC 27/25 Q1010 BECMG 3000 HZ CWNP 251700Z AUTO 19002KT 06/03 RMK AO1 SOG 25 1007 SLP163 T00590031 50003 CWMZ 251600Z AUTO 04017KT M01/M02 RMK AO1 PK WND 04021/1509 SLP287 T10111015 51021 CWNQ 251700Z AUTO 03006KT M00/M15 RMK AO1 SLP288 T10021147 51009 KCAR 251654Z AUTO 31013KT 10SM CLR 01/M14 A3021 RMK AO2 SLP241 T00061139 KCCA 251655Z AUTO 22011G18KT 10SM BKN037 OVC043 16/11 A2987 RMK AO2 KAST 251655Z AUTO 18005KT 10SM BKN040 OVC055 07/05 A3014 RMK AO2 RAB30E48 SLP206 P0000 T00720050 KCBK 251655Z AUTO 33010KT 10SM CLR 11/01 A3005 RMK AO2 CXET 251700Z AUTO 08009KT 02/01 RMK AO1 1013 SLP282 T00240005 50006 KATL 251652Z 17005G16KT 10SM SCT038 BKN250 22/12 A3024 RMK AO2 SLP233 T02170117 $ EFET 251650Z AUTO 21008KT CAVOK 01/M06 Q1004 KBKL 251653Z 04015KT 7SM SCT004 OVC044 04/03 A3019 RMK AO2 PK WND 04028/1600 SLP225 T00440033 CWPC 251700Z AUTO 07013KT 02/M00 RMK AO1 PK WND 07020/1612 SLP264 T00191002 51023 KCAV 251655Z AUTO 06019KT 4SM BR OVC007 03/03 A3002 RMK AO2 PWINO KCBM 251658Z AUTO 14012KT 10SM SCT060 BKN085 16/15 A3006 RMK AO2 RAE00RAB04E07RAB12E45RAB47E57 CIG 055 RWY31C SLP181 P0014 $ CXFM 251600Z AUTO 24017KT 08/M04 RMK AO1 PK WND 23024/1555 T00801043 CWPD 251700Z AUTO 03005KT M07/M19 RMK AO1 SLP262 T10731188 51014 VEDG 250700Z 17006KT 4000 HZ NSC 3719 Q1008 NOSIG UMMG 251200Z 27007G10MPS 9000 -SHRA BKN014CB OVC066 04/01 Q1018 NOSIG KASW 251700Z AUTO 11007KT 10SM SCT085 19/12 A3004 RMK AO2 CWPE 251700Z AUTO 32008G15KT 06/M04 RMK AO1 SOG 01 0000 SLP205 T00551042 KASX 251653Z AUTO 05011KT 10SM OVC022 02/M02 A3029 RMK AO2 SLP268 T00221017 KBLF 251652Z AUTO 17007KT 130V190 10SM SCT050 19/06 A3025 RMK AO2 SLP220 T01940061 TSNO KAUG 251653Z AUTO 33008KT 10SM CLR 04/M04 A3023 RMK AO2 SLP240 T00391039 CWPF 251700Z AUTO 24013G19KT 08/03 RMK AO1 PK WND 24019/1657 SLP183 T00790026 53013 KATP 251655Z AUTO 17015KT 8SM CLR 24/22 A3011 RMK A01 PHHI 251658Z AUTO 00000KT 10SM CLR 17/17 A3019 RMK AO2 SLP217 T01720170 $ KBLH 251652Z AUTO 00000KT 10SM CLR 22/03 A2998 RMK AO2 SLP146 T02220028 $ KAUH 251655Z AUTO 36013G17KT 4SM BR OVC004 02/02 A3001 RMK AO2 T00240024 NZGS 251700Z 32004KT 5000 DZ SCT006 16/16 Q1018 RMK ALT VATSIM USE ONLY CXGH 251700Z AUTO 18018KT 04/01 RMK AO1 PK WND 17022/1651 T00400011 CWNZ 251700Z AUTO 07005KT M04/M18 RMK AO1 SOG 31 8010 SLP345 T10401177 KBLI 251653Z 19006KT 10SM -RA SCT046 OVC060 08/05 A3008 RMK AO2 RAB41 SLP193 P0000 T00780050 OPPS 251700Z 23006KT 4000 HZ FEW100 21/10 Q1015 NZHK 251700Z 10003KT 9000 SHRA BKN034 15/15 Q1014 RMK ALT VATSIM USE ONLY ULWC 251700Z 31002MPS 9999 FEW033 00/M10 Q1011 R03/490050 NOSIG RMK QFE748/0998 CXFR 251700Z AUTO 09008KT M01/M03 RMK AO1 T10121027 KATS 251655Z AUTO 16014G19KT 10SM CLR 17/M00 A3013 RMK AO2 KBKS 251655Z AUTO 32004KT 10SM OVC025 27/21 A3003 RMK AO1 T02720208 KCDA 251655Z AUTO 33006KT 10SM OVC020 01/M03 A3028 RMK AO2 T00051031 KE38 251655Z AUTO 08003KT 10SM CLR 16/M02 A3024 RMK AO2 T01611019 PFYU 251555Z 02005KT 10SM CLR M24/M27 A3001 CXHA 251700Z AUTO 06007KT 07/05 RMK AO1 SOG 00 0009 SLP230 T00730052 KATT 251651Z AUTO 30008KT 270V350 10SM CLR 21/07 A3009 RMK AO2 SLP183 T02060072 EFHA 251650Z AUTO 25004KT CAVOK 02/M01 Q1014 KBKT 251655Z AUTO 24013G21KT 10SM CLR 23/06 A3024 RMK AO1 T02300060 UNEE 251700Z 20005MPS 9999 OVC018CB 01/M00 Q1017 R23/290155 NOSIG RMK QFE739 CWPK 251700Z AUTO 34005KT M05/M19 RMK AO1 SOG 78 1011 SLP317 T10531190 KCDC 251653Z AUTO 20021G29KT 10SM FEW060 08/M01 A2998 RMK AO2 PK WND 22029/1645 SLP122 T00781006 $ KBMC 251655Z AUTO 34015KT 7SM 05/03 A3004 RMK AO1 T00480026 KAVC 251656Z AUTO 22009G16KT 10SM CLR 21/12 A3032 RMK AO2 T02080120 NZHN 251700Z 07010KT 35KM BKN018 20/18 Q1016 RMK ALT NZTG VATSIM USE ONLY KCDD 251647Z AUTO 15006KT 10SM OVC028 01/M04 A3030 RMK AO2 KBKV 251653Z 11011KT 10SM FEW047 27/13 A3025 RMK AO2 SLP241 T02670133 KAUM 251656Z AUTO 06013G23KT 7SM OVC009 03/01 A3007 RMK AO2 KBLM 251656Z AUTO 32006KT 10SM OVC110 18/09 A3017 RMK AO2 RAB16E27 SLP222 P0000 T01780094 CXHD 251600Z AUTO 30007KT M01/M01 RMK AO1 T10051012 KBKW 251651Z AUTO 00000KT 10SM CLR 21/07 A3023 RMK AO2 SLP214 T02110072 KAUN 251655Z AUTO 00000KT 10SM CLR 12/08 A3014 RMK AO1 KATW 251645Z 06015G22KT 10SM OVC009 03/01 A3017 EDXW 251650Z 33011KT 9999 FEW006 06/06 Q1028 KAUO 251656Z AUTO 15012G19KT 10SM SCT042 23/13 A3021 RMK AO2 SLP244 T02330128 KBKX 251656Z AUTO 07007KT 10SM OVC006 02/00 A3009 RMK AO2 SLP221 T00170000 FZRANO KCCO 251655Z AUTO 18011G19KT 130V210 10SM SCT042 23/13 A3022 RMK AO2 T02280129 DNPO 251500Z 18009KT 9999 BKN014 FEW022CB 33/25 Q1007 NOSIG CXHF 251700Z AUTO M01/M08 RMK AO1 T10051075 CWPO 251700Z AUTO 18024KT M00/M01 RMK AO1 SOG 15 6005 PK WND 17031/1625 SLP193 T10031006 KATY 251653Z AUTO 12008KT 10SM OVC006 01/M01 A3010 RMK AO2 SLP213 T00111006 KBMG 251653Z 16013G22KT 10SM CLR 22/11 A3000 RMK AO2 SLP153 T02170106 CWOY 251700Z AUTO 22020G28KT 10/01 RMK AO1 SOG 06 6009 PK WND 22028/1658 SLP050 T01020008 UMMS 251700Z 00000MPS 9999 -RASN BKN004 OVC013 01/01 Q1013 R31/290055 TEMPO 1200 SNRA RMK QBB130 KCDH 251655Z AUTO 25013G23KT 10SM CLR 20/09 A2994 RMK AO2 NZHS 251700Z 25002KT 1000 FG SCT007 15/15 Q1019 RMK ALT NZNR VATSIM USE ONLY CWQH 251700Z AUTO 32009KT 01/M05 RMK AO1 SOG 12 T00071046 50012 KCCR 251700Z 00000KT 10SM SCT009 BKN022 13/11 A3018 RMK AO2 T01280106 KCDI 251706Z AUTO 24005G16KT 10SM SCT065 23/10 A3016 RMK AO2 T02300097 KBMI 251656Z 17013G18KT 10SM BKN030 OVC065 16/12 A2994 RMK AO2 SLP159 T01610122 NZHT 251700Z 14007KT 10KM VCDZ SCT002 15/14 Q1012 RMK ALT VATSIM USE ONLY CWPR 251700Z AUTO 32001KT M00/M02 RMK AO1 SOG 02 1010 SLP166 T10041022 KCDJ 251652Z AUTO 36008KT 12/10 A2986 RMK AO1 SLP112 T01170100 KAUS 251653Z VRB06KT 10SM CLR 21/08 A3008 RMK AO2 SLP179 T02110083 KBNA 251653Z 21021G30KT 10SM BKN050 BKN170 OVC210 23/11 A3007 RMK AO2 PK WND 19031/1635 SLP179 T02330106 CWPS 251600Z AUTO 36021KT 02/01 RMK AO1 PK WND 00025/1515 SLP249 T00160009 51028 CWRA 251700Z AUTO 21012KT M01/M01 RMK AO1 PK WND 21019/1606 SLP165 T10051007 58030 KAVK 251655Z AUTO 33012G17KT 10SM OVC023 10/05 A3001 RMK AO2 CXIB 251700Z AUTO 30003KT 01/M05 RMK AO1 SOG 54 1009 SLP169 T00051048 50002 CWQK 251700Z AUTO 27019KT 07/03 RMK AO1 PK WND 26025/1617 SLP186 T00660034 53016 KBLU 251652Z AUTO 11004KT 10SM SCT007 BKN018 04/03 A3012 RMK AO2 SLP194 T00390028 TSNO KBML 251652Z AUTO 33007KT 10SM OVC027 02/M04 A3024 RMK AO2 SLP255 T00221039 EFHK 251650Z 33004KT 9999 FEW018 BKN023 03/M01 Q1015 NOSIG KAVL 251654Z 21009KT 10SM OVC040 17/08 A3030 RMK AO2 SLP249 T01670083 KCCU 251644Z AUTO 19007KT 10SM CLR 03/M17 A3022 RMK AO2 KCEC 251656Z AUTO 09004KT 10SM OVC050 11/08 A3019 RMK AO2 SLP225 T01060083 EEPU 251350Z 30005KT 220V320 9999 -RA BKN020 04/02 Q1014 OPRN 251700Z 05004KT 6000 FEW120 20/07 Q1015.9/30.00 KBLV 251658Z 14005KT 7SM CLR 17/15 A2988 RMK AO2A SLP120 T01650150 TSNO $ CXHM 251700Z AUTO 07007G16KT 02/02 RMK AO1 4PAST HR 1022 SLP272 P0005 T00150015 50068 PGRO 250950Z 10005KT 7SM FEW012 SCT100 26/22 A2996 RMK LAST KAUW 251654Z AUTO 07013G19KT 10SM OVC013 03/00 A3019 RMK AO2 SLP238 T00280000 KCDN 251655Z AUTO 00000G10KT FEW043 SCT050 BKN055 21/11 A3031 RMK AO2 KCEF 251658Z 36012KT 10SM -DZ SCT019 OVC027 05/01 A3024 RMK AO2A SLP248 T00520012 PHJH 251645Z 03013KT 15SM FEW030 22/17 A3019 CWQO 251700Z AUTO 30009KT M03/M18 RMK AO1 T10321180 CWPX 251700Z AUTO VRB03KT 10SM //// NCD M23/M28 A2972 CWRF 251700Z AUTO ///// A2998 KCCY 251655Z AUTO 05015G22KT 7SM OVC008 04/04 A3003 RMK AO2 KAVP 251654Z 34003KT 6SM HZ CLR 12/06 A3018 RMK AO2 SLP219 T01170061 KAWG 251655Z AUTO 06016KT 9SM OVC005 06/06 A2992 RMK AO2 CWQP 251700Z AUTO 04014G20KT 03/M00 RMK AO1 SOG 00 1020 PK WND 05023/1647 SLP280 T00291002 50029 CXHP 251700Z AUTO 10002KT 02/M01 RMK AO1 T00161010 KBMQ 251653Z AUTO 26006KT 10SM CLR 18/06 A3010 RMK AO2 SLP186 T01780056 $ KAVQ 251655Z AUTO 11008KT 10SM CLR 19/M05 A3004 RMK AO2 T01871054 CWPZ 251700Z AUTO 20006KT 04/M06 RMK AO1 SOG 08 1017 PK WND 20017/1612 SLP077 T00351063 KCDR 251653Z AUTO 21010KT 10SM CLR 16/00 A2993 RMK AO2 SLP139 T01610000 CXHR 251600Z AUTO 24009KT 04/01 RMK AO1 T00360011 CWQR 251700Z AUTO 29019G25KT M06/ RMK AO1 PK WND 29025/1659 T1058 KCDS 251653Z AUTO 34013KT 10SM CLR 16/02 A3007 RMK AO2 SLP172 T01610017 KAXA 251655Z AUTO 04014G21KT 4SM BR OVC006 04/04 A3003 RMK AO2 OPSK 251700Z 05006KT 4000 HZ SCT100 28/17 Q1009 NOSIG CWQS 251600Z AUTO 19004KT 05/02 RMK AO1 PK WND 23021/1503 SLP087 T00490016 51019 CWRJ 251700Z AUTO 29017G24KT 05/02 RMK AO1 PK WND 29029/1611 SLP075 T00500020 53030 EGAA 251650Z VRB03KT CAVOK 15/04 Q1030 CWSA 251700Z AUTO 33015KT 6SM BR BKN003 OVC016 03/02 A2997 RMK SLP149 KBMT 251655Z AUTO 20005KT 10SM SCT014 SCT060 A3004 RMK AO2 LTG DSNT E THRU S CYAB 242000Z VRB02KT 25SM SKC M25/M30 A2986 RMK -24.2/-30.3/0.0/12 HARD PACK LAST STFD OBS/NXT 251700Z SLP116 CWRK 251700Z AUTO 36005KT M02/M05 RMK AO1 SOG 04 1018 SLP295 T10201052 50006 KBNL 251655Z AUTO 16008G14KT 10SM BKN048 BKN055 23/12 A3030 RMK AO2 ORBD 251355Z 35010KT 9999 FEW021 SCT045CB 21/11 A2986 RMK LTG DSNT SE SLP113 WND DATA/ALSTG/SLP ESTMD EGAC 251650Z 34006KT CAVOK 11/04 Q1030 UMOO 251500Z 23003MPS 8000 -SHSNRA BKN032CB OVC/// 03/M01 Q1014 NOSIG KAWM 251653Z AUTO 18017G26KT 10SM OVC022 17/16 A2992 RMK AO2 PK WND 17026/1647 SLP129 T01720156 $ PGSN 251654Z 11005KT 10SM SCT022 25/22 A2995 RMK AO2 SLP162 T02500222 KCFD 251655Z AUTO 30007KT 10SM CLR 19/10 A3008 RMK AO2 T01860095 CWQV 241800Z AUTO 22002KT M02/M10 RMK AO1 T10241096 CWRM 251600Z AUTO 13002KT 02/M04 RMK AO1 SOG 08 2005 SLP099 T00231035 CWSD 251700Z AUTO 02014KT M00/M04 RMK AO1 SOG 10 3019 PK WND 01021/1624 SLP200 T10041043 KCDW 251653Z AUTO 07004KT 10SM FEW075 15/05 A3019 RMK AO2 SLP227 T01500050 TSNO KCFE 251654Z AUTO 06013KT 10SM OVC015 03/00 A3019 RMK AO2 T00301002 EGAE 251520Z 06007KT CAVOK 13/07 Q1031 CWRN 251700Z AUTO 30017KT 02/M01 RMK AO1 PK WND 31023/1628 SLP168 T00181008 52001 KAVX 251707Z AUTO 26007KT 3SM BR OVC002 12/12 A3013 RMK AO2 T01220122 TSNO $ KBNO 251704Z AUTO 17005KT 10SM BKN014 04/00 A3009 RMK AO2 T00440000 $ KAWO 251655Z AUTO 36005KT 10SM FEW008 BKN014 OVC025 06/02 A3012 RMK AO1 CWRO 251700Z AUTO 21008KT 05/ RMK AO1 T0049 CWSF 251700Z AUTO 29020G32KT M06/M13 RMK AO1 SOG 42 1014 PK WND 29032/1634 SLP223 T10561128 NZKI 251700Z 05012KT 0800 FG SCT002 13/13 Q1018 RMK ALT VATSIM USE ONLY CWSG 251700Z AUTO 28016KT M05/M14 RMK AO1 PK WND 29021/1624 SLP248 T10491136 51015 PHJR 251653Z 05005KT 10SM CLR 21/18 A3019 RMK AO2 SLP231 T02110178 ORBI 251700Z 28005KT 9999 FEW040 18/10 Q1012 NOSIG KAXH 251655Z AUTO 28005KT 10SM CLR 23/12 A3005 RMK AO2 T02290121 PGUA 251658Z AUTO 08007KT 10SM FEW018 25/22 A2995 RMK AO2 SLP132 T02450220 $ CYAH 251700Z AUTO /////KT 9SM CLR M16/M23 A3033 RMK WND MISG SLP309 KBOI 251653Z 00000KT 10SM CLR 08/03 A3009 RMK AO2 SLP193 T00830033 NZKK 251700Z 07008KT 45KM BKN100 19/17 Q1015 RMK ALT NZAA VATSIM USE ONLY KCFJ 251655Z AUTO 18019G26KT 10SM SCT046 20/11 A2999 RMK AO2 T02000111 OPST 251700Z 31004KT 4000 FU NSC 20/13 Q1013 NOSIG RH64 CXKA 251700Z AUTO 13003KT M06/M19 RMK AO1 SOG 49 8008 SLP351 T10571188 KBOK 251656Z AUTO 09003KT 10SM OVC048 09/07 A3019 RMK AO2 SLP242 T00890072 CYBB 251700Z 23017KT 15SM SKC M22/M27 A3014 RMK SLP209 CWSK 251700Z AUTO 28001KT 07/05 RMK AO1 1016 SLP167 T00670053 50004 CWRT 251700Z AUTO 08001KT 01/M00 RMK AO1 2PAST HR M PK WND 30024/1612 P0001 T00131001 50002 EGBB 251650Z 05010KT CAVOK 13/M03 Q1028 KCEU 251654Z AUTO 17004KT 10SM SCT034 20/11 A3030 RMK AO2 SLP254 T02000111 KCGC 251655Z AUTO 00000KT 10SM SCT049 SCT065 27/13 A3024 RMK AO2 KBPC 251655Z AUTO 35014G19KT 10SM CLR 15/M03 A3006 RMK AO2 CWRU 251600Z AUTO 18010KT 05/ RMK AO1 PK WND 25019/1514 SLP142 T0048 53008 CWSL 251700Z AUTO 21001KT 07/03 RMK AO1 SOG 00 1007 SLP153 T00700034 CYBC 251700Z AUTO 30011G16KT 280V340 9SM CLR M04/M21 A3028 RMK SLP257 CYBD 251700Z 28010G15KT 260V320 10SM -RA SCT025 BKN060 05/02 A2991 RMK SC3SC3 SLP130 VDPP 251700Z 14005KT 9000 FEW017 26/24 Q1011 CYAM 251700Z 06009KT 050V150 15SM FEW032 FEW042 FEW200 01/M05 A3037 RMK CU1SC1CI1 CU TR SC TR SLP297 KCGE 251700Z AUTO VRB03KT 10SM CLR 22/11 A3018 RMK A01 KCEW 251653Z AUTO 17008KT 10SM SCT027 BKN036 BKN065 24/16 A3020 RMK AO2 SLP224 T02390161 EFIV 251650Z 19006KT CAVOK 00/M06 Q1005 KAXN 251653Z AUTO 11010KT 10SM OVC010 01/M01 A3018 RMK AO2 SLP236 T00111011 PHKO 251653Z 00000KT 10SM BKN049 24/18 A3015 RMK AO2 SLP208 T02390183 KBNW 251655Z AUTO 04015G21KT 4SM -RA OVC006 03/03 A2996 RMK AO2 P0008 KCGF 251645Z 05011KT 7SM OVC035 08/05 A3020 EGBE 251650Z 06011KT CAVOK 14/M05 Q1028 CXKE 251700Z AUTO 35005KT 01/M03 RMK AO1 SOG 15 3017 SLP288 T00111031 50003 EFKE 251650Z AUTO 19005KT 0450 FZFG VV002 M04/M04 Q1011 KCEY 251655Z AUTO 17015G23KT 9SM FEW028 FEW095 19/14 A2998 RMK AO1 CWRX 251700Z AUTO 31014KT 10SM //// NCD ///// A//// EFJO 251650Z AUTO 27001KT 9999 SCT016 OVC031 M00/M03 Q1013 KBPG 251655Z AUTO 36005KT 10SM CLR 17/M02 A3015 RMK AO2 T01661016 CWTG 251700Z AUTO 28009G18KT M04/M17 RMK AO1 PK WND 26020/1637 SLP248 T10431171 51005 CWSP 251700Z AUTO 27016KT 06/03 RMK AO1 3015 PK WND 26024/1608 SLP192 T00610026 50002 CWRY 251700Z AUTO 26009KT 08/M02 RMK AO1 SLP138 T00751024 51009 CYBG 251700Z 28015KT 25SM FEW160 BKN200 M07/M17 A3041 RMK AC1CI5 SLP308 ZSNB 251700Z 25001MPS 4000 BR NSC 09/07 Q1023 NOSIG KCEZ 251653Z AUTO 16005KT 10SM CLR 13/M02 A3008 RMK AO2 SLP153 T01331022 $ PHLI 251653Z 04011KT 10SM SCT016 BKN031 23/20 A3022 RMK AO2 SLP230 T02280200 $ CWRZ 251700Z AUTO 32013G23KT M02/M16 RMK AO1 1008 PK WND 33023/1655 SLP194 T10161161 50060 VEGT 251500Z 00000KT 3000 BR FEW020 22/20 Q1013 NOSIG KCGI 251653Z 17014KT 7SM -RA FEW015 OVC080 16/14 A2992 RMK AO2 RAB48 SLP128 P0000 T01610139 KBPI 251653Z AUTO 00000KT 6SM -SN BR OVC002 01/01 A3003 RMK AO2 SLP156 P0002 T00110011 CXKI 251700Z AUTO M06/M17 RMK AO1 SOG 23 8005 SLP345 T10561167 CWSR 251600Z AUTO 34005KT M02/M03 RMK AO1 8PAST HR SOG 11 3012 SLP057 P0003 T10231031 50095 KCHA 251653Z 17010G19KT 10SM SCT042 SCT085 BKN150 22/11 A3018 RMK AO2 SLP215 T02220111 EFKI 251650Z AUTO 23001KT 9999 BKN017 M02/M04 Q1013 KBOS 251708Z 03006KT 10SM SCT025 OVC031 04/02 A3029 RMK AO2 PRESRR T00390017 KCFS 251654Z AUTO 07006KT 10SM -RA OVC006 03/02 A3027 RMK AO2 T00250020 KAXS 251655Z AUTO 34011G17KT 10SM SCT034 15/05 A3006 RMK AO2 T01490047 NZMC 251700Z 14007KT 10KM VCDZ SCT002 15/14 Q1012 RMK ALT NZHT VATSIM USE ONLY CYAS 242100Z 30013G27KT 3SM -SN DRSN SCT040 BKN100 M14/M16 A2916 RMK SN1SC3AS3 SNOW COVER ONE LOOSE LAST STFD OBS NEXT 251200UTC SLP891 EGBJ 251650Z 06012KT CAVOK 14/M05 Q1026 CWSS 251700Z AUTO 33008G16KT 06/M06 RMK AO1 SOG 03 8001 PK WND 35017/1622 SLP214 T00611064 KBPK 251653Z AUTO 24007KT 10SM FEW020 BKN070 16/12 A2980 RMK AO2 SLP087 P0001 T01560117 TSNO $ KE80 251655Z AUTO 15004KT 10SM CLR 14/M04 A3014 RMK AO2 T01371043 EFKK 251650Z AUTO 23001KT CAVOK 03/M04 Q1014 CXLB 251700Z AUTO 32005KT 05/M02 RMK AO1 SLP189 T00471022 50005 CWST 251700Z AUTO 06005KT M02/M14 RMK AO1 SOG 41 0008 SLP273 T10211142 CYAT 251700Z AUTO 27003KT 190V310 9SM CLR M09/M19 A3059 RMK SLP361 CYCB 251700Z 10005KT 15SM SCT100 BKN170 M24/M28 A2985 RMK AC3AC3 SLP116 CYBK 251600Z 11007KT 20SM FEW120 SCT240 M27/M30 A3019 RMK AC2CI2 SLP229 PGUM 251654Z 04004KT 10SM CLR 24/23 A2994 RMK AO2 SLP131 T02440228 KAZC 251655Z AUTO 22005KT 10SM -DZ SCT034 BKN045 OVC055 10/02 A3007 RMK AO2 CYBL 251700Z 30003KT 270V350 30SM FEW040 SCT085 BKN220 06/01 A3001 RMK CU1AC2CI4 SLP167 KCHD 251647Z VRB04KT 10SM CLR 19/04 A3002 CXLC 251600Z AUTO 00000KT M18/M20 RMK AO1 SOG 49 2008 SLP179 T11751195 KCFV 251652Z AUTO 29010KT 10SM OVC015 10/06 A2990 RMK AO2 SLP125 T01000061 EGCC 251650Z AUTO 05009KT 9999 NCD 15/M05 Q1028 NOSIG KAXV 251653Z AUTO 21015KT 7SM CLR 21/05 A3010 RMK AO2 NZMF 251700Z 06003KT 40KM BKN085 07/05 Q1016 RMK ALT NZQN VATSIM USE ONLY CYCD 251700Z 00000KT 20SM BKN060 BKN100 06/03 A3006 RMK SC6AC1 SLP181 CXKM 251600Z AUTO 30010KT 00/01 RMK AO1 T00000005 VEGY 251700Z 00000KT 3000 HZ NSC 25/17 Q1011 KBOW 251115Z AUTO 00000KT 10SM CLR 13/13 A3020 RMK AO2 FZRANO KAZE 251655Z AUTO 19007KT 130V220 10SM SCT046 BKN055 BKN080 24/14 A3027 RMK AO2 T02370138 CYAW 241922Z 21012G19KT 15SM OVC080 M02/M09 A3036 RMK AC8 DA-2366FT LAST OBS/NXT 271300 UTC SLP285 CWSW 251700Z 18011G20KT 4SM -RA SCT010 BKN022 OVC039 02/M00 A2989 RMK ST3NS3NS2 VIS S 2 SLP156 CWTN 251700Z AUTO 09009KT M02/M12 RMK AO1 1012 SLP281 T10151123 50010 CYBN 251700Z AUTO 09008KT 040V100 9SM OVC014 03/M00 A3035 RMK SLP287 EETN 251650Z 32006KT 9999 FEW020CB BKN030 02/01 Q1016 R08/290195 NOSIG KAXX 251655Z AUTO 03004KT 10SM CLR 00/M02 A3018 RMK AO2 T00001021 ZSNJ 251700Z 26002MPS 4000 BR NSC 06/04 Q1024 NOSIG CYCG 251700Z 18009KT 15SM FEW005 FEW024 FEW038 07/04 A2999 RMK SF1SC1SC1 SF TR SLP170 TVSA 251700Z 08008KT 9999 BKN018 BKN300 28/22 Q1013 NOSIG EFJY 251650Z AUTO VRB03KT 130V240 9999 BKN035 03/M01 Q1013 CYAY 251700Z AUTO 29016KT 9SM FEW022 SCT029 BKN036 OVC070 M03/M07 A2974 RMK SLP073 CYAZ 251700Z 14006KT 080V150 6SM -SHRAGS SCT015 BKN030CB 05/04 A3007 RMK CF3CB4 SLP184 CYBQ 251700Z AUTO 15005KT 9SM OVC042 M09/M16 A3009 RMK SLP220 CYBR 251700Z 15014G20KT 15SM FEW007 BKN080 OVC250 01/M01 A2995 RMK SF1AC7CI1 SF TR SLP166 KCGS 251701Z AUTO 00000KT 10SM CLR 22/10 A3017 RMK AO1 PHMK 251654Z 03007KT 10SM CLR 22/18 A3019 RMK AO2 SLP227 T02220183 KAYS 251655Z AUTO 14013KT 10SM SCT043 SCT050 SCT065 27/16 A3028 RMK AO2 T02660162 CYDA 251700Z 00000KT 20SM SCT100 BKN210 M25/M28 A2981 RMK AC3CI3 SLP138 VEIM 251330Z 28008KT 5000 HZ SCT018 BKN100 17/14 Q1014 NOSIG KBPT 251653Z 21007KT 10SM SCT046 23/18 A3002 RMK AO2 LTG DSNT ALQDS RAE1558 SLP165 P0000 T02280178 EFKS 251650Z AUTO 21003KT CAVOK M02/M08 Q1010 EFMA 251650Z AUTO 33006KT CAVOK 04/M02 Q1019 KF00 251655Z AUTO 29009KT 10SM SCT027 15/08 A3001 RMK AO2 KBQK 251655Z AUTO 13009KT 10SM SCT060 25/14 A3031 RMK AO2 KCHK 251655Z AUTO 31008KT 12/07 A3004 RMK AO2 SKY OBSCURED PWINO CXKT 251700Z AUTO 33008KT 05/M04 RMK AO1 SOG 08 1002 SLP195 T00501042 CWTT 251700Z AUTO 34007KT 01/M04 RMK AO1 T00071035 CYDB 251700Z 30010KT 30SM FEW037 FEW090 M14/M17 A2960 RMK SC1AC1 SLP087 CYCK 251700Z AUTO 10016G24KT 9SM BKN009 OVC013 05/04 A3021 RMK SLP238 ZSOF 251700Z 24002MPS CAVOK 09/03 Q1024 NOSIG EFKT 251650Z 19005KT 160V220 CAVOK 02/M06 Q1006 KCIC 251655Z 31005KT 10SM FEW012 SCT060 11/10 A3019 CYDC 251703Z VRB02KT 8SM -SHSN BKN035TCU BKN085 00/M02 A2997 RMK TCU7AC1 AC TR SLP170 CXLL 251600Z AUTO 02004KT M11/M12 RMK AO1 SOG 77 8002 SLP170 T11061123 50009 CWTU 251700Z AUTO ///// M20/ A2949 RMK SLP045 CYBU 251700Z AUTO 05006KT 9SM OVC019 01/M00 A2962 RMK SLP053 KBRD 251653Z AUTO 08012G17KT 10SM OVC021 03/M03 A3020 RMK AO2 SLP241 T00281028 KCID 251700Z 06012KT 3SM -RA BR OVC006 04/04 A2994 RMK AO2 CIG 004V008 P0000 T00440044 $ EFKU 251650Z AUTO 18004KT 9999 OVC030 00/M01 Q1013 EETU 251650Z AUTO 29005KT 9999 BKN008/// OVC012/// 03/02 Q1014 REDZ CYBV 242100Z 33008KT 15SM FEW150 FEW220 M02/M10 A3027 RMK AC1CS1 SNW CVR/MEDIUM PACK/LAST OBS/NEXT 271200Z SLP267 CXMD 251700Z AUTO 19012G18KT 04/M00 RMK AO1 SOG 02 6006 PK WND 19018/1654 SLP199 T00351002 CWVD 251700Z AUTO 26003KT M24/ A2968 RMK SLP135 PHNG 251657Z 07006KT 7SM FEW023 24/20 A3018 RMK SLP213 T02390200 CYBW 251700Z AUTO 22008KT 9SM FEW240 07/M07 A2977 RMK SLP113 DENSITY ALT 4000FT KCHO 251653Z 17008KT 10SM CLR 26/10 A3018 RMK AO2 SLP215 T02560100 EGCN 251650Z 07005KT 040V110 CAVOK 15/03 Q1030 KAZO 251653Z 07007G18KT 10SM OVC007 06/04 A3012 RMK AO2 RAE1555B17E47 SLP205 P0000 T00610039 CYDF 251600Z 25015G21KT 6SM -SN BKN020 BKN045 OVC052 00/M04 A2984 RMK SC6SC1SC1 SLP107 CYBX 251700Z 32016G23KT 15SM BKN200 M06/M15 A2977 RMK CI7 SLP087 CYCO 251700Z 25013KT 3SM IC DRSN SCT030 BKN080 OVC220 M18/M21 A3001 RMK IC2SC2AC2CS2 SLP168 CWVF 251700Z AUTO 19015KT 08/ RMK AO1 PK WND 19017/1659 T0076 KF05 251655Z AUTO 34012G16KT 10SM CLR 16/02 A3006 RMK AO1 T01550021 KBQP 251655Z AUTO 22008KT 10SM SCT019 BKN026 21/16 A2997 RMK AO2 LTG DSNT E T02110162 CYCP 251700Z 04003KT 340V050 15SM VCSH FEW002 FEW020 SCT055TCU BKN085 BKN250 02/02 A2986 RMK SF1SC1TCU4AC1CI1 SF TR SC TR SLP141 CXMG 251600Z AUTO 19005KT M03/M04 RMK AO1 T10251036 CWTY 251700Z AUTO 01010G17KT M00/M15 RMK AO1 PK WND 01017/1652 SLP287 T10021152 50010 CWUP 251700Z AUTO 13009KT M22/ A2975 RMK SLP129 EFLP 251650Z AUTO 34002KT 9999 OVC014 01/M01 Q1014 CYCQ 251700Z 23006KT 15SM FEW035 SCT046 SCT100 BKN170 00/M03 A2966 RMK CU1CU2AC1AS1 DIST PCPN S+W SLP077 CWVH 251700Z AUTO 20019KT A2998 CXMI 251700Z AUTO 33005KT 05/M01 RMK AO1 T00471006 CWVI 251600Z AUTO 32009KT M00/M02 RMK AO1 SLP094 T10021017 51011 ZSPD 251700Z 22002MPS 6000 NSC 09/06 Q1022 NOSIG EFMI 251650Z AUTO 26001KT 9999 OVC027 01/M00 Q1014 KCHS 251656Z 13014G18KT 10SM BKN065 OVC250 23/11 A3033 RMK AO2 SLP269 T02330106 KDAA 251658Z AUTO 00000KT 10SM CLR 24/10 A3017 RMK AO2 SLP219 T02430101 CYCS 251700Z 00000KT 15SM BKN260 M23/M27 A3028 RMK CI6 SLP257 CWWA 251700Z AUTO 00000KT 07/04 RMK AO1 SOG 01 2018 SLP179 T00650042 CWUS 251700Z AUTO 15007KT 08/02 RMK AO1 SLP157 T00810023 50004 KDAB 251653Z 09011G20KT 10SM FEW033 FEW060 BKN250 24/16 A3027 RMK AO2 SLP250 T02390156 PHNL 251653Z 06005KT 10SM FEW025 FEW045 22/18 A3019 RMK AO2 SLP221 T02220178 $ CWWB 251700Z AUTO 05015KT 02/01 RMK AO1 PK WND 04020/1602 SLP278 T00230009 51019 KBRL 251653Z AUTO 03007KT 8SM OVC003 08/ A2988 RMK AO2 SLP120 T0083 $ CYDL 251700Z AUTO 00000KT 5SM -SN OVC048 M05/M06 A2946 RMK SLP006 CXMM 251600Z AUTO 10006KT M00/M02 RMK AO1 SOG 05 3006 SLP090 T10011020 EGDM 251650Z 06014KT CAVOK 14/M01 Q1024 BLU CYED 251709Z AUTO 22003KT 3SM OVC004 M00/M02 A2975 KCIN 251655Z AUTO 04015G20KT 2 1/2SM -RA BKN006 OVC010 04/04 A2998 RMK AO2 NZNP 251700Z 09006KT 35KM BKN033 18/16 Q1015 RMK ALT VATSIM USE ONLY CWVN 251700Z AUTO 28020G25KT 11/M04 RMK AO1 SOG 02 1018 PK WND 28026/1629 SLP121 T01051038 CWWE 251700Z AUTO 36004KT 07/M00 RMK AO1 SLP195 T00661003 50004 CWUW 251700Z AUTO 09005KT ////SM //// NCD M25/M28 A//// CYDN 251700Z AUTO 10010KT 9SM SCT110 01/M01 A2984 RMK SLP123 KBRO 251653Z 21007KT 10SM CLR 29/20 A3003 RMK AO2 SLP168 T02890200 PHOG 251654Z 03006KT 10SM FEW045 22/18 A3019 RMK AO2 SLP228 T02170178 KBQX 251655Z AUTO 22009KT 4SM BR CLR 24/24 A3005 RMK A01 NZOH 251700Z 10013KT 30KM SCT065 16/13 Q1017 RMK ALT NZPM VATSIM USE ONLY CWWF 251600Z AUTO 20006KT 08/02 RMK AO1 SOG 00 1009 SLP108 T00770018 CXMO 251600Z AUTO 22009KT 03/M00 RMK AO1 T00311002 VDSR 251700Z 31004KT 9000 SCT017 29/23 Q1011 CWUX 251700Z AUTO 27014KT M07/M16 RMK AO1 PK WND 26018/1658 SLP303 T10701155 51011 CYCX 251700Z 32010G17KT 15SM FEW043 SCT087 BKN220 05/M08 A3015 RMK SC0AC3CI4 DA-1250FT SLP212 KDAG 251650Z AUTO 26020G29KT 10SM CLR 18/04 A3004 RMK AO2 PK WND 25034/1617 SLP157 T01780044 NZNR 251700Z 25002KT 1000 FG SCT007 15/15 Q1019 RMK ALT VATSIM USE ONLY CYDP 251700Z 28027G39KT 4SM DRSN OVC080 M16/M21 A2965 RMK AS8 G42 PAST HR SLP044 ORER 251700Z 25006KT CAVOK 11/03 Q1015 NOSIG VEJS 251200Z 00000KT 4000 HZ SCT015 SCT025 BKN100 37/17 Q1005 CWVP 251700Z AUTO 29014G22KT 06/M07 RMK AO1 PK WND 29029/1613 SLP108 T00641068 51022 CYCY 251700Z 24007KT 25SM BKN250 M21/M26 A2989 RMK CI5 SLP128 CYEG 251700Z 31004KT 200V330 2SM BR BKN004 BKN007 M01/M01 A2975 RMK FG1ST5SC1 SLP110 NZNS 251700Z 25003KT 9000 VCDZ SCT004 14/13 Q1017 RMK ALT VATSIM USE ONLY CWVQ 251700Z AUTO 05006KT M00/M06 RMK AO1 SOG 12 1017 SLP291 T10021058 50012 CYDQ 251700Z AUTO 00000KT 9SM BKN060 OVC072 M01/M04 A2966 RMK SLP080 KCIR 251655Z AUTO 16016G22KT 10SM -DZ SCT018 BKN046 BKN075 17/14 A2994 RMK AO2 T01710142 KF17 251655Z AUTO 27008KT 10SM CLR 22/11 A3003 RMK AO2 T02170106 UNKL 251700Z VRB01MPS CAVOK M00/M05 Q1014 R29/CLRD65 NOSIG RMK QFE735 EGDR 251650Z AUTO 06015KT 9999 // NCD 15/01 Q1022 ZSQD 251700Z VRB01MPS 3500 BR FEW010 03/02 Q1021 BECMG TL1830 2500 BR PGWT 250953Z 09005KT 7SM FEW016 FEW100 SCT140 26/23 A2994 RMK LAST KBTA 251655Z AUTO 02015G18KT 10SM OVC006 05/04 A2997 RMK AO2 T00470038 CWXA 251700Z AUTO 26008G17KT 05/M10 RMK AO1 PK WND 29017/1653 SLP095 T00501104 50001 KCKB 251653Z 21006KT 10SM FEW055 22/09 A3019 RMK AO2 SLP210 T02220094 NZNV 251700Z 13003KT 20KM SCT007 06/04 Q1015 RMK ALT VATSIM USE ONLY CWWK 251600Z AUTO 19002KT 08/05 RMK AO1 SLP183 T00770052 51020 CWVT 251700Z AUTO 10004KT M03/M05 RMK AO1 2PAST HR SOG 32 0003 SLP116 P0001 T10301050 50004 CYEK 251700Z 22005KT 15SM SKC M20/M23 A3026 RMK SLP249 CYFB 251700Z 33023KT 25SM R34/3500VP6000FT/D IC DRSN FEW250 M23/M27 A2987 RMK CI2 SLP121 KDAL 251653Z 31008G18KT 10SM FEW070 17/07 A3003 RMK AO2 SLP164 T01720067 KCIU 251656Z AUTO 10008KT 10SM CLR 02/M03 A3037 RMK AO2 SLP312 T00221033 FZRANO KCKC 251653Z AUTO 09010G14KT 10SM SCT022 M01/M11 A3030 RMK AO2 P0001 VEKO 251200Z 32004KT 6000 NSC 36/11 Q1008 CWXC 251600Z AUTO 02006KT M08/M21 RMK AO1 SLP278 T10781209 51013 CWWL 251600Z AUTO 21012KT 05/01 RMK AO1 PK WND 22018/1508 SLP100 T00530005 53023 CWVU 251600Z AUTO 34013KT 03/M01 RMK AO1 PK WND 34017/1503 SLP230 T00301007 51011 CYFC 251700Z AUTO 31010G16KT 9SM CLR 06/M08 A3014 RMK SLP210 CXNM 251300Z AUTO 28014G21KT RMK AO1 SOG 207 PK WND 27021/1252 KDAN 251653Z AUTO 22008G20KT 10SM CLR 22/11 A3025 RMK AO2 SLP237 T02220106 CYEN 251700Z 22011KT 15SM FEW060 FEW100 SCT220 BKN240 08/03 A2983 RMK SC1AC2CI2CI3 SC TR SLP123 PHNY 251656Z AUTO 07007KT 10SM CLR 17/16 A3024 RMK AO2 SLP225 T01720156 KCKF 251655Z AUTO 19008KT 160V220 10SM BKN039 BKN055 24/13 A3027 RMK AO2 T02390128 EGEO 251450Z 35005KT 290V010 CAVOK 10/03 Q1032 EGDX 251650Z 06015KT CAVOK 14/01 Q1025 BLU EGFF 251650Z AUTO 07013KT 9999 NCD 14/00 Q1025 EGDY 251650Z AUTO 05015KT 9999 NCD 14/01 Q1024 CXMY 251700Z AUTO 04/M03 RMK AO1 T00411028 CXNP 251600Z AUTO 36013G19KT 03/M04 RMK AO1 SOG 01 1006 PK WND 32020/1528 SLP195 T00321043 KCKI 251655Z AUTO 19006KT 10SM BKN050 23/07 A3032 RMK AO2 KCJR 251655Z AUTO 21005KT 10SM CLR 25/12 A3018 RMK AO2 T02500115 CWXI 251700Z AUTO 33016KT M07/M10 RMK AO1 SOG 71 3009 PK WND 33023/1634 SLP084 T10731097 50005 CYER 251700Z AUTO 19007KT 9SM CLR M12/M20 A3048 RMK SLP325 KDCA 251652Z 17009KT 10SM OVC220 21/11 A3018 RMK AO2 SLP218 T02060111 CXPA 251600Z AUTO 11004KT M01/M02 RMK AO1 T10071016 CWWS 251600Z AUTO 14012KT M01/M06 RMK AO1 SOG 55 6032 PK WND 13018/1500 SLP178 T10061055 NZPM 251700Z 10013KT 30KM SCT065 16/13 Q1017 RMK ALT VATSIM USE ONLY CYET 251700Z AUTO 25003KT 210V290 9SM CLR 02/M02 A2971 RMK SLP097 KBTL 251653Z 06012KT 10SM OVC006 05/04 A3015 RMK AO2 RAE19 SLP214 P0000 T00500044 CWWU 251400Z 21010G16KT 15SM -SN BKN022 OVC100 M00/M05 A3006 RMK SC5AC2 SLP181 CXOL 251600Z AUTO 16007KT 04/M02 RMK AO1 T00441023 CXPC 251700Z AUTO 01/M03 RMK AO1 SLP291 T00051032 51012 CWXL 252300Z AUTO 20010G17KT 16/M05 RMK AO1 PK WND 20017/2257 T01551053 KBTM 251653Z AUTO VRB04KT 10SM CLR 04/M06 A3001 RMK AO2 SLP162 T00441061 KCKM 251655Z AUTO 17017KT 10SM OVC022 19/17 A2995 RMK A01 VELP 251000Z 14008KT 5000 -RA SCT012 SCT018 FEW030CB BKN100 18/17 Q1012 BECMG 1500 TSRA CYEV 251700Z 00000KT 15SM SKC M20/M22 A3009 RMK SLP200 EGGD 251650Z AUTO 06015KT 9999 NCD 13/00 Q1025 KDAW 251651Z AUTO 02003KT 6SM -SN FEW013 BKN023 OVC034 02/M01 A3026 RMK AO2 UPB36E42RAB42E43SNB43 SLP248 P0000 T00221011 KCLE 251651Z 04012KT 10SM BKN047 BKN055 BKN085 07/03 A3022 RMK AO2 SLP235 T00670028 $ KCKN 251654Z AUTO 17017G22KT 10SM OVC018 03/00 A3017 RMK AO2 KDBN 251655Z AUTO 19010KT 10SM SCT043 SCT055 23/11 A3029 RMK AO2 NZPP 251700Z 17001KT 25KM SCT035 14/14 Q1017 RMK ALT VATSIM USE ONLY CYGE 251700Z 17010G16KT 20SM FEW025 SCT075 BKN110 05/00 A2987 RMK CF1AC2AC2 SLP140 KBUF 251654Z 07012KT 6SM -RA BR BKN008 BKN012 OVC050 02/00 A3030 RMK AO2 SLP266 P0004 T00170000 $ CYFO 251700Z 07005KT 050V120 3/8SM SN VV004 M05/M07 A2975 RMK SN8 SLP097 CWWX 251600Z AUTO 10020KT M02/M04 RMK AO1 PK WND 09027/1506 SLP294 T10241043 51017 VELR 251200Z 14004KT 3000 BR FEW020 SCT100 26/22 Q1011 KBTP 251655Z AUTO 28007KT 10SM FEW055 BKN080 21/10 A3018 RMK AO1 KCKP 251655Z AUTO 05009KT 5SM BR OVC006 03/03 A3004 RMK AO2 T00320028 KDAY 251656Z 21012G20KT 10SM OVC160 20/10 A3010 RMK AO2 PK WND 21026/1640 SLP189 T02000100 KDBQ 251653Z 05018G28KT 4SM -RA BR OVC004 04/03 A2997 RMK AO2 PK WND 04032/1601 SLP156 P0005 T00390033 $ CYGH 251700Z 00000KT 20SM IC FEW080 SCT250 M22/M24 A3011 RMK AC1CI3 AC TR SLP208 CWWZ 251700Z AUTO 06017KT 02/01 RMK AO1 5PAST HR 1023 PK WND 07021/1637 SLP279 P0006 T00210010 50062 KBTR 251657Z 17012KT 6SM VCTS -RA SCT060 BKN075 OVC090 17/14 A3008 RMK AO2 LTG DSNT ALQDS P0000 T01670139 KCLI 251655Z AUTO 08016G23KT 10SM OVC010 02/00 A3023 RMK AO2 CYFR 242200Z 18004KT 15SM FEW028 M02/M09 A2990 RMK SC1 SC TR /0/82/ SNW CVR/MUCH LOOSE LAST STFD OBS/NEXT271400Z SLP142 CWXR 251700Z AUTO 30019KT M19/ A2997 RMK SLP161 KCMA 251655Z 08003KT 10SM SCT060 16/11 A3011 RMK AO2 SLP204 T01610106 NZRC 251700Z 13003KT 20KM SCT007 06/04 Q1015 RMK ALT NZNV VATSIM USE ONLY CYHA 242100Z 00000KT 1/4SM +SN VV006 M12/M14 A2919 RMK SN8 SN COV/MUCH LOOSE LAST STFD OBS/NEXT 251300 UTC SLP888 CWZA 251700Z AUTO 20004KT 08/03 RMK AO1 1019 SLP185 T00760029 50022 CWYJ 251700Z AUTO 25006KT 08/03 RMK AO1 3015 SLP185 T00750027 50002 CYFS 251700Z 33005KT 1SM -SN VV020 M12/M14 A3003 RMK SN8 SLP186 KCLK 251735Z AUTO 33014G22KT 10SM SCT025 13/03 A3002 RMK AO2 CYFT 251700Z 28024G31KT 15SM DRSN FEW030 M16/M24 A2976 RMK SC1 SC TR SLP085 CYGK 251700Z 02012KT 15SM OVC021 03/M01 A3035 RMK SC8 SLP282 CWYK 251700Z AUTO ///// M23/ A2920 RMK SLP980 VEMN 250900Z 11007KT 4000 HZ SCT018 FEW025CB BKN100 26/19 Q1010 NOSIG KCLL 251653Z 33009KT 10SM CLR 19/09 A3007 RMK AO2 SLP179 T01940094 KDDC 251652Z AUTO 34016G22KT 10SM OVC025 12/03 A3002 RMK AO2 SLP164 T01170028 NZQN 251700Z 06003KT 40KM BKN085 07/05 Q1016 RMK ALT VATSIM USE ONLY EGHC 251650Z 04013KT CAVOK 13/06 Q1022 CXPL 251600Z AUTO 25010KT 05/01 RMK AO1 T00470012 CWYL 251700Z AUTO 26011KT M00/M03 RMK AO1 SOG 100 0006 SLP113 T10031032 50002 KCLM 251653Z AUTO 30003KT 10SM BKN021 OVC070 07/04 A3009 RMK AO2 SLP191 T00670039 KCKV 251652Z AUTO 18019G24KT 10SM CLR 22/11 A3001 RMK AO2 PK WND 18031/1609 SLP158 T02170111 CYGL 251700Z 27013KT 15SM FEW015 M15/M21 A3048 RMK CF1 CF TR SLP349 EFOU 251650Z AUTO 29004KT CAVOK M01/M02 Q1013 R12/11//95 KBTV 251706Z 33012KT 6SM BR OVC009 01/M01 A3034 RMK AO2 CIG 007V012 T00111011 KDCM 251655Z AUTO 19006G15KT 170V230 10SM SCT035 SCT045 BKN050 21/10 A3031 RMK AO2 KCMD 251655Z AUTO 18014G18KT 10SM BKN039 BKN049 22/12 A3014 RMK AO2 T02160123 CWYM 251700Z AUTO ///// M23/ A2960 RMK SLP106 CYHD 251700Z AUTO 14010G17KT 9SM OVC029 02/M05 A3024 RMK SLP268 KBVE 251634Z AUTO 16013G23KT 10SM FEW016 SCT026 SCT039 24/21 A3011 RMK AO2 PK WND 14027/1616 RAB05E24 P0000 T02390211 EGHE 251650Z 03015KT CAVOK 12/07 Q1022 CYHE 251700Z AUTO 28007KT 160V300 9SM FEW042 BKN060 BKN073 BKN091 08/04 A3005 RMK SLP179 KF44 251655Z AUTO 30005KT 10SM CLR 16/08 A3004 RMK AO2 VEMR 250630Z 05010KT 3000 HZ SCT018 FEW025CB BKN090 27/18 Q1012 CXOX 251700Z AUTO 05010KT M06/M07 RMK AO1 5PAST HR SOG 30 6010 SLP093 P0002 T10591071 50025 EFPO 251650Z AUTO 29009KT CAVOK 03/M02 Q1017 CWZG 251700Z AUTO 23008KT 02/M04 RMK AO1 SOG 15 0003 SLP118 T00241040 CXOY 251600Z AUTO 28012KT 05/02 RMK AO1 PK WND 28017/1540 T00510015 CYGP 251700Z 29017G24KT 270V340 15SM FEW030 M02/M19 A3013 RMK CU1 CU TR SLP205 KCMH 251651Z 23011KT 10SM OVC065 23/11 A3014 RMK AO2 SLP204 T02280106 EGGP 251650Z 32006KT 280V340 CAVOK 15/02 Q1028 KDDH 251654Z AUTO 00000KT 3/4SM -SN BR VV005 01/M01 A3026 RMK AO2 RAE20SNB20 SLP255 P0009 T00111006 KF46 251655Z AUTO 27009G14KT 10SM CLR 16/08 A3003 RMK AO2 T01610078 KCKZ 251655Z AUTO 23003KT 10SM SCT060 BKN120 18/08 A3017 RMK AO2 KBVI 251647Z 27007KT 10SM SCT041 SCT047 OVC070 20/10 A3017 EGHH 251650Z 05015KT CAVOK 14/M02 Q1023 CYGQ 251700Z 12009KT 100V170 15SM FEW250 M04/M21 A3042 RMK CI1 SLP331 KCMI 251653Z 19015KT 10SM BKN044 BKN075 BKN090 21/11 A2994 RMK AO2 PK WND 18027/1640 SLP136 T02060106 KBUR 251653Z 13008KT 10SM CLR 15/08 A3011 RMK AO2 SLP188 T01500083 $ CYHI 250000Z 12018KT 2SM -SG DRSN OVC070 M15/M18 A2990 RMK AS8 -15.1/-15.5/DD/STR/DD/HARD PACK/VIS S 4/ LST STFD OBS/NXT 251400Z SLP130 CYGR 251700Z 33025G32KT 20SM FEW020 FEW260 M02/M09 A3005 RMK SC1CI2 SC TR SLP178 EGHI 251650Z 05012KT 010V110 CAVOK 13/M02 Q1024 KCLS 251655Z AUTO 18004KT 10SM BKN037 BKN060 08/06 A3013 RMK AO2 KCLT 251652Z 19007KT 10SM SCT038 BKN250 21/10 A3031 RMK AO2 SLP258 T02110100 KCNB 251654Z AUTO 00000KT 10SM OVC011 04/02 A3015 RMK AO2 T00350015 CYGT 251700Z 33009KT 15SM SKC M25/M30 A3000 RMK SLP171 CXRB 251700Z AUTO 13009KT M25/M28 RMK AO1 SOG 01 6001 SLP136 T12501275 CYHK 251700Z AUTO 18012KT 4SM HZ CLR M23/M26 A3006 RMK SLP187 KDCU 251653Z AUTO 17015G29KT 10SM FEW041 21/14 A3010 RMK AO2 PK WND 18030/1624 SLP187 T02110144 KCNC 251655Z AUTO 04010G16KT 5SM BR BKN006 05/05 A2992 RMK AO2 KDEC 251654Z 18016G22KT 10SM BKN060 OVC075 19/11 A2992 RMK AO2 SLP130 T01890106 $ KBUU 251655Z AUTO 06014G19KT 7SM UP OVC005 05/05 A3008 RMK AO2 P0001 T00500050 CWZL 251600Z AUTO 21005KT 05/02 RMK AO1 2015 SLP100 T00480016 50002 KDED 251655Z AUTO 11012G16KT 10SM BKN043 OVC065 25/14 A3026 RMK AO2 KBWD 251655Z AUTO 29007KT 10SM CLR 17/05 A3010 RMK AO2 NZRO 251700Z 07010KT 35KM BKN018 20/18 Q1016 RMK ALT NZTG VATSIM USE ONLY PHSF 251656Z AUTO 13011KT 10SM CLR 17/M12 A3045 RMK AO2 SLP191 T01711117 $ CYGV 251700Z AUTO 28014KT 9SM FEW240 M05/M18 A3007 RMK SLP187 CYHM 251700Z 05018KT 6SM -RA BR BKN005 OVC013 02/01 A3031 RMK SC7SC1 SLP273 KCLW 251655Z AUTO 11009KT 10SM CLR 24/15 A3024 RMK AO2 KBVN 251655Z AUTO 01010G14KT 10SM OVC004 04/02 A3003 RMK AO2 T00400024 CWZN 251600Z AUTO 21024KT M01/M01 RMK AO1 PK WND 20029/1536 SLP132 T10061014 58013 KBVO 251653Z AUTO 28009G14KT 10SM OVC022 11/06 A2993 RMK AO2 SLP131 T01110056 TSNO CYGW 251700Z AUTO 25014KT 8SM FEW015 M19/M22 A3052 RMK SLP338 EGGW 251650Z AUTO 05014KT 9999 NCD 12/M06 Q1026 CWZO 251700Z AUTO 21003KT RMK AO1 CYGX 251700Z 09006KT 060V150 15SM FEW072 OVC120 M06/M18 A3019 RMK AC2AS6 SLP240 ZSSS 251700Z 28002MPS 6000 NSC 10/05 Q1022 NOSIG KBWG 251653Z AUTO 19021G26KT 10SM CLR 23/11 A3005 RMK AO2 PK WND 19034/1612 SLP173 T02330106 TSNO KBUY 251654Z AUTO 23013G20KT 10SM SCT044 22/10 A3028 RMK AO2 SLP251 T02220100 TSNO KDCY 251655Z AUTO 00000KT 10SM CLR 21/10 A2997 RMK AO2 T02120101 CWYY 251700Z AUTO 16005KT 08/03 RMK AO1 SLP169 T00790033 50008 KDEH 251655Z AUTO 05008G16KT 8SM OVC006 03/02 A3004 RMK AO2 EGHQ 251650Z 06014KT CAVOK 14/01 Q1023 UNNT 251700Z 29007MPS 9999 OVC020CB M01/M05 Q1019 R25/290150 R34/290150 NOSIG RMK QFE754/1006 CXRH 251700Z AUTO 25016G24KT M02/M03 RMK AO1 3PAST HR M24 M P0001 T10171028 50024 CWZQ 251700Z AUTO 32010KT M00/M01 RMK AO1 SLP172 T10021005 51004 KBWI 251654Z VRB04KT 10SM OVC250 24/11 A3015 RMK AO2 SLP210 T02440106 KCMR 251655Z AUTO 20009KT 10SM CLR 08/M03 A3009 RMK AO2 KCNI 251655Z AUTO 18010G15KT 10SM SCT039 21/06 A3024 RMK AO2 KBVS 251655Z AUTO 00000KT 3SM BR FEW015 BKN020 BKN027 07/06 A3010 RMK A01 P0004 EGJA 251650Z 05017G32KT CAVOK 10/05 Q1020 CWZS 251700Z AUTO 31013G20KT M06/M17 RMK AO1 PK WND 32020/1654 SLP245 T10591170 51014 EFSA 251650Z AUTO 31001KT 9999 FEW017 OVC033 00/M02 Q1014 KCNK 251655Z AUTO 36012KT 10SM -RA OVC010 05/04 A2997 RMK AO2 RAB47 SLP156 P0000 T00500039 CYIK 251700Z 32011KT 10SM VCFG SCT017 SCT040 M19/M24 A3012 RMK CF3SC1 SLP208 EGJB 251650Z 05024G35KT CAVOK 11/01 Q1019 KBVU 251655Z AUTO 26009G17KT 10SM 17/01 A3000 RMK AO2 CXSC 251600Z AUTO 28014KT 07/01 RMK AO1 PK WND 28021/1508 T00660007 UNOO 251700Z 24002MPS CAVOK M03/M05 Q1021 R25/CLRD60 NOSIG RMK QFE757 CXRL 251700Z AUTO 28004KT M01/M03 RMK AO1 T10071027 CYHU 251700Z AUTO 04010KT 9SM BKN035 BKN043 BKN220 M01/M07 A3038 RMK SLP290 KCNM 251653Z AUTO 17014KT 10SM CLR 17/M01 A3012 RMK AO2 SLP167 T01671006 PWINO KCOD 251656Z AUTO 01014KT 10SM FEW095 08/00 A2998 RMK AO2 SLP149 T00780000 CWZV 251600Z AUTO 22021KT 04/02 RMK AO1 1PAST HR 1015 PK WND 23027/1506 SLP109 P0000 T00370015 50002 KDEN 251653Z 17010KT 10SM BKN220 13/M03 A3001 RMK AO2 SLP141 T01331028 KCOE 251656Z AUTO 22011KT 10SM FEW023 SCT033 08/02 A3005 RMK AO2 RAE08 SLP203 P0000 T00780022 NZTG 251700Z 07010KT 35KM BKN018 20/18 Q1016 RMK ALT VATSIM USE ONLY NZSP 251150Z 07014KT 0800 FZFG SCT000 M55/ A2848 RMK FZFG SCT000 CLN AIR 06017KT ALL WNDS GRID CXSE 251600Z AUTO 19016KT M17/M19 RMK AO1 SOG 62 6007 PK WND 19021/1558 SLP096 T11731192 CWZW 251700Z AUTO 26003KT M06/M07 RMK AO1 2PAST HR SOG 37 3005 SLP025 P0001 T10621072 50015 CYIN 251700Z AUTO 20008KT 180V270 9SM FEW055 05/M06 A2979 RMK SLP111 KCNO 251653Z 00000KT 10SM BKN020 15/09 A3014 RMK AO2 SLP204 T01500094 KCMX 251653Z AUTO 11008KT 10SM OVC028 00/M04 A3033 RMK AO2 SLP287 T00001044 KBVX 251655Z AUTO 19009G19KT 10SM FEW028 BKN050 BKN065 19/12 A2985 RMK AO1 KCOF 251658Z AUTO 11011KT 10SM CLR 26/17 A3025 RMK AO2 SLP248 T02570166 $ CYJF 242200Z 05011G17KT 15SM SCT240 M02/M10 A2984 RMK CS3 -2.4/-19/0/58 SNW CVR/MUCH LOOSE LAST OB/NEXT 271400UTC SLP124 CYIO 251700Z AUTO 15004KT 150V240 9SM CLR M27/M31 A2994 RMK SLP152 KBVY 251653Z 04006KT 10SM -RA BKN031 OVC055 04/02 A3025 RMK AO2 RAE1559B50 SLP240 P0001 T00390017 EFRO 251650Z AUTO 19011KT CAVOK 00/M04 Q1009 KCMY 251655Z AUTO 05010G19KT 10SM OVC010 03/01 A3014 RMK AO2 T00280013 KBWP 251655Z AUTO 13010KT 10SM OVC012 01/M01 A3017 RMK AO1 CYHY 251700Z 03005KT 010V090 15SM BKN048 BKN059 BKN082 M11/M15 A2999 RMK SC5SC1AC1 SLP172 ZUCK 251700Z 22002MPS CAVOK 10/07 Q1028 NOSIG KDEQ 251653Z AUTO 27011KT 10SM BKN026 OVC033 17/12 A2995 RMK AO2 SLP139 T01720122 $ CXSH 251700Z AUTO 01009KT M01/M16 RMK AO1 PK WND 34018/1640 SLP287 T10101163 50005 CWZZ 251700Z AUTO 29015G24KT ////SM //// NCD M19/M22 A2933 KDFI 251653Z AUTO 07012KT 10SM BKN075 OVC095 12/07 A3013 RMK AO2 SLP202 T01220072 CYHZ 251700Z 34010G17KT 15SM BKN033 03/M03 A3006 RMK SC7 SLP186 EFSI 251650Z AUTO 27002KT CAVOK 03/M04 Q1015 EGKA 251650Z 03015KT CAVOK 12/M04 Q1024 CYKA 251700Z 10009KT 40SM FEW055 BKN140 08/M01 A2990 RMK SC1AC5 SLP136 KDET 251653Z 07010KT 8SM OVC007 06/05 A3023 RMK AO2 SLP242 T00610050 EGJJ 251650Z 06019G32KT CAVOK 11/04 Q1018 NOSIG KBXK 251655Z AUTO 12011KT 10SM CLR 19/04 A3001 RMK AO1 KF70 251655Z AUTO 00000KT 10SM CLR 13/07 A3013 RMK AO1 EGKB 251650Z 07015KT CAVOK 11/M06 Q1025 KCPC 251700Z AUTO 23005KT 10SM BKN050 23/10 A3032 RMK AO2 T02290097 KCNU 251652Z AUTO 34011KT 10SM OVC012 09/06 A2987 RMK AO2 SLP111 T00940061 EHAK 251655Z AUTO 34009KT 9999 NSC 07/06 Q1029 CXSL 251700Z AUTO 30005KT M00/M02 RMK AO1 T10011018 KCOM 251655Z AUTO 31007KT 10SM CLR 17/04 A3010 RMK AO2 T01680043 KCNW 251655Z 33007KT 10SM CLR 18/08 A3007 CXTD 251700Z AUTO 34014KT 01/M03 RMK AO1 SOG 06 1002 PK WND 34018/1659 SLP187 T00061029 CYIV 251700Z 12010G16KT 15SM OVC015 M04/M13 A3013 RMK SC8 SLP225 CYKD 251700Z 15004KT 15SM FEW100 M20/M23 A3010 RMK AC1 SLP197 KDEW 251653Z AUTO 19009KT 10SM BKN015 BKN020 06/03 A3004 RMK AO2 RAB23E32 SLP183 P0000 T00610028 KCON 251708Z AUTO 33004KT 1 1/4SM -SN BR FEW005 SCT009 OVC019 01/00 A3028 RMK AO2 P0002 T00110000 KBWW 251655Z AUTO 20007KT 10SM BKN120 09/01 A2983 RMK AO2 PHTO 251653Z 24007KT 10SM FEW029 19/14 A3022 RMK AO2 SLP232 T01890139 EHAM 251655Z 04013KT 010V070 CAVOK 12/M02 Q1027 NOSIG CYKF 251709Z AUTO 08014KT 9SM BKN009 OVC013 02/01 A3028 RMK SLP267 CZBF 251700Z 28010G19KT 240V330 15SM FEW220 01/M14 A3013 RMK CS1 SLP209 KCNY 251653Z AUTO 10010KT 10SM CLR 13/M02 A2997 RMK AO2 SLP131 T01281022 $ KBYG 251653Z AUTO 35017G23KT 10SM OVC065 12/M01 A2999 RMK AO2 SLP130 T01171006 CYKG 251700Z 35026G34KT 35SM DRSN FEW050 SCT150 M19/M24 A2986 RMK CF2AC1 SLP133 CXSP 251600Z AUTO 29002KT M01/M04 RMK AO1 T10121035 KCOQ 251655Z AUTO 07012G19KT 10SM BKN016 OVC023 02/M02 A3023 RMK AO2 CXTH 251600Z AUTO 33007KT 01/M02 RMK AO1 T00051016 VEPT 251600Z 10006KT 3000 HZ NSC 28/21 Q1010 NOSIG KBYI 251653Z AUTO 26010KT 10SM CLR 06/02 A3004 RMK AO2 SLP170 T00610017 CXSR 251600Z AUTO 19007KT 01/M02 RMK AO1 SOG 48 3006 SLP067 T00091015 VERC 251530Z 34005KT 5000 HZ NSC 29/12 Q1014 NOSIG KCOS 251654Z 15004KT 10SM BKN250 08/M01 A3007 RMK AO2 SLP181 T00831006 NZTU 251700Z 02002KT 3000 RA SCT018 10/10 Q1018 RMK ALT VATSIM USE ONLY CYLA 251600Z 30020G28KT 2 1/2SM -SN BLSN SCT027 BKN070 M19/M22 A2991 RMK BLSN1SC2AS2 SLP136 CYKJ 251700Z AUTO 09012KT 9SM FEW013 M04/M08 A2982 RMK SLP134 KCOT 251653Z AUTO 04006KT 10SM CLR 26/06 A3009 RMK AO2 SLP183 T02560056 KCPK 251655Z AUTO 23014G18KT 10SM CLR 23/10 A3026 RMK AO2 T02250102 KCQB 251655Z AUTO 28013KT 10SM OVC016 10/06 A2999 RMK AO2 T00970063 CYJT 251600Z 26019KT 6SM -SHSN SCT012 OVC016 M01/M02 A2990 RMK SC4SC4 SLP129 EGKK 251650Z 04019KT CAVOK 12/M09 Q1025 KCOU 251654Z 13005KT 10SM OVC011 14/12 A2985 RMK AO2 SLP104 T01390122 EHBK 251655Z AUTO 05016KT 9999 NCD 14/M00 Q1023 NOSIG KCQC 251653Z AUTO 28015G22KT 10SM CLR 13/M07 A3014 RMK AO2 SLP165 T01331067 KBYL 251655Z AUTO 14010G15KT 10SM CLR 22/10 A3016 RMK AO1 CYLC 251600Z 35006KT 15SM FEW040 FEW120 M16/M23 A2982 RMK SF1AS1 SLP105 CYKL 251705Z AUTO 30023G33KT 2 1/4SM BLSN FEW028 M19/M26 A2989 RMK VIS VRB 1-3 SLP182 EGLC 251650Z AUTO 07015KT 9999 NCD 13/M05 Q1026 CYLD 251700Z 05009KT 040V100 15SM SKC M04/M16 A3041 RMK SLP333 KDFW 251653Z 29011G17KT 10SM FEW030 18/07 A3002 RMK AO2 SLP158 T01780072 CXTN 251600Z AUTO 25007KT M25/M28 RMK AO1 SLP164 T12501278 52008 KCQF 251655Z AUTO 14016G22KT 10SM SCT023 BKN036 OVC048 23/19 A3014 RMK AO2 CYKO 251700Z 30014KT 4SM BR BKN013 M18/M21 A3019 RMK CF7 SLP227 EGLF 251650Z 07017KT CAVOK 14/M07 Q1025 CXTO 251700Z AUTO 03/01 RMK AO1 1015 SLP276 T00280005 50044 CXTP 251700Z AUTO 23012G21KT M00/M03 RMK AO1 6PAST HR SOG 60 6032 PK WND 24024/1635 SLP111 P0002 T10011031 50006 CYKP 251700Z AUTO 12006KT 080V180 9SM CLR M07/M19 A3051 RMK SLP355 OSDI 251700Z 21004KT CAVOK 16/M02 Q1015 EFTP 251650Z AUTO 29004KT CAVOK 05/M03 Q1015 CYLH 251700Z AUTO 15008KT 100V200 9SM SCT240 M05/M20 A3044 RMK SLP334 KCPR 251653Z 21012KT 10SM CLR 11/M02 A2996 RMK AO2 SLP123 T01061022 NZWB 251700Z 25003KT 9000 VCDZ SCT004 14/13 Q1017 RMK ALT NZNS VATSIM USE ONLY KCPS 251653Z 15007KT 10SM OVC021 16/12 A2988 RMK AO2 SLP118 T01610122 KBYS 251655Z AUTO 27010G17KT 10SM CLR 16/02 A3004 RMK AO2 SLP163 WND DATA ESTMD T01630024 CYLJ 251700Z 33007KT 15SM SCT015 OVC070 M01/M03 A2972 RMK SC4AS4 SLP090 CYMA 251700Z 02007KT 20SM SCT046 BKN090 BKN250 M13/M19 A2968 RMK SC3AC2CI2 SLP097 EFVA 251650Z AUTO 23003KT CAVOK 04/M02 Q1015 R16/0/0095 KCPT 251655Z AUTO 29007G15KT 10SM CLR 16/07 A3006 RMK AO2 ORMM 251700Z 02004KT CAVOK 20/16 Q1011 NOSIG KCPU 251610Z AUTO 00000KT 10SM SCT004 SCT028 OVC050 11/09 A3014 RMK AO2 T01090089 CZDB 251600Z AUTO 34013G18KT 04/M04 RMK AO1 SOG 04 0007 PK WND 34018/1556 SLP188 T00391035 CYLL 251700Z 31012KT 15SM BKN008 BKN016 01/M00 A2972 RMK SC5SC2 SLP095 EGMC 251650Z 06017KT 020V080 CAVOK 11/M07 Q1026 EFTU 251650Z AUTO 31007KT 260V330 CAVOK 04/M02 Q1016 R08/0/0095 EGLL 251650Z AUTO 07011KT 9999 NCD 14/M06 Q1026 NOSIG KCQM 251655Z AUTO 12006KT 10SM OVC021 01/M04 A3027 RMK AO2 VERP 251500Z 27003KT 6000 NSC 32/11 Q1011 NOSIG CXTV 251600Z AUTO 26007KT M20/M23 RMK AO1 SLP187 T11951226 57003 KDHN 251653Z 17014KT 10SM FEW045 25/14 A3024 RMK AO2 SLP234 T02500139 KDGW 251653Z AUTO 21010KT BKN110 10/01 A2996 RMK AO2 SLP136 T01000011 KCRE 251653Z 18008KT 10SM OVC050 21/12 A3034 RMK AO1 SLP276 T02060122 $ EGMD 251650Z 05024KT CAVOK 10/00 Q1024 KCPW 251652Z AUTO 19007KT 10SM CLR 02/M08 A3030 RMK AO2 KBZN 251656Z 00000KT 10SM SCT017 SCT023 BKN032 07/02 A3002 RMK AO2 SLP163 T00670022 KCRG 251653Z 13012G18KT 10SM FEW041 BKN065 24/13 A3029 RMK AO2 SLP255 T02440133 KBYY 251655Z AUTO 29008KT 10SM CLR 26/17 A3003 RMK AO2 T02580179 ORNI 251700Z 34009KT 8000 SCT030 22/09 Q1012 NOSIG CYKY 251700Z 28019KT 15SM FEW045 07/02 A2975 RMK SC1 SC TR SLP095 CZCP 251700Z AUTO 25015KT ////SM //// OVC004 M21/M24 A2996 CYMH 251700Z AUTO 02010G15KT 1 1/4SM -SN OVC017 M08/M10 A2976 RMK SLP079 CYKZ 251700Z 08009KT 15SM OVC013 03/00 A3034 RMK SC8 SLP282 NZWK 251700Z 07010KT 35KM BKN018 20/18 Q1016 RMK ALT NZTG VATSIM USE ONLY CZCR 251700Z AUTO 29017G25KT M01/M13 RMK AO1 SOG 71 1009 PK WND 30025/1659 SLP223 T10131129 KDIJ 251656Z AUTO 00000KT 10SM FEW010 OVC030 04/01 A3004 RMK AO2 SLP177 T00390006 CYMJ 242357Z 12021G27KT 15SM OVC160 07/03 A2989 RMK AS8 LAST OBS/NEXT 261800 UTC SLP146 KDHT 251653Z AUTO 10SM CLR 15/M01 A3009 RMK AO2 SLP169 T01501011 CYNA 251700Z AUTO 29017G22KT 9SM CLR M05/M18 A2999 RMK SLP159 KCQT 251647Z AUTO VRB03KT 10SM FEW020 SCT075 17/11 A3011 RMK AO2 SLP196 T01720106 KDIK 251656Z AUTO 18014KT 10SM CLR 07/00 A2990 RMK AO2 SLP140 T00720000 CYLT 242013Z 00000KT 15SM SKC M32/M35 A2979 RMK LAST OBS/NEXT 271200 UTC SLP095 CXWB 251600Z AUTO 31006KT M24/M28 RMK AO1 SLP234 T12381281 56004 EFUT 251650Z AUTO 32004KT 9999 OVC018 01/M01 Q1014 CYNC 242000Z 33017G24KT 15SM DRSN FEW012 M13/M19 A3013 RMK SF1 LAST STFD OBS/NEXT 261600Z SLP207 CYLU 251700Z 30018G24KT 3/4SM BLSN OVC019 M14/M17 A2977 RMK BLSN5SC3 SLP090 NZWN 251700Z AUTO 13001KT 9999 FEW012/// SCT027/// BKN034/// 14/14 Q1017 NOSIG EHDL 251655Z AUTO 04011KT 320V110 9999 FEW100 13/M02 Q1026 BLU TXKF 251655Z 12007KT 9999 SCT038 BKN300 18/07 Q1030 CYND 251700Z 34008KT 15SM FEW020 BKN230 02/M05 A3039 RMK SC1CI6 SLP294 CXVM 251600Z AUTO 31007KT 01/M01 RMK AO1 T00061012 CYMM 251700Z AUTO 12007KT 9SM OVC012 00/M02 A2976 RMK SLP098 KCQW 251655Z AUTO 25008KT 10SM FEW045 BKN055 21/06 A3031 RMK AO2 NZWP 251700Z 07008KT 45KM BKN100 19/17 Q1015 RMK ALT NZAA VATSIM USE ONLY CXVN 251700Z AUTO 06010G16KT 02/01 RMK AO1 2PAST HR SOG 04 1019 PK WND 08018/1618 SLP270 P0009 T00240013 50085 CYLW 251700Z AUTO 18003KT 130V250 9SM CLR 07/03 A2997 RMK SLP161 CYNE 251700Z AUTO 14011G19KT 110V180 9SM CLR 02/M05 A2995 RMK PRESFR SLP159 KCQX 251652Z AUTO 04007G16KT 10SM OVC036 06/01 A3022 RMK AO2 SLP237 T00610011 CYMO 251700Z AUTO 25003KT 190V310 9SM CLR M07/M18 A3061 RMK SLP366 KCSG 251651Z 19009KT 10SM FU CLR 24/12 A3021 RMK AO2 SLP225 T02440117 KCRP 251651Z 31006KT 10SM BKN020 OVC024 24/21 A3004 RMK AO2 SLP172 T02440206 NZWR 251700Z 07008KT 45KM BKN100 19/17 Q1015 RMK ALT NZAA VATSIM USE ONLY KCRQ 251653Z AUTO VRB03KT 10SM OVC027 16/11 A3013 RMK AO2 SLP202 T01560106 NZWS 251700Z 16008KT 10KM SHRA BKN045 15/15 Q1014 RMK ALT VATSIM USE ONLY EGNH 251650Z 35011KT CAVOK 12/M01 Q1029 EHEH 251655Z AUTO 06013KT 020V080 9999 FEW130 14/M04 Q1025 BLU 05015KT CAVOK TEMPO 07017G27KT KCRS 251653Z AUTO 32006KT 10SM CLR 18/09 A3005 RMK AO2 SLP174 T01780094 KEBA 251655Z AUTO 21005KT 10SM SCT036 BKN049 BKN055 22/13 A3029 RMK AO2 T02190129 NZWU 251700Z 10013KT 30KM SCT065 16/13 Q1017 RMK ALT NZPM VATSIM USE ONLY CZFA 251700Z 00000KT 3SM -SN SCT030 BKN035 OVC040 M08/M09 A2953 RMK SC3SC4SC1 SUN DMLY VSL SLP050 CYOA 251500Z 29010KT 15SM FEW042 M24/M26 A2986 EGNJ 251650Z 10008KT CAVOK 12/M04 Q1030 KCTB 251656Z AUTO 24016KT 10SM FEW050 BKN075 06/M05 A2993 RMK AO2 SLP144 T00611050 KDKB 251655Z AUTO 06015G21KT 10SM OVC005 05/05 A3001 RMK AO2 P0008 T00510045 CYMT 251700Z AUTO 31007G15KT 260V010 9SM CLR M10/M21 A3043 RMK SLP339 CYMU 241900Z 29020KT 5SM IC DRSN FEW006 SCT017 BKN025 M20/M24 A2990 RMK ST2ST2SC1 SLP136 CYOC 251700Z 25002KT 35SM FEW015 M28/M31 A3004 RMK ST1 ST TR SLP210 CZEL 251700Z AUTO 09013KT 01/M00 RMK AO1 3011 PK WND 09017/1629 SLP270 T00131001 50038 KCSM 251653Z AUTO 33017G21KT 10SM CLR 13/05 A3003 RMK AO2 SLP162 T01330050 CZEM 242000Z 33021G28KT 15SM FEW010 M12/M15 A3011 RMK SC2 LAST STFD OBS/NEXT 251400 UTC PRESRR SLP198 CXWM 251600Z AUTO 24014KT 06/M04 RMK AO1 PK WND 25018/1546 T00571036 CYNM 251700Z AUTO 32007KT 9SM CLR M10/M19 A3053 RMK SLP367 CYOD 251700Z 25003KT 15SM OVC013 00/M02 A2975 RMK SC8 SLP099 EGNM 251650Z 07004KT 030V100 CAVOK 13/M01 Q1029 KCRW 251654Z VRB03KT 10SM SCT060 BKN200 23/08 A3017 RMK AO2 SLP210 T02330078 EHDV 251655Z AUTO 35008KT 9999 NCD 08/05 Q1030 EHFD 251655Z AUTO 33010KT 9999 NCD 07/06 Q1029 KEAN 251655Z AUTO 00000KT 10SM CLR 09/01 A2997 RMK AO2 T00880012 EGMW 251550Z 03012KT CAVOK 08/02 Q1029 CXVW 251600Z AUTO 14006KT M01/M02 RMK AO1 T10051022 CXWN 251700Z AUTO 19005KT 04/M01 RMK AO1 8002 SLP206 T00381014 50007 CYMX 251700Z 09009KT 45SM FEW038 BKN220 01/M08 A3036 RMK SC1CS6 SLP288 KEBG 251650Z AUTO 16008KT 10SM CLR 29/20 A3003 RMK AO2 T02870198 KCSQ 251655Z AUTO 04014KT 2 1/2SM -RA SCT005 SCT011 04/04 A2994 RMK AO2 UNTT 251700Z 22006MPS 9999 SCT016CB 01/M01 Q1015 NOSIG RMK QFE746 KEAR 251655Z AUTO 36014KT 8SM OVC004 03/01 A3003 RMK AO1 EGNR 251650Z 30007KT 270V340 CAVOK 14/02 Q1029 KCTJ 251655Z AUTO 17013G19KT 150V210 10SM SCT038 23/13 A3024 RMK AO2 T02260125 CYPA 251700Z 36010KT 10SM OVC005 M00/M01 A2961 RMK ST8 SLP052 CYOJ 251700Z 36013KT 10SM -SN DRSN OVC010 M05/M07 A2978 RMK SC8 SLP108 KCUB 251653Z AUTO VRB03KT 10SM FEW047 BKN055 23/11 A3031 RMK AO2 SLP261 T02280106 TSNO EGPA 251650Z 27018KT CAVOK 11/07 Q1028 EGNS 251650Z 11001KT CAVOK 11/02 Q1029 NOSIG KDKK 251653Z AUTO 05008KT 10SM OVC007 02/02 A3028 RMK AO2 UPE08B32E39RAB16E40 CIG 004V011 SLP258 P0007 T00220017 KEAT 251655Z AUTO 00000KT 10SM CLR 06/02 A3003 RMK AO2 SLP176 T00610017 EGPB 251650Z AUTO 24010KT 3300 HZ OVC003/// 08/08 Q1027 EGNT 251650Z 10004KT CAVOK 15/M04 Q1029 KEAU 251656Z 07015KT 10SM OVC015 04/00 A3018 RMK AO2 SLP228 T00390000 $ CYPC 251700Z 23014KT 15SM FEW023 FEW080 M21/M25 A3008 RMK SC1AC1 SC TR AC TR SLP188 ZUGY 251700Z 02002MPS 350V060 9999 -RA FEW004 BKN015 OVC033 04/03 Q1028 NOSIG KCSV 251653Z AUTO 16008G18KT 10SM BKN031 18/10 A3019 RMK AO2 SLP212 T01780100 EGPC 251650Z AUTO 01004KT 300V050 9999 NCD 14/04 Q1028 CZFM 251700Z 15006KT 35SM SKC M20/M22 A3010 RMK SLP199 EGNV 251650Z 06006KT CAVOK 14/M05 Q1029 CZEV 251600Z AUTO 11002KT M21/M24 RMK AO1 SOG 39 7003 SLP204 T12121239 EGOM 251650Z AUTO 27006KT 9999 NCD 13/01 Q1028 CYPD 251700Z AUTO 30015G20KT 9SM BKN018 01/M04 A3001 RMK SLP171 EGPD 251650Z AUTO 15007KT 9999 NCD 15/M02 Q1028 NOSIG CZFN 242300Z 29011KT 260V330 25SM FEW030 FEW250 M09/M17 A3001 RMK SC1CC2 SC TR -13.2/-9.1/TR/32 LAST STFD OBS NEXT 271500 UTC SLP174 CYPE 251700Z 02004KT 6SM BR FEW001 BKN070 M03/M04 A2972 RMK SF1AC6 SLP095 EGPE 251650Z 25011KT CAVOK 15/02 Q1029 KDLF 251658Z 31009KT 10SM CLR 22/04 A3012 RMK AO2A SLP192 T02150042 CYOO 251700Z AUTO 08009KT 040V100 9SM OVC018 04/01 A3035 RMK PRESRR SLP282 EGPF 251650Z AUTO 27007KT 9999 NCD 15/M00 Q1030 EGNX 251650Z 08011KT CAVOK 13/M03 Q1028 KECG 251654Z 22015G23KT 10SM CLR 23/12 A3029 RMK AO2 SLP255 T02280117 CYPG 242200Z 05002KT 15SM OVC022 00/M04 A3025 RMK SC8 LAST OBS/NEXT 271100 UTC SLP258 EGOP 251650Z AUTO 05018KT 9999 // NCD 16/M01 Q1025 EHGG 251655Z AUTO 02008KT 350V060 9999 NCD 09/01 Q1028 NOSIG KDLH 251655Z 09017G24KT 10SM OVC006 01/M01 A3024 RMK AO2 SLP261 T00061011 KCUH 251655Z AUTO 29013G16KT 10SM OVC014 09/06 A2997 RMK AO2 T00880057 CXYH 251600Z AUTO M10/M12 RMK AO1 SOG 53 0000 SLP158 T11001121 CYPH 251700Z AUTO 25011KT 9SM CLR M19/M22 A3031 RMK SLP271 EGPH 251650Z 26005KT CAVOK 16/01 Q1029 KDKR 251650Z AUTO 30007KT 10SM CLR 19/11 A3007 RMK AO2 EGPI 251650Z AUTO 28005KT 9999 NCD 11/03 Q1030 KEBS 251655Z AUTO 04014KT 2 1/2SM RA OVC006 03/03 A2998 RMK AO2 P0010 KDMA 251658Z AUTO 17006KT 10SM CLR 19/M05 A3007 RMK AO2 SLP157 T01921055 CHINO RWY30 $ CZFS 251600Z AUTO 33005KT M12/M14 RMK AO1 2PAST HR SOG 24 1004 SLP186 P0001 T11211140 50006 EGOS 251650Z AUTO 09006KT 9999 NCD 14/M03 Q1028 CYQA 251707Z AUTO 04005KT 340V070 9SM BKN010 OVC016 02/00 A3035 RMK SLP291 KCVB 251655Z AUTO 32005KT 7SM CLR 23/05 A3010 RMK AO2 T02340045 EHFS 251625Z AUTO 05019KT 9999 NSC 13/01 Q1024 EGPK 251650Z 27003KT CAVOK 11/02 Q1031 CYQB 251700Z 30008KT 290V020 20SM SCT230 01/M15 A3033 RMK CI3 SLP276 KEDC 251655Z AUTO RMK AO2 PWINO KCUL 251655Z AUTO 16016G21KT 10SM SCT065 OVC090 19/13 A2995 RMK AO2 T01930128 KCVC 251655Z AUTO 21004KT 10SM SCT037 OVC050 22/12 A3025 RMK AO2 KDLL 251655Z AUTO 06012G22KT 5SM BR OVC003 02/02 A3010 RMK AO2 T00220016 CYPL 251700Z 16010G15KT 15SM BKN230 M02/M19 A3033 RMK CS5 CI ASOCTD SLP302 CXZC 251700Z AUTO 30003KT M07/M19 RMK AO1 SOG 42 8004 SLP368 T10651188 EGPL 251650Z AUTO 21014KT 9999 ///////// 10/08 Q1030 VGEG 251600Z 00000KT 5000 HZ NSC 25/18 Q1011 NOSIG EGOV 251650Z AUTO 03012KT 9999 NCD 13/M05 Q1028 CYQD 251700Z 15018G25KT 5/8SM -SN VV004 M02/M03 A2975 RMK SN8 CIG BLN 400FT SLP093 KEDE 251700Z AUTO 25009G15KT 10SM CLR 23/11 A3030 RMK AO2 T02330106 KDLN 251653Z AUTO 23005KT 10SM CLR 05/M02 A3001 RMK AO2 SLP151 T00501022 EGPM 251650Z AUTO 24015KT 9000 OVC002/// 09/09 Q1025 EGPN 251550Z 22009KT CAVOK 13/05 Q1029 CYOW 251700Z 34010KT 15SM FEW010 FEW060 BKN220 00/M05 A3038 RMK CF1SC1CS6 CF TR HALO SLP297 KDLO 251655Z AUTO 00000KT 10SM BKN038 13/08 A3013 RMK AO2 KDKX 251655Z AUTO 22008G14KT 10SM FEW050 23/11 A3020 RMK A01 CYPO 251700Z AUTO 19006KT 9SM CLR M11/M19 A3052 RMK SLP344 CYQF 251700Z VRB02KT 15SM FEW020 SCT250 05/M01 A2975 RMK CF1CI3 CF TR SLP107 KCVG 251652Z 21011G17KT 10SM SCT090 BKN150 BKN200 22/11 A3010 RMK AO2 SLP186 T02170106 $ EGPO 251650Z AUTO 24010KT 9999 NCD 12/04 Q1029 KECP 251653Z 14014G23KT 10SM FEW035 SCT060 24/14 A3021 RMK AO2 SLP242 T02440144 KCTY 251655Z AUTO 19007KT 10SM CLR 26/13 A3025 RMK AO2 KDLP 251700Z AUTO 16015KT 6SM BR FEW015 SCT025 SCT030 22/22 A3008 RMK A01 CYOY 251700Z AUTO 04003KT 9SM FEW056 FEW080 M00/M14 A3031 RMK SLP276 CYQG 251700Z 06012G17KT 8SM BR OVC005 06/05 A3022 RMK SC8 SLP238 KCTZ 251700Z AUTO 23009KT 10SM SCT048 SCT050 23/12 A3032 RMK AO2 T02260121 KCVH 251650Z AUTO 33006KT 10SM SCT012 BKN019 13/11 A3017 RMK AO1 KDMH 251654Z AUTO 25/09 A3017 RMK AO1 SLP216 T02500094 CYQH 251703Z 11008KT 1SM -SN OVC015 M06/M09 A2956 RMK SC8 SLP053 CYPQ 251700Z AUTO 04007KT 9SM OVC017 03/01 A3034 RMK SLP283 EHFZ 251655Z AUTO 34008KT 9999 NCD 08/06 Q1029 CYPR 251700Z AUTO 18008KT 130V210 9SM FEW020 SCT027 BKN039 OVC060 05/03 A2980 RMK SLP094 CYQI 251700Z 34011KT 12SM SCT023 BKN100 BKN220 03/M01 A3015 RMK SC4AC2CI1 SLP212 KDLS 251653Z AUTO 00000KT 10SM FEW085 10/05 A3012 RMK AO2 SLP202 T01000050 EHGR 251655Z AUTO 05014KT 360V110 9999 SCT370 14/M04 Q1025 BLU KEDJ 251655Z AUTO 21013G19KT 10SM CLR 19/10 A3012 RMK AO1 KECS 251655Z AUTO 24004KT 10SM CLR 11/M03 A2995 RMK AO2 KCWA 251648Z 08016G21KT 10SM OVC011 02/01 A3019 CYRA 251700Z 31003KT 15SM FEW120 BKN210 M20/M24 A3006 RMK AC2CI4 SLP210 KCUT 251653Z AUTO 27006KT 10SM CLR 11/M03 A2995 RMK AO2 SLP124 T01061033 EGQK 251650Z AUTO 24013KT 9999 NCD 16/M01 Q1028 CYRB 251700Z 14014KT 15SM IC FEW008 BKN160 M25/M29 A2992 RMK ST1AS5 SLP147 CYQK 251700Z 16012G17KT 15SM BKN018 OVC025 02/M02 A3020 RMK SC5SC3 SLP248 KCWC 251655Z AUTO 30007KT 280V350 10SM OVC029 13/06 A3007 RMK AO2 T01330055 KECU 251650Z AUTO 35006KT 10SM CLR 19/04 A3015 RMK AO2 CYQL 251700Z 23020KT 40SM FEW060 SCT160 BKN250 10/M04 A2987 RMK SC1AC2CI3 FOEHN WALL SLP132 DENSITY ALT 3200FT EGPU 251650Z 24006KT CAVOK 10/06 Q1030 KEED 251656Z AUTO 35009KT 310V020 10SM CLR 24/01 A2997 RMK AO2 SLP124 T02440011 EGQL 251650Z 14004KT CAVOK 15/02 Q1028 BLU CYQM 251700Z 36007G16KT 310V010 15SM FEW055 BKN260 05/M07 A3009 RMK SC1CI5 SLP195 KDMN 251653Z AUTO VRB04KT 10SM CLR 17/M02 A3013 RMK AO2 SLP157 T01721022 KCVN 251655Z AUTO 24005KT 10SM CLR 13/M01 A3012 RMK AO1 KEDN 251655Z AUTO 16009G16KT 10SM BKN037 BKN046 BKN055 23/15 A3019 RMK AO2 T02320149 EGQM 251650Z AUTO 06003KT 9999 NCD 10/03 Q1030 CYPW 251700Z 10005KT 070V140 40SM FEW035 SCT063 SCT230 07/03 A3003 RMK CU1SC3CI1 CU TR SLP174 KDMO 251653Z AUTO 21003KT 10SM FEW021 BKN033 OVC090 16/11 A2983 RMK AO2 SLP100 T01560111 KCVO 251655Z 20003KT 10SM OVC070 09/06 A3016 RMK AO1 KCWF 251650Z 25009KT 6SM RA SCT050 18/13 A3002 RMK RAB40 CYPX 251707Z AUTO 28018KT 1 1/4SM HZ OVC005 M19/M22 A3021 RMK VIS VRB 3/4-1 3/4 SLP235 CYPY 251700Z AUTO 09008KT 9SM -RA BKN040 OVC050 01/M03 A2982 RMK SLP114 KDLZ 251655Z AUTO 22008KT 10SM CLR 22/10 A3014 RMK AO2 CYQQ 251700Z 16002KT 20SM FEW045 FEW080 BKN210 09/M01 A3002 RMK SC0AC2CI3 CU ASOCTD SLP166 KCWI 251656Z AUTO 08020G24KT 4SM -RA BR OVC005 06/05 A2995 RMK AO2 PK WND 06029/1606 SLP169 P0005 T00560050 CYQR 251700Z 24019G25KT 15SM FEW160 BKN270 10/02 A2974 RMK AC1CI5 AC TR SLP091 DENSITY ALT 2000FT KCVS 251658Z AUTO 24007KT 10SM CLR 14/M02 A3012 RMK AO2 SLP179 T01381019 $ CYRJ 251700Z 34010KT 40SM FEW100 M08/M20 A3044 RMK AS1 SLP322 EGQS 251650Z 26011KT CAVOK 16/M02 Q1028 BLU EHJA 251655Z AUTO 03008KT 320V120 9999 NCD 08/05 Q1029 CYQT 251700Z 09008KT 20SM SCT019 M01/M06 A3041 RMK SC3 SLP312 CYSB 251700Z 03009G16KT 20SM SKC M05/M15 A3043 RMK SLP326 KDNL 251653Z AUTO 16010KT 130V200 10SM FEW042 BKN055 23/11 A3029 RMK AO2 SLP254 T02280106 KEDU 251655Z AUTO 34007KT 10SM BKN014 BKN110 12/10 A3020 RMK AO1 OTBD 251700Z 12014KT 9999 TS FEW030 FEW040CB BKN120 23/19 Q1006 NOSIG CYRL 251700Z 14009G15KT 15SM SCT025 BKN080 OVC150 01/M06 A3018 RMK SC3AS3AC2 SLP245 EGSC 251650Z 05009KT CAVOK 13/M06 Q1027 CYQU 251700Z 01002KT 20SM FEW070 BKN120 M01/M04 A2969 RMK AC2AC4 SLP090 CYSC 251700Z AUTO 30010KT 290V030 9SM BKN028 01/M06 A3029 RMK SLP269 KEFD 251650Z 31006KT 10SM FEW020 FEW050 26/12 A3004 CXZV 251700Z AUTO 30010G16KT M06/M20 RMK AO1 SOG 94 1009 SLP224 T10621195 CYQV 251700Z AUTO 17013G21KT 9SM CLR 04/00 A2974 RMK SLP097 KDMW 251700Z AUTO 22011KT 10SM CLR 23/12 A3016 RMK AO2 KCVW 251705Z AUTO 25007KT 230V290 5SM BR FEW003 SCT030 BKN046 17/15 A3006 RMK A01 KEEN 251656Z AUTO 36006KT 3SM -SN BR FEW009 BKN014 OVC024 01/00 A3029 RMK AO2 RAE40UPB12E17SNB40 PRESRR SLP280 P0004 T00110000 FZRANO KCXE 251655Z AUTO 24006KT 10SM CLR 22/09 A3026 RMK AO1 T02170091 KCWN 251658Z AUTO 10005KT 10SM CLR 08/M02 A3002 RMK AO2 SLP064 T00761017 $ KEDW 251658Z 25010KT 90SM FEW060 SCT090 14/06 A3007 RMK AO2A SLP172 SHRA DSNT W-NW T01430057 KDNN 251655Z AUTO 16012G20KT 10SM SCT042 21/12 A3019 RMK AO2 CYQW 251700Z AUTO 30012G18KT 9SM OVC003 02/ A2972 RMK TD MISG SLP088 KEEO 251653Z AUTO 21005KT 10SM CLR 13/M06 A3001 RMK AO2 SLP131 T01281056 KCVX 251655Z AUTO 09013G19KT 10SM OVC017 03/00 A3034 RMK AO2 T00261004 EHHW 251655Z AUTO 05005KT 9999 NCD 07/04 Q1029 OTBH 251658Z 11007KT 9000 VCSH BKN060 BKN130 22/20 A2975 RMK AO2A TSE04 SLP076 T02170198 $ CYSF 251700Z AUTO 08009KT 9SM SCT160 M03/M08 A2994 RMK SLP161 CYQX 251700Z 22014KT 2 1/2SM -SHSN BKN015 BKN023 OVC035 00/M03 A2982 RMK SN2SC3SC2SC1 CVCTV CLD EMBD SLP108 CZHY 251700Z AUTO 00005KT M12/M15 RMK AO1 SOG 59 5000 SLP168 T11201149 50002 CYQY 251700Z 33014KT 15SM BKN027 02/M03 A2999 RMK SC7 SLP159 CYQZ 251700Z AUTO 20004KT 9SM BKN046 OVC055 05/M01 A2979 RMK SLP106 CYRQ 251700Z AUTO 01008G16KT 320V030 9SM FEW240 00/M13 A3037 RMK SLP289 EGSH 251650Z 04012KT CAVOK 09/M04 Q1029 NOSIG KDPA 251652Z 05014KT 10SM OVC006 06/06 A3002 RMK AO2 RAE40 SLP171 P0001 T00560056 OSKL 251700Z 29008KT CAVOK 11/06 Q1013 CYSJ 251700Z 33008G18KT 15SM SCT040 BKN230 05/M04 A3012 RMK SC4CI3 SLP205 ORSU 251700Z 02006KT CAVOK 09/02 Q1015 KEET 251653Z AUTO 17013G22KT 10SM BKN045 24/14 A3015 RMK AO2 SLP204 T02440139 KEFK 251655Z AUTO 35007KT 10SM OVC026 00/M03 A3030 RMK AO2 T00001030 CYSK 250100Z 28016KT 12SM IC DRSN SKC M22/M24 A3017 RMK CALL OUT LAST MANNED OB/NEXT 271200UTC SLP224 CYRT 251700Z 15004KT 15SM IC FEW250 M24/M27 A3026 RMK CI2 SLP255 EGTC 251650Z 05014KT CAVOK 13/M06 Q1027 KCWV 251655Z AUTO 09008KT 070V130 10SM SCT046 SCT060 24/14 A3029 RMK AO2 T02350137 KDNV 251655Z AUTO 18014G19KT 10SM SCT070 OVC110 20/11 A2994 RMK AO2 T02040111 CZKD 251600Z AUTO 09007KT M09/M17 RMK AO1 SLP215 T10901171 57026 CYSM 251700Z 36002KT 15SM BKN060 OVC080 M05/M09 A2987 RMK SC5AC3 SLP134 EHKD 251655Z AUTO 03010KT 9999 FEW370 09/02 Q1028 BLU 04011KT CAVOK KEGE 251650Z 00000KT 10SM CLR 06/M04 A3011 CYRV 251700Z AUTO 06004KT 330V070 9SM BKN012 OVC021 03/02 A2996 RMK SLP165 CYSN 251700Z 06008KT 6SM -RA BR OVC006 03/01 A3034 RMK SF8 CIG RAG PRESRR SLP278 EGTE 251650Z 04010KT CAVOK 13/02 Q1024 CYTE 251700Z AUTO 28010KT 9SM CLR M22/M26 A3003 RMK SLP179 KCXO 251653Z 31007KT 10SM CLR 21/10 A3005 RMK AO2 SLP171 T02110100 KCXP 251655Z AUTO 33003KT 10SM FEW060 07/00 A3012 RMK AO2 CYSP 251700Z 10009KT 060V130 15SM SKC M02/M15 A3040 RMK SLP319 CYTH 251707Z 09006KT 060V170 3SM -SN OVC013 M07/M16 A3003 RMK SC8 SLP191 KEGI 251658Z AUTO 16014G19KT 10SM SCT023 BKN190 24/16 A3018 RMK AO2 SLP221 T02350162 $ EHJR 251625Z AUTO 04012G14KT //// ///////// 08/01 Q1029 W///H6 OSLK 251700Z 20002KT CAVOK 15/12 Q1015 KEHA 251648Z AUTO 34007KT 13/M04 RMK AO1 /PK WND 17 M T01281038 CYUA 251700Z AUTO 21012KT ////SM //// NCD M18/M23 A3004 EGSS 251650Z AUTO 05015KT 9999 NCD 12/M05 Q1027 KEFT 251655Z AUTO 05017G21KT 5SM -RA OVC002 03/03 A3001 RMK AO2 P0001 EGTK 251650Z 05017KT CAVOK 13/M05 Q1026 EGUB 251650Z 04016KT CAVOK 13/M05 Q1026 BLU NOSIG KDPL 251700Z AUTO 23009G16KT 200V260 10SM OVC050 23/11 A3032 RMK AO2 CYUB 251700Z 23012KT 10SM DRSN FEW034 SCT075 BKN220 M22/M24 A3005 RMK SC2AS2CI1 SLP177 KCXU 251655Z AUTO 14007KT 10SM SCT049 SCT060 26/14 A3024 RMK AO2 T02550140 KEHC 251655Z AUTO 19016KT 8SM SCT021 SCT028 26/21 A3006 RMK A01 CYTL 251700Z AUTO 16010KT 9SM CLR M04/M17 A3034 RMK SLP301 KDOV 251658Z AUTO 22008KT 9SM CLR 24/14 A3014 RMK AO2 SLP210 T02420136 $ KCXW 251655Z AUTO 24014KT 10SM 18/11 A2989 RMK A01 KCXY 251656Z VRB04KT 10SM OVC110 22/09 A3015 RMK AO2 SLP209 T02220089 CYSY 251700Z 11011KT 2SM -SN BR OVC006 M26/M29 A2988 RMK FG2ST6 SLP136 VGHS 251700Z 09005KT 4000 HZ FEW015 SCT100 23/18 Q1012 NOSIG KDQH 251655Z AUTO 17007KT 10SM SCT044 SCT050 SCT060 24/11 A3028 RMK AO2 CYTQ 251600Z 30025G32KT 3SM BLSN BKN032 M20/M24 A2997 RMK SC6 SLP157 CYTR 251700Z 04012KT 15SM BKN015 OVC046 04/M00 A3035 RMK SC6SC2 SLP283 KCYS 251653Z 20009KT 10SM CLR 11/M03 A3002 RMK AO2 SLP144 T01111028 KDRA 251655Z AUTO 06004KT 10SM SCT120 12/04 A3002 RMK AO2 SLP139 T01170039 CYTS 251700Z 09004KT 030V100 15SM SKC M06/M16 A3049 RMK SLP351 EHMA 251655Z AUTO 02008KT 250V060 9999 NCD 07/04 Q1029 EGVA 251658Z AUTO 07016G23KT 9999 CLR 14/ A3029 RMK AO2 SLP262 PNO $ KCZL 251655Z AUTO 17012G17KT 10SM SCT044 24/10 A3019 RMK AO2 T02350097 EICK 251700Z 11010KT CAVOK 12/M00 Q1027 NOSIG EGUL 251658Z AUTO 07016KT 9999 CLR 12/M07 A3034 RMK AO2 SLPNO T01181072 CYVC 251700Z 04011KT 1/2SM SN VV009 M06/M07 A2974 RMK SN8 SLP098 CYUL 251700Z 02010KT 15SM SCT035 SCT080 BKN210 M00/M08 A3038 RMK SC3AS1CS3 SLP292 KEGV 251655Z AUTO 09007KT 060V120 10SM OVC013 01/M01 A3024 RMK AO2 T00111007 CZMD 251700Z AUTO 16006KT 100V190 9SM CLR M02/M16 A3026 RMK SLP272 EHKV 251655Z AUTO 03012KT 9999 NCD 08/02 Q1029 KEHO 251700Z AUTO 19008KT 10SM SCT040 BKN050 20/10 A3029 RMK AO2 T01990099 EGUN 251658Z AUTO 05014KT 9999 CLR 12/M07 A3034 RMK AO2 SLP278 T01221072 $ EHMG 251655Z AUTO 03008KT 9999 NCD 08/04 Q1029 CYTZ 251700Z AUTO 08011G18KT 9SM OVC016 03/01 A3034 RMK PRESFR SLP277 KEHR 251655Z 19018G29KT 10SM FEW050 BKN100 22/11 A2996 RMK AO1 KDRI 251655Z AUTO 24006KT 10SM CLR 21/14 A3003 RMK AO2 LTG DSNT S T02140138 CZMJ 251600Z AUTO 25021G28KT 10/01 RMK AO1 SOG 01 3008 PK WND 25028/1557 SLP093 T00980005 CYWA 251700Z AUTO 32007KT 9SM CLR M02/M09 A3044 RMK SLP318 CYUS 251700Z AUTO 16009G17KT 110V210 ////SM //// BKN016 M26/M30 A3009 KEIK 251654Z AUTO 03004KT 10SM CLR 11/M01 A3002 RMK AO2 T01051006 KCZT 251655Z AUTO 31004KT 10SM CLR 22/05 A3010 RMK AO2 CYUT 251700Z 26004KT 240V300 25SM SKC M24/M28 A3017 RMK SLP223 EGWC 251550Z 05010KT CAVOK 14/M03 Q1029 BLU EIDL 251700Z 36008KT CAVOK 11/04 Q1030 CYVL 251700Z AUTO 35007KT 9SM CLR M23/M25 A3001 RMK SLP202 KDRM 251656Z AUTO 10007KT 070V130 10SM OVC040 00/M07 A3039 RMK AO2 T00001069 CYVM 251700Z 19002KT 15SM SKC M23/M27 A2997 RMK SLP152 EGUW 251650Z AUTO 06015KT 9999 NCD 10/M06 Q1027 CYWE 251700Z AUTO 24003KT 9SM CLR M18/M20 A2997 RMK SLP196 EHLW 251655Z AUTO 04008KT 9999 OVC370 08/01 Q1029 BLU KDRO 251653Z AUTO 11008KT 10SM CLR 09/M02 A3011 RMK AO2 SLP177 T00941017 EGVN 251650Z 06017KT CAVOK 14/M07 Q1026 NOSIG KFAF 251658Z AUTO 23009G17KT 200V270 10SM CLR 23/11 A3021 RMK AO2 SLP233 T02330114 CYVO 251700Z 33003KT 300V040 15SM SKC M08/M17 A3048 RMK SLP352 CYUX 251700Z 32012KT 8SM FEW210 M26/M30 A3005 RMK CI1 VIS S 2 SLP178 EGVO 251650Z 05015KT CAVOK 13/M10 Q1024 BLU NOSIG KEHY 251655Z AUTO 24008KT 10SM CLR 09/M09 A3000 RMK AO2 EGVP 251650Z AUTO 05016KT 9999 // NCD 14/M07 Q1024 CYVP 251700Z 29016G24KT 12SM DRSN SCT043 OVC080 M17/M24 A2997 RMK SC4AS4 SLP155 CYUY 251700Z 36005KT 350V070 15SM SKC M06/M18 A3049 RMK SLP353 CYWG 251700Z 18023G34KT 15SM FEW020 SCT080 OVC210 04/M01 A3011 RMK CU1AC2CI5 SLP208 KCZZ 251652Z AUTO 20008KT 12/07 A3009 RMK AO1 SLP178 T01170067 CYWH 251700Z 24012KT 15SM FEW020 SCT065 BKN220 08/03 A3008 RMK CF2SC2CI1 SLP188 CYVQ 251700Z 16004KT 12SM -SN SCT040 BKN075 BKN140 BKN260 M21/M24 A3012 RMK SC3AC3AC1CI1 CI TR SLP210 KEIR 251655Z AUTO 20014KT 6SM HZ CLR 23/21 A3009 RMK A01 CYVR 251700Z 17006KT 150V220 20SM FEW015 FEW020 SCT094 BKN110 BKN180 08/03 A3007 RMK CU1CU1AC2AC1AC1 AC TR SLP183 KDTA 251655Z AUTO 32013KT 10SM CLR 08/05 A3000 RMK AO1 CYWJ 251700Z 33005KT 20SM BKN085 M17/M19 A3005 RMK AS6 SLP203 KDRT 251653Z AUTO 30008KT 10SM CLR 22/03 A3011 RMK AO2 SLP186 T02170028 $ CZMT 251700Z 19006KT 15SM FEW060 BKN110 04/02 A2979 RMK SC2AC4 SLP090 CYVT 251700Z 10004KT 060V130 2 1/2SM -SNSG SCT010 OVC018 M02/M05 A2976 RMK ST4SC4 SLP103 CYWK 251700Z 28017G24KT 15SM DRSN SCT037 M17/M24 A3000 RMK SC3 SLP217 CZMU 251600Z AUTO 31007KT M01/M02 RMK AO1 SOG 03 T10061017 CYXC 251700Z 17012G19KT 25SM -SHRA FEW008 FEW024 SCT050 SCT100 04/02 A2991 RMK SF1SC2SC1AC1 SF TR SLP153 CYWL 251600Z 12005KT 15SM OVC100 02/M03 A2977 RMK AC8 SLP110 KDSM 251654Z 04015KT 1 1/2SM -RA BR BKN005 OVC010 05/03 A2995 RMK AO2 SFC VIS 2 SLP147 P0007 T00500033 $ KFAM 251656Z AUTO 17012G17KT 10SM OVC011 15/13 A2988 RMK AO2 RAB37E49 SLP114 P0000 T01500128 EGXC 251650Z 09010KT CAVOK 11/M02 Q1029 BLU CYVV 251700Z 05012KT 15SM OVC012 01/00 A3035 RMK SC8 SLP287 EGXE 251650Z AUTO 04006KT 9999 NCD 14/M00 Q1029 CYXE 251700Z 29013G20KT 15SM OVC013 03/01 A2965 RMK SC8 SLP065 EIDW 251700Z 05008KT 020V080 CAVOK 10/04 Q1029 NOSIG KFBG 251656Z AUTO 21008G15KT 10SM BKN050 23/10 A3030 RMK AO2 SLP262 T02280099 FZRANO $ CYXH 251700Z 26013KT 30SM FEW270 11/M04 A2986 RMK CI2 SLP120 DENSITY ALT 2500FT KFAR 251653Z 15010KT 10SM OVC012 02/00 A3017 RMK AO2 SLP229 T00220000 KDUA 251655Z AUTO 31008KT 10SM OVC027 15/07 A3002 RMK AO2 KELA 251655Z AUTO 33006KT 10SM SCT060 22/12 A3006 RMK AO2 T02200115 CYXJ 251700Z 10005KT 15SM FEW050 SCT070 BKN220 M01/M04 A2966 RMK SC1AC3CI2 SLP077 KFAT 251653Z VRB03KT 10SM BKN008 OVC029 13/11 A3015 RMK AO2 SLP208 T01280106 KDUB 251655Z AUTO 33005KT 10SM SCT041 BKN048 OVC065 04/M01 A2999 RMK AO2 CYYB 251700Z 06009KT 360V110 30SM FEW280 M03/M13 A3040 RMK CI1 SLP317 KFBL 251654Z AUTO 06015G19KT 10SM OVC011 03/01 A3014 RMK AO2 KDTL 251654Z AUTO 15012G16KT 10SM CLR 03/M01 A3016 RMK AO2 KDUC 251655Z AUTO 31010KT OVC022 12/06 A3004 RMK AO2 PWINO TSNO KEKM 251650Z 08009KT G15KT 7SM SCT070 12/09 A3007 CZOL 251600Z AUTO 31004KT M00/M01 RMK AO1 T10011009 EGWU 251650Z 06018KT CAVOK 14/M09 Q1026 NOSIG CZPC 251700Z AUTO 24013G20KT 9SM BKN070 BKN080 07/M04 A2987 RMK SLP138 CYXL 251700Z 14010G16KT 120V190 15SM FEW030 SCT140 OVC210 02/M08 A3028 RMK SC1AC3CI4 SLP278 CYYC 251700Z 18007KT 40SM SCT150 BKN220 08/M07 A2978 RMK AC3CI3 SLP108 DENSITY ALT 3700FT KDSV 251654Z AUTO 31009KT 7SM RA BKN017 OVC028 02/01 A3032 RMK AO2 SLP283 P0009 T00220011 KELD 251653Z AUTO 24012G18KT 10SM FEW037 19/11 A2996 RMK AO2 SLP143 T01940106 EGYD 251650Z 09011KT CAVOK 11/M03 Q1029 BLU NOSIG CYYD 251700Z 17014G19KT 25SM VCSH SCT060 04/M00 A2967 RMK CU4 SLP065 KEKN 251651Z AUTO VRB03KT 10SM OVC049 20/08 A3022 RMK AO2 SLP235 T02000083 KDTN 251653Z 26009KT 10SM CLR 20/11 A2999 RMK AO2 SLP154 T02000106 CYXN 251700Z 20005KT 15SM SKC M21/M24 A3028 RMK SLP258 CYYE 251700Z 31007KT 3SM -SN BR OVC020 M07/M09 A2978 RMK ST8 SLP114 KDTO 251653Z 31012G16KT 10SM BKN033 16/08 A3003 RMK AO2 SLP165 T01610078 KEKO 251656Z AUTO 00000KT 10SM FEW033 06/01 A3006 RMK AO2 SLP172 T00610011 CYYF 251700Z 17015G20KT 15SM SCT030 SCT080 08/03 A2998 RMK SC3AC1 SLP162 KFAY 251653Z AUTO 20012G16KT 10SM BKN050 24/10 A3030 RMK AO2 SLP256 T02390100 KDUG 251656Z AUTO 14007KT 10SM CLR 18/M05 A3011 RMK AO2 SLP156 T01781050 TSNO OTHH 251700Z 13016KT 9999 TS FEW030 FEW040CB BKN120 23/17 Q1006 NOSIG CYWY 242200Z 34005KT 300V020 15SM FEW025 M07/M16 A2996 RMK SC1 -7.0/-12.5/0.6/72 LAST OB/NXT 271400Z SLP162 CYXP 251600Z 10002KT 15SM FEW250 M20/M28 A2991 RMK CI1 CONTRAILS SLP133 EGXP 251650Z AUTO 08007KT 9999 // NCD 12/M02 Q1029 CYYG 251700Z 35012G23KT 15SM BKN017 BKN030 M00/M05 A3011 RMK SC5SC2 SLP201 KEKQ 251656Z AUTO 15010G14KT 10SM FEW047 21/12 A3016 RMK AO2 SLP229 T02110117 KDUH 251654Z AUTO 09008G15KT 070V130 5SM HZ BKN009 OVC012 07/05 A3020 RMK AO2 T00730046 EHPG 251655Z AUTO 03025KT 9999 NSC 08/01 Q1027 KFCH 251655Z AUTO RMK A01 CYXQ 251700Z 00000KT 20SM -SN SCT025 OVC063 M16/M18 A2966 RMK SC3SC5 PCPN VRY LGT SLP102 CYYH 251700Z 17011KT 15SM IC FEW030 FEW100 M27/M30 A3011 RMK SC1AC2 SC TR SLP202 KFCI 251655Z AUTO 24010G16KT 10SM CLR A3023 RMK AO1 KFBR 251655Z AUTO 29003KT 10SM BKN065 OVC095 07/M01 A3003 RMK AO2 T00681010 CYXR 251700Z AUTO 36006KT 330V040 9SM CLR M08/M17 A3050 RMK SLP349 KDTS 251653Z AUTO 13012KT 10SM OVC020 23/20 A3019 RMK AO2 SLP223 T02330200 TSNO KDUJ 251653Z AUTO 27012G22KT 10SM BKN034 OVC042 19/10 A3016 RMK AO2 SLP207 T01940100 $ KEKS 251655Z AUTO 32005KT 10SM FEW019 SCT039 BKN050 05/M00 A3006 RMK A01 EGXS 251650Z AUTO 09006KT 9999 // NCD 08/03 Q1030 CYXS 251707Z AUTO 13005KT 120V220 6SM -SN FEW010 BKN023 OVC048 01/01 A2976 RMK SLP104 CYYJ 251700Z 26008G15KT 220V280 30SM FEW022 FEW038 SCT070 09/03 A3007 RMK SC1SC1AC2 SLP186 KELK 251655Z AUTO 34014G21KT 10SM CLR 13/05 A3001 RMK AO2 T01300045 EGXT 251650Z AUTO 04011KT 9999 NCD 10/M03 Q1028 CYXT 251700Z 19013G18KT 15SM -SHRA FEW008 SCT031 SCT050 BKN120 03/01 A2978 RMK SF2SC1SC1AC2 CVCTV CLD EMBD SLP095 EGXU 251650Z AUTO 11002KT 9999 // NCD 15/M01 Q1029 CYXU 251700Z 09014G20KT 12SM -RA FEW006 BKN008 OVC012 03/02 A3026 RMK CF2SC4ST2 CIG ESTD SLP257 CYYL 251700Z AUTO 09008KT 9SM BKN085 M07/M15 A2994 RMK SLP170 KFCM 251653Z 04011G19KT 10SM OVC016 05/00 A3013 RMK AO2 SLP210 T00500000 KELM 251704Z 05008KT 6SM -RA BKN011 OVC018 03/01 A3029 RMK AO2 RAB1655 PRESRR P0000 T00330006 EGYM 251650Z AUTO 06011KT 9999 NCD 11/01 Q1028 KDTW 251653Z 07012KT 4SM BR OVC008 07/05 A3023 RMK AO2 RAE16 SLP239 P0000 T00720050 KELN 251653Z AUTO VRB04KT 10SM CLR 07/01 A3004 RMK AO2 SLP181 T00720006 EGXV 251650Z AUTO 07008KT 9999 NCD 12/M01 Q1029 CYZE 251700Z AUTO 05012G17KT 9SM CLR 00/M08 A3040 RMK SLP305 CYYN 251700Z AUTO 28022G30KT 9SM CLR 07/01 A2977 RMK SLP096 KEKX 251715Z AUTO 18014G24KT 10SM CLR 22/10 A3006 RMK AO2 T02220104 KELO 251653Z AUTO 13010KT 10SM OVC022 00/M04 A3028 RMK AO2 EGXW 251650Z 08009KT CAVOK 12/M05 Q1029 BLU NOSIG EHQE 251655Z AUTO ///15KT 9999 NSC 08/01 Q1028 KEKY 251656Z AUTO 19012G24KT 150V220 10SM BKN043 23/13 A3015 RMK AO2 SLP221 T02330133 CYZF 251700Z 05007KT 15SM SCT120 BKN240 M14/M16 A3002 RMK AC3CI4 SLP193 CYXX 251700Z 19010KT 20SM -SHRA FEW025 SCT050 BKN073 BKN110 08/04 A3007 RMK CU1SC3AC3AC1 CU TR CVCTV CLD EMBD SLP186 KELP 251651Z 17009KT 10SM FEW250 17/M06 A3013 RMK AO2 SLP155 T01671056 CYZG 251700Z 27006KT 6SM BR BKN013 M22/M27 A2999 RMK SC6 SLP191 CYXY 251700Z 34006KT 3SM -SN BKN025 BKN040 M08/M11 A2954 RMK SC5SC2 SLP053 EGYP 251650Z 28010KT 9999 FEW035 SCT100 BKN250 15/07 Q1016 BLU NOSIG CYXZ 251700Z 11009G16KT 050V130 15SM FEW200 M01/M13 A3040 RMK CS1 SLP315 EGXZ 251650Z AUTO 31005KT 9999 NCD 15/01 Q1029 CYZH 251700Z AUTO 09004KT 050V130 3SM BR SCT002 00/M02 A2973 RMK SLP095 CYYQ 251700Z 18009KT 15SM BKN070 BKN270 M10/M17 A3029 RMK AC6CI1 SLP262 KFCS 251658Z AUTO 00000KT 10SM CLR 09/M01 A3006 RMK AO2 SLP198 T00881012 $ CYYR 251700Z 28019G27KT 15SM DRSN FEW050 M13/M25 A2992 RMK CF1 SLP136 CZPS 251600Z AUTO 22010KT 03/01 RMK AO1 T00280006 KFDK 251648Z 22006KT 10SM SKC 24/13 A3019 KEMK 251655Z AUTO 21012KT 7SM CLR 25/21 A3006 RMK A01 KDVK 251655Z AUTO 20014G20KT 10SM CLR 22/10 A3013 RMK AO2 CYYT 251700Z 22017G24KT 20SM BKN020 01/M05 A2995 RMK SC7 CIG ESTD SLP151 KDVL 251656Z AUTO 17019KT 10SM OVC007 02/M01 A3008 RMK AO2 SLP219 T00171006 FZRANO CYYU 251700Z 14006KT 120V210 15SM SKC M06/M16 A3051 RMK SLP354 KEND 251658Z AUTO 31016KT 10SM OVC022 11/05 A2999 RMK AO2 DZB38E47 SLP156 P0000 T01050051 $ KEMM 251655Z AUTO 34004KT 10SM 03/M01 A3001 RMK AO2 KDVN 251652Z AUTO 07015KT 3SM BR OVC005 06/05 A2994 RMK AO2 RAE26 SLP140 P0001 T00560050 EHRD 251655Z AUTO 04014KT 010V080 9999 NSC 12/M00 Q1026 NOSIG CYYW 251700Z AUTO 13011KT 9SM CLR M05/M18 A3040 RMK SLP328 KDUX 251655Z AUTO 30011G16KT 10SM CLR 12/00 A3009 RMK AO2 T01221005 KDVO 251655Z AUTO 00000KT 10SM CLR 11/10 A3019 RMK AO2 KELY 251705Z AUTO 34008KT -SN FEW004 BKN027 OVC047 00/00 A3004 RMK AO2 P0000 T00000000 $ KEMP 251653Z AUTO 32012KT 10SM -RA OVC010 07/06 A2988 RMK AO2 RAB48 SLP124 P0000 T00670061 KDVP 251658Z AUTO 04009G17KT 1 1/4SM BR OVC002 01/01 A3009 RMK AO2 T00130012 CYZP 251700Z AUTO 17005KT 9SM CLR 05/01 A2981 RMK SLP097 CYYY 251700Z 31014KT 30SM BKN240 M05/M17 A3031 RMK CI7 SLP267 KDWH 251653Z 28007KT 10SM CLR 22/09 A3005 RMK AO2 SLP172 T02220094 KELZ 251656Z AUTO 01006KT M1/4SM FG VV001 03/02 A3024 RMK AO2 RAE05B14E35 SLP246 P0000 T00330022 CYYZ 251700Z 10009KT 15SM OVC012 03/01 A3033 RMK SC8 SLP278 KFDR 251653Z AUTO 35011KT 10SM FEW032 16/06 A3002 RMK AO2 SLP158 T01560056 CYZR 251700Z AUTO 10006KT 9SM -RA BKN009 OVC041 05/05 A3025 RMK SLP250 KEMT 251649Z 00000KT 10SM FEW014 SCT018 BKN075 18/11 A3015 EHSA 251625Z AUTO 02024G27KT 9999 ///////// 09/03 Q1026 W08/H14 CYZS 251700Z 34016KT 15SM IC DRSN FEW210 M21/M25 A3013 RMK CI1 CI TR SLP213 KDVT 251653Z AUTO 16007KT 10SM CLR 19/04 A3001 RMK AO2 SLP148 T01890039 CYZT 251700Z VRB02KT 20SM FEW046 SCT110 BKN210 05/03 A3000 RMK SC2AC2CI1 SLP162 KFFC 251653Z AUTO 16007KT 10SM CLR 22/12 A3024 RMK AO2 SLP236 T02220117 KENL 251655Z AUTO 17018G23KT 10SM OVC032 20/14 A2990 RMK AO2 T02040140 CYZU 251700Z 00000KT 3SM BR SCT005 BKN070 M02/M03 A2973 RMK SC4AC3 SLP103 EHSC 251625Z AUTO 04026G29KT 9999 ///////// 09/03 Q1025 W08/H13 KEMV 251655Z AUTO 21012G20KT 10SM CLR 21/10 A3028 RMK AO2 KEOD 251658Z AUTO 18018G24KT 10SM SCT170 22/12 A3000 RMK AO2 PK WND 17027/08 SLP158 T02170116 CYZV 251700Z 31014G24KT 30SM FEW020 FEW220 M06/M20 A3018 RMK CF1CI1 CF TR CI TR SLP226 KFDW 251715Z AUTO 20007KT 10SM SCT042 SCT050 21/11 A3030 RMK AO1 KEOE 251655Z AUTO 21006KT 180V240 10SM SCT037 SCT046 BKN050 21/12 A3032 RMK AO2 CYZW 251700Z 27003KT 1SM -SN OVC031 M06/M08 A2948 RMK SC8 SLP025 CYZX 251700Z 34011KT 15SM FEW030 SCT100 04/M05 A3013 RMK SC2AC2 WNDY HILL UNAVBL SLP204 KFDY 251653Z AUTO 04014KT 8SM FEW080 SCT095 14/07 A3013 RMK AO2 SLP197 T01440072 KFEP 251655Z AUTO 06014KT 1 3/4SM -RA OVC005 04/04 A3002 RMK AO2 P0011 T00420038 CYZY 251704Z AUTO 17009KT 9SM -RA SCT009 BKN013 OVC028 02/01 A2969 RMK SLP084 KDYA 251655Z AUTO 23011G19KT 10SM RA 20/12 A3015 RMK AO2 T02040116 CZSJ 251700Z AUTO /////KT RMK WND MISG CLD MISG WX MISG VIS MISG PCPN MISG PRES MISG T MISG TD MISG ICG MISG DENSITY ALT MISG KDYB 251655Z AUTO 18006KT 10SM BKN055 22/10 A3033 RMK AO1 KEOK 251655Z AUTO 03006KT 7SM OVC004 10/09 A2987 RMK AO2 KFET 251655Z AUTO 02007G15KT 10SM -DZ OVC008 04/04 A3001 RMK AO2 T00420037 CZTB 251700Z AUTO 08009G15KT M01/M06 RMK AO1 SOG 01 8003 SLP309 T10141059 KFFL 251655Z AUTO 05013KT 1 3/4SM BR OVC005 07/06 A2991 RMK AO2 PWINO KDWU 251655Z AUTO 27008KT 10SM OVC075 17/11 A3015 RMK AO1 KFFM 251654Z AUTO 13010KT 10SM OVC013 02/M02 A3021 RMK AO2 KENV 251656Z AUTO 30005KT 10SM BKN045 OVC075 07/03 A3007 RMK AO2 RAE14 SLP178 T00720028 PNO $ CZSM 251700Z AUTO 33002KT M03/M09 RMK AO1 2PAST HR SOG 53 1002 SLP128 P0001 T10331088 50012 KENW 251653Z 07017G28KT 5SM -RA BR OVC005 04/03 A3009 RMK AO2 PK WND 06028/1645 RAB03 SLP195 P0003 T00390028 KFEW 251658Z AUTO 20010KT 10SM CLR 11/M04 A3004 RMK AO2 SLP169 T01091038 $ KDWX 251655Z AUTO 21010G17KT 10SM 13/M05 A3004 RMK AO2 T01301049 KFFO 251658Z 20011KT 10SM OVC170 21/10 A3010 RMK AO2A SLP192 T02080100 VHHH 251700Z 36007KT 330V030 9999 FEW014 SCT025 16/12 Q1021 NOSIG PLCH 251700Z 09010KT 9999 VCSH FEW017TCU 26/25 Q1011 CZSP 251700Z AUTO 34010G16KT M00/M04 RMK AO1 SOG 05 3015 PK WND 01018/1641 SLP200 T10031036 KEPH 251653Z AUTO 21006KT 10SM CLR 08/01 A3003 RMK AO2 SLP175 T00830006 ZUUU 251700Z 20002MPS 9999 SCT040 09/07 Q1027 NOSIG KDXR 251653Z 02006KT 10SM BKN049 BKN100 11/04 A3020 RMK AO2 SLP228 T01060039 KH78 251040Z 14015KT 12SM OVC030 22/20 A3010 RMK SEAS 5-7 KEQA 251655Z AUTO 33011KT 10SM OVC010 07/05 A2992 RMK AO2 KFFT 251653Z AUTO 17012G20KT 10SM CLR 23/09 A3010 RMK AO2 SLP186 T02330089 KDZB 251655Z AUTO 31008KT 10SM CLR 19/06 A3010 RMK AO2 T01910064 KFHB 251655Z AUTO 12005KT 10SM SCT050 OVC060 24/15 A3029 RMK AO1 CZST 251700Z VRB02KT 12SM SCT012 OVC045 02/02 A2968 RMK SC4SC4 INTMT -RA SLP051 KDYL 251654Z AUTO 22004KT 10SM BKN060 BKN110 18/09 A3015 RMK AO2 SLPNO T01780089 FABL 251700Z 21006KT CAVOK 18/01 Q1022 NOSIG KFGN 251654Z AUTO 16012KT 10SM OVC029 01/M01 A3019 RMK AO2 EIKN 251700Z 03006KT 350V060 CAVOK 15/02 Q1029 NOSIG KDXX 251654Z AUTO 09009KT 10SM OVC011 04/02 A3016 RMK AO2 KFFX 251653Z AUTO 08011G17KT 5SM -RA OVC009 03/02 A3018 RMK AO2 T00300022 KFFZ 251659Z 15007KT 40SM SKC A3000 PKMJ 250053Z 05017KT 15SM FEW015 SCT050 BKN300 30/24 A2987 KDYR 251656Z AUTO 15011G16KT 10SM SCT015 BKN110 17/15 A2995 RMK AO2 RAB1557E37 SLP154 P0001 T01720150 KDYS 251702Z COR 32007G16KT 10SM CLR 16/05 A3009 RMK SLP170 ALERT WX OBS COR 1705 KDYT 251654Z AUTO 05021KT 10SM OVC030 02/00 A3028 RMK AO2 VIAG 251230Z 34008KT 6000 FEW250 33/08 Q1009 NOSIG CZUM 251700Z AUTO 30015G25KT 9SM SCT037 M16/M25 A2989 RMK SLP168 EIME 251700Z 09008KT CAVOK 11/03 Q1029 KFGX 251655Z AUTO 20008KT 10SM OVC075 21/11 A3017 RMK AO2 T02060105 KFIG 251654Z AUTO A3015 RMK AO2 SLPNO PWINO FZRANO $ EIKY 251700Z 06005KT 020V090 CAVOK 18/00 Q1027 PKMR 252354Z 05011KT 15SM SCT015 SCT050 BKN300 31/24 A2989 RMK SLP122 8/801 T03060239 10306 20281 58002 KFHR 251653Z AUTO 16004KT 10SM BKN050 OVC065 08/04 A3010 RMK AO2 SLP192 T00780039 TSNO KERI 251651Z 05015KT 5SM BR OVC005 02/01 A3026 RMK AO2 PK WND 05027/1610 SLP250 T00220011 FACT 251700Z 23011KT CAVOK 19/11 Q1020 NOSIG EHVK 251655Z AUTO 04011KT 9999 FEW270 13/M03 Q1025 BLU KESC 251656Z AUTO 09015KT 10SM OVC011 02/M01 A3033 RMK AO2 SLP298 T00171006 FZRANO KFHU 251658Z AUTO VRB03KT 10SM CLR 19/M07 A3012 RMK AO2 SLP149 T01921071 CZVL 251700Z AUTO 18003KT 140V270 3SM BR OVC006 00/M01 A2974 RMK SLP102 EHVL 251655Z AUTO 03012KT 9999 OVC370 08/02 Q1029 BLU KGAD 251656Z AUTO VRB06G15KT 10SM OVC045 23/13 A3016 RMK AO2 SLP227 T02280128 KFIN 251550Z 11009G16KT 10SM BKN035 23/14 A3029 FACV 251045Z 06008KT CAVOK 22/M00 Q1023 KESF 251653Z AUTO 26013G20KT 10SM SCT046 23/17 A2998 RMK AO2 SLP150 T02330167 KGAF 251715Z AUTO 16018G23KT 10SM OVC017 03/01 A3015 RMK AO2 VIAR 251700Z 00000KT 4500 BR SCT100 20/20 Q1013 NOSIG KGAG 251653Z AUTO 33015G22KT 10SM FEW031 14/03 A3002 RMK AO2 SLP161 T01390033 KEQY 251653Z AUTO 25012G16KT 10SM FEW041 BKN055 22/09 A3030 RMK AO2 SLP264 T02170094 KI16 251655Z AUTO 10SM CLR 24/05 A3025 RMK AO2 T02360047 KFKA 251653Z AUTO 05011G16KT 7SM OVC006 02/00 A3009 RMK AO2 T00160002 KFIT 251652Z AUTO 01004KT 5SM -RA OVC011 A3028 RMK AO2 RAB13 CIG 008V012 SLPNO P0002 $ KI19 251653Z AUTO 22011G15KT 10SM CLR 21/10 A3013 RMK AO2 T02070096 KETB 251655Z AUTO 06013G20KT 10SM -RA OVC007 02/02 A3014 RMK AO2 FAEL 251700Z 31003KT CAVOK 16/14 Q1025 KGBD 251656Z AUTO 34015KT 7SM OVC008 06/04 A3000 RMK AO2 SLP166 T00610039 KERV 251655Z AUTO 32008KT 10SM CLR 19/07 A3012 RMK AO2 T01930067 VICG 251030Z 30012KT 9999 FEW250 31/07 Q1009 NOSIG KESN 251645Z 21008KT 10SM SCT110 22/09 A3021 KI23 251653Z AUTO 22013G17KT 10SM CLR 20/09 A3014 RMK AO1 KGAO 251655Z AUTO 18019G22KT 10SM BKN020 26/19 A3007 RMK AO2 T02580192 EINN 251700Z 04010KT CAVOK 17/02 Q1027 NOSIG VIBR 250830Z 18008KT 8000 FEW035 29/04 Q1013 EHWO 251655Z AUTO 05015KT 020V090 9999 NCD 14/M03 Q1024 BLU KERY 251655Z AUTO 10006KT 10SM OVC025 03/M02 A3034 RMK AO2 T00321017 FAEO 251350Z 11012KT 9999 BKN010 13/12 Q1024 KGBG 251655Z AUTO 00000KT 5SM BR BKN004 OVC008 11/11 A2989 RMK AO2 T01140114 FADY 250651Z 12013KT CAVOK 13/05 Q1025 KETH 251656Z AUTO 12013KT 10SM OVC012 02/M01 A3018 RMK AO2 VIDD 251300Z 28006KT 4000 HZ NSC 30/13 Q1009 NOSIG KEST 251652Z AUTO 04016KT 7SM OVC007 03/02 A3006 RMK AO2 SLP190 T00280022 KGBK 251655Z AUTO 13013KT 10SM CLR 23/21 A3008 RMK A01 KGCC 251653Z AUTO 36012KT 10SM CLR 13/M01 A2995 RMK AO2 SLP126 T01331006 KFKL 251655Z 27010KT 10SM BKN031 OVC044 18/11 A3019 RMK AO1 KFLD 251653Z AUTO 06013KT 10SM OVC008 03/01 A3016 RMK AO2 SLP220 T00330006 KGCD 251655Z AUTO 00000KT 10SM SCT037 BKN045 OVC080 06/02 A3008 RMK AO2 T00590020 KFKN 251655Z AUTO 22012KT 180V240 10SM CLR 22/10 A3027 RMK AO2 T02230103 KEUF 251658Z AUTO 16010G15KT 10SM CLR 26/13 A3020 RMK AO2 SLP222 T02610128 $ KEUG 251654Z 18004KT 10SM FEW025 SCT055 BKN070 09/06 A3017 RMK AO2 SLP218 T00890061 KFLG 251657Z 23013KT 10SM CLR 06/M01 A3010 RMK AO2 SLP163 T00611006 KI35 251655Z AUTO 00000KT 10SM SCT050 22/06 A3020 RMK AO1 FAGG 251700Z 09005KT CAVOK 14/12 Q1024 KFKR 251655Z AUTO 19012G21KT 10SM CLR 22/13 A3002 RMK AO2 T02210125 KFKS 251656Z AUTO 10008KT 10SM OVC013 04/00 A3023 RMK AO2 T00400004 KEVB 251647Z 11014G17KT 10SM SCT025 25/15 A3029 KGCK 251654Z 33016KT 10SM CLR 12/M02 A3003 RMK AO2 SLP165 T01221017 KGDB 251652Z AUTO 06012KT 7SM OVC010 05/02 A3016 RMK AO2 T00450017 VIDN 251100Z 25012KT 6000 NSC 32/09 Q1009 KFLL 251653Z 07014G20KT 10SM FEW030 FEW060 26/17 A3019 RMK AO2 SLP224 T02560172 KEUL 251656Z AUTO 05003KT 10SM CLR 09/03 A3010 RMK AO2 SLP199 T00940033 KGCM 251655Z AUTO 27007KT 10SM OVC009 09/07 A2993 RMK AO2 FAGM 251400Z VRB03KT 9999 HZ SCT050 22/09 Q1023 VIDP 251700Z 32007KT 4000 HZ NSC 26/12 Q1012 NOSIG KFME 251700Z AUTO 25005KT 10SM CLR 23/09 A3019 RMK AO1 KGCN 251654Z 17007KT 10SM BKN055 OVC070 07/M02 A3008 RMK AO2 SLP162 T00671017 KFLO 251653Z 21010G15KT 10SM BKN050 BKN060 22/10 A3032 RMK AO2 SLP264 T02220100 KFLP 251655Z 22012G15KT 10SM FEW024 FEW080 18/10 A2979 RMK AO1 KFMH 251655Z 10SM FEW016 OVC035 06/02 A3022 RMK AO2 PWINO FZRANO TSNO WEA KGDJ 251655Z AUTO 27009KT 10SM CLR 17/06 A3007 RMK AO2 T01690063 CZZJ 251600Z AUTO 26003KT M02/M05 RMK AO1 SOG 19 1006 SLP103 T10181050 KFNB 251653Z AUTO 02012KT 10SM -RA OVC008 06/05 A2991 RMK AO2 SLP132 P0005 T00610050 KEWB 251653Z 04012KT 10SM SCT020 BKN036 OVC049 08/02 A3021 RMK AO2 SLP230 T00780017 URFF 251700Z 26002MPS 9999 BKN035 07/05 Q1017 R01/010095 NOSIG KGED 251654Z AUTO 22009KT 10SM CLR 23/11 A3018 RMK AO2 SLP218 T02280106 $ KEVM 251654Z AUTO 11009KT 070V150 10SM BKN021 02/M03 A3027 RMK AO2 T00161031 KFMM 251655Z AUTO 14005KT 10SM CLR 11/00 A3004 RMK AO2 T01060002 KFMN 251653Z VRB05KT 10SM CLR 12/M03 A3008 RMK AO2 SLP165 T01171028 KGEG 251653Z 22012KT 10SM SCT013 BKN070 BKN090 06/02 A3004 RMK SLP182 T00560022 KGDP 251651Z AUTO 23013KT 18/M02 A3019 RMK AO2 SLPNO T01831022 PWINO $ KFLY 251655Z AUTO 17004KT 10SM CLR 07/00 A3009 RMK AO2 T00741003 KFOA 251655Z AUTO 16015G21KT 10SM BKN039 21/14 A2994 RMK AO2 T02070137 KGFA 251658Z AUTO 24024G31KT 10SM CLR 09/M06 A2995 RMK AO2 PK WND 23033/28 SLP156 T00941064 TSNO $ FAHS 251600Z AUTO 17010KT //// // ////// 21/14 Q1019 KEWK 251656Z AUTO 34016KT 10SM OVC009 06/04 A2994 RMK AO2 SLP143 T00560039 FAJB 251700Z AUTO 12004KT //// // ////// 19/12 Q1022 KFNL 251656Z AUTO 07004KT 10SM CLR 09/M01 A3003 RMK AO2 SLP158 T00941011 KEVU 251655Z AUTO 02018G21KT 4SM -RA SCT006 BKN024 OVC030 06/06 A2988 RMK AO2 P0013 KEVV 251654Z 18017G22KT 10SM BKN050 22/11 A2998 RMK AO2 SLP148 T02220111 $ KFOD 251655Z AUTO 04010G16KT 5SM BKN006 BKN013 OVC021 03/01 A3002 RMK AO1 P0003 KGDV 251656Z AUTO 32012KT 10SM OVC100 13/M01 A2993 RMK AO2 SLP138 T01331006 DRRM 251600Z 00000KT CAVOK 40/03 Q1009 VIGG 251100Z 24006KT 6000 FEW035 BKN080 27/12 Q1013 KFOE 251653Z 01010KT 10SM OVC007 09/08 A2986 RMK AO2 RAE05 SLP112 P0000 T00940078 KEVW 251653Z AUTO 25009KT 10SM -SN BKN029 OVC036 03/M02 A3002 RMK AO2 RAB37E48SNB36 SLP134 P0000 T00331017 KEWN 251654Z 22009G16KT 180V250 10SM BKN050 24/11 A3032 RMK AO2 SLP266 T02390106 KI63 251655Z AUTO 17010KT 10SM BKN018 BKN024 16/13 A2987 RMK AO2 T01600127 DRRN 251600Z 03015KT 350V060 8000 NSC 42/M05 Q1007 NOSIG KFMY 251653Z 13012G18KT 100V160 10SM SCT044 29/16 A3019 RMK AO2 SLP226 T02890156 EISG 251430Z 35008KT CAVOK 13/07 Q1031 EKAH 251650Z 34006KT CAVOK 10/00 Q1026 KEWR 251651Z 09005KT 10SM FEW060 SCT130 OVC260 16/04 A3017 RMK AO2 SLP216 T01560044 KI67 251655Z AUTO 20010G17KT 10SM CLR 22/09 A3009 RMK AO1 FAIR 251539Z 28004KT 9999 FEW045CB 26/11 Q1021 KFOK 251653Z 05008KT 10SM BKN049 12/02 A3021 RMK AO2 SLP229 T01170022 KFNT 251653Z 08008KT 9SM -RA OVC007 04/03 A3025 RMK AO2 SLP250 P0001 T00390028 KGFK 251653Z 16015G21KT 10SM OVC015 03/01 A3015 RMK AO2 SLP221 T00330006 KI69 251655Z AUTO 18008KT 150V210 10SM CLR 22/09 A3013 RMK AO2 T02210089 KGEU 251647Z 00000KT 10SM FEW150 SCT200 18/05 A3003 DRRT 251500Z 02010KT CAVOK 40/12 Q1009 KGFL 251707Z AUTO 34003KT 4SM -SN BR BKN008 OVC024 02/00 A3032 RMK AO2 P0000 T00170000 KGEV 251710Z AUTO 16005KT 10SM CLR 18/08 A3028 RMK AO2 T01840077 KEYE 251653Z AUTO 17011G19KT 10SM CLR 21/11 A3001 RMK AO2 SLP159 T02110111 KGGE 251655Z AUTO 17004KT 10SM OVC050 22/11 A3035 RMK AO2 KEYF 251710Z AUTO 22007G14KT 200V260 10SM CLR 23/10 A3032 RMK AO2 T02300098 VIGR 251500Z 00000KT 4000 HZ NSC 27/15 Q1011 KGEY 251653Z AUTO 25004KT 10SM OVC100 09/02 A2993 RMK AO2 SLP128 T00940017 KGGG 251653Z 29006G14KT 10SM CLR 19/11 A3002 RMK AO2 SLP161 T01890111 KI75 251655Z AUTO 02008KT 3SM -RA OVC004 05/05 A2993 RMK AO2 P0002 T00520046 KGEZ 251653Z AUTO 18019G27KT 10SM CLR 22/11 A3004 RMK AO2 PK WND 18027/1646 SLP168 T02220111 KGGI 251655Z AUTO 04013G22KT 7SM -RA OVC006 04/03 A2996 RMK AO2 P0005 T00370031 EKBI 251650Z AUTO 31010KT 9999NDV OVC014/// 08/06 Q1027 FALA 251700Z VRB02KT 9999 FEW045TCU 25/09 Q1021 NOSIG KFPK 251655Z AUTO 08011G17KT 1 1/2SM -RA OVC006 05/04 A3017 RMK AO2 P0004 T00460040 KFOT 251655Z AUTO 17003KT 10SM BKN005 BKN016 OVC050 10/09 A3022 RMK AO1 KGHB 251655Z AUTO 15013KT 8SM CLR 24/23 A3007 RMK A01 KFQD 251700Z AUTO 22007G18KT 10SM CLR 20/10 A3029 RMK AO2 T02010100 FAKM 251700Z 00000KT CAVOK 18/M01 Q1021 KEXX 251700Z AUTO 21005KT 10SM SCT039 SCT048 21/11 A3029 RMK AO2 T02100108 FALE 251700Z 22009KT 9999 FEW006 SCT025 BKN038 18/15 Q1023 NOSIG FAKN 251700Z 17003KT 9999 SCT015 OVC020 17/13 Q1024 NOSIG KEZF 251655Z AUTO 23009KT 10SM CLR 25/11 A3018 RMK AO2 T02450113 KGHG 251655Z AUTO VRB03G10KT 10SM BKN017 OVC022 05/02 A3026 RMK AO2 KGGP 251655Z AUTO 19014G26KT 10SM CLR 21/11 A3002 RMK AO2 KFOZ 251652Z AUTO 13011KT 10SM OVC018 02/M03 A3024 RMK AO2 WAAA 251700Z 12003KT 090V160 8000 SCT019 25/25 Q1010 NOSIG KFPR 251653Z 11014KT 10SM CLR 26/13 A3022 RMK AO2 SLP233 T02560128 EKCH 251650Z 32007KT 280V350 CAVOK 09/01 Q1025 NOSIG PKWA 251700Z AUTO 09013KT 10SM CLR 27/23 A2986 RMK AO2 T02730228 KGIC 251655Z AUTO 34006KT 10SM BKN044 05/03 A3006 RMK AO1 KEZM 251655Z AUTO 16009KT 10SM SCT043 BKN055 24/05 A3029 RMK AO2 T02410052 KGGW 251653Z AUTO 29019G28KT 10SM CLR 12/M03 A2990 RMK AO2 PK WND 29031/1611 SLP129 T01221028 KEYW 251653Z 10014KT 10SM CLR 27/19 A3016 RMK AO2 SLP214 T02670189 KGIF 251653Z AUTO 08009KT 10SM FEW047 26/12 A3025 RMK AO2 SLP241 T02560117 KFRG 251653Z 04005KT 10SM CLR 14/04 A3017 RMK AO2 SLP216 T01440044 URKA 251700Z AUTO 00000MPS 1300 0700SE FG ///010/// 06/06 Q1017 RMK QFE759/1012 WABB 251700Z 28006KT 9000 -RA FEW018 FEW020 27/24 Q1010 KFRI 251703Z AUTO 36008KT 8SM OVC007 07/07 A2992 RMK AO2 RAE00DZB00E03 SLP133 KEZS 251655Z AUTO 07012G20KT 10SM OVC010 04/01 A3024 RMK AO2 T00350010 EKEB 251650Z AUTO 31007KT 9999NDV BKN011/// 08/05 Q1027 VIJO 251130Z 27005KT 8000 SKC 37/10 Q1009 NOSIG KFRM 251656Z AUTO 06013KT 10SM OVC009 03/02 A3009 RMK AO2 SLP201 T00330017 KFSD 251656Z 06014KT 10SM OVC008 05/02 A3008 RMK AO2 SLP197 T00500022 VIJP 251600Z 00000KT 4000 HZ NSC 30/07 Q1013 NOSIG FAMM 251700Z 25004KT CAVOK 22/04 Q1020 NOSIG KGHW 251653Z AUTO 09009KT 10SM OVC010 02/M01 A3018 RMK AO2 KFSE 251654Z AUTO 14008G14KT 10SM BKN021 03/00 A3018 RMK AO2 KHAE 251655Z AUTO 19010KT 10SM SCT028 BKN070 19/09 A2986 RMK AO2 FALW 251700Z AUTO 22008KT //// // ////// 19/04 Q1019 PMDY 251656Z AUTO 19007KT 10SM OVC036 20/17 A3014 RMK AO2 SLP204 T02000167 KHAF 251655Z AUTO 32009KT 8SM CLR 13/10 A3018 RMK AO2 EIWF 251700Z 08009KT 040V100 CAVOK 15/M03 Q1027 URKK 251700Z 24004MPS 5000 -DZ BR OVC006 08/07 Q1016 R23C/290050 TEMPO 1000 -SHRA BR BKN003 BKN020CB RMK QFE759 KHAI 251655Z AUTO 07011G18KT 7SM OVC006 08/07 A3010 RMK AO2 T00780066 KFSI 251706Z AUTO 32009G16KT 10SM BKN030 15/07 A3001 RMK AO2 SLP160 KFRR 251650Z AUTO 18004KT 10SM CLR 24/11 A3016 RMK AO1 VIJU 251130Z 27003KT 6000 FEW030 BKN100 28/14 Q1010 NSOIG USCC 251700Z 18005MPS 9999 FEW020 M01/M05 Q1012 R09/000060 TEMPO 16014MPS RMK QFE738 VILD 251000Z 32004KT 5000 HZ NSC 32/08 Q1010 FAOB 251700Z AUTO 15008KT //// // ////// 18/10 Q1023 VIKO 250600Z 09003KT 6000 NSC 33/09 Q1014 NOSIG KFSM 251653Z 26017G25KT 10SM OVC014 12/08 A2992 RMK AO2 SLP131 T01170083 KHBE 251655Z AUTO 16008G20KT 7SM CLR 21/11 A3004 RMK AO2 VILH 251230Z 29011KT 6000 FEW070 SCT090 BKN150 11/-16 Q1023 NOSIG KHAO 251653Z AUTO 18009G14KT 150V210 10SM CLR 23/11 A3011 RMK AO2 SLP192 T02280111 KFSO 251655Z AUTO 36008KT 10SM OVC038 00/M03 A3034 RMK AO2 T00001027 KFTG 251647Z 18010KT 10SM BKN220 13/00 A3003 KHBG 251706Z AUTO 24003KT 2SM -TSRA BR SCT039 BKN050 OVC060 17/16 A3011 RMK AO2 LTG DSNT ALQDS TSB05 P0010 T01720156 VILK 251630Z VRB02KT 2500 HZ NSC 24/09 Q1010 KHBI 251715Z AUTO 20012KT 10SM BKN043 BKN049 21/10 A3032 RMK AO2 T02060097 KGKJ 251653Z AUTO 36010KT 10SM OVC028 11/06 A3019 RMK AO2 SLP223 T01110061 WADD 251700Z 34005KT 290V030 6000 VCSH FEW015CB BKN016 27/25 Q1010 NOSIG RMK CB TO NE USCM 251700Z 19008MPS 8000 OVC016 M01/M03 Q1011 R19/090060 NOSIG RMK QFE721 KFST 251653Z AUTO VRB04KT 10SM CLR 17/01 A3017 RMK AO2 SLP184 T01670006 KGJT 251653Z 13011KT 10SM CLR 13/M01 A3000 RMK AO2 SLP132 T01281011 KFTK 251658Z AUTO 16022G29KT 10SM SCT170 24/11 A3003 RMK AO2 PK WND 16032/18 SLP167 T02370106 KGLD 251653Z AUTO 35009KT 10SM CLR 10/M01 A3004 RMK AO2 SLP174 T01001011 KHCD 251653Z AUTO 04014KT 10SM BKN012 OVC017 04/02 A3015 RMK AO2 T00400016 URMG 251600Z 01005MPS CAVOK 11/03 Q1014 R26/000070 NOSIG RMK QFE746/0995 KFSW 251655Z AUTO 04005KT 5SM BR OVC003 09/09 A2989 RMK AO2 KGLE 251655Z AUTO 32014G19KT 10SM OVC026 13/06 A3007 RMK AO2 T01260061 KFTN 251655Z AUTO 35008KT 10SM CLR 24/04 A3010 RMK A01 FAPE 251700Z 15002KT 9999 FEW025 16/13 Q1025 NOSIG KGLH 251653Z 19015G22KT 10SM SCT055 18/14 A2996 RMK AO2 SLP150 T01830144 KHBR 251706Z AUTO 33011KT 10SM SCT028 15/06 A3003 RMK AO2 T01500056 URML 251700Z 19001MPS 9000 NSC 05/04 Q1015 R14/01//70 TEMPO 3000 BR SCT004 BKN010 RMK QFE761/1015 WADL 251700Z 28003KT 6000 SCT017 BKN036 25/25 Q1011 NOSIG FAOR 251700Z 10010KT CAVOK 17/13 Q1023 NOSIG DRZA 251500Z 06006KT 040V150 CAVOK 38/05 Q1012 URMM 251700Z 31005MPS 9999 BKN044 10/03 Q1015 R30/000070 NOSIG RMK QFE733/0977 KGKT 251655Z AUTO VRB03KT 10SM CLR 21/09 A3020 RMK URMN 251700Z 07001MPS 9999 OVC/// 11/03 Q1014 R24/110060 NOSIG RMK QFE724 FBFT 251700Z 12009KT 9999 FEW025 25/18 Q1018 KFUL 251653Z VRB03KT 10SM BKN023 OVC075 17/12 A3012 RMK AO2 SLP198 T01670117 KHDC 251655Z AUTO 16004KT 10SM -TSRA BKN090 BKN110 20/17 A3006 RMK AO2 LTG DSNT ALQS URMO 251700Z 10003MPS 9999 BKN026 09/02 Q1014 R09/010070 NOSIG RMK QFE717/0956 KHBV 251655Z AUTO 35005KT 10SM OVC015 23/19 A3008 RMK AO2 T02310189 ZWSH 251700Z AUTO 32004MPS 4500 BR 10/M04 Q1023 KFVE 251653Z AUTO 32013KT 10SM CLR M02/M17 A3021 RMK AO2 SLP241 T10221167 KFTW 251653Z 28010KT 10SM CLR 17/07 A3003 RMK AO2 SLP164 T01720067 $ KHDE 251655Z AUTO 36013G16KT 10SM OVC004 04/03 A3002 RMK AO2 T00400028 FAPN 251600Z AUTO 28003KT //// // ////// 29/09 Q1017 KHCO 251654Z AUTO 16017G22KT 10SM SCT020 03/01 A3014 RMK AO2 KFTY 251653Z 15011G20KT 10SM BKN042 22/11 A3022 RMK AO2 SLP227 T02220106 KGKY 251653Z 28011KT 10SM CLR 17/07 A3003 RMK AO2 SLP164 T01670067 $ FAPP 251700Z 06008KT 8000 FEW020 17/15 Q1021 NOSIG URMT 251700Z 31005MPS 6000 -SHRA SCT010 BKN020CB 05/04 Q1014 R25/290255 TEMPO 1000 SHRA BKN005 BKN020CB RMK QFE722 KGLR 251653Z AUTO 08008G16KT 9SM OVC005 01/M02 A3028 RMK AO2 SLP271 T00111017 FAPR 250954Z 35003KT 9999 SCT025 25/12 Q1022 KGLS 251706Z 25005G16KT 6SM VCTS HZ BKN012 BKN030 25/21 A3003 RMK AO2 LTG DSNT NE T02500211 KFWA 251654Z 18010KT 10SM BKN090 OVC240 22/12 A3006 RMK AO2 SLP177 T02170117 KGNA 251656Z AUTO 06012G21KT 01/M04 A3037 RMK AO1 SLP294 T00061039 $ KGMJ 251655Z AUTO 26008KT 10SM OVC007 10/08 A2990 RMK AO2 KFWB 251635Z AUTO 22005KT 10SM SCT007 BKN011 OVC090 14/13 A2982 RMK AO2 KFWC 251655Z AUTO 15009KT 10SM SCT075 BKN120 19/13 A2994 RMK AO1 T01910130 KGNC 251655Z AUTO 00000KT 10SM CLR 15/01 A3016 RMK AO2 T01460009 KHDN 251655Z AUTO 08008KT 10SM CLR 09/M04 A3003 RMK AO1 KGLW 251650Z AUTO 17013G22KT 10SM CLR 23/09 A3008 RMK AO2 T02250094 KHDO 251651Z AUTO 04004KT 10SM CLR 25/06 A3010 RMK AO2 SLP181 T02500061 KHEF 251656Z AUTO 19005KT 10SM 24/11 A3017 RMK AO2 SLP227 T02390111 $ KGLY 251655Z AUTO 00000KT 10SM BKN012 OVC017 14/12 A2982 RMK AO2 ZYCC 251700Z 20001MPS CAVOK M01/M08 Q1018 NOSIG KHEI 251653Z AUTO 14009KT 10SM BKN120 08/01 A2995 RMK AO2 SLP154 T00780006 DRZR 251600Z 06006KT CAVOK 40/02 Q1009 FASB 250854Z 10012KT CAVOK 22/03 Q1023 KGMU 251653Z 21009KT 10SM FEW034 BKN050 20/11 A3030 RMK AO2 SLP255 T02000106 KHFD 251653Z 01008KT 7SM OVC025 08/03 A3023 RMK AO2 SLP236 T00780028 KFXE 251653Z 09016G24KT 10SM SCT033 27/16 A3020 RMK AO2 SLP230 T02720156 KFWN 251653Z AUTO 04008KT 10SM -RA BKN043 BKN050 08/03 A3021 RMK AO2 RAE12B50 SLP231 P0000 T00830033 KHFF 251656Z AUTO 21012G15KT 10SM BKN048 22/10 A3030 RMK AO2 SLP275 T02220102 TSNO $ KFVX 251655Z AUTO 23008G17KT 10SM CLR 24/11 A3021 RMK AO2 T02370105 KHEQ 251655Z AUTO 00000KT 10SM CLR 12/03 A3005 RMK AO2 KGNR 251656Z AUTO 33013G18KT 01/M06 A3016 RMK AO1 SLP233 T00111056 FASI 251700Z AUTO 16006KT //// // ////// 13/11 Q1027 KFWS 251647Z 26010G16KT 10SM SKC 17/07 A3006 KHFJ 251650Z AUTO 28010KT 10SM OVC003 10/10 A2983 RMK AO2 DTKA 251700Z 22003KT 9999 FEW020 15/10 Q1021 NOSIG EKKA 251650Z AUTO 31010KT 9999NDV OVC008/// 08/06 Q1026 KGOK 251653Z AUTO 30012KT 10SM OVC020 10/06 A3000 RMK AO2 SLP159 T01000056 KGNT 251655Z AUTO 15010KT 130V190 10SM CLR 12/M05 A3014 RMK AO2 T01241051 FCBB 251600Z VRB02KT 9999 FEW030CB 34/20 Q1009 NOSIG KGPC 251655Z AUTO 18016G22KT 7SM SCT041 20/11 A3001 RMK AO2 KGNV 251653Z 12009KT 10SM FEW070 24/13 A3026 RMK AO2 SLP245 T02440133 KGON 251656Z 34008KT 10SM FEW038 SCT048 OVC055 12/04 A3020 RMK AO2 SLP226 T01220039 KFYE 251655Z AUTO 15009G15KT 9SM FEW015 FEW032 OVC046 16/15 A2996 RMK A01 USHH 251700Z 24005MPS CAVOK 00/M05 Q1011 R24/010060 NOSIG RMK QFE754 FBKE 251600Z 15002KT 9999 FEW025 26/20 Q1016 KGOO 251655Z AUTO 00000KT 10SM FEW008 BKN015 07/05 A3013 RMK AO1 KHEY 251658Z AUTO 18009KT 10SM SCT038 BKN049 BKN055 24/14 A3019 RMK AO2 SLP224 T02390140 KGOP 251655Z AUTO 31008G18KT 10SM CLR 18/06 A3009 RMK AO2 KFYG 251655Z AUTO 11007KT 5SM BR FEW016 15/15 A2986 RMK AO2 KGPH 251655Z AUTO 02012KT 10SM OVC007 12/11 A2984 RMK AO2 KHEZ 251655Z AUTO 19012G18KT 10SM SCT025 OVC034 23/17 A2999 RMK AO1 KFWZ 251655Z AUTO 22007KT 10SM SCT090 BKN110 02/M03 A2996 RMK AO2 KGPI 251655Z 18011KT 10SM FEW049 SCT120 08/M01 A2999 RMK AO2 SLP169 T00831006 KFYJ 251655Z AUTO 22012KT 10SM CLR 24/09 A3023 RMK AO2 T02380090 KGOV 251658Z AUTO 07011G17KT 10SM OVC006 01/00 A3028 RMK AO2 KGPM 251650Z 27011G15KT 10SM SKC 17/06 A3005 KFYM 251655Z AUTO 17016G23KT 10SM BKN042 22/12 A3012 RMK A01 KHHF 251655Z AUTO 34015G21KT 10SM CLR 15/00 A3005 RMK AO2 T01470000 KHFY 251655Z AUTO 16007KT 10SM CLR 21/13 A3004 RMK AO2 T02080125 KFXY 251655Z AUTO 06012G18KT 7SM OVC008 03/02 A3004 RMK AO2 KFZG 251655Z AUTO 18008KT 10SM SCT046 SCT050 24/14 A3028 RMK AO2 T02400140 KHHG 251655Z AUTO 19013G19KT 10SM SCT095 22/11 A3003 RMK AO2 T02230111 WAHS 251430Z 27004KT 6000 FEW014CB SCT015 28/25 Q1011 NOSIG UTAA 251700Z 16004KT 9999 -SHRA OVC033 SCT013CB 07/05 Q1022 R12R/290055 NOSIG KHGR 251653Z 25009KT 10SM FEW120 24/11 A3016 RMK AO2 SLP220 T02390111 KHIB 251653Z AUTO 10012KT 10SM OVC022 01/M03 A3025 RMK AO2 SLP263 T00061033 KGPT 251653Z 15016G22KT 9SM BKN020 OVC029 24/19 A3010 RMK AO2 SLP192 T02390189 KGRB 251653Z 04015KT 10SM OVC011 03/02 A3022 RMK AO2 SLP242 T00330022 DTMB 251700Z 34018KT 8000 SCT020 SCT030 16/14 Q1019 KFYV 251653Z 25010G16KT 10SM OVC008 10/09 A2989 RMK AO2 SLP118 T01000094 KGRD 251656Z AUTO 23009KT 10SM BKN038 OVC050 21/11 A3030 RMK AO2 SLP256 T02110111 KHIE 251652Z AUTO 34005KT 10SM OVC022 02/M03 A3025 RMK AO2 SLP258 T00221033 KHIF 251658Z 33012KT 10SM -RA OVC008 05/04 A3002 RMK AO2A SLP152 P0004 T00460042 KGRF 251658Z AUTO 18008KT 10SM FEW013 SCT035 SCT070 BKN080 07/07 A3012 RMK AO2 SLP205 T00720071 $ URRR 251700Z 03003MPS 360V080 8000 NSC 07/M04 Q1016 R04/110070 NOSIG RMK QFE755/1007 FAUP 251700Z 19004KT CAVOK 23/M01 Q1019 NOSIG KGPZ 251656Z AUTO 12010G17KT 10SM OVC023 02/M03 A3025 RMK AO2 SLP261 T00171033 FZRANO UTAK 251700Z 00000KT CAVOK 06/04 Q1021 R16R/CLRD70 NOSIG KHHR 251653Z 25004KT 10SM SCT018 16/11 A3012 RMK AO2 SLP201 T01560111 KGRI 251653Z 01012KT 4SM BR OVC004 02/02 A3003 RMK AO2 SLP186 T00220022 KHII 251655Z AUTO 22005KT 10SM BKN110 22/01 A2998 RMK AO2 VISM 250700Z 27003KT 6000 FEW070 24/06 Q1019 UTAM 251700Z 36004KT 6000 -SHRA SCT026CB BKN026 08/06 Q1024 NOSIG RMK 881///60 ZWWW 251700Z VRB01MPS 4000 FU NSC M00/M02 Q1024 NOSIG KIAB 251658Z AUTO 33014KT 10SM OVC011 07/04 A2994 RMK AO2 SLP143 T00670040 KGSB 251658Z AUTO 23013KT 10SM BKN050 23/11 A3029 RMK AO2 SLP260 T02250105 $ KGRK 251658Z AUTO 31010KT 10SM CLR 18/07 A3006 RMK AO2 SLP173 T01810065 FAUT 251700Z 13003KT 3500 -DZ BR OVC008 12/12 Q1026 FAWB 251700Z AUTO 13009KT //// // ////// 22/13 Q1019 KIAD 251652Z 14004KT 10SM FEW130 BKN220 OVC250 24/10 A3017 RMK AO2 SLP215 T02390100 KHHV 251650Z AUTO 20011KT 7SM CLR 25/21 A3004 RMK A01 KHHW 251655Z AUTO 29011G18KT 10SM BKN030 17/09 A2998 RMK AO2 T01720090 FBMN 251700Z VRB01KT 9999 FEW035CB SCT070 26/18 Q1016 KHIO 251653Z 17006KT 10SM SCT055 09/05 A3014 RMK AO2 SLP207 T00890050 VISR 251230Z 29004KT 6000 SCT025 BKN100 17/01 Q1021 NOSIG KIAG 251653Z 08009KT 4SM BKN010 OVC014 03/01 A3030 RMK AO2 CIG 007V012 SLP273 P0007 T00280006 $ KFZY 251702Z AUTO 01007KT 3SM RA BR BKN006 OVC047 02/01 A3031 RMK AO2 P0001 T00170006 URSS 251700Z 07002MPS 9999 FEW050 OVC083 09/06 Q1017 R02/090070 R06/090070 NOSIG RMK R06/08003MPS QFE762 ZYHB 251700Z VRB01MPS 8000 NSC M00/M05 Q1018 NOSIG KIAH 251653Z 31008KT 10SM FEW040 FEW250 22/11 A3004 RMK AO2 SLP173 T02220111 $ KGSH 251653Z AUTO 08012KT 7SM FEW100 SCT120 16/10 A3006 RMK AO2 SLP176 T01610100 KHJH 251655Z AUTO 36015G20KT 10SM OVC008 04/03 A3000 RMK AO2 T00420026 DTNH 251700Z AUTO 02017KT 9999NDV FEW041 17/12 Q1019 UTAT 251700Z 01004KT 9999 OVC027 05/02 Q1023 R08/CLRD70 NOSIG KGRR 251653Z 08019G23KT 6SM -RA BR OVC007 04/02 A3016 RMK AO2 SLP221 P0004 T00390022 $ KHKA 251653Z AUTO 17014KT 10SM SCT018 OVC025 17/15 A2993 RMK AO2 RAB1556E05 SLP134 P0005 T01720150 $ UTAV 251700Z 34004KT 7000 OVC033 08/06 Q1023 NOSIG KGTB 251658Z AUTO 03012KT 10SM OVC014 02/M01 A3031 RMK AO2 SLP272 T00161014 FAWK 251700Z AUTO 12013KT //// // ////// ///// Q1023 EKOD 251350Z 30013KT CAVOK 12/01 Q1027 FAVV 251700Z AUTO /////KT //// // ////// 19/// Q1022 KHJO 251704Z AUTO 05003KT 10SM BKN024 OVC030 13/11 A3015 RMK AO2 T01280106 KGTF 251653Z 22017KT 10SM CLR 09/M06 A2996 RMK AO2 SLP153 T00891061 KGSO 251654Z 25011KT 10SM SCT040 OVC250 21/11 A3028 RMK AO2 SLP247 T02060106 KGSP 251653Z 22010KT 10SM BKN035 BKN050 19/10 A3028 RMK AO2 SLP249 T01940100 KGRY 251655Z AUTO 19009KT 4SM BR CLR 24/22 A3010 RMK A01 WALL 251630Z 03005KT 8000 FEW020 27/26 Q1011 NOSIG UTDD 251700Z 00000MPS 5000 BR FU SCT024CB BKN031 OVC088 12/10 Q1020 R09/CLRD// NOSIG RMK QFE697/0929 KHLC 251653Z AUTO 35010KT 8SM OVC008 06/04 A3004 RMK AO2 SLP180 T00610039 TSNO KGUC 251656Z AUTO VRB03KT 10SM CLR 02/M04 A3016 RMK AO2 SLP215 T00221044 FZRANO VITX 250430Z VRB02KT 6000 FEW070 BKN150 05/M014 Q1034 NOSIG RMK AC KIBM 251655Z AUTO 21009KT 10SM CLR 12/02 A3002 RMK AO2 T01190019 KHLG 251653Z 27010KT 10SM SCT050 BKN070 22/09 A3018 RMK AO2 SLP214 T02170089 URWA 251700Z 19005MPS CAVOK 06/02 Q1014 R09/010060 NOSIG RMK QFE762/1017 UTDK 251700Z 18003MPS 6000 OVC032 13/10 Q1020 R01/09//70 RMK QFE707/0943 KGTR 251650Z 15014KT 10SM SCT045 BKN095 16/12 A3003 UTDL 251700Z 24009MPS 9999 SCT055CB OVC130 10/07 Q1017 88CLRD70 NOSIG RMK QFE725/0967 KIDA 251655Z 22014KT 10SM BKN015 BKN021 BKN110 06/03 A3004 RMK AO2 T00560028 KHKS 251701Z 16017G21KT 10SM VCTS CLR 21/15 A3002 RMK AO2 LTG DSNT NE TSE1655 T02110150 WAMM 251700Z VRB02KT 9000 SCT021 24/23 Q1012 NOSIG KGTU 251450Z 32010G18KT 10SM CLR 15/06 A3009 KICL 251655Z AUTO 13.08333313KT 3SM BR BKN011 BKN033 06/05 A2996 RMK AO2 P0007 PWINO KGUL 251655Z AUTO 21017KT 7SM CLR 24/20 A3005 RMK A01 KHME 251650Z 00000KT 9999 FEW015 FEW030CB OVC090 07/07 Q1017 KHLN 251653Z 28010KT 10SM CLR 09/M03 A3000 RMK AO2 SLP173 T00941033 KGVE 251655Z AUTO 19006KT 10SM CLR 24/11 A3018 RMK AO1 T02400111 URWI 251700Z AUTO 33005MPS 9999 // ///022/// 05/04 Q1014 KHKY 251653Z 20007KT 10SM BKN042 BKN050 19/11 A3028 RMK AO2 SLP239 T01890106 KGUP 251653Z AUTO 21006KT 10SM CLR 11/M01 A3012 RMK AO2 SLP150 T01111011 UTFA 250430Z 07003KT 050V120 9000 NSC 16/08 Q1019 R88/09//70 UTDT 251700Z 18005MPS 6000 FEW/// SCT///CB OVC/// 14/09 Q1019 35CLRD70 RMK QFE725/0967 KICR 251653Z AUTO VRB06KT 10SM CLR 07/02 A3004 RMK AO2 SLP188 T00670017 KIDI 251655Z AUTO 30007KT 260V330 10SM BKN042 OVC065 20/12 A3019 RMK A01 KHLR 251658Z AUTO 33011KT 10SM CLR 19/07 A3005 RMK AO2 SLP169 T01880065 KGUS 251658Z AUTO 19013KT 10SM OVC140 21/12 A3000 RMK AO2 PK WND 19029/19 SLP159 T02090120 KICT 251653Z 34015KT 10SM BKN012 OVC045 07/04 A2995 RMK AO2 SLP146 T00670044 $ KHNB 251656Z AUTO 16013G21KT 10SM CLR 22/12 A2999 RMK AO2 PK WND 16026/1645 SLP151 T02220122 KGWB 251655Z AUTO 08011G16KT 10SM CLR 16/09 A3010 RMK AO2 USNN 251700Z 26003MPS CAVOK M00/M04 Q1010 R21/0///65 NOSIG RMK QFE753 KGVL 251653Z AUTO 10SM FEW030 SCT042 BKN049 20/12 A3027 RMK AO2 SLP241 T02000117 UTFF 251200Z 36004KT 9999 NSC 19/06 Q1011 R99/CLRD70 KHND 251656Z 28011KT 10SM CLR 17/02 A3000 RMK AO2 SLP147 T01720017 KHMN 251658Z AUTO 17011KT 10SM CLR 17/M03 A3017 RMK AO2 SLP165 T01671027 $ KHLX 251655Z AUTO 00000KT 10SM CLR 19/10 A3026 RMK AO2 T01850103 KGUY 251653Z AUTO 36011G16KT 10SM CLR 15/M04 A3005 RMK AO2 SLP157 T01501044 KHMP 251655Z AUTO 20009KT 10SM SCT038 SCT045 22/14 A3025 RMK AO2 T02220143 KIDP 251655Z AUTO 31010G15KT 10SM OVC015 08/05 A2990 RMK AO2 WBGB 251700Z 07002KT 9999 FEW016 BKN150 25/24 Q1011 KGXA 241755Z AUTO VRB04KT 10SM CLR 18/M08 A3023 RMK AO2 SLP246 WND DATA ESTMD T01811082 10149 20011 51006 TSNO $ KIFA 251655Z AUTO 04013G19KT 7SM -RA OVC004 04/03 A3000 RMK AO2 P0001 T00350027 KGVT 251655Z AUTO 29009KT 10SM CLR 17/08 A3002 RMK AO2 KHOB 251650Z 00000KT 10SM SKC 15/M02 A3016 UTFN 251600Z 24012KT 9999 FEW050CB 11/08 Q1014 R28/CLRD70 NOSIG URWW 251700Z 31002MPS CAVOK 02/M02 Q1014 R24/250060 NOSIG EKRK 251650Z AUTO 34008KT 9999NDV NCD 08/02 Q1025 EKSB 251650Z AUTO 30012KT 9999NDV NCD 08/05 Q1026 WAOO 251630Z AUTO 14003KT 9999 SCT033 BKN044 OVC180 27/24 Q1010 WBGG 251700Z 21002KT 9999 SCT020 SCT150 BKN300 25/24 Q1011 NOSIG KIEN 251652Z AUTO 19018KT 10SM CLR 16/M01 A2995 RMK AO2 SLP137 T01561006 KHOE 251655Z AUTO 15010G15KT 10SM BKN046 BKN060 25/15 A3027 RMK AO2 EKRN 251650Z AUTO 29007KT 260V320 9999NDV NCD 06/03 Q1024 KGWO 251707Z AUTO 17010KT 3SM +TSRA BR FEW040 BKN048 OVC110 17/16 A3001 RMK AO2 LTG DSNT SE-W TSB01 P0006 T01670156 KGXF 251658Z 00000KT 10SM FEW230 22/M01 A3000 RMK AO2A SLP151 T02161013 KHMZ 251655Z AUTO 28009G16KT 10SM BKN047 OVC060 21/10 A3017 RMK AO2 T02110098 KHNR 251655Z AUTO 04014G20KT 4SM -RA FEW008 SCT022 05/05 A2999 RMK AO2 KGWR 251655Z AUTO 9SM OVC008 02/00 A3014 RMK A01 KIER 251655Z AUTO 28010G16KT 240V300 10SM CLR 21/12 A3000 RMK AO2 LTG DSNT S T02050123 DTTA 251700Z 31012KT 9999 SCT023 15/10 Q1021 KGYB 251655Z AUTO 36005KT 10SM CLR 19/08 A3009 RMK AO2 T01870081 DTTB 251700Z 30006KT 260V320 9999 SCT020 SCT030 15/10 Q1021 FBSK 251700Z 24003KT CAVOK 24/08 Q1017 NOSIG WAPP 251600Z 01008KT 9999 SCT019 24/23 Q1010 NOSIG USPP 251700Z 12004MPS 4400 -SN BKN021 01/M00 Q1000 R21/690345 NOSIG RMK QFE739 DTTD 251700Z AUTO 32005KT 280V350 NCD 29/M03 Q1016 KGWW 251705Z AUTO 22012G17KT 10SM SCT050 23/11 A3031 RMK AO2 T02260109 KHON 251707Z AUTO 14003KT 10SM OVC010 02/00 A3010 RMK AO2 T00220000 WBGR 251700Z 07003KT 9999 SCT014 BKN150 24/24 Q1011 DTTF 251700Z 23007KT 8000 FEW033 23/M01 Q1016 NOSIG KIFP 251655Z AUTO 18007KT 10SM OVC100 23/01 A2996 RMK AO2 KHOP 251658Z AUTO 19017G24KT 10SM SCT160 SCT180 22/11 A3000 RMK AO2 PK WND 19027/44 SLP157 T02170113 KGYH 251647Z 22009KT 10SM BKN034 20/11 A3030 WBGS 251700Z 07002KT 9999 SCT018 SCT150 BKN300 26/24 Q1011 DTTG 251700Z 27006KT 7000 NSC 26/02 Q1017 NOSIG FBSP 251700Z VRB02KT CAVOK 24/20 Q1018 KHNZ 251705Z AUTO 23007G19KT 210V280 10SM CLR 20/10 A3028 RMK AO2 T02020096 EKSP 251650Z 31010KT 270V360 9999 SCT008 BKN010 OVC013 08/06 Q1027 KGYI 251655Z AUTO 30013G16KT 10SM OVC025 14/07 A3005 RMK AO2 T01370073 DTTJ 251700Z 06007KT CAVOK 23/10 Q1016 NOSIG KHOT 251653Z AUTO 26006KT 10SM OVC034 17/11 A2993 RMK AO2 SLP133 T01720106 TSNO DTTK 251700Z 01006KT 320V060 8000 SCT023 18/11 Q1019 KHOU 251653Z 35008KT 10SM FEW050 FEW100 24/10 A3003 RMK AO2 SLP174 T02390100 KGYL 251656Z AUTO 03006G16KT 10SM OVC011 04/02 A3013 RMK AO2 T00440023 DTTL 251700Z 32008KT 280V010 9999 SCT020 SCT030 15/12 Q1020 KIGM 251651Z AUTO 21019G26KT 10SM SCT070 BKN100 17/M07 A3002 RMK AO2 PK WND 22026/1648 SLP119 T01671067 WBGY 251700Z 29001KT 9999 FEW022 SCT150 BKN300 24/24 Q1010 KHPN 251656Z VRB03KT 10SM SCT043 13/05 A3018 RMK AO2 SLP222 T01330050 WAQQ 251600Z 00000KT 8000 FEW015CB 26/25 Q1013 DTTN 251700Z 31008KT 9999 SCT020 SCT030 14/10 Q1021 KGXY 251656Z AUTO VRB03KT 10SM CLR 09/01 A3003 RMK AO2 SLP180 T00940006 KHQG 251655Z AUTO 36014KT 10SM CLR 15/M05 A3005 RMK AO2 T01451047 KGZH 251653Z AUTO 16012G20KT 10SM BKN034 OVC040 23/16 A3016 RMK AO2 PK WND 18026/1627 RAB05E34 SLP211 P0000 T02330156 KIGQ 251655Z AUTO 01004KT 1 1/2SM -RA OVC003 07/07 A3002 RMK AO2 T00690069 KGYR 251647Z 00000KT 10SM FEW150 SCT250 18/03 A3002 KHQI 251655Z AUTO 18009KT 7SM BKN021 25/21 A3005 RMK A01 DTTR 251200Z ///04KT 8000 NSC 27/06 Q1019 KK88 251655Z AUTO 31010G15KT 10SM OVC009 08/07 A2986 RMK AO1 T00820071 KIIB 251655Z AUTO 06016KT 5SM -RA OVC008 03/03 A2999 RMK AO2 P0003 KHQM 251653Z AUTO 11005KT 9SM BKN026 BKN033 OVC050 07/06 A3012 RMK AO2 RAB02E39 SLP203 P0002 T00720061 KGZN 251640Z AUTO 31009G15KT 10SM CLR 15/05 A3009 RMK AO2 EKVD 251650Z AUTO 30010KT //// ///////// 08/06 Q1027 KIGX 251656Z AUTO VRB05KT 10SM BKN042 OVC049 21/11 A3030 RMK AO2 SLP257 T02060111 WARR 251700Z 26004KT 5000 R28///// -RA SCT018CB 24/23 Q1011 TEMPO TL1800 5000 -RA USRR 251700Z 24005MPS 7000 NSC 00/M05 Q1010 R25/CLRD60 NOSIG RMK QFE752 DTTX 251700Z 04004KT CAVOK 20/14 Q1017 NOSIG KGYY 251645Z 35004KT 1 1/4SM DZ OVC003 07/07 A3003 EKVG 251650Z AUTO 24012KT 2400NDV BR OVC002/// 08/08 Q1020 DTTZ 251700Z 27007KT 7000 NSC 23/00 Q1016 NOSIG KHRI 251653Z AUTO 23007KT 10SM -RA OVC042 08/06 A3012 RMK AO2 RAB15 SLP200 P0001 T00830056 KHSA 251655Z 15016G22KT 7SM SCT011 BKN020 22/18 A3008 UUBC 251700Z 28002MPS CAVOK 00/M06 Q1013 R31/CLRD60 NOSIG RMK QFE743/0991 KHRJ 251700Z AUTO 22011G15KT 10SM SCT050 23/10 A3031 RMK AO2 T02250103 EKVJ 251120Z 32012KT 9999 BKN015 08/04 Q1031 KHSB 251655Z AUTO 18012G17KT 10SM SCT030 BKN060 OVC075 19/14 A2996 RMK AO2 T01890142 KHRL 251652Z 23008KT 10SM CLR 29/20 A3002 RMK AO2 SLP165 T02890200 KJAC 251659Z 21005KT 7SM VCSH BKN050 03/03 A3002 KHQU 251655Z AUTO 21008KT 10SM SCT041 BKN050 22/12 A3033 RMK AO2 T02230117 KIJD 251652Z AUTO 02007KT 10SM OVC027 09/03 A3022 RMK AO2 SLP236 T00890028 KHSD 251655Z AUTO 31011KT 10SM OVC021 11/06 A3002 RMK A01 KHSE 251651Z AUTO 23007KT 7SM CLR 21/12 A3033 RMK AO2 SLP270 T02110117 TSNO KHRO 251653Z AUTO 26006KT 10SM FEW020 SCT060 BKN080 14/11 A2982 RMK AO2 RAE09 SLP092 P0000 T01440111 ELLX 251650Z 05016KT CAVOK 14/01 Q1020 NOSIG KHSG 251655Z AUTO 00000KT 10SM SCT065 OVC100 11/M01 A2995 RMK AO2 T01081015 USSS 251700Z 14006MPS CAVOK 01/M03 Q1008 R08L/190050 NOSIG RMK QFE736/0981 KHQZ 251650Z 28010KT 10SM CLR 17/07 A3004 WBKK 251700Z 09005KT 9000 -RA FEW035 SCT035 BKN270 25/23 Q1012 NOSIG KHSI 251653Z AUTO 01013KT 7SM OVC003 03/02 A3002 RMK AO2 SLP177 T00280017 WBKL 251700Z 11003KT 9999 SCT012 SCT040 BKN140 25/23 Q1012 KL18 251655Z AUTO 22005KT 10SM SCT020 15/09 A3014 RMK AO2 KHRT 251658Z 12013G16KT 10SM SCT011 BKN065 OVC200 22/18 A3018 RMK AO2A SLP222 T02210178 $ UUBP 251500Z 28004MPS CAVOK 05/M10 Q1013 R34/CLRD70 NOSIG RMK QFE742/0990 KJAN 251708Z 18014KT 10SM TS FEW065 BKN250 21/15 A3002 RMK AO2 LTG DSNT NW-NE TSB02 T02110150 KHRX 251655Z AUTO 30008G17KT 290V360 10SM CLR 15/01 A3012 RMK AO2 T01500010 USTR 251700Z 18006MPS 9999 SCT033 02/M04 Q1014 R21/CLRD65 NOSIG RMK QFE751/1001 KIKG 251655Z AUTO 28004KT 5SM BR OVC018 25/23 A3006 RMK AO2 T02470227 KHSP 251655Z AUTO 00000KT 10SM SCT035 16/05 A3029 RMK AO2 KIIY 251655Z AUTO 19007KT 10SM SCT037 24/15 A3028 RMK AO2 WBKS 251700Z 01003KT 9999 SCT015 BKN280 27/25 Q1012 KHTH 251655Z AUTO 30009KT 10SM OVC080 09/01 A3010 RMK A01 KJAQ 251655Z AUTO 25003KT 10SM BKN006 OVC041 10/09 A3013 RMK AO1 T01040089 WATT 251530Z 25002KT 8000 FEW016CB SCT017 25/25 Q1011 NOSIG RMK CB TO SW WBKT 251700Z 25002KT 9999 FEW014 SCT140 BKN270 24/23 Q1013 KHUA 251658Z AUTO 20017G23KT 10SM BKN043 OVC170 24/13 A3010 RMK AO2 PK WND 19028/30 SLP189 T02350131 KJAS 251655Z AUTO 18004KT 10SM 21/15 A3004 RMK AO2 T02140148 KJCA 251655Z AUTO 19007KT 10SM SCT033 BKN039 OVC048 20/12 A3027 RMK AO2 UUDD 251700Z 28004MPS CAVOK 02/M07 Q1012 R88/190095 NOSIG KHST 251658Z AUTO 08016G21KT 10SM FEW140 25/19 A3018 RMK AO2 SLP223 T02510191 KIKK 251655Z AUTO 05007KT 7SM CLR 14/13 A2999 RMK AO2 T01370133 UUBW 251700Z 29003MPS CAVOK 02/M06 Q1012 R30/010060 NOSIG WBKW 251500Z 02003KT 9999 FEW017 BKN140 25/24 Q1013 KHTL 251653Z AUTO 07017G25KT 10SM OVC007 02/00 A3026 RMK AO2 SLP261 T00170000 KJAU 251655Z AUTO 19016G24KT 10SM SCT044 21/10 A3022 RMK A01 KHSV 251653Z 15017G22KT 10SM BKN044 OVC180 23/13 A3010 RMK AO2 PK WND 18027/1642 SLP188 T02330133 KILE 251656Z AUTO VRB06KT 10SM CLR 18/07 A3008 RMK AO2 SLP198 T01830072 KHUF 251653Z 17017G24KT 10SM FEW041 SCT120 21/12 A2998 RMK AO2 SLP148 T02060117 KJAX 251656Z 15008KT 10SM BKN045 BKN065 BKN250 25/13 A3028 RMK AO2 SLP252 T02500133 KIJX 251655Z AUTO 18011G16KT 10SM OVC018 17/13 A2990 RMK AO2 T01650127 KHTO 251655Z AUTO 09009G15KT 10SM SCT043 BKN049 BKN070 09/04 A3018 RMK AO2 T00910038 KILG 251651Z AUTO 23007KT 10SM CLR 24/11 A3016 RMK AO2 SLP211 T02390106 KL35 251655Z AUTO 27011G16KT 10SM CLR 06/M05 A3011 RMK AO2 KJBR 251653Z AUTO 17015KT 10SM FEW010 OVC017 17/14 A2989 RMK AO2 SLP118 T01670144 UUDL 251700Z 29003MPS 9999 BKN041 01/M03 Q1010 R23/010060 NOSIG RMK QFE749 KHTS 251651Z 22003KT 10SM OVC070 22/08 A3016 RMK AO2 SLP207 T02220083 KIKT 251655Z AUTO 15010G18KT 5SM HZ FEW032 SCT055 24/20 A3014 RMK A01 UUEE 251700Z 28002MPS CAVOK 01/M07 Q1012 R24R/190057 R24L/190057 NOSIG KHUL 251653Z AUTO 36015KT 10SM CLR 02/M11 A3017 RMK AO2 SLP225 T00171111 KILM 251653Z 18007KT 140V230 10SM BKN055 23/09 A3033 RMK AO2 SLP270 T02280094 $ KHUM 251650Z 16014G20KT 7SM SCT020 BKN060 24/20 A3007 KIKV 251655Z AUTO 04014G20KT 4SM -RA BKN007 BKN012 04/03 A2997 RMK AO2 P0001 KJDD 251655Z AUTO 23008KT 10SM CLR 17/10 A3002 RMK AO2 KIKW 251654Z AUTO 06015G19KT 10SM OVC006 02/01 A3028 RMK AO2 T00230011 KILN 251654Z AUTO 21013KT 10SM SCT075 20/11 A3012 RMK AO2 SLP200 T02000106 KHVE 251655Z AUTO 00000KT 10SM CLR 10/00 A3000 RMK AO2 FCPP 251600Z 22011KT 9999 FEW015 FEW030CB 31/25 Q1009 NOSIG KHUT 251652Z 35013G20KT 10SM OVC011 06/03 A2997 RMK AO2 SLP146 T00610033 KJCT 251651Z AUTO 27007KT 10SM CLR 19/04 A3013 RMK AO2 SLP177 T01940039 UTNN 251630Z 14004KT 9999 SCT039 03/01 Q1023 R33/CLRD60 NOSIG KIML 251653Z AUTO 01005KT 10SM CLR 11/00 A3005 RMK AO2 SLP182 T01060000 EKYT 251659Z 31009KT 9999 FEW003 BKN004 07/06 Q1026 KHWD 251654Z VRB03KT 10SM FEW018 14/08 A3017 RMK AO2 SLP227 T01440083 KIND 251654Z 17011KT 10SM BKN130 OVC160 21/12 A3001 RMK AO2 SLP159 T02110117 KIMM 251655Z AUTO 07010G16KT 10SM SCT042 BKN050 26/16 A3019 RMK AO2 KHVN 251653Z 36009KT 10SM FEW047 SCT095 12/03 A3018 RMK AO2 SLP220 T01170033 KJDN 251648Z AUTO 31015G21KT 13/M04 A2993 RMK AO1 PK WND 28027/1602 SLP138 T01331044 KJEF 251700Z 09004KT 3SM -RA BR BKN015 BKN038 OVC075 14/12 A2984 RMK AO2 P0001 T01440122 KINF 251655Z AUTO 14006KT 3SM HZ CLR 25/16 A3026 RMK AO2 ZYTL 251700Z 29004MPS 2000 BR NSC 03/02 Q1020 NOSIG KHVR 251653Z AUTO 26021G29KT 10SM CLR 12/M03 A2992 RMK AO2 PK WND 27029/1644 SLP135 T01171028 UTNU 251630Z 33006KT 6000 OVC021CB 05/02 Q1023 R31/CLRD70 NOSIG KIMS 251654Z AUTO 17018G25KT 10SM CLR 23/09 A3008 RMK AO1 KHVS 251655Z AUTO 19008KT 10SM SCT050 23/10 A3032 RMK AO2 KINJ 251655Z AUTO 31013G17KT 10SM CLR 17/09 A3006 RMK AO2 T01670086 KINK 251653Z AUTO VRB03KT 10SM CLR 17/M01 A3015 RMK AO2 SLP182 T01721006 KIMT 251708Z AUTO 09007KT 10SM BKN015 OVC021 02/M02 A3027 RMK AO2 T00221017 $ KIOB 251655Z AUTO 21008KT 10SM CLR 22/10 A3016 RMK AO2 KINL 251655Z AUTO 15009KT 10SM OVC027 02/M04 A3025 RMK AO2 SLP260 T00221039 KHXD 251650Z 12007KT 10SM SCT060 20/13 A3033 KHWO 251653Z 08015G23KT 10SM SCT032 BKN039 OVC060 24/17 A3021 RMK AO2 SLP230 T02440167 KJER 251653Z AUTO 23012KT 10SM CLR 06/03 A3006 RMK AO2 SLP181 T00610033 KHYA 251656Z 04011KT 10SM BKN032 OVC041 07/02 A3019 RMK AO2 SLP225 T00720017 KJES 251655Z AUTO 14008G15KT 10SM SCT042 SCT048 BKN060 25/12 A3029 RMK AO2 KINS 251658Z AUTO 01007KT 10SM BKN085 12/02 A3003 RMK AO2 SLP143 T01180017 $ KJFK 251651Z 17005KT 10SM BKN110 OVC250 14/06 A3018 RMK AO2 SLP219 T01440056 KINT 251654Z 22009G17KT 170V240 10SM CLR 21/09 A3029 RMK AO2 SLP250 T02060089 ZYTX 251700Z 16003MPS 4500 FU NSC 03/M04 Q1018 NOSIG ENAL 251650Z 23016KT 9999 -DZ FEW020 SCT029 BKN051 08/06 Q1021 KHWV 251656Z AUTO VRB04KT 10SM BKN050 13/04 A3020 RMK AO2 SLP227 T01280039 TSNO KINW 251656Z AUTO 11009KT 10SM CLR 12/00 A3005 RMK AO2 SLP155 T01220000 ENAN 251650Z AUTO 19020KT 9999 BKN031/// OVC043/// 03/M01 Q0999 RESHUP KHWY 251655Z AUTO 20005KT 10SM CLR 25/08 A3017 RMK AO2 T02540081 KJGG 251655Z AUTO 24011G15KT 210V270 10SM CLR 25/12 A3024 RMK AO1 KHYI 251645Z 33010KT 10SM SKC 22/08 A3010 FDJR 251600Z AUTO 12006KT //// // ////// 17/12 Q1023 KIPJ 251715Z AUTO 23008KT 10SM SCT040 OVC048 20/09 A3030 RMK AO2 T02000085 FDLB 251600Z AUTO 20003KT //// // ////// 21/15 Q1023 KIPL 251653Z AUTO 26013KT 10SM CLR 23/01 A2999 RMK AO2 SLP153 T02330006 ENAT 251650Z AUTO 18009KT 9999 FEW057/// 03/M05 Q1000 RMK WIND 700FT 19020KT ENBL 251520Z VRB02KT 1500 -DZ PRFG VV009 05/04 Q1024 KHZD 251655Z AUTO 18017G24KT 10SM FEW060 BKN070 BKN090 18/14 A2999 RMK A01 KIOW 251707Z AUTO 06011KT 4SM -RA BR OVC008 06/04 A2995 RMK AO2 RAB00 CIG 006V010 P0000 T00610044 KHZE 251655Z AUTO 17010G15KT 10SM CLR 04/00 A3000 RMK AO2 ENBN 251650Z AUTO 20017KT //// R22///// RA OVC003/// 05/05 Q1012 KJFX 251655Z AUTO 20008G17KT 180V240 10SM FEW043 25/13 A3010 RMK AO2 PWINO ENBO 251650Z 18014G25KT 9999 -RA FEW012 SCT025 BKN035 04/01 Q1007 UTSA 251630Z VRB02KT 9999 OVC041 06/05 Q1021 R25/1///65 NOSIG KJFZ 251655Z AUTO 00000KT 10SM CLR 19/08 A3024 RMK AO2 T01910076 UTSB 251630Z 30006KT 9999 OVC026CB 08/05 Q1022 R01/190060 NOSIG WBSB 251700Z 14003KT 9999 FEW015 BKN140 25/24 Q1013 NOSIG KHYR 251653Z AUTO 07013G17KT 10SM OVC019 04/M02 A3023 RMK AO2 SLP249 T00391022 ENBR 251650Z 24004KT 200V280 5000 BR SCT002 BKN004 07/06 Q1027 TEMPO 3000 -RADZ BR VV002 RMK WIND 1200FT 27012KT KHYS 251656Z AUTO 35012KT 7SM 06/04 A3002 RMK AO2 SLP174 T00610039 $ ENBS 251150Z 17008KT CAVOK M01/M06 Q1003 KIPT 251654Z 00000KT 10SM CLR 13/06 A3013 RMK AO2 SLP206 T01280056 KHZL 251655Z AUTO 24004KT 10SM SCT060 SCT100 SCT120 17/10 A3019 RMK AO2 ENBV 251150Z 23016KT CAVOK 03/M04 Q1004 KHYW 251655Z AUTO 15009G14KT 120V190 7SM SCT055 23/10 A3033 RMK AO2 KJHN 251655Z AUTO 34010KT 10SM CLR 14/M07 A3005 RMK AO2 T01361072 ENCN 251650Z 29005KT 240V340 9999 FEW030 12/04 Q1025 KHYX 251656Z AUTO 06011KT 7SM -RA OVC008 03/01 A3027 RMK AO2 UTSK 251630Z 28004KT 240V320 9999 BKN024 OVC026CB 07/05 Q1022 R16/190060 KHZR 251655Z AUTO 17012G18KT 10SM SCT024 BKN029 BKN043 20/17 A3005 RMK AO2 LTG DSNT SE THRU SW T01980170 KM08 251655Z AUTO 14017G23KT 10SM OVC013 17/15 A2999 RMK A01 KIRK 251655Z AUTO 02008KT 4SM BR OVC003 13/12 A2985 RMK AO2 SLP112 T01280122 $ KJHW 251655Z AUTO 33011KT 280V010 8SM OVC012 03/01 A3021 RMK AO1 KHZX 251654Z AUTO 08012G17KT 10SM OVC020 02/M01 A3022 RMK AO2 KHZY 251653Z AUTO 06009G17KT 10SM BKN007 OVC035 04/02 A3023 RMK AO2 SLP239 T00390022 TSNO UTSS 251630Z 28007KT 2900 BR OVC003 07/06 Q1019 R09/19//65 NOSIG RMK BASE360 UTST 251630Z 22006KT 9999 -SHRA BKN010 OVC037CB 10/08 Q1021 R88/290165 NOSIG VLLB 251300Z 14002KT 7000 FEW027 SCT060 31/19 Q1009 NOSIG ENDR 251650Z AUTO 24039KT 08/08 Q1013 KIRS 251654Z AUTO 08012G17KT 7SM SCT039 SCT075 SCT080 10/08 A3008 RMK AO2 T01030084 KJKA 251655Z AUTO 13014G22KT 10SM SCT021 BKN028 BKN042 24/20 A3016 RMK AO2 T02370204 FDMS 251500Z 18004KT 9999 SCT020 BKN030 18/17 Q1022 TEMPO 8000 DZ KM19 251656Z AUTO 18016KT 10SM BKN015 OVC019 18/15 A2986 RMK AO2 SLP115 T01830150 ENEK 251650Z 28012KT CAVOK 10/05 Q1029 W07/S4 ENFB 251650Z AUTO 26024KT 9999NDV BKN006/// 09/08 Q1023 W///S5 KM21 251655Z AUTO 17023G32KT 10SM SCT048 22/11 A2999 RMK AO2 T02200111 ENDU 251650Z AUTO 23010KT 9999 FEW053/// SCT120/// 04/M02 Q1002 RMK WIND 1100FT 22020KT WIND 2200FT 21027KT KISM 251656Z 14010KT 10SM SCT040 BKN060 26/16 A3024 RMK AO2 SLP243 T02610156 KISN 251652Z AUTO 27011G18KT 10SM SCT120 13/01 A2988 RMK AO2 SLP124 T01330011 KISO 251656Z 21010G15KT 10SM BKN049 23/10 A3031 RMK AO2 FEFF 251500Z 23006KT 9999 FEW023 33/21 Q1009 NOSIG KM25 251715Z AUTO 17008G19KT 10SM BKN026 BKN085 BKN120 18/13 A2998 RMK AO2 PWINO KISP 251656Z 17004KT 10SM SCT055 BKN110 OVC250 14/05 A3018 RMK AO2 SLP221 T01440050 LBBG 251700Z 11006KT 9999 SCT026 OVC033 09/07 Q1020 NOSIG KITH 251656Z 33007KT 2SM BR OVC002 01/01 A3028 RMK AO2 DZE15UPB15E23RAB23E45 SLP263 P0001 T00110006 KISQ 251658Z AUTO 11014G19KT 10SM OVC016 02/00 A3034 RMK AO2 UTTT 251630Z 13006KT 9999 FEW066CB 12/09 Q1018 R08R/CLRD70 NOSIG KJKJ 251654Z AUTO 16010KT 10SM OVC013 01/M01 A3018 RMK AO2 KM30 251655Z AUTO 17011G19KT 10SM SCT024 SCT110 19/14 A2995 RMK AO2 T01920144 VLLN 251200Z 27004KT 4000 BR FEW050 26/21 Q1010 NOSIG KJKL 251653Z AUTO VRB06KT 10SM CLR 23/08 A3017 RMK AO2 SLP204 T02330083 ENGC 251650Z 28021KT 9999 OVC006 08/08 Q1024 W06/S5 ENFL 251650Z AUTO 15010KT 1900NDV -RA OVC002/// 06/06 Q1025 ENEV 251650Z AUTO 20013KT 9999 -RA FEW030/// SCT062/// 05/M00 Q1003 REUP RMK WIND 1400FT 23028G38KT KISW 251654Z AUTO 07013G22KT 10SM OVC010 03/01 A3018 RMK AO2 SLP232 T00280011 KM33 251655Z AUTO 17018G24KT 10SM SCT050 BKN075 24/11 A3010 RMK A01 KITR 251653Z AUTO 31004KT 10SM CLR 11/M03 A3006 RMK AO2 SLP175 T01061028 $ FEFT 251000Z 18010KT 9999 SCT020 29/22 Q1013 UUMO 251700Z 30003MPS CAVOK 00/M08 Q1012 R26/090060 NOSIG RMK QFE744/0992 KJLN 251653Z 29008KT 10SM OVC007 10/09 A2986 RMK AO2 SLP109 T01000089 ENGM 251650Z 23005KT CAVOK 09/M06 Q1021 NOSIG ENHD 251650Z 29008KT 9999 5000SE FEW002 SCT008 BKN014 07/06 Q1027 ENHE 251650Z 26040KT 3100 -RA BR OVC006 08/07 Q1009 W///S6 ENHF 251650Z 20010KT 9999 BKN048 03/M04 Q0998 RMK WIND 1254FT 20021KT FDPP 251600Z AUTO 21005KT //// // ////// 14/13 Q1026 UUOB 251700Z 32001MPS CAVOK 02/M08 Q1015 R29/090060 NOSIG KIWA 251656Z 13008KT 45SM SCT200 18/03 A3003 KIWD 251656Z AUTO 11009KT 10SM OVC014 01/M01 A3027 RMK AO2 SLP265 T00111011 FZRANO